Date: Friday 14th of June 2024

SANP31 VNKT 140000
METAR VNKT 140000Z 27004KT 4000 BR FEW015 SCT030 BKN100 24/22 Q1007
NOSIG=


......................................................................................


Date: Friday 14th of June 2024

SASD20 OEJD 140000
METAR OEAB 140000Z 00000KT CAVOK 18/13 Q1022 NOSIG=
METAR OEAH 140000Z 24006KT CAVOK 30/10 Q1001 NOSIG=
METAR OEAO 140000Z 35006KT CAVOK 35/M06 Q1009 NOSIG=
METAR OEBA 140000Z 30008KT 9999 FEW030 28/03 Q1017 NOSIG=
METAR OEBH 140000Z 23004KT CAVOK 32/04 Q1012 NOSIG=
METAR OEDF 140000Z 21006KT CAVOK 30/07 Q0999 NOSIG=
METAR OEDM 140000Z 06003KT CAVOK 29/M06 Q1009=
METAR OEDR 140000Z 25004KT CAVOK 29/14 Q0998=
METAR OEGN 140000Z 00000KT CAVOK 33/20 Q1004 NOSIG=
METAR OEGS 140000Z 28003KT CAVOK 27/M02 Q1007=
METAR OEGT 140000Z 31008KT CAVOK 28/07 Q1010 NOSIG=
METAR OEHL 140000Z 18004KT CAVOK 27/M01 Q1012=
METAR OEJB 140000Z NIL=
METAR OEJN 140000Z 00000KT CAVOK 31/22 Q1003 NOSIG=
METAR OEKJ 140000Z 11006KT CAVOK 33/01 Q1006=
METAR OEKK 140000Z NIL=
METAR OEAR 140000Z 00000KT CAVOK 35/21 Q1005=


......................................................................................


Date: Friday 14th of June 2024

SASD21 OEJD 140000
METAR OEKM 140000Z 00000KT CAVOK 20/12 Q1022 NOSIG=
METAR OEMA 140000Z 11005KT CAVOK 35/08 Q1010 NOSIG=
METAR OEMN 140000Z 03005KT CAVOK 34/18 Q1006=
METAR OENG 140000Z 00000KT CAVOK 27/M03 Q1012 NOSIG=
METAR OEPA 140000Z 27006KT CAVOK 30/M02 Q1003 NOSIG=
METAR OERF 140000Z 29006KT CAVOK 29/M02 Q1005 NOSIG=
METAR OERK 140000Z 27003KT CAVOK 31/M01 Q1006 NOSIG=
METAR OERR 140000Z 00000KT CAVOK 31/M02 Q1007 NOSIG=
METAR OERS 140000Z NIL=
METAR OESH 140000Z 23004KT CAVOK 28/01 Q1007 NOSIG=
METAR OESK 140000Z 34003KT CAVOK 29/M01 Q1012 NOSIG=
METAR OETB 140000Z 00000KT CAVOK 28/M04 Q1011 NOSIG=
METAR OETF 140000Z 27005KT 9999 FEW030 25/12 Q1017 NOSIG=
METAR OETR 140000Z 02014KT CAVOK 27/M02 Q1012 NOSIG=
METAR OEWD 140000Z 24004KT CAVOK 34/00 Q1005=
METAR OEWJ 140000Z 06003KT CAVOK 27/25 Q1003 NOSIG=
METAR OEYN 140000Z 13008KT 9999 FEW040 29/26 Q1002 NOSIG=


......................................................................................


Date: Friday 14th of June 2024

SASD31 OEJD 140000
METAR OEDF 140000Z 21006KT CAVOK 30/07 Q0999 NOSIG=
METAR OEDR 140000Z 25004KT CAVOK 29/14 Q0998=
METAR OEJN 140000Z 00000KT CAVOK 31/22 Q1003 NOSIG=
METAR OEMA 140000Z 11005KT CAVOK 35/08 Q1010 NOSIG=
METAR OERK 140000Z 27003KT CAVOK 31/M01 Q1006 NOSIG=
METAR OEAB 140000Z 00000KT CAVOK 18/13 Q1022 NOSIG=
METAR OYAA 140000Z 14009KT 6000 FEW020 32/27 Q1004 NOSIG=
METAR OYSN 140000Z NIL=


......................................................................................


Date: Friday 14th of June 2024

SAAE31 VDPP 140000
METAR VDPP 140000Z 26004KT 240V320 9999 SCT017 30/25 Q1007=


......................................................................................


Date: Friday 14th of June 2024

SAOM32 OOMS 140000
METAR OOMS 140000Z NIL=
METAR OOSA 132350Z 21004KT 9999 BKN025 30/26 Q1004 NOSIG=
METAR OOSH 140000Z NIL=
METAR OODQ 132350Z AUTO 21026KT 9999 R22///// SCT007 BKN050 BKN180
27/26 Q1000 NOSIG=
METAR OOKB 132350Z AUTO 01004KT 320V050 CAVOK 34/21 Q0997 NOSIG=
METAR OOAD 132350Z AUTO 08011KT 9999 // NCD 31/21 Q1002 NOSIG=


......................................................................................


Date: Friday 14th of June 2024

SAOM32 OOMS 140000 RRA
METAR OOMS 132350Z 26004KT CAVOK 34/22 Q0998 NOSIG=


......................................................................................


Date: Friday 14th of June 2024

SASR31 WSSS 140000
METAR WSSS 140000Z VRB03KT 9999 FEW018 BKN300 29/26 Q1009 NOSIG =


......................................................................................


Date: Friday 14th of June 2024

SAHK31 VHHH 140000
METAR VHHH 140000Z 20012KT 150V220 9999 -SHRA FEW008 FEW012CB
SCT020 30/26 Q1004 TEMPO 24022G32KT 2500 TSRA SHRA FEW010CB
SCT020=


......................................................................................


Date: Friday 14th of June 2024

SATH40 VTBB 140000 RRA
METAR VTBD 140000Z 20004KT 9999 FEW030 30/23 Q1007 NOSIG=
METAR VTBS 140000Z 21003KT 9999 FEW020 30/23 Q1007 NOSIG=
METAR VTBU 140000Z VRB02KT 9999 FEW020 29/26 Q1008 NOSIG=
METAR VTCC 140000Z 26003KT 200V280 9999 BKN035 27/23 Q1007 NOSIG=
METAR VTSP 140000Z 00000KT 9999 SCT020 28/26 Q1009 NOSIG=
METAR VTSS 140000Z 00000KT 9999 FEW020 26/24 Q1009 NOSIG=


......................................................................................


Date: Friday 14th of June 2024

SATH40 VTBB 140000
METAR VTBD 140000Z NIL=
METAR VTBS 140000Z NIL=
METAR VTBU 140000Z NIL=
METAR VTCC 140000Z NIL=
METAR VTCT 140000Z NIL=
METAR VTSB 140000Z NIL=
METAR VTSG 140000Z NIL=
METAR VTSP 140000Z NIL=
METAR VTSS 140000Z NIL=
METAR VTUD 140000Z NIL=
METAR VTUU 140000Z NIL=


......................................................................................


Date: Friday 14th of June 2024

SAIR31 OIII 140000
METAR OIAW 140000Z NIL=
METAR OIFM 140000Z 02004KT 5000 HZ NSC 23/04 Q1013 A2994=
METAR OIII 140000Z 29006KT 9999 FEW035 SCT100 24/10 Q1013 A2992
NOSIG=
METAR OIKB 140000Z 08004KT 4000 HZ NSC 30/25 Q0997 A2946=
METAR OIKK 140000Z 18004KT CAVOK 19/02 Q1014 A2996=
METAR OIMM 140000Z NIL=
METAR OISS 140000Z 00000KT CAVOK 19/03 Q1010 A2985=
METAR OITT 140000Z 10006KT 9999 FEW035CB 18/09 Q1017 A3004=
METAR OIZH 140000Z 29004KT CAVOK 24/03 Q1010 A2983=


......................................................................................


Date: Friday 14th of June 2024

SAIR32 OIII 140000
METAR OIAA 140000Z 27006KT CAVOK 30/09 Q0998=
METAR OIBK 140000Z 30014KT 7000 NSC 30/26 Q0996=
METAR OICC 140000Z 00000KT CAVOK 18/04 Q1011 A2986=
METAR OIGG 140000Z NIL=
METAR OIIE 140000Z 32014KT 9999 VCTS FEW035CB
SCT040 BKN100 24/10 Q1012=
METAR OINZ 140000Z 01004KT CAVOK 23/21 Q1009=
METAR OITR 140000Z NIL=
METAR OIYY 140000Z 31016KT 1000 R31/1000N SA FEW045 29/07 Q1010=


......................................................................................


Date: Friday 14th of June 2024

SAIR33 OIII 140000
METAR OIBB 140000Z 00000KT CAVOK 30/14 Q0997 A2946=
METAR OIBP 140000Z 00000KT CAVOK 27/23 Q0996 A2942=
METAR OICK 140000Z 13004KT CAVOK 18/04 Q1008 A2979=
METAR OICS 140000Z 35012KT 9999 SCT040 22/05 Q1014 A2996=
METAR OIHH 140000Z 17002KT 9999 FEW040 15/08 Q1016 A3000=
METAR OITL 140000Z 01006KT 9999 FEW045 09/08 Q1017=
METAR OIZC 140000Z NIL=


......................................................................................


Date: Friday 14th of June 2024

SAIR34 OIII 140000
METAR OIAG 140000Z VRB02KT CAVOK 29/10 Q0998=
METAR OIAM 140000Z 28006KT CAVOK 32/17 Q0998=
METAR OICI 140000Z 10006KT CAVOK 21/02 Q1011 A2987=
METAR OIKQ 140000Z 07006KT 7000 NSC 30/25 Q0996=
METAR OINN 140000Z 15002KT 9999 FEW025 22/19 Q1007=
METAR OINR 140000Z 24002KT 9999 FEW033CB BKN090 25/21 Q1007=
METAR OISL 140000Z 00000KT CAVOK 26/09 Q1003 A2962=
METAR OISY 140000Z 00000KT CAVOK 17/04 Q1014=
METAR OITZ 140000Z NIL=


......................................................................................


Date: Friday 14th of June 2024

SAIR35 OIII 140000
METAR OIAD 140000Z NIL=
METAR OIBJ 140000Z NIL=
METAR OIBS 140000Z NIL=
METAR OIHR 140000Z NIL=
METAR OIKM 140000Z NIL=
METAR OIKR 140000Z NIL=
METAR OING 140000Z 00000KT 7000 -RA FEW030CB SCT030 OVC070 25/22
Q1010=
METAR OIZB 140000Z 34019KT CAVOK 30/07 Q1000=
METAR OIZI 140000Z 35004KT CAVOK 31/09 Q1003=


......................................................................................


Date: Friday 14th of June 2024

SAIR36 OIII 140000
METAR OIBA 140000Z NIL=
METAR OIBV 140000Z NIL=
METAR OIFS 140000Z 30004KT CAVOK 11/04 Q1018=
METAR OIIP 140000Z 33008KT 8000 TS FEW025CB SCT035 OVC100 20/11
Q1013 A2993=
METAR OIMB 140000Z 07006KT CAVOK 21/M00 Q1012 A2990=
METAR OIMN 140000Z 00000KT 9000 FEW035 19/12 Q1014=
METAR OIMS 140000Z NIL=
METAR OIMT 140000Z NIL=
METAR OIZJ 140000Z 00000KT 5000 HZ NSC 32/25 Q0997=


......................................................................................


Date: Friday 14th of June 2024

SAIR37 OIII 140000
METAR OIBL 140000Z 09008KT 4000 HZ NSC 31/25 Q0996=
METAR OIBQ 140000Z NIL=
METAR OIIK 140000Z NIL=
METAR OIMD 140000Z NIL=
METAR OIMQ 140000Z NIL=
METAR OINE 140000Z 00000KT 9999 SCT030 OVC090 24/20 Q1010=
METAR OITK 140000Z NIL=
METAR OITM 140000Z 12008KT 9999 FEW037 SCT170 16/09 Q1014=


......................................................................................


Date: Friday 14th of June 2024

SAIR38 OIII 140000
METAR OIAH 140000Z NIL=
METAR OIBH 140000Z NIL=
METAR OICM 140000Z NIL=
METAR OIIS 140000Z NIL=
METAR OIMJ 140000Z NIL=
METAR OISF 140000Z 32004KT CAVOK 18/M00 Q1008 A2979=
METAR OISR 140000Z NIL=
METAR OITP 140000Z NIL=
METAR OITU 140000Z NIL=


......................................................................................


Date: Friday 14th of June 2024

SAMV31 VRMM 140000
METAR VRMH 140000Z 27010KT 9999 FEW018 BKN270
29/26 Q1009=
METAR VRMM 140000Z 26012KT 9999 FEW018 BKN280 29/26
Q1009 NOSIG=
METAR VRMG 140000Z 28005KT 9999 FEW018TCU SCT270 27/24
Q1010 NOSIG=


......................................................................................


Date: Friday 14th of June 2024

SAAE31 VTBB 140000
METAR VTBD 140000Z 20004KT 9999 FEW030 30/23 Q1007 NOSIG=
METAR VTBS 140000Z 21003KT 9999 FEW020 30/23 Q1007 NOSIG=
METAR VTCC 140000Z 26003KT 200V280 9999 BKN035 27/23 Q1007 NOSIG=
METAR VTSP 140000Z 00000KT 9999 SCT020 28/26 Q1009 NOSIG=
METAR VTSS 140000Z 00000KT 9999 FEW020 26/24 Q1009 NOSIG=
METAR VTBU 140000Z VRB02KT 9999 FEW020 29/26 Q1008 NOSIG=


......................................................................................


Date: Friday 14th of June 2024

SAAE32 VTBB 140000
METAR VDPP 140000Z 26004KT 240V320 9999 SCT017 30/25 Q1007=
METAR VLVT 140000Z 00000KT 7000 SCT050 FEW200 26/22 Q1006 NOSIG=
METAR VYMD 140000Z NIL=
METAR VYNT 140000Z 17010KT 6000 BKN016 FEW020CB OVC100 26/25 Q1006
NOSIG=
METAR VYYY 140000Z 20003KT 6000 BKN015 FEW020CB OVC100 26/26 Q1006=
METAR VDSV 140000Z 06003KT 9000 SCT015 28/26 Q1008=
METAR VDSA 140000Z 27006KT 9000 SCT017 29/24 Q1007=


......................................................................................


Date: Friday 14th of June 2024

SAAE33 VTBB 140000
METAR VLLB 140000Z 18002KT 9999 FEW017 BKN060 25/24 Q1006 NOSIG=
METAR VLLN 140000Z 14004KT 9000 SCT020 BKN100 25/24 Q1008 NOSIG=
METAR VLPS 140000Z 09002KT 9999 FEW020 SCT050 30/25 Q1008 NOSIG=
METAR VLSK 140000Z NIL=


......................................................................................


Date: Friday 14th of June 2024

SAAE34 VTBB 140000
METAR VVCI 140000Z 20006KT CAVOK 31/24 Q1000 NOSIG=
METAR VVCR 140000Z 32002KT CAVOK 31/24 Q1007 NOSIG=
METAR VVCT 140000Z 23005KT 8000 FEW015 29/27 Q1008 NOSIG=
METAR VVDN 140000Z VRB01KT CAVOK 31/25 Q1005 NOSIG=
METAR VVNB 140000Z 05003KT 350V080 CAVOK 30/26 Q1000 NOSIG=
METAR VVPB 140000Z 19002KT 9999 FEW017 31/24 Q1004 NOSIG=
METAR VVPQ 140000Z 29006KT 9999 FEW015 30/26 Q1008 NOSIG=
METAR VVTS 140000Z 26004KT 230V290 CAVOK 30/28 Q1008 NOSIG =
METAR VVVD 140000Z VRB02KT 9999 SCT012 29/29 Q1001 NOSIG=


......................................................................................


Date: Friday 14th of June 2024

SAIR20 OIII 140000
METAR OIAA 140000Z 27006KT CAVOK 30/09 Q0998=
METAR OIAG 140000Z VRB02KT CAVOK 29/10 Q0998=
METAR OIAH 140000Z 00000KT CAVOK 26/04 Q1008=
METAR OIAI 140000 NIL=
METAR OIAM 140000Z 28006KT CAVOK 32/17 Q0998=
METAR OIAW 132350Z 33004KT CAVOK 33/09 Q0996=
METAR OIBA 140000 NIL=
METAR OIBB 140000Z 00000KT CAVOK 30/14 Q0997 A2946=
METAR OIBK 140000Z 30014KT 7000 NSC 30/26 Q0996=
METAR OIBL 140000Z 09008KT 4000 HZ NSC 31/25 Q0996=
METAR OIBS 140000 NIL=
METAR OICC 132350Z 00000KT CAVOK 18/04 Q1011 A2986=
METAR OICI 140000Z 10006KT CAVOK 21/02 Q1011 A2987=
METAR OICJ 140000 NIL=
METAR OICK 140000Z 13004KT CAVOK 18/04 Q1008 A2979=
METAR OICS 140000Z 35012KT 9999 SCT040 22/05 Q1014 A2996=
METAR OIFK 140000Z 00000KT 5000 HZ SCT040 BKN100 25/06 Q1010 A2984=
METAR OIFM 140000Z 02004KT 5000 HZ NSC 23/04 Q1013 A2994=
METAR OIFS 132356Z 30004KT CAVOK 11/04 Q1018=
METAR OIGG 140000Z 12004KT 8000 NSC 24/24 Q1009=
METAR OIGK 140000 NIL=
METAR OIHH 140000Z 17002KT 9999 FEW040 15/08 Q1016 A3000=
METAR OIHM 140000Z 14002KT 9999 FEW040 15/06 Q1014=
METAR OIIE 140000Z 32014KT 9999 VCTS FEW035CB SCT040 BKN100 24/10
Q1012 NOSIG=
METAR OIII 140000Z 29006KT 9999 FEW035 SCT100 24/10 Q1013 A2992
NOSIG=
METAR OIIK 140000 NIL=
METAR OIIP 140000Z 33008KT 8000 TS FEW025CB SCT035 OVC100 20/11
Q1013 A2993=
METAR OIIS 140000 NIL=
METAR OIKB 140000Z 08004KT 4000 HZ NSC 30/25 Q0997 A2946=
METAR OIKK 132350Z 18004KT CAVOK 19/02 Q1014 A2996=
METAR OIKO 140000 NIL=
METAR OIKQ 140000Z 07006KT 7000 NSC 30/25 Q0996=
METAR OIMB 140000Z 07006KT CAVOK 21/M00 Q1012 A2990=
METAR OIMC 140000 NIL=
METAR OIMD 140000 NIL=
METAR OIMM 140000Z 03004KT CAVOK 23/13 Q1012 A2991=
METAR OINB 140000 NIL=
METAR OING 140000Z 00000KT 7000 -RA FEW030CB SCT030 OVC070 25/22
Q1010=
METAR OINK 140000Z 00000KT 6000 SCT030 BKN090 25/21 Q1008 A2977=
METAR OINN 140000Z 15002KT 9999 FEW025 22/19 Q1007=
METAR OINR 140000Z 24002KT 9999 FEW033CB BKN090 25/21 Q1007=
METAR OISA 140000Z 01019KT CAVOK 22/01 Q1015 A3000=
METAR OISF 140000Z 32004KT CAVOK 18/M00 Q1008 A2979=
METAR OISL 140000Z 00000KT CAVOK 26/09 Q1003 A2962=
METAR OISS 140000Z 00000KT CAVOK 19/03 Q1010 A2985=
METAR OISY 140000Z 00000KT CAVOK 17/04 Q1014=
METAR OITL 132355Z 01006KT 9999 FEW045 09/08 Q1017=
METAR OITR 140000Z 27004KT CAVOK 15/11 Q1016 A3001=
METAR OITT 140000Z 10006KT 9999 FEW035CB 18/09 Q1017 A3004=
METAR OITU 140000 NIL=
METAR OIYY 132350Z 31016KT 1000 R31/1000N SA FEW045 29/07 Q1010=
METAR OIZB 140000Z 34019KT CAVOK 30/07 Q1000=
METAR OIZH 140000Z 29004KT CAVOK 24/03 Q1010 A2983=
METAR OIZI 140000Z 35004KT CAVOK 31/09 Q1003=
METAR OIZJ 140000Z 00000KT 5000 HZ NSC 32/25 Q0997=


......................................................................................


Date: Friday 14th of June 2024

SAIR31 OIII 140000 RRA
METAR OIMM 140000Z 03004KT CAVOK 23/13 Q1012 A2991=


......................................................................................


Date: Friday 14th of June 2024

SAIR38 OIII 140000 RRA
METAR OIAH 140000Z 00000KT CAVOK 26/04 Q1008=


......................................................................................


Date: Friday 14th of June 2024

SAIR77 OIII 140000
METAR OIAA 140000Z 27006KT CAVOK 30/09 Q0998=
METAR OIAG 140000Z VRB02KT CAVOK 29/10 Q0998=
METAR OIAH 140000Z 00000KT CAVOK 26/04 Q1008=
METAR OIAI 140000 NIL=
METAR OIAM 140000Z 28006KT CAVOK 32/17 Q0998=
METAR OIAW 132350Z 33004KT CAVOK 33/09 Q0996=
METAR OIBA 140000 NIL=
METAR OIBB 140000Z 00000KT CAVOK 30/14 Q0997 A2946=
METAR OIBK 140000Z 30014KT 7000 NSC 30/26 Q0996=
METAR OIBL 140000Z 09008KT 4000 HZ NSC 31/25 Q0996=
METAR OIBS 140000 NIL=
METAR OICC 132350Z 00000KT CAVOK 18/04 Q1011 A2986=
METAR OICI 140000Z 10006KT CAVOK 21/02 Q1011 A2987=
METAR OICJ 140000 NIL=
METAR OICK 140000Z 13004KT CAVOK 18/04 Q1008 A2979=
METAR OICS 140000Z 35012KT 9999 SCT040 22/05 Q1014 A2996=
METAR OIFK 140000Z 00000KT 5000 HZ SCT040 BKN100 25/06 Q1010 A2984=
METAR OIFM 140000Z 02004KT 5000 HZ NSC 23/04 Q1013 A2994=
METAR OIFS 132356Z 30004KT CAVOK 11/04 Q1018=
METAR OIGG 140000Z 12004KT 8000 NSC 24/24 Q1009=
METAR OIGK 140000 NIL=
METAR OIHM 140000Z 14002KT 9999 FEW040 15/06 Q1014=
METAR OIIE 140000Z 32014KT 9999 VCTS FEW035CB SCT040 BKN100 24/10
Q1012 NOSIG=
METAR OIII 140000Z 29006KT 9999 FEW035 SCT100 24/10 Q1013 A2992
NOSIG=
METAR OIIK 140000 NIL=
METAR OIIP 140000Z 33008KT 8000 TS FEW025CB SCT035 OVC100 20/11
Q1013 A2993=
METAR OIKB 140000Z 08004KT 4000 HZ NSC 30/25 Q0997 A2946=
METAR OIKK 132350Z 18004KT CAVOK 19/02 Q1014 A2996=
METAR OIKO 140000 NIL=
METAR OIKQ 140000Z 07006KT 7000 NSC 30/25 Q0996=
METAR OIMB 140000Z 07006KT CAVOK 21/M00 Q1012 A2990=
METAR OIMC 140000 NIL=
METAR OIMD 140000 NIL=
METAR OIMM 140000Z 03004KT CAVOK 23/13 Q1012 A2991=
METAR OIMN 140000Z 00000KT 9000 FEW035 19/12 Q1014=
METAR OINB 140000 NIL=
METAR OING 140000Z 00000KT 7000 -RA FEW030CB SCT030 OVC070 25/22
Q1010=
METAR OINK 140000Z 00000KT 6000 SCT030 BKN090 25/21 Q1008 A2977=
METAR OINN 140000Z 15002KT 9999 FEW025 22/19 Q1007=
METAR OINR 140000Z 24002KT 9999 FEW033CB BKN090 25/21 Q1007=
METAR OISA 140000Z 01019KT CAVOK 22/01 Q1015 A3000=
METAR OISF 140000Z 32004KT CAVOK 18/M00 Q1008 A2979=
METAR OISL 140000Z 00000KT CAVOK 26/09 Q1003 A2962=
METAR OISS 140000Z 00000KT CAVOK 19/03 Q1010 A2985=
METAR OISY 140000Z 00000KT CAVOK 17/04 Q1014=
METAR OITL 132355Z 01006KT 9999 FEW045 09/08 Q1017=
METAR OITR 140000Z 27004KT CAVOK 15/11 Q1016 A3001=
METAR OITT 140000Z 10006KT 9999 FEW035CB 18/09 Q1017 A3004=
METAR OIYY 132350Z 31016KT 1000 R31/1000N SA FEW045 29/07 Q1010=
METAR OIZB 140000Z 34019KT CAVOK 30/07 Q1000=
METAR OIZH 140000Z 29004KT CAVOK 24/03 Q1010 A2983=
METAR OIZI 140000Z 35004KT CAVOK 31/09 Q1003=
METAR OIZJ 140000Z 00000KT 5000 HZ NSC 32/25 Q0997=


......................................................................................


Date: Friday 14th of June 2024

SAUZ31 UTTW 140000
METAR UTFN 140000Z 33004KT 9999 NSC 22/07 Q1005 R28/CLRD70 NOSIG=
METAR UTNN 140000Z 00000KT CAVOK 22/02 Q1011 R33/CLRD60 NOSIG=
METAR UTNU 140000Z 03006KT CAVOK 21/08 Q1010 R31/CLRD70 NOSIG=
METAR UTSA 140000Z NIL=
METAR UTSB 140000Z 33010KT CAVOK 22/08 Q1006 R01/CLRD70 NOSIG=
METAR UTSK 140000Z 00000KT CAVOK 20/07 Q1004 R16/CLRD70=
METAR UTSS 140000Z 13012KT 9999 NSC 20/08 Q1008 R09/CLRD70 NOSIG=
METAR UTST 140000Z 25006KT CAVOK 24/07 Q1003 R25/CLRD70 NOSIG=
METAR UTFA 140000Z NIL=
METAR UTFF 140000Z 29006KT 9999 NSC 24/03 Q1006 R18/CLRD70=
METAR UTTT 140000Z 08006KT CAVOK 19/09 Q1007 R08R/CLRD70 NOSIG=


......................................................................................


Date: Friday 14th of June 2024

SAHK31 VHHH 140000
METAR VHHH 140000Z 20012KT 150V220 9999 -SHRA FEW008 FEW012CB
SCT020 30/26 Q1004 TEMPO 24022G32KT 2500 TSRA SHRA FEW010CB
SCT020=
METAR RCTP 140000Z 24015KT 9999 FEW015 SCT100 BKN160 30/25 Q1004
NOSIG RMK A2965=
METAR RCKH 140000Z 23008KT 200V260 9999 VCSH FEW008 SCT015 BKN050
30/28 Q1006 NOSIG RMK A2973=
METAR RCSS 140000Z 09003KT 9999 FEW025 SCT050 BKN150 29/25 Q1004
NOSIG RMK A2966=
METAR RCMQ 140000Z 17009KT 9999 -RA FEW008 FEW010CB SCT016 BKN050
26/25 Q1008 NOSIG RMK A2977 RA AMT 1.2MM CB W=
METAR RCNN 140000Z 06005KT 3200 -RA VCTS BR SCT008 FEW010CB BKN016
BKN040 24/24 Q1007 RETS NOSIG RMK A2976 RA AMT 2.6MM TS NE STNRY=
METAR RCFN 140000Z 02004KT 310V100 9999 FEW020 SCT060 BKN150 30/26
Q1005 NOSIG RMK A2968=
METAR VMMC 140000Z 18009KT 4500 -TSRA FEW006 FEW012CB SCT020 BKN045
29/28 Q1003 NOSIG=
METAR RPLL 140000Z VRB03KT 9000 SCT023 31/27 Q1009 NOSIG RMK A2980=
METAR RPVM 140000Z 23007KT 9999 FEW020 SCT300 29/25 Q1011 NOSIG RMK
A2985=
METAR RPMD 140000Z 35004KT 310V030 9999 FEW016 BKN260 28/24 Q1011 RMK
A2985=
METAR RPLB 140000Z VRB02KT 9999 FEW020 SCT300 30/26 Q1010 NOSIG RMK
A2983=
METAR RPLI 140000Z 15005KT 9999 FEW018 31/25 Q1009 NOSIG RMK A2980=
METAR RPMZ 140000Z 30003KT 9999 -SHRA FEW016CB BKN300 27/25 Q1011 RMK
A2895 CB NE-SE=
METAR RPLC 140000Z 11002KT 7000 SCT020 29/25 Q1010 NOSIG RMK A2983=
METAR RPVP 140000Z 30004KT 9999 TS FEW017CB SCT019 BKN080 BKN240
27/24 Q1010 RMK A2983 CB SE/TS=


......................................................................................


Date: Friday 14th of June 2024

SAIR20 OIII 140000
METAR OING 140000Z 00000KT 7000 -RA FEW030CB SCT030 OVC070 25/22
Q1010=
METAR OINK 140000Z 00000KT 6000 SCT030 BKN090 25/21 Q1008 A2977=
METAR OINN 140000Z 15002KT 9999 FEW025 22/19 Q1007=
METAR OINR 140000Z 24002KT 9999 FEW033CB BKN090 25/21 Q1007=
METAR OISA 140000Z 01019KT CAVOK 22/01 Q1015 A3000=
METAR OISF 140000Z 32004KT CAVOK 18/M00 Q1008 A2979=
METAR OISL 140000Z 00000KT CAVOK 26/09 Q1003 A2962=
METAR OISS 140000Z 00000KT CAVOK 19/03 Q1010 A2985=
METAR OISY 140000Z 00000KT CAVOK 17/04 Q1014=
METAR OITL 132355Z 01006KT 9999 FEW045 09/08 Q1017=
METAR OITR 140000Z 27004KT CAVOK 15/11 Q1016 A3001=
METAR OITT 140000Z 10006KT 9999 FEW035CB 18/09 Q1017 A3004=
METAR OITU 140000 NIL=
METAR OIYY 132350Z 31016KT 1000 R31/1000N SA FEW045 29/07 Q1010=
METAR OIZB 140000Z 34019KT CAVOK 30/07 Q1000=
METAR OIZH 140000Z 29004KT CAVOK 24/03 Q1010 A2983=
METAR OIZI 140000Z 35004KT CAVOK 31/09 Q1003=
METAR OIZJ 140000Z 00000KT 5000 HZ NSC 32/25 Q0997=


......................................................................................


Date: Friday 14th of June 2024

SAIR77 OIII 140000
METAR OING 140000Z 00000KT 7000 -RA FEW030CB SCT030 OVC070 25/22
Q1010=
METAR OINK 140000Z 00000KT 6000 SCT030 BKN090 25/21 Q1008 A2977=
METAR OINN 140000Z 15002KT 9999 FEW025 22/19 Q1007=
METAR OINR 140000Z 24002KT 9999 FEW033CB BKN090 25/21 Q1007=
METAR OISA 140000Z 01019KT CAVOK 22/01 Q1015 A3000=
METAR OISF 140000Z 32004KT CAVOK 18/M00 Q1008 A2979=
METAR OISL 140000Z 00000KT CAVOK 26/09 Q1003 A2962=
METAR OISS 140000Z 00000KT CAVOK 19/03 Q1010 A2985=
METAR OISY 140000Z 00000KT CAVOK 17/04 Q1014=
METAR OITL 132355Z 01006KT 9999 FEW045 09/08 Q1017=
METAR OITR 140000Z 27004KT CAVOK 15/11 Q1016 A3001=
METAR OITT 140000Z 10006KT 9999 FEW035CB 18/09 Q1017 A3004=
METAR OIYY 132350Z 31016KT 1000 R31/1000N SA FEW045 29/07 Q1010=
METAR OIZB 140000Z 34019KT CAVOK 30/07 Q1000=
METAR OIZH 140000Z 29004KT CAVOK 24/03 Q1010 A2983=
METAR OIZI 140000Z 35004KT CAVOK 31/09 Q1003=
METAR OIZJ 140000Z 00000KT 5000 HZ NSC 32/25 Q0997=


......................................................................................


Date: Friday 14th of June 2024

SAJP31 RJTD 140000
METAR RJAA 140000Z 11003KT 020V160 CAVOK 27/21 Q1007 NOSIG=
METAR RJBB 140000Z 31004KT 9999 FEW020 23/21 Q1008 NOSIG=
METAR RJTT 140000Z 18010KT CAVOK 27/21 Q1007 NOSIG=
METAR RJOO 140000Z VRB01KT 9999 FEW025 27/20 Q1008=
METAR ROAH 140000Z 19015KT 3000 R18L/2000N R18R/1500VP2000D +TSRA BR
FEW004 BKN008 FEW025CB BKN030 27/26 Q1005=
METAR RJGG 140000Z 27004KT 9999 FEW020 25/20 Q1008 BECMG FM0100
24005KT=
METAR RJCH 140000Z 17003KT 8000 -DZ FEW003 SCT006 BKN012 17/16
Q1008=
METAR RJSS 140000Z 08005KT 050V120 CAVOK 25/17 Q1007=


......................................................................................


Date: Friday 14th of June 2024

SAJP32 RJTD 140000
METAR RJFF 140000Z 22003KT 150V330 9999 FEW045 SCT080 27/21 Q1007
BECMG TL0130 31007KT=
METAR RJCC 140000Z 34006KT 290V030 9999 FEW008 BKN010 BKN015 18/15
Q1008=
METAR RJFK 140000Z 11006KT 070V160 9999 FEW030 25/19 Q1008=
METAR RJSN 140000Z 33008KT 8000 FEW010 SCT015 24/19 Q1009=
METAR RJFT 140000Z 02005KT 330V080 9999 FEW010 SCT080 26/17 Q1007=
METAR RJFU 140000Z 33004KT 290V020 9999 FEW030 SCT080 26/22 Q1007=
METAR RJNK 140000Z 34004KT 280V020 9999 FEW050 24/19 Q1008=
METAR RJOA 140000Z 12004KT 080V160 CAVOK 25/19 Q1009=
METAR RJOB 140000Z 10005KT 020V150 9999 FEW015 25/19 Q1009=
METAR RJOT 140000Z VRB03KT CAVOK 26/20 Q1008=


......................................................................................


Date: Friday 14th of June 2024

SAJP32 RJTD 140000 RRA
METAR RJFO 140000Z 15006KT 9999 FEW030 22/20 Q1008=
METAR RJNT 140000Z 35004KT 300V030 9999 FEW020 26/17 Q1008=


......................................................................................


Date: Friday 14th of June 2024

SAJP38 RJTD 140000
METAR RJNS 140000Z 17004KT 090V240 9999 FEW030 26/21 Q1008=
METAR RJSA 140000Z 26009KT 9999 FEW010 BKN040 21/17 Q1008=
METAR RJSF 140000Z 01007KT 330V050 9999 FEW030 25/17 Q1009=
METAR RJOM 140000Z 34003KT 300V010 9999 FEW030 23/20 Q1008=
METAR RJOK 140000Z 20005KT 9999 FEW035 26/21 Q1007=
METAR RJFM 140000Z 05004KT 9999 FEW020 SCT035 25/21 Q1007=
METAR RJEC 140000Z VRB02KT 9999 FEW006 BKN012 BKN017 16/13 Q1007=
METAR RJFR 140000Z 08007KT 9999 FEW015 24/21 Q1007=
METAR RJSK 140000Z 28006KT 240V310 9999 FEW012 SCT017 BKN035 21/17
Q1009=
METAR RJAH 140000Z VRB02KT 9999 FEW030 27/19 Q1007=


......................................................................................


Date: Friday 14th of June 2024

SAJP38 RJTD 140000 RRA
METAR RJCK 140000Z 05005KT 350V100 9999 FEW010 BKN015 BKN020 16/13
Q1008=
METAR RJCM 140000Z 03005KT 010V070 8000 -DZ FEW003 BKN005 BKN007
12/11 Q1008=
METAR RJCB 140000Z 16007KT 9999 SCT006 BKN008 16/14 Q1007=
METAR RJOC 140000Z VRB02KT 9999 FEW030 26/20 Q1007=
METAR RJOH 140000Z 26003KT 220V300 9999 FEW030 27/18 Q1007=
METAR ROIG 140000Z 22014KT 9999 FEW014 BKN170 29/28 Q1005=
METAR RJFS 140000Z VRB01KT 9999 FEW010 BKN080 25/22 Q1007=
METAR RJSI 140000Z 28006KT 170V340 9999 FEW030 SCT040 BKN/// 24/15
Q1008=


......................................................................................


Date: Friday 14th of June 2024

SAJP51 RJTD 140000
METAR RJAA 140000Z 11003KT 020V160 CAVOK 27/21 Q1007 NOSIG=
METAR RJAF 140000Z VRB04KT 9999 FEW060 23/16 Q1010=
METAR RJAH 140000Z VRB02KT 9999 FEW030 27/19 Q1007=
METAR RJBB 140000Z 31004KT 9999 FEW020 23/21 Q1008 NOSIG=
METAR RJBD 140000Z 29004KT 200V350 9999 FEW035 26/20 Q1008=
METAR RJBE 140000Z 25004KT 200V290 9999 FEW040 24/21 Q1008=
METAR RJBT 140000Z VRB02KT 9999 FEW030 26/18 Q1008=
METAR RJCB 140000Z 16007KT 9999 SCT006 BKN008 16/14 Q1007=
METAR RJCC 140000Z 34006KT 290V030 9999 FEW008 BKN010 BKN015 18/15
Q1008=
METAR RJCH 140000Z 17003KT 8000 -DZ FEW003 SCT006 BKN012 17/16
Q1008=
METAR RJCK 140000Z 05005KT 350V100 9999 FEW010 BKN015 BKN020 16/13
Q1008=
METAR RJCM 140000Z 03005KT 010V070 8000 -DZ FEW003 BKN005 BKN007
12/11 Q1008=
METAR RJCN 140000Z 03009KT 9999 FEW005 SCT010 BKN020 14/12 Q1008=
METAR RJCO 140000Z 31005KT 270V350 9999 FEW004 BKN008 17/15 Q1009=
METAR RJCW 140000Z 08010KT 9999 FEW004 SCT010 14/11 Q1008=
METAR RJDB 140000Z AUTO VRB04KT 9999 NCD 26/22 Q1007=
METAR RJDC 140000Z 09011KT 9999 FEW007 24/21 Q1007=
METAR RJDT 140000Z 16003KT 080V220 CAVOK 25/18 Q1007=
METAR RJEB 140000Z 07003KT 030V120 3000 BR FEW001 SCT002 BKN003
11/11 Q1009=
METAR RJEC 140000Z VRB02KT 9999 FEW006 BKN012 BKN017 16/13 Q1007=


......................................................................................


Date: Friday 14th of June 2024

SAJP51 RJTD 140000 RRA
METAR RJFE 140000Z 02004KT 350V060 9999 FEW015 BKN070 25/22 Q1007=
METAR RJFF 140000Z 22003KT 150V330 9999 FEW045 SCT080 27/21 Q1007
BECMG TL0130 31007KT=
METAR RJFG 140000Z 10007KT 040V120 9999 FEW008 SCT010 BKN/// 24/21
Q1007=
METAR RJFK 140000Z 11006KT 070V160 9999 FEW030 25/19 Q1008=
METAR RJFM 140000Z 05004KT 9999 FEW020 SCT035 25/21 Q1007=
METAR RJFO 140000Z 15006KT 9999 FEW030 22/20 Q1008=
METAR RJFR 140000Z 08007KT 9999 FEW015 24/21 Q1007=
METAR RJFS 140000Z VRB01KT 9999 FEW010 BKN080 25/22 Q1007=
METAR RJFT 140000Z 02005KT 330V080 9999 FEW010 SCT080 26/17 Q1007=
METAR RJFU 140000Z 33004KT 290V020 9999 FEW030 SCT080 26/22 Q1007=
METAR RJGG 140000Z 27004KT 9999 FEW020 25/20 Q1008 BECMG FM0100
24005KT=
METAR RJKA 140000Z 20003KT 150V260 2000 R03/2000N SHRA FEW003 BKN005
BKN008 25/25 Q1005=
METAR RJKI 140000Z AUTO 23009KT 7000 -RA FEW003 BKN005 OVC043
//////TCU 25/22 Q1006=
METAR RJNK 140000Z 34004KT 280V020 9999 FEW050 24/19 Q1008=
METAR RJNS 140000Z 17004KT 090V240 9999 FEW030 26/21 Q1008=
METAR RJNT 140000Z 35004KT 300V030 9999 FEW020 26/17 Q1008=
METAR RJNW 140000Z 22004KT 140V310 9999 FEW015 24/19 Q1009=
METAR RJOA 140000Z 12004KT 080V160 CAVOK 25/19 Q1009=
METAR RJOB 140000Z 10005KT 020V150 9999 FEW015 25/19 Q1009=
METAR RJOC 140000Z VRB02KT 9999 FEW030 26/20 Q1007=


......................................................................................


Date: Friday 14th of June 2024

SAJP51 RJTD 140000 RRB
METAR RJOH 140000Z 26003KT 220V300 9999 FEW030 27/18 Q1007=
METAR RJOK 140000Z 20005KT 9999 FEW035 26/21 Q1007=
METAR RJOM 140000Z 34003KT 300V010 9999 FEW030 23/20 Q1008=
METAR RJOO 140000Z VRB01KT 9999 FEW025 27/20 Q1008=
METAR RJOR 140000Z 36005KT 9999 FEW030 25/20 Q1007=
METAR RJOS 140000Z 13005KT 9999 FEW/// 25/19 Q1008=
METAR RJOT 140000Z VRB03KT CAVOK 26/20 Q1008=
METAR RJOW 140000Z 01006KT 330V040 9999 FEW025 25/18 Q1008=
METAR RJOY 140000Z VRB02KT 9999 FEW020 27/20 Q1008=
METAR RJSA 140000Z 26009KT 9999 FEW010 BKN040 21/17 Q1008=
METAR RJSC 140000Z VRB03KT 9999 FEW025 SCT/// 23/17 Q1008=
METAR RJSF 140000Z 01007KT 330V050 9999 FEW030 25/17 Q1009=
METAR RJSI 140000Z 28006KT 170V340 9999 FEW030 SCT040 BKN/// 24/15
Q1008=
METAR RJSK 140000Z 28006KT 240V310 9999 FEW012 SCT017 BKN035 21/17
Q1009=
METAR RJSM 140000Z 02004KT 330V080 9999 FEW010 SCT030 22/17 Q1007=
METAR RJSN 140000Z 33008KT 8000 FEW010 SCT015 24/19 Q1009=
METAR RJSR 140000Z 21005KT 160V270 9999 FEW010 BKN020 BKN040 21/18
Q1009=
METAR RJSS 140000Z 08005KT 050V120 CAVOK 25/17 Q1007=
METAR RJSY 140000Z 32005KT 280V360 9999 FEW010 BKN015 21/18 Q1009=
METAR RJTF 140000Z 19004KT 130V240 9999 FEW030 28/19 Q1008=


......................................................................................


Date: Friday 14th of June 2024

SAJP51 RJTD 140000 RRC
METAR RJTI 140000Z 16007KT CAVOK 26/21 Q1008=
METAR RJTO 140000Z 21012KT 9999 FEW020 26/21 Q1008=
METAR RJTT 140000Z 18010KT CAVOK 27/21 Q1007 NOSIG=
METAR ROAH 140000Z 19015KT 3000 R18L/2000N R18R/1500VP2000D +TSRA BR
FEW004 BKN008 FEW025CB BKN030 27/26 Q1005=
METAR ROIG 140000Z 22014KT 9999 FEW014 BKN170 29/28 Q1005=
METAR ROMD 140000Z AUTO 21010KT 9999 SCT004 SCT007 BKN200 28/27
Q1008=
METAR ROMY 140000Z 22015KT 9999 VCSH SCT011 BKN/// 29/28 Q1005=
METAR RORK 140000Z AUTO 20007KT 9999 BKN008 OVC010 28/27 Q1008=
METAR RORS 140000Z AUTO 24007KT 190V290 9999 BKN013 BKN033 BKN037
29/27 Q1005=
METAR RORY 140000Z AUTO 17007KT 9999 FEW022 SCT080 BKN100 //////CB
25/25 Q1005=
METAR ROYN 140000Z AUTO 20005KT 160V220 9999 FEW015 BKN170 29/27
Q1004=
METAR RORT 140000Z AUTO 22013KT 9999 SCT011 BKN017 BKN020 30/28
Q1005=


......................................................................................


Date: Friday 14th of June 2024

SAPA31 KWBC 140000
METAR
AGGG NIL=
AGGH 140000Z NIL=
ANAU NIL=
AYPY 140000Z 14010G20KT 9999 FEW040 29/21 Q1012=
PGNT NIL=
PGRO 132350Z 09012KT 7SM SCT015 29/23 A2988=
PGSN 132354Z 08009KT 10SM SCT020 31/25 A2991 RMK AO2 SLP151 60000
T03060250 10317 20283 50003 $=
PGUA 132355Z AUTO 19008KT 9SM FEW012 28/25 A2991 RMK AO2 SLP119
60023 T02810247 10282 20250 58001 $=
PGUM NIL=
PGWT 132350Z 10010KT 7SM VCSH SCT022 SCT120 29/26 A2992 RMK VCSH
S-SW=
PHJH NIL=
PHJR 132353Z VRB06KT 10SM BKN047 28/18 A3002 RMK AO2 SLP173
T02780178 10294 20250 58019=
PHMK 132354Z 08021G28KT 10SM -RA SCT040 29/19 A3003 RMK AO2 PK WND
08028/2353 RAB18 SLP169 P0000 60000 T02890189 10289 20250
58016=
PJON NIL=
PKMJ NIL=
PKMR 132352Z 07010KT 15SM FEW015 SCT050 BKN120 OVC300 30/25 A2982
RMK SLP100 8/878 T03020249 10302 20282 58007=
PKWA 140000Z AUTO 10008G19KT 1 1/4SM +RA SCT006 BKN013 OVC017
26/25 A2989 RMK AO2 VIS 1/2V5 P0002 T02590246=
PLCH 140000Z 09009KT 9999 SCT020 30/23 Q1009=
PMDY NIL=
PTKK 132350Z 07007KT 15SM SCT012 BKN120 OVC280 29/27 A2986 RMK
SLP113 8/171 T02890271 10289 20244 52014=
PTKR NIL=
PTPN 132358Z 18004KT 10SM -RA BKN017TCU OVC130 26/25 A2985 RMK TCU
ALQDS=
PTRO 132350Z 00000KT 13SM SCT015CB BKN110 OVC290 27/25 A2986 RMK
HZ ALQDS CB ALQDS=
PTSA 132351Z 23004KT 10SM -SHRA BKN017TCU BKN130 OVC300 28/26
A2984 RMK TCU NE AND S=
PTTP NIL=
PTYA 132350Z VRB02KT 12SM FEW016 FEW130 BKN300 30/25 A2988 RMK
SLP120 60019 8/172 T02970252 10297 20246 51008=
PWAK 132355Z AUTO 05014KT 10SM SCT020 30/23 A2998 RMK AO2 SLP158
T02990231 10301 20264 58009=


......................................................................................


Date: Friday 14th of June 2024

SATR31 UTAA 140000
METAR UTAA 140000Z 30006KT 9999 BKN100 26/15 Q1008
R88/CLRD70 NOSIG=
METAR UTAK 140000Z 020010KT CAVOK 23/17 Q1010 R34L/CLRD70 NOSIG=
METAR UTAV 140000Z 36010KT CAVOK 23/07 Q1006 R31/CLRD70
NOSIG=
METAR UTAM NIL=
METAR UTAT 140000Z 09008KT CAVOK 26/04 Q1010 R08/CLRD70
NOSIG=


......................................................................................


Date: Friday 14th of June 2024

SAMS31 WMKK 140000
METAR WBGG 140000Z VRB02KT 9999 FEW010 26/24 Q1010 NOSIG=
METAR WBKK 140000Z VRB03KT 9999 FEW014 28/24 Q1010 NOSIG=
METAR WBSB 140000Z 19002KT 9999 FEW014 SCT140 BKN300 27/26 Q1011 NOSIG=
METAR WMKK 140000Z VRB02KT 5000 FEW006 FEW017CB 26/25 Q1010 NOSIG=
METAR WMKP 140000Z VRB01KT 8000 FEW020 29/25 Q1010 NOSIG=
METAR WSSL 140000Z 05002KT 9999 FEW018 BKN300 28/26 Q1009=
METAR WSSS 140000Z VRB03KT 9999 FEW018 BKN300 29/26 Q1009 NOSIG=
METAR WSAP 140000Z 01002KT 9000
FEW016 SCT160
BKN300 28/25 Q1010=


......................................................................................


Date: Friday 14th of June 2024

SAIR20 OIII 140000
METAR OIAA 140000Z 27006KT CAVOK 30/09 Q0998=
METAR OIAG 140000Z VRB02KT CAVOK 29/10 Q0998=
METAR OIAH 140000Z 00000KT CAVOK 26/04 Q1008=
METAR OIAI 140000 NIL=
METAR OIAM 140000Z 28006KT CAVOK 32/17 Q0998=
METAR OIAW 132350Z 33004KT CAVOK 33/09 Q0996=
METAR OIBA 140000 NIL=
METAR OIBB 140000Z 00000KT CAVOK 30/14 Q0997 A2946=
METAR OIBK 140000Z 30014KT 7000 NSC 30/26 Q0996=
METAR OIBL 140000Z 09008KT 4000 HZ NSC 31/25 Q0996=
METAR OIBS 140000 NIL=
METAR OICC 132350Z 00000KT CAVOK 18/04 Q1011 A2986=
METAR OICI 140000Z 10006KT CAVOK 21/02 Q1011 A2987=
METAR OICJ 140000 NIL=
METAR OICK 140000Z 13004KT CAVOK 18/04 Q1008 A2979=
METAR OICS 140000Z 35012KT 9999 SCT040 22/05 Q1014 A2996=
METAR OIFK 140000Z 00000KT 5000 HZ SCT040 BKN100 25/06 Q1010 A2984=
METAR OIFM 140000Z 02004KT 5000 HZ NSC 23/04 Q1013 A2994=
METAR OIFS 132356Z 30004KT CAVOK 11/04 Q1018=
METAR OIGG 140000Z 12004KT 8000 NSC 24/24 Q1009=
METAR OIGK 140000 NIL=
METAR OIHH 140000Z 17002KT 9999 FEW040 15/08 Q1016 A3000=
METAR OIHM 140000Z 14002KT 9999 FEW040 15/06 Q1014=
METAR OIIE 140000Z 32014KT 9999 VCTS FEW035CB SCT040 BKN100 24/10
Q1012 NOSIG=
METAR OIII 140000Z 29006KT 9999 FEW035 SCT100 24/10 Q1013 A2992
NOSIG=
METAR OIIK 140000 NIL=
METAR OIIP 140000Z 33008KT 8000 TS FEW025CB SCT035 OVC100 20/11
Q1013 A2993=
METAR OIIS 140000 NIL=
METAR OIKB 140000Z 08004KT 4000 HZ NSC 30/25 Q0997 A2946=
METAR OIKK 132350Z 18004KT CAVOK 19/02 Q1014 A2996=
METAR OIKO 140000 NIL=
METAR OIKQ 140000Z 07006KT 7000 NSC 30/25 Q0996=
METAR OIMB 140000Z 07006KT CAVOK 21/M00 Q1012 A2990=
METAR OIMC 140000 NIL=
METAR OIMD 140000 NIL=
METAR OIMM 140000Z 03004KT CAVOK 23/13 Q1012 A2991=
METAR OINB 140000 NIL=


......................................................................................


Date: Friday 14th of June 2024

SAIR77 OIII 140000
METAR OIAA 140000Z 27006KT CAVOK 30/09 Q0998=
METAR OIAG 140000Z VRB02KT CAVOK 29/10 Q0998=
METAR OIAH 140000Z 00000KT CAVOK 26/04 Q1008=
METAR OIAI 140000 NIL=
METAR OIAM 140000Z 28006KT CAVOK 32/17 Q0998=
METAR OIAW 132350Z 33004KT CAVOK 33/09 Q0996=
METAR OIBA 140000 NIL=
METAR OIBB 140000Z 00000KT CAVOK 30/14 Q0997 A2946=
METAR OIBK 140000Z 30014KT 7000 NSC 30/26 Q0996=
METAR OIBL 140000Z 09008KT 4000 HZ NSC 31/25 Q0996=
METAR OIBS 140000 NIL=
METAR OICC 132350Z 00000KT CAVOK 18/04 Q1011 A2986=
METAR OICI 140000Z 10006KT CAVOK 21/02 Q1011 A2987=
METAR OICJ 140000 NIL=
METAR OICK 140000Z 13004KT CAVOK 18/04 Q1008 A2979=
METAR OICS 140000Z 35012KT 9999 SCT040 22/05 Q1014 A2996=
METAR OIFK 140000Z 00000KT 5000 HZ SCT040 BKN100 25/06 Q1010 A2984=
METAR OIFM 140000Z 02004KT 5000 HZ NSC 23/04 Q1013 A2994=
METAR OIFS 132356Z 30004KT CAVOK 11/04 Q1018=
METAR OIGG 140000Z 12004KT 8000 NSC 24/24 Q1009=
METAR OIGK 140000 NIL=
METAR OIHM 140000Z 14002KT 9999 FEW040 15/06 Q1014=
METAR OIIE 140000Z 32014KT 9999 VCTS FEW035CB SCT040 BKN100 24/10
Q1012 NOSIG=
METAR OIII 140000Z 29006KT 9999 FEW035 SCT100 24/10 Q1013 A2992
NOSIG=
METAR OIIK 140000 NIL=
METAR OIIP 140000Z 33008KT 8000 TS FEW025CB SCT035 OVC100 20/11
Q1013 A2993=
METAR OIKB 140000Z 08004KT 4000 HZ NSC 30/25 Q0997 A2946=
METAR OIKK 132350Z 18004KT CAVOK 19/02 Q1014 A2996=
METAR OIKO 140000 NIL=
METAR OIKQ 140000Z 07006KT 7000 NSC 30/25 Q0996=
METAR OIMB 140000Z 07006KT CAVOK 21/M00 Q1012 A2990=
METAR OIMC 140000 NIL=
METAR OIMD 140000 NIL=
METAR OIMM 140000Z 03004KT CAVOK 23/13 Q1012 A2991=
METAR OIMN 140000Z 00000KT 9000 FEW035 19/12 Q1014=
METAR OINB 140000 NIL=


......................................................................................


Date: Friday 14th of June 2024

SAJP35 RJTD 140000
METAR RJAA 140000Z 11003KT 020V160 CAVOK 27/21 Q1007 NOSIG=
METAR RJBB 140000Z 31004KT 9999 FEW020 23/21 Q1008 NOSIG=
METAR RJTT 140000Z 18010KT CAVOK 27/21 Q1007 NOSIG=
METAR RJOO 140000Z VRB01KT 9999 FEW025 27/20 Q1008=
METAR RJGG 140000Z 27004KT 9999 FEW020 25/20 Q1008 BECMG FM0100
24005KT=
METAR RJSN 140000Z 33008KT 8000 FEW010 SCT015 24/19 Q1009=
METAR RJCH 140000Z 17003KT 8000 -DZ FEW003 SCT006 BKN012 17/16
Q1008=
METAR RJSA 140000Z 26009KT 9999 FEW010 BKN040 21/17 Q1008=
METAR RJSF 140000Z 01007KT 330V050 9999 FEW030 25/17 Q1009=
METAR RJSI 140000Z 28006KT 170V340 9999 FEW030 SCT040 BKN/// 24/15
Q1008=


......................................................................................


Date: Friday 14th of June 2024

SAJP37 RJTD 140000
METAR RJAA 140000Z 11003KT 020V160 CAVOK 27/21 Q1007 NOSIG=
METAR RJBB 140000Z 31004KT 9999 FEW020 23/21 Q1008 NOSIG=
METAR RJTT 140000Z 18010KT CAVOK 27/21 Q1007 NOSIG=
METAR RJOO 140000Z VRB01KT 9999 FEW025 27/20 Q1008=
METAR RJFF 140000Z 22003KT 150V330 9999 FEW045 SCT080 27/21 Q1007
BECMG TL0130 31007KT=
METAR RJGG 140000Z 27004KT 9999 FEW020 25/20 Q1008 BECMG FM0100
24005KT=
METAR RJFK 140000Z 11006KT 070V160 9999 FEW030 25/19 Q1008=
METAR RJFU 140000Z 33004KT 290V020 9999 FEW030 SCT080 26/22 Q1007=
METAR RJCH 140000Z 17003KT 8000 -DZ FEW003 SCT006 BKN012 17/16
Q1008=
METAR RJNS 140000Z 17004KT 090V240 9999 FEW030 26/21 Q1008=


......................................................................................


Date: Friday 14th of June 2024

SAJP37 RJTD 140000 RRA
METAR RJFR 140000Z 08007KT 9999 FEW015 24/21 Q1007=


......................................................................................


Date: Friday 14th of June 2024

SAMS32 WMKK 140000
METAR WBGG 140000Z VRB02KT 9999 FEW010 26/24 Q1010 NOSIG=
METAR WBKK 140000Z VRB03KT 9999 FEW014 28/24 Q1010 NOSIG=
METAR WMKJ 140000Z 00000KT 7000 FEW008 25/25 Q1009=
METAR WMKK 140000Z VRB02KT 5000 FEW006 FEW017CB 26/25 Q1010 NOSIG=
METAR WMKP 140000Z VRB01KT 8000 FEW020 29/25 Q1010 NOSIG=
METAR WMSA 140000Z 31003KT 8000 FEW017CB 28/26 Q1010=


......................................................................................


Date: Friday 14th of June 2024

SAMS34 WMKK 140000
METAR WBGB 140000Z VRB03KT 9999 FEW012 25/24 Q1010=
METAR WBGR 140000Z 00000KT 9999 FEW016 26/23 Q1010=
METAR WBGS 140000Z VRB01KT 6000 FEW004 SCT016 24/24 Q1011=
METAR WBGY 140000Z 00000KT 9999 FEW002 25/25 Q1011=
METAR WBKL 140000Z VRB02KT 9999 FEW014 28/25 Q1011=
METAR WBKS 140000Z VRB02KT 9999 FEW016 SCT040 27/24 Q1010=
METAR WBKT 140000Z VRB02KT 9999 FEW014 27/25 Q1010=
METAR WBKW 140000Z 00000KT 9000 FEW010 SCT027 25/25 Q1012=


......................................................................................


Date: Friday 14th of June 2024

SAMS38 WMKK 140000
METAR WBGB 140000Z VRB03KT 9999 FEW012 25/24 Q1010=
METAR WBGR 140000Z 00000KT 9999 FEW016 26/23 Q1010=
METAR WBGS 140000Z VRB01KT 6000 FEW004 SCT016 24/24 Q1011=
METAR WBKL 140000Z VRB02KT 9999 FEW014 28/25 Q1011=
METAR WBKS 140000Z VRB02KT 9999 FEW016 SCT040 27/24 Q1010=
METAR WBKW 140000Z 00000KT 9000 FEW010 SCT027 25/25 Q1012=
METAR WMKD 140000Z VRB02KT 9999 FEW025 25/24 Q1010 NOSIG=
METAR WMKL 140000Z VRB02KT 9999 FEW020 27/25 Q1010=
METAR WMKM 140000Z 00000KT 7000 FEW010 FEW017CB 26/25 Q1011=
METAR WMKJ 140000Z 00000KT 7000 FEW008 25/25 Q1009=


......................................................................................


Date: Friday 14th of June 2024

SAPA31 KWBC 140000 RRA
METAR
PGUM 132354Z 15007KT 10SM SCT014 28/25 A2991 RMK AO2 SLP120 60062
T02780250 10278 20239 58002=


......................................................................................


Date: Friday 14th of June 2024

SAMS33 WMKK 140000
METAR WMAU 140000Z 24005KT 230V310 9000 FEW005 25/24 Q1010=
METAR WMBA 140000Z VRB01KT 9999 FEW017CB 27/25 Q1009=
METAR COR WMKA 140000Z 00000KT 9999 FEW017CB 27/25 Q1010=
METAR WMKB 140000Z 03005KT 340V080 9000 FEW020 28/24 Q1010 NOSIG=
METAR WMKC 140000Z 21003KT 160V240 9999 FEW017CB 27/24 Q1009=
METAR WMKD 140000Z VRB02KT 9999 FEW025 25/24 Q1010 NOSIG=
METAR WMKE 140000Z 00000KT 9999 FEW010 FEW014CB 25/25 Q1009=
METAR WMKI 140000Z 04006KT 010V070 9000 FEW017CB 27/24 Q1010=
METAR WMKL 140000Z VRB02KT 9999 FEW020 27/25 Q1010=
METAR WMKM 140000Z 00000KT 7000 FEW010 FEW017CB 26/25 Q1011=
METAR WMKN 140000Z 19003KT 140V240 9999 FEW017CB 27/26 Q1009=


......................................................................................


Date: Friday 14th of June 2024

SAUZ31 UTTW 140000 RRA
METAR UTSA 140000Z 05002KT 9999 NSC 17/07 Q1007 R07/CLRD70 NOSIG=


......................................................................................


Date: Friday 14th of June 2024

SAIR36 OIII 140000 RRA
METAR OIMT 140000Z AUTO 09008KT //// // ////// 34/05 Q1004=


......................................................................................


Date: Friday 14th of June 2024

SAIR38 OIII 140000 RRB
METAR OITP 140000Z 24002KT 9999 SCT040 22/18 Q1009=


......................................................................................


Date: Friday 14th of June 2024

SAPA31 KWBC 140000 RRB
METAR
PTTP 132359Z 13003KT 12SM -SHRA BKN017TCU OVC120 26/26 A2988 RMK
SHRAB21 TCU ALQDS SLP117 60014 8/27/ T02640259 10275 20262
50003=


......................................................................................


Date: Friday 14th of June 2024

SAOM32 OOMS 140000 RRB
METAR OOSH 132350Z AUTO 16008KT //// ////// 33/26 Q0997=


......................................................................................


Date: Friday 14th of June 2024

SAAR20 OEJD 140000
METAR OBBI 140000Z VRB02KT CAVOK 35/15 Q0999 NOSIG=
METAR OKKK 140000Z 00000KT CAVOK 30/02 Q0999 NOSIG=
METAR OMAA 140000Z 20006KT CAVOK 31/24 Q0998 NOSIG=
METAR OMAD 140000Z 21004KT 180V240 CAVOK 31/27 Q0998 NOSIG=
METAR OMAL 140000Z 12005KT CAVOK 32/09 Q1001 NOSIG=
METAR OMDB 140000Z 21008KT 170V230 CAVOK 31/22 Q0997 NOSIG=
METAR OMFJ 132350Z 03002KT CAVOK 35/08 Q0997 RMK A2946=
METAR OMRK 140000Z 17006KT CAVOK 28/15 Q0998 A2948=
METAR OMSJ 140000Z 18008KT CAVOK 31/20 Q0998 NOSIG=
METAR OOMS 132350Z 26004KT CAVOK 34/22 Q0998 NOSIG=
METAR OOSA 132350Z 21004KT 9999 BKN025 30/26 Q1004 NOSIG=
METAR OOSH 132350Z AUTO 16008KT //// ////// 33/26 Q0997 RMK 0994=
METAR OODQ 132350Z AUTO 21026KT 9999 R22///// SCT007 BKN050 BKN180
27/26 Q1000 NOSIG RMK RH94? 0=
METAR OTBD 140000Z AUTO 28004KT CAVOK 37/07 Q0998 NOSIG=
METAR OTBH 132355Z 26010KT 9999 CLR 33/05 A2948 Q0998=
METAR OTHH 140000Z AUTO 29008KT 260V320 CAVOK 32/10 Q0998 NOSIG=
METAR OYAA 140000Z 14009KT 6000 FEW020 32/27 Q1004 NOSIG=
METAR OYSN 140000Z NIL=


......................................................................................


Date: Friday 14th of June 2024

SAPA31 KWBC 140000
PWAK 132355Z AUTO 05014KT 10SM SCT020 30/23 A2998 RMK AO2 SLP158
T02990231 10301 20264 58009=
// END PART 02/02 //


......................................................................................


Date: Friday 14th of June 2024

SAKO51 RJTD 140000
METAR RKPC 140000Z 36003KT 9999 FEW050 BKN200 25/19 Q1006 NOSIG=
METAR RKPK 140000Z 33001KT 9000 NSC 26/18 Q1007=
METAR RKSI 140000Z 34004KT CAVOK 25/20 Q1006 NOSIG=
METAR RKSS 140000Z 05002KT CAVOK 27/18 Q1007 NOSIG=
METAR RKTN 140000Z 27002KT CAVOK 27/18 Q1007=
METAR RKTU 140000Z 24001KT CAVOK 25/16 Q1007=


......................................................................................


Date: Friday 14th of June 2024

SACI51 RJTD 140000
METAR ZBAA 140000Z 12003MPS 070V170 CAVOK 25/20 Q1003 NOSIG=
METAR ZBTJ 140000Z 10002MPS 070V140 CAVOK 23/20 Q1002 NOSIG=
METAR ZBYN 140000Z 34006MPS CAVOK 28/08 Q1005 NOSIG=
METAR ZGGG 140000Z 07002MPS 9999 BKN020 29/29 Q1003 NOSIG=
METAR ZGKL 140000Z VRB01MPS 4000 -SHRA BR FEW010 FEW026CB SCT026
BKN040 25/25 Q1003 RESHRA BECMG FM0020 2000 TSRA=
METAR ZGNN 140000Z VRB01MPS 9999 -RA FEW010 28/27 Q1001 NOSIG=
METAR ZGOW 140000Z VRB01MPS CAVOK 29/26 Q1005 NOSIG=
METAR ZGSZ 140000Z 16005MPS 9999 -SHRA FEW020TCU SCT040 28/27 Q1004
BECMG AT0150 SHRA=
METAR ZLXY 140000Z 21002MPS CAVOK 25/16 Q1004 NOSIG=
METAR ZPPP 140000Z 22003MPS 9999 SCT026 BKN040 19/17 Q1016 NOSIG=
METAR ZSAM 140000Z 26002MPS 230V300 8000 NSC 29/27 Q1004 NOSIG=
METAR ZSHC 140000Z 23002MPS 170V260 6000 NSC 27/23 Q1002 NOSIG=
METAR ZSNJ 140000Z 12003MPS 090V150 5000 BR NSC 28/24 Q1002 NOSIG=
METAR ZSQD 140000Z 15008MPS 9999 -DZ OVC005 22/21 Q1002 NOSIG=
METAR ZSSS 140000Z 14004MPS 8000 BKN013 25/21 Q1003 BECMG TL0140
BKN015=
METAR ZWWW 140000Z VRB01MPS CAVOK 21/12 Q1011 NOSIG=
METAR ZYTL 140000Z 12005MPS 070V150 7000 -SHRA FEW010 20/19 Q1003
NOSIG=
METAR ZYTX 140000Z VRB01MPS 9999 OVC040 21/19 Q1003 NOSIG=


......................................................................................


Date: Friday 14th of June 2024

SASB31 VCCC 140010
METAR VCBI 140010Z 20005KT 160V260 9000 SCT017 26/26 Q1009 NOSIG=
METAR VRMM 140000Z 26012KT 9999 FEW018 BKN280 29/26 Q1009 NOSIG=
METAR VCRI 140010Z 23007KT 9999 FEW018 26/26 Q1008 NOSIG=


......................................................................................


Date: Friday 14th of June 2024

SAPA31 KWBC 140000 RRC
METAR
PKWA 140020Z AUTO 10018G26KT 2SM RA SCT009 BKN016 OVC025 26/25
A2988 RMK AO2 P0025 T02590246=


......................................................................................


Date: Friday 14th of June 2024

SAAE31 VDPP 140030
METAR VDPP 140030Z 28004KT 230V310 9999 SCT017 30/25 Q1007=


......................................................................................


Date: Friday 14th of June 2024

SAOM81 OOMS 140000
METAR OOAD 132350Z AUTO 08011KT 9999 // NCD 31/21 Q1002 NOSIG=
METAR OOBH 132350Z AUTO VRB02KT //// ////// 29/17 Q1006=
METAR OOBR 140000Z NIL=
METAR OODB 132350Z AUTO 18007KT //// ////// 35/12 Q0998=
METAR OODQ 132350Z AUTO 21026KT 9999 R22///// SCT007 BKN050 BKN180 27/26 Q1000 NOSIG=
METAR OOFD 140000Z NIL=
METAR OOIB 140000Z NIL=
METAR OOIR 140000Z NIL=
METAR OOJB 132350Z AUTO 20009KT //// ////// 28/26 Q0999=
METAR OOJS 140000Z NIL=
METAR OOKB 132350Z AUTO 01004KT 320V050 CAVOK 34/21 Q0997 NOSIG=
METAR OOMA 132350Z AUTO 22022KT //// ////// 29/27 Q0999=
METAR OOMJ 132350Z AUTO VRB03KT //// ////// 31/28 Q0997=
METAR OOML 140000Z NIL=
METAR OOMQ 140000Z NIL=
METAR OOMS 132350Z 26004KT CAVOK 34/22 Q0998 NOSIG=
METAR OONZ 132350Z AUTO VRB03KT //// ////// 31/19 Q1003=
METAR OOQA 140000Z NIL=
METAR OOQH 132350Z AUTO 16006KT 9999 ////// 24/23 Q1009=
METAR OOQL 132350Z AUTO VRB01KT //// ////// 32/26 Q0998=
METAR OOQQ 132350Z AUTO 01005KT //// ////// 22/05 Q1021=
METAR OORA 132350Z AUTO VRB03KT //// ////// 30/26 Q1003=
METAR OORH 132350Z AUTO 18015KT //// ////// 26/26 Q0999=
METAR OORQ 140000Z NIL=
METAR OOSA 132350Z 21004KT 9999 BKN025 30/26 Q1004 NOSIG=
METAR OOSM 140000Z NIL=
METAR OOSQ 140000Z NIL=
METAR OOSR 132350Z AUTO 20018G28KT //// 37/15 Q0998=
METAR OOTH 140000Z AUTO 18015KT 9999 ////// 29/16 Q1005 NOSIG=
METAR OOYA 140000Z NIL=


......................................................................................


Date: Friday 14th of June 2024

SAOM81 OOMS 140000 RRA
METAR OOYA 132350Z AUTO 18011KT //// ////// 27/25 Q1001=


......................................................................................


Date: Friday 14th of June 2024

SAPK31 OPKC 140025
METAR OPKC 140030Z 26011KT 6000 SCT020 30/25 Q1001 NOSIG=


......................................................................................


Date: Friday 14th of June 2024

SANP31 VNKT 140030
METAR VNKT 140030Z 29005KT 4000 BR FEW015 SCT030 BKN100 24/22 Q1008
NOSIG=


......................................................................................


Date: Friday 14th of June 2024

SATR31 UTAA 140000 RRA
METAR UTAM 140000Z 02004KT 6000 BKN230 24/08 Q1007 R88/CLRD70 NOSIG=


......................................................................................


Date: Friday 14th of June 2024

SAIR20 OIII 140030
METAR OIAA 140030 NIL=
METAR OIAW 140030 NIL=
METAR OIFM 140030Z 34006KT 5000 HZ NSC 24/04 Q1014 A2994=
METAR OIGG 140030 NIL=
METAR OIIE 140030Z 33016KT 9999 VCTS FEW035CB SCT040 BKN100 24/10
Q1012=
METAR OIII 140025Z 32004KT 9999 FEW035 SCT100 24/09 Q1013
A2992=
METAR OIKB 140030 NIL=
METAR OIMM 140030Z 06004KT CAVOK 22/13 Q1012 A2991=
METAR OISS 140030Z 00000KT CAVOK 19/04 Q1010 A2985=
METAR OITT 140030Z 08006KT 9999 FEW035CB 18/09 Q1017 A3004=
METAR OIYY 140030 NIL=
METAR OIZH 140030 NIL=


......................................................................................


Date: Friday 14th of June 2024

SAPA31 KWBC 140000 RRD
METAR
PGUM 140026Z 16008KT 10SM BKN014 BKN020 28/25 A2991 RMK AO2
T02830250=


......................................................................................


Date: Friday 14th of June 2024

SASR31 WSSS 140030
METAR WSSS 140030Z 07004KT 010V130 9999 FEW018 BKN300 30/26 Q1009
NOSIG =


......................................................................................


Date: Friday 14th of June 2024

SAIR31 OIII 140030
METAR OIAW 140030Z NIL=
METAR OIFM 140030Z 34006KT 5000 HZ NSC 24/04 Q1014 A2994=
METAR OIII 140030Z 32004KT 9999 FEW035 SCT100 24/09 Q1013
A2992=
METAR OIKB 140030Z NIL=
METAR OIKK 140030Z NIL=
METAR OIMM 140030Z NIL=
METAR OISS 140030Z 00000KT CAVOK 19/04 Q1010 A2985=
METAR OITT 140030Z 08006KT 9999 FEW035CB 18/09 Q1017 A3004=
METAR OIZH 140030Z NIL=


......................................................................................


Date: Friday 14th of June 2024

SAIR36 OIII 140030
METAR OIBA 140030Z NIL=
METAR OIBV 140030Z NIL=
METAR OIFS 140030Z NIL=
METAR OIIP 140030Z NIL=
METAR OIMB 140030Z NIL=
METAR OIMN 140030Z 09006KT 9999 FEW070 19/13 Q1014=
METAR OIMS 140030Z NIL=
METAR OIMT 140030Z NIL=
METAR OIZJ 140030Z NIL=


......................................................................................


Date: Friday 14th of June 2024

SAHK31 VHHH 140030
METAR VHHH 140030Z 19011KT 9999 -SHRA VCTS FEW008 FEW012CB
SCT020 30/26 Q1004 TEMPO 24022G32KT 2500 TSRA SHRA FEW010CB
SCT020=


......................................................................................


Date: Friday 14th of June 2024

SAIR31 OIII 140030 RRA
METAR OIMM 140030Z 06004KT CAVOK 22/13 Q1012 A2991=


......................................................................................


Date: Friday 14th of June 2024

SAAE31 VTBB 140030
METAR VTBD 140030Z 20005KT 9999 FEW030 31/24 Q1008 NOSIG=
METAR VTBS 140030Z 21005KT 180V240 9999 FEW020 31/23 Q1007 NOSIG=
METAR VTCC 140030Z 23004KT 9999 BKN035 27/23 Q1007 NOSIG=
METAR VTSP 140030Z VRB02KT 9999 SCT020 30/26 Q1010 NOSIG=
METAR VTSS 140030Z VRB01KT 9999 FEW020 27/24 Q1009 NOSIG=
METAR VTBU 140030Z VRB02KT 9999 FEW020 30/26 Q1008 NOSIG=


......................................................................................


Date: Friday 14th of June 2024

SAAE32 VTBB 140030
METAR VDPP 140030Z 28004KT 230V310 9999 SCT017 30/25 Q1007=
METAR VLVT 140030Z 00000KT 7000 SCT050 FEW200 28/24 Q1006 NOSIG=
METAR VYMD 140030Z 18006KT 6000 BKN020 FEW025CB BKN110 26/25 Q1003=
METAR VYNT 140030Z 17008KT 5000 -RA BKN016 FEW020CB OVC100 26/25
Q1006=
METAR VYYY 140030Z 21003KT 6000 BKN015 FEW020CB OVC100 27/26 Q1006=
METAR VDSV 140030Z 08002KT 9000 SCT015 29/27 Q1008=
METAR VDSA 140030Z 28008KT 9999 SCT017 30/25 Q1007=


......................................................................................


Date: Friday 14th of June 2024

SAAE34 VTBB 140030
METAR VVCI 140030Z 22008KT CAVOK 31/25 Q1000 NOSIG=
METAR VVCR 140030Z 00000KT CAVOK 32/24 Q1007 NOSIG=
METAR VVCT 140030Z 24008KT 8000 FEW015 30/28 Q1008 NOSIG=
METAR VVDN 140030Z 21002KT CAVOK 32/24 Q1005 NOSIG=
METAR VVNB 140030Z VRB02KT CAVOK 31/26 Q1000 NOSIG=
METAR VVPB 140030Z 19003KT 9999 FEW017 32/24 Q1004 NOSIG=
METAR VVPQ 140030Z 29006KT 9999 FEW015 30/26 Q1008 NOSIG=
METAR VVTS 140030Z 26004KT 230V300 9999 FEW025 30/28 Q1008 NOSIG =
METAR VVVD 140030Z VRB02KT 9999 SCT010 30/29 Q1001 NOSIG=


......................................................................................


Date: Friday 14th of June 2024

SATR31 UTAA 140100
METAR UTAA 140100Z NIL=
METAR UTAK 140100Z NIL=
METAR UTAM 140100Z NIL=
METAR UTAT 140100Z NIL=
METAR UTAV 140100Z NIL=


......................................................................................


Date: Friday 14th of June 2024

SAUZ31 UTTW 140030
METAR UTFN 140030Z 32004KT 9999 NSC 22/07 Q1006 R28/CLRD70 NOSIG=
METAR UTNN 140030Z 01002KT CAVOK 21/02 Q1011 R33/CLRD60 NOSIG=
METAR UTNU 140030Z 02006KT CAVOK 21/07 Q1010 R31/CLRD70 NOSIG=
METAR COR UTSA 132330Z 10002KT 9999 NSC 17/06 Q1007 R07/CLRD70 NOSIG=
METAR UTSB 140030Z 35008KT CAVOK 20/09 Q1006 R01/CLRD70 NOSIG=
METAR UTSK 140030Z VRB02KT CAVOK 20/08 Q1004 R16/CLRD70=
METAR UTSS 140030Z 13010KT 9999 NSC 20/09 Q1008 R09/CLRD70 NOSIG=
METAR UTST 140030Z 25006KT CAVOK 24/06 Q1004 R25/CLRD70 NOSIG=
METAR UTFA 140030Z NIL=
METAR UTFF 140030Z VRB02KT 9999 NSC 23/03 Q1007 R18/CLRD70=
METAR UTTT 140030Z 11004KT 080V180 CAVOK 19/09 Q1007 R08R/CLRD70
NOSIG=


......................................................................................


Date: Friday 14th of June 2024

SAPK31 OPKC 140025
METAR OPKC 140030Z 26011KT 6000 SCT020 30/25 Q1001 NOSIG=
METAR OPLA 140025Z 00000KT 4000 HZ FEW100 30/16 Q0999 NOSIG
RMK QFE974 A29.51=
METAR OPIS 14030Z 33017KT 4000 TSDZ FEW030CB SCT040 BKN100
24/17 Q1002 TEMPO 09015G35KT 2000 TSRA FEW030CB=
METAR OPPS 140030Z 05006KT 6000 HZ FEW200 29/17 Q1001=
METAR OPFA 130030Z NIL=
METAR OPST 130030Z NIL=
METAR OPSK 130030Z NIL=
METAR OPMT 140030Z 23014KT 4000 DRDU NSC 32/21 Q0997 TEMPO
23015G25KT 3000 BLDU=
METAR OPNH 130030Z NIL=


......................................................................................


Date: Friday 14th of June 2024

SAPK31 OPKC 140025
METAR OPKC 140030Z 26011KT 6000 SCT020 30/25 Q1001 NOSIG=
METAR OPLA 140025Z 00000KT 4000 HZ FEW100 30/16 Q0999 NOSIG
RMK QFE974 A29.51=
METAR OPIS 140030Z 33017KT 4000 TSDZ FEW030CB SCT040 BKN100 24/17
Q1002
TEMPO 09015G35KT 2000 TSRA FEW030CB=
METAR OPPS 140030Z 05006KT 6000 HZ FEW200 29/17 Q1001=
METAR OPFA 140030Z NIL=
METAR OPST 140030Z NIL=
METAR OPSK 140030Z NIL=
METAR OPMT 140030Z 23014KT 4000 DRDU NSC 32/21 Q0997
TEMPO 23015G25KT 3000 BLDU=
METAR OPNH 140030Z NIL=


......................................................................................


Date: Friday 14th of June 2024

SAHK31 VHHH 140030
METAR VHHH 140030Z 19011KT 9999 -SHRA VCTS FEW008 FEW012CB
SCT020 30/26 Q1004 TEMPO 24022G32KT 2500 TSRA SHRA FEW010CB
SCT020=
METAR RCTP 140030Z 24018KT 9999 FEW015 SCT100 BKN160 31/26 Q1004
NOSIG RMK A2965=
METAR RCKH 140030Z 22009KT 200V260 9999 FEW009 SCT015 BKN035 30/28
Q1007 NOSIG RMK A2974=
METAR RCSS 140030Z VRB02KT 9999 FEW025 BKN150 31/25 Q1004 NOSIG
RMK A2965=
METAR RCMQ 140030Z 18012KT 9999 -RA FEW008 FEW010CB SCT016 BKN050
26/24 Q1008 NOSIG RMK A2978 CB W=
METAR RCNN 140030Z 09005KT 3200 -RA VCTS BR SCT008 FEW010CB BKN016
BKN040 23/22 Q1007 NOSIG RMK A2976 TS NE STNRY=
METAR RCFN 140030Z 02004KT 310V080 9999 FEW020 SCT060 BKN150 30/26
Q1005 NOSIG RMK A2968=
METAR VMMC 140030Z 19009KT 5000 -TSRA FEW006 FEW012CB SCT020 BKN045
29/28 Q1003 NOSIG=


......................................................................................


Date: Friday 14th of June 2024

SAIR32 OIII 140000 RRA
METAR OITR 140000Z 27004KT CAVOK 15/11 Q1016 A3001=


......................................................................................


Date: Friday 14th of June 2024

SAMS31 WMKK 140030
METAR WBGG 140030Z 14003KT 110V190 9999 FEW010 27/24 Q1010 NOSIG=
METAR WBKK 140030Z VRB03KT 9999 FEW014 30/23 Q1010 NOSIG=
METAR WBSB 140030Z 18003KT 9999 FEW014 SCT140 BKN300 29/25 Q1011 NOSIG=
METAR WMKK 140030Z VRB01KT 6000 FEW006 FEW017CB SCT030 27/25 Q1010 NOSIG=
METAR WMKP 140030Z 01004KT 320V070 8000 FEW020 30/25 Q1010 NOSIG=
METAR WSSL 140030Z NIL=
METAR WSSS 140030Z 07004KT 010V130 9999 FEW018 BKN300 30/26 Q1009 NOSIG=
METAR WSAP 140030Z NIL=


......................................................................................


Date: Friday 14th of June 2024

SAJP51 RJTD 140030
METAR RJAA 140030Z 18004KT 110V260 CAVOK 28/20 Q1007 NOSIG=
METAR RJBB 140030Z 34006KT 9999 FEW025 24/21 Q1008 NOSIG=
METAR RJCC 140030Z 05003KT 360V090 9999 FEW008 BKN010 BKN020 18/16
Q1008=
METAR RJFF 140030Z VRB02KT 9999 FEW040 BKN080 28/20 Q1007 BECMG
31007KT=
METAR RJGG 140030Z 28005KT 9999 FEW020 25/20 Q1008 BECMG TL0130
24005KT=
METAR RJTT 140030Z 19008KT CAVOK 28/21 Q1007 NOSIG=
METAR ROAH 140030Z 23016KT 1500 R18L/P2000N R18R/1500VP2000D +TSRA
BR FEW005 BKN008 SCT025CB BKN030 27/26 Q1004=


......................................................................................


Date: Friday 14th of June 2024

SAMS31 WMKK 140000 CCA
METAR COR WMKK 140000Z VRB02KT 5000 BR FEW006 FEW017CB 26/25 Q1010 NOSIG=


......................................................................................


Date: Friday 14th of June 2024

SAMS32 WMKK 140000 CCA
METAR COR WMKK 140000Z VRB02KT 5000 BR FEW006 FEW017CB 26/25 Q1010 NOSIG=


......................................................................................


Date: Friday 14th of June 2024

SAPA31 KWBC 140000 RRE
METAR
PKWA 140040Z AUTO 11012KT 7SM -RA SCT010 SCT016 BKN023 26/25 A2988
RMK AO2 P0028 T02600248=


......................................................................................


Date: Friday 14th of June 2024

SAAE31 VDPP 140100
METAR VDPP 140100Z 26006KT 230V330 9999 SCT017 31/25 Q1007=


......................................................................................


Date: Friday 14th of June 2024

SANP31 VNKT 140100
METAR VNKT 140100Z 20003KT 4500 BR FEW015 SCT030 BKN100 24/21 Q1008
NOSIG=


......................................................................................


Date: Friday 14th of June 2024

SASD20 OEJD 140100
METAR OEAB 140100Z 00000KT CAVOK 19/11 Q1022 NOSIG=
METAR OEAH 140100Z 26007KT CAVOK 30/10 Q1001 NOSIG=
METAR OEAO 140100Z 29002KT CAVOK 30/M08 Q1010 NOSIG=
METAR OEBA 140100Z 30006KT 9999 FEW030 28/02 Q1017 NOSIG=
METAR OEBH 140100Z 27005KT CAVOK 31/05 Q1012 NOSIG=
METAR OEDF 140100Z 23004KT CAVOK 29/07 Q0999 NOSIG=
METAR OEDM 140100Z 02008KT CAVOK 28/M05 Q1009=
METAR OEDR 140100Z 26004KT CAVOK 28/14 Q0998=
METAR OEGN 140100Z 00000KT CAVOK 33/20 Q1004 NOSIG=
METAR OEGS 140100Z 30004KT CAVOK 26/M02 Q1007=
METAR OEGT 140100Z 26004KT CAVOK 28/07 Q1010 NOSIG=
METAR OEHL 140100Z 21002KT CAVOK 26/00 Q1012=
METAR OEJB 140100Z NIL=
METAR OEJN 140100Z 00000KT CAVOK 31/21 Q1003 NOSIG=
METAR OEKJ 140100Z 13008KT CAVOK 32/02 Q1006=
METAR OEKK 140100Z NIL=
METAR OEAR 140100Z 00000KT 9999 FEW040 34/21 Q1005=


......................................................................................


Date: Friday 14th of June 2024

SAOM32 OOMS 140100
METAR COR OOMS 140050Z 26007KT CAVOK 34/21 Q0998 NOSIG=
METAR OOSA 140050Z 17003KT 9999 BKN025 30/26 Q1004 NOSIG=
METAR OOSH 140100Z NIL=
METAR OODQ 140050Z AUTO 22024KT 9999 R22///// FEW006 BKN180 27/26
Q1000 NOSIG=
METAR OOKB 140050Z AUTO 04006KT CAVOK ////// 34/21 Q0997 NOSIG=
METAR OOAD 140050Z AUTO 08008KT 9999 // NCD 30/21 Q1003 NOSIG=


......................................................................................


Date: Friday 14th of June 2024

SASD21 OEJD 140100
METAR OEKM 140100Z 00000KT CAVOK 20/09 Q1022 NOSIG=
METAR OEMA 140100Z 02005KT CAVOK 33/05 Q1010 NOSIG=
METAR OEMN 140100Z 02006KT CAVOK 33/17 Q1006=
METAR OENG 140100Z 00000KT CAVOK 27/M02 Q1012 NOSIG=
METAR OEPA 140100Z 30006KT CAVOK 30/M02 Q1003 NOSIG=
METAR OERF 140100Z 30007KT CAVOK 29/M02 Q1005 NOSIG=
METAR OERK 140100Z 29003KT CAVOK 30/M01 Q1007 NOSIG=
METAR OERR 140100Z 29003KT CAVOK 30/M01 Q1007 NOSIG=
METAR OERS 140100Z NIL=
METAR OESH 140100Z 20005KT CAVOK 29/04 Q1008 NOSIG=
METAR OESK 140100Z 33004KT CAVOK 29/M01 Q1012 NOSIG=
METAR OETB 140100Z 00000KT CAVOK 26/M05 Q1011 NOSIG=
METAR OETF 140100Z 29004KT 9999 SCT030 25/12 Q1017 NOSIG=
METAR OETR 140100Z 01010KT CAVOK 26/M01 Q1012 NOSIG=
METAR OEWD 140100Z 18006KT CAVOK 34/M01 Q1005=
METAR OEWJ 140100Z 00000KT CAVOK 28/23 Q1003 NOSIG=
METAR OEYN 140100Z 15004KT CAVOK 29/26 Q1002 NOSIG=


......................................................................................


Date: Friday 14th of June 2024

SASD31 OEJD 140100
METAR OEDF 140100Z 23004KT CAVOK 29/07 Q0999 NOSIG=
METAR OEDR 140100Z 26004KT CAVOK 28/14 Q0998=
METAR OEJN 140100Z 00000KT CAVOK 31/21 Q1003 NOSIG=
METAR OEMA 140100Z 02005KT CAVOK 33/05 Q1010 NOSIG=
METAR OERK 140100Z 29003KT CAVOK 30/M01 Q1007 NOSIG=
METAR OEAB 140100Z 00000KT CAVOK 19/11 Q1022 NOSIG=
METAR OYAA 140100Z 16007KT 6000 FEW020 32/25 Q1005 NOSIG=
METAR OYSN 140100Z NIL=


......................................................................................


Date: Friday 14th of June 2024

SASR31 WSSS 140100
METAR WSSS 140100Z 12005KT 070V170 9999 FEW018 BKN300 30/26 Q1010
NOSIG =


......................................................................................


Date: Friday 14th of June 2024

SAHK31 VHHH 140100
METAR VHHH 140100Z 22011KT 9999 -TSRA FEW008 FEW012CB SCT020
30/26 Q1004 TEMPO 24022G32KT 2500 TSRA SHRA FEW010CB SCT020=


......................................................................................


Date: Friday 14th of June 2024

SAPA31 KWBC 140000 RRF
METAR
PTTP 132353Z 16003KT 15SM BKN017TCU BKN130 OVC300 27/26 A2984 RMK
TCU NE-E SLP107 T02690260=


......................................................................................


Date: Friday 14th of June 2024

SATH40 VTBB 140100 RRA
METAR VTBD 140100Z 24006KT 210V270 9999 FEW030 31/23 Q1008 NOSIG=
METAR VTBS 140100Z 22006KT 190V250 9999 FEW020 31/23 Q1008 NOSIG=
METAR VTBU 140100Z 24007KT 9999 FEW020 31/25 Q1008 NOSIG=
METAR VTCC 140100Z 24004KT 220V290 9999 FEW020 BKN032 27/23 Q1008
NOSIG=
METAR VTSP 140100Z 30003KT 220V010 9999 FEW020 30/26 Q1010 NOSIG=
METAR VTSS 140100Z VRB02KT 9999 FEW020 28/25 Q1009 NOSIG=


......................................................................................


Date: Friday 14th of June 2024

SATH40 VTBB 140100
METAR VTBD 140100Z NIL=
METAR VTBS 140100Z NIL=
METAR VTBU 140100Z NIL=
METAR VTCC 140100Z NIL=
METAR VTCT 140100Z NIL=
METAR VTSB 140100Z NIL=
METAR VTSG 140100Z NIL=
METAR VTSP 140100Z NIL=
METAR VTSS 140100Z NIL=
METAR VTUD 140100Z NIL=
METAR VTUU 140100Z NIL=


......................................................................................


Date: Friday 14th of June 2024

SAIR31 OIII 140100
METAR OIAW 140100Z 24002KT CAVOK 29/10 Q0996=
METAR OIFM 140100Z 20006KT 5000 HZ NSC 23/04 Q1014 A2995=
METAR OIII 140100Z 32006KT 9999 FEW035 SCT100 24/08 Q1013 A2992
NOSIG=
METAR OIKB 140100Z 07004KT 4000 HZ NSC 29/25 Q0997 A2946=
METAR OIKK 140100Z 14004KT 010V170 CAVOK 19/03 Q1014 A2997=
METAR OIMM 140100Z 08004KT CAVOK 23/13 Q1012 A2991=
METAR OISS 140100Z 00000KT CAVOK 18/04 Q1011 A2985=
METAR OITT 140100Z 05006KT 9999 FEW035CB 18/08 Q1017 A3004=
METAR OIZH 140100Z 27004KT CAVOK 24/02 Q1010 A2984=


......................................................................................


Date: Friday 14th of June 2024

SAIR32 OIII 140100
METAR OIAA 140100Z 28004KT CAVOK 28/09 Q0997=
METAR OIBK 140100Z 30008KT 5000 BR NSC 30/27 Q0996=
METAR OICC 140100Z 00000KT CAVOK 17/04 Q1011 A2986=
METAR OIGG 140100Z NIL=
METAR OIIE 140100Z 30014KT 9999 VCTS FEW035CB SCT040 BKN100 23/10
Q1011=
METAR OINZ 140100Z 01004KT 9999 FEW040 21/20 Q1009=
METAR OITR 140100Z 25004KT CAVOK 15/11 Q1015 A3000=
METAR OIYY 140100Z NIL=


......................................................................................


Date: Friday 14th of June 2024

SAIR33 OIII 140100
METAR OIBB 140100Z 00000KT CAVOK 29/19 Q0997 A2945=
METAR OIBP 140100Z 00000KT CAVOK 28/25 Q0996 A2943=
METAR OICK 140100Z 14002KT CAVOK 17/04 Q1009 A2980=
METAR OICS 140100Z 35014KT 9999 FEW045 22/05 Q1014 A2996=
METAR OIHH 140100Z 19002KT 9999 FEW040 14/07 Q1016 A3001=
METAR OITL 140100Z 15004KT 9999 FEW040 10/09 Q1017=
METAR OIZC 140100Z NIL=


......................................................................................


Date: Friday 14th of June 2024

SAIR34 OIII 140100
METAR OIAG 140100Z 13006KT CAVOK 27/09 Q0998=
METAR OIAM 140100Z 00000KT CAVOK 30/18 Q0997=
METAR OICI 140100Z 09004KT CAVOK 21/03 Q1011 A2986=
METAR OIKQ 140100Z 08006KT 7000 NSC 30/25 Q0996=
METAR OINN 140100Z 00000KT 9999 FEW025 22/19 Q1007=
METAR OINR 140100Z 00000KT 9999 FEW035CB SCT100 24/21 Q1007=
METAR OISL 140100Z 00000KT CAVOK 23/08 Q1003 A2963=
METAR OISY 140100Z 00000KT CAVOK 17/04 Q1014=
METAR OITZ 140100Z NIL=


......................................................................................


Date: Friday 14th of June 2024

SAIR35 OIII 140100
METAR OIAD 140100Z NIL=
METAR OIBJ 140100Z NIL=
METAR OIBS 140100Z NIL=
METAR OIHR 140100Z NIL=
METAR OIKM 140100Z NIL=
METAR OIKR 140100Z NIL=
METAR OING 140100Z 00000KT 9999 -RA FEW030CB SCT030 OVC070 24/20
Q1010=
METAR OIZB 140100Z 34018KT CAVOK 30/06 Q1001=
METAR OIZI 140100Z NIL=


......................................................................................


Date: Friday 14th of June 2024

SAIR36 OIII 140100
METAR OIBA 140100Z NIL=
METAR OIBV 140100Z NIL=
METAR OIFS 140100Z 08004KT CAVOK 10/04 Q1018=
METAR OIIP 140100Z 25006KT 4000 TS FEW025CB SCT035 OVC100 19/13
Q1013 A2993=
METAR OIMB 140100Z 08004KT CAVOK 21/M00 Q1012 A2991=
METAR OIMN 140100Z 11004KT 9999 FEW070 20/12 Q1015=
METAR OIMS 140100Z NIL=
METAR OIMT 140100Z NIL=
METAR OIZJ 140100Z NIL=


......................................................................................


Date: Friday 14th of June 2024

SAIR37 OIII 140100
METAR OIBL 140100Z NIL=
METAR OIBQ 140100Z NIL=
METAR OIIK 140100Z 15004KT 9999 FEW040 BKN100 19/12 Q1014=
METAR OIMD 140100Z NIL=
METAR OIMQ 140100Z NIL=
METAR OINE 140100Z NIL=
METAR OITK 140100Z NIL=
METAR OITM 140100Z 18002KT 9999 FEW035 SCT170 16/08 Q1014=


......................................................................................


Date: Friday 14th of June 2024

SAIR38 OIII 140100
METAR OIAH 140100Z 00000KT CAVOK 24/07 Q1004=
METAR OIBH 140100Z NIL=
METAR OICM 140100Z NIL=
METAR OIIS 140100Z NIL=
METAR OIMJ 140100Z NIL=
METAR OISF 140100Z 34004KT CAVOK 18/01 Q1009 A2981=
METAR OISR 140100Z NIL=
METAR OITP 140100Z NIL=
METAR OITU 140100Z NIL=


......................................................................................


Date: Friday 14th of June 2024

SAAE31 VTBB 140100
METAR VTBD 140100Z 24006KT 210V270 9999 FEW030 31/23 Q1008 NOSIG=
METAR VTBS 140100Z 22006KT 190V250 9999 FEW020 31/23 Q1008 NOSIG=
METAR VTCC 140100Z 24004KT 220V290 9999 FEW020 BKN032 27/23 Q1008
NOSIG=
METAR VTSP 140100Z 30003KT 220V010 9999 FEW020 30/26 Q1010 NOSIG=
METAR VTSS 140100Z VRB02KT 9999 FEW020 28/25 Q1009 NOSIG=
METAR VTBU 140100Z 24007KT 9999 FEW020 31/25 Q1008 NOSIG=


......................................................................................


Date: Friday 14th of June 2024

SAAE32 VTBB 140100
METAR VDPP 140100Z 26006KT 230V330 9999 SCT017 31/25 Q1007=
METAR VLVT 140100Z 00000KT 9999 FEW050 BKN200 30/25 Q1006 NOSIG=
METAR VYMD 140100Z NIL=
METAR VYNT 140100Z NIL=
METAR VYYY 140100Z 22003KT 6000 BKN015 FEW020CB OVC100 27/26 Q1006=
METAR VDSV 140100Z 04004KT 360V070 9000 SCT015 30/27 Q1008=
METAR VDSA 140100Z 28011KT 240V300 9999 SCT017 31/24 Q1007=


......................................................................................


Date: Friday 14th of June 2024

SAAE33 VTBB 140100
METAR VLLB 140100Z 27002KT 9999 FEW017 BKN060 27/24 Q1006 NOSIG=
METAR VLLN 140100Z 18004KT 9999 SCT020 BKN100 26/25 Q1008 NOSIG=
METAR VLPS 140100Z NIL=
METAR VLSK 140100Z 22002KT 6000 SCT040 BKN100 30/24 Q1009 NOSIG=


......................................................................................


Date: Friday 14th of June 2024

SAAE34 VTBB 140100
METAR VVCI 140100Z 22007KT CAVOK 31/25 Q1000 NOSIG=
METAR VVCR 140100Z VRB01KT CAVOK 33/24 Q1007 NOSIG=
METAR VVCT 140100Z 24009KT 9999 FEW015 31/28 Q1008 NOSIG=
METAR VVDN 140100Z VRB02KT CAVOK 33/23 Q1005 NOSIG=
METAR VVNB 140100Z 07004KT 8000 NSC 31/27 Q1000 NOSIG=
METAR VVPB 140100Z 17003KT 9999 FEW017 33/24 Q1004 NOSIG=
METAR VVPQ 140100Z 31008KT 9999 FEW015 31/26 Q1008 NOSIG=
METAR VVTS 140100Z 29005KT 270V330 CAVOK 31/28 Q1008 NOSIG =
METAR VVVD 140100Z VRB01KT 9999 FEW015 30/29 Q1002 NOSIG=


......................................................................................


Date: Friday 14th of June 2024

SAMV31 VRMM 140100
METAR VRMH 140100Z 27011KT 9999 FEW018 BKN270
29/26 Q1009=
METAR VRMM 140100Z 26013KT 250V350 9999 FEW018 BKN280
29/26 Q1009
NOSIG=
METAR VRMG 140100Z 28006KT 9999 FEW018TCU BKN270
27/24 Q1010 NOSIG=


......................................................................................


Date: Friday 14th of June 2024

SAUZ31 UTTW 140100
METAR UTFN 140100Z 35004KT 9999 NSC 22/08 Q1006 R28/CLRD70 NOSIG=
METAR UTNN 140100Z 34002KT CAVOK 21/04 Q1011 R33/CLRD60 NOSIG=
METAR UTNU 140100Z 04004KT CAVOK 21/08 Q1010 R31/CLRD70 NOSIG=
METAR UTSA 140100Z 09004KT 9999 NSC 18/07 Q1007 R07/CLRD70 NOSIG=
METAR UTSB 140100Z 33006KT 270V350 CAVOK 20/09 Q1006 R01/CLRD70
NOSIG=
METAR UTSK 140100Z VRB02KT CAVOK 20/10 Q1004 R16/CLRD70=
METAR UTSS 140100Z 12012KT 9999 NSC 20/08 Q1008 R09/CLRD70 NOSIG=
METAR UTST 140100Z 28004KT CAVOK 24/07 Q1004 R25/CLRD70 NOSIG=
METAR UTFA 140100Z NIL=
METAR UTFF 140100Z 00000KT 9999 NSC 24/02 Q1007 R18/CLRD70=
METAR UTTT 140100Z VRB02KT CAVOK 21/09 Q1008 R08R/CLRD70 NOSIG=


......................................................................................


Date: Friday 14th of June 2024

SAHK31 VHHH 140100
METAR VHHH 140100Z 22011KT 9999 -TSRA FEW008 FEW012CB SCT020
30/26 Q1004 TEMPO 24022G32KT 2500 TSRA SHRA FEW010CB SCT020=
METAR RCTP 140100Z 24018KT 9999 FEW015 SCT100 BKN160 31/26 Q1004
WS R23R NOSIG RMK A2965=
METAR RCKH 140100Z 24011KT 210V270 9999 FEW009 SCT015 BKN060 32/27
Q1006 NOSIG RMK 25011KT/R09 A2972=
METAR RCSS 140100Z 29003KT 240V020 9999 FEW025 BKN150 32/25 Q1004
NOSIG RMK A2965=
METAR RCMQ 140100Z 18011KT 9999 -RA FEW008 FEW010CB SCT016 BKN050
26/24 Q1008 NOSIG RMK A2977 RA AMT 0.6MM CB W=
METAR RCNN 140100Z 08006KT 7000 VCSH FEW008 FEW010CB BKN025 BKN040
24/24 Q1007 NOSIG RMK A2976 RA AMT 1.9MM CB NE VCSH W-N=
METAR RCFN 140100Z 04004KT 340V110 9999 FEW015 SCT060 BKN150 31/27
Q1005 NOSIG RMK A2968=
METAR VMMC 140100Z 20012KT 5000 -TSRA FEW007 FEW012CB SCT025 BKN045
29/28 Q1003 NOSIG=
METAR RPLL 140100Z VRB01KT 9000 SCT023 32/26 Q1009 NOSIG RMK A2980=
METAR RPVM 140100Z 22006KT 150V260 9999 SCT020 31/25 Q1011 NOSIG RMK
A2985=
METAR RPMD 140100Z 12006KT 090V160 9999 FEW016 SCT260 30/23 Q1010 RMK
A2983=
METAR RPLB 140100Z 31003KT 250V340 9999 FEW020 31/26 Q1010 RMK A2983=
METAR RPLI 140100Z 22009KT 9999 FEW018 31/27 Q1009 NOSIG RMK A2980=
METAR RPMZ 140100Z 30004KT 9999 FEW017 BKN300 28/25 Q1011 RESHRA RMK
A2985=
METAR RPLC 140100Z 18004KT 7000 SCT020 30/25 Q1010 NOSIG RMK A2983=
METAR RPVP 140100Z 30004KT 9999 FEW017CB SCT019 OVC080 27/24 Q1010
RETS RMK A2983 CB NE, E/SE=


......................................................................................


Date: Friday 14th of June 2024

SAIR20 OIII 140100
METAR OIAA 140051Z 28004KT CAVOK 28/09 Q0997=
METAR OIAG 140100Z 13006KT CAVOK 27/09 Q0998=
METAR OIAH 140100Z 00000KT CAVOK 24/07 Q1004=
METAR OIAI 140100 NIL=
METAR OIAM 140100Z 00000KT CAVOK 30/18 Q0997=
METAR OIAW 140053Z 24002KT CAVOK 29/10 Q0996=
METAR OIBA 140100 NIL=
METAR OIBB 140100Z 00000KT CAVOK 29/19 Q0997 A2945=
METAR OIBK 140100Z 30008KT 5000 BR NSC 30/27 Q0996=
METAR OIBL 140100 NIL=
METAR OIBS 140100 NIL=
METAR OICC 140050Z 00000KT CAVOK 17/04 Q1011 A2986=
METAR OICI 140100Z 09004KT CAVOK 21/03 Q1011 A2986=
METAR OICJ 140100 NIL=
METAR OICK 140100Z 14002KT CAVOK 17/04 Q1009 A2980=
METAR OICS 140100Z 35014KT 9999 FEW045 22/05 Q1014 A2996=
METAR OIFK 140100Z 18002KT 9999 SCT040 BKN100 26/07 Q1010 A2985=
METAR OIFM 140100Z 20006KT 5000 HZ NSC 23/04 Q1014 A2995=
METAR OIFS 140054Z 08004KT CAVOK 10/04 Q1018=
METAR OIGG 140100Z 00000KT 8000 NSC 24/24 Q1009=
METAR OIGK 140100 NIL=
METAR OIHH 140100Z 19002KT 9999 FEW040 14/07 Q1016 A3001=
METAR OIHM 140100Z 31002KT 9999 FEW040 17/05 Q1014=
METAR OIIE 140100Z 30014KT 9999 VCTS FEW035CB SCT040 BKN100 23/10
Q1011 NOSIG=
METAR OIII 140100Z 32006KT 9999 FEW035 SCT100 24/08 Q1013 A2992
NOSIG=
METAR OIIK 140050Z 15004KT 9999 FEW040 BKN100 19/12 Q1014=
METAR OIIP 140100Z 25006KT 4000 TS FEW025CB SCT035 OVC100 19/13
Q1013 A2993=
METAR OIIS 140100 NIL=
METAR OIKB 140100Z 07004KT 4000 HZ NSC 29/25 Q0997 A2946=
METAR OIKK 140050Z 14004KT 010V170 CAVOK 19/03 Q1014 A2997=
METAR OIKO 140100Z AUTO VRB01KT //// // ////// 31/25 Q0998=
METAR OIKQ 140100Z 08006KT 7000 NSC 30/25 Q0996=
METAR OIMB 140100Z 08004KT CAVOK 21/M00 Q1012 A2991=
METAR OIMC 140100 NIL=
METAR OIMD 140100 NIL=
METAR OIMM 140100Z 08004KT CAVOK 23/13 Q1012 A2991=
METAR OINB 140100Z 00000KT CAVOK 23/22 Q1008=
METAR OING 140100Z 00000KT 9999 -RA FEW030CB SCT030 OVC070 24/20
Q1010=
METAR OINK 140100Z AUTO 03003KT //// // ////// 25/20 Q1007=
METAR OINN 140100Z 00000KT 9999 FEW025 22/19 Q1007=
METAR OINR 140100Z 00000KT 9999 FEW035CB SCT100 24/21 Q1007=
METAR OISA 140100 NIL=
METAR OISF 140100Z 34004KT CAVOK 18/01 Q1009 A2981=
METAR OISL 140100Z 00000KT CAVOK 23/08 Q1003 A2963=
METAR OISS 140100Z 00000KT CAVOK 18/04 Q1011 A2985=
METAR OISY 140100Z 00000KT CAVOK 17/04 Q1014=
METAR OITL 140055Z 15004KT 9999 FEW040 10/09 Q1017=
METAR OITR 140100Z 25004KT CAVOK 15/11 Q1015 A3000=
METAR OITT 140100Z 05006KT 9999 FEW035CB 18/08 Q1017 A3004=
METAR OITU 140100Z 00000KT 8000 NSC 21/09 Q1014 A2996=
METAR OIYY 140050Z 29012KT 2000 R31/1400U DU SCT045 28/07 Q1011=
METAR OIZB 140100Z 34018KT CAVOK 30/06 Q1001=
METAR OIZH 140100Z 27004KT CAVOK 24/02 Q1010 A2984=
METAR OIZI 140100 NIL=
METAR OIZJ 140100 NIL=


......................................................................................


Date: Friday 14th of June 2024

SAIR77 OIII 140100
METAR OIAA 140051Z 28004KT CAVOK 28/09 Q0997=
METAR OIAG 140100Z 13006KT CAVOK 27/09 Q0998=
METAR OIAH 140100Z 00000KT CAVOK 24/07 Q1004=
METAR OIAI 140100 NIL=
METAR OIAM 140100Z 00000KT CAVOK 30/18 Q0997=
METAR OIAW 140053Z 24002KT CAVOK 29/10 Q0996=
METAR OIBA 140100 NIL=
METAR OIBB 140100Z 00000KT CAVOK 29/19 Q0997 A2945=
METAR OIBK 140100Z 30008KT 5000 BR NSC 30/27 Q0996=
METAR OIBL 140100 NIL=
METAR OIBS 140100 NIL=
METAR OICC 140050Z 00000KT CAVOK 17/04 Q1011 A2986=
METAR OICI 140100Z 09004KT CAVOK 21/03 Q1011 A2986=
METAR OICJ 140100 NIL=
METAR OICK 140100Z 14002KT CAVOK 17/04 Q1009 A2980=
METAR OICS 140100Z 35014KT 9999 FEW045 22/05 Q1014 A2996=
METAR OIFK 140100Z 18002KT 9999 SCT040 BKN100 26/07 Q1010 A2985=
METAR OIFM 140100Z 20006KT 5000 HZ NSC 23/04 Q1014 A2995=
METAR OIFS 140054Z 08004KT CAVOK 10/04 Q1018=
METAR OIGG 140100Z 00000KT 8000 NSC 24/24 Q1009=
METAR OIGK 140100 NIL=
METAR OIHM 140100Z 31002KT 9999 FEW040 17/05 Q1014=
METAR OIIE 140100Z 30014KT 9999 VCTS FEW035CB SCT040 BKN100 23/10
Q1011 NOSIG=
METAR OIII 140100Z 32006KT 9999 FEW035 SCT100 24/08 Q1013 A2992
NOSIG=
METAR OIIK 140050Z 15004KT 9999 FEW040 BKN100 19/12 Q1014=
METAR OIIP 140100Z 25006KT 4000 TS FEW025CB SCT035 OVC100 19/13
Q1013 A2993=
METAR OIKB 140100Z 07004KT 4000 HZ NSC 29/25 Q0997 A2946=
METAR OIKK 140050Z 14004KT 010V170 CAVOK 19/03 Q1014 A2997=
METAR OIKO 140100Z AUTO VRB01KT //// // ////// 31/25 Q0998=
METAR OIKQ 140100Z 08006KT 7000 NSC 30/25 Q0996=
METAR OIMB 140100Z 08004KT CAVOK 21/M00 Q1012 A2991=
METAR OIMC 140100 NIL=
METAR OIMD 140100 NIL=
METAR OIMM 140100Z 08004KT CAVOK 23/13 Q1012 A2991=
METAR OIMN 140100Z 11004KT 9999 FEW070 20/12 Q1015=
METAR OINB 140100Z 00000KT CAVOK 23/22 Q1008=
METAR OING 140100Z 00000KT 9999 -RA FEW030CB SCT030 OVC070 24/20
Q1010=
METAR OINK 140100Z AUTO 03003KT //// // ////// 25/20 Q1007=
METAR OINN 140100Z 00000KT 9999 FEW025 22/19 Q1007=
METAR OINR 140100Z 00000KT 9999 FEW035CB SCT100 24/21 Q1007=
METAR OISA 140100 NIL=
METAR OISF 140100Z 34004KT CAVOK 18/01 Q1009 A2981=
METAR OISL 140100Z 00000KT CAVOK 23/08 Q1003 A2963=
METAR OISS 140100Z 00000KT CAVOK 18/04 Q1011 A2985=
METAR OISY 140100Z 00000KT CAVOK 17/04 Q1014=
METAR OITL 140055Z 15004KT 9999 FEW040 10/09 Q1017=
METAR OITR 140100Z 25004KT CAVOK 15/11 Q1015 A3000=
METAR OITT 140100Z 05006KT 9999 FEW035CB 18/08 Q1017 A3004=
METAR OIYY 140050Z 29012KT 2000 R31/1400U DU SCT045 28/07 Q1011=
METAR OIZB 140100Z 34018KT CAVOK 30/06 Q1001=
METAR OIZH 140100Z 27004KT CAVOK 24/02 Q1010 A2984=
METAR OIZI 140100 NIL=
METAR OIZJ 140100 NIL=


......................................................................................


Date: Friday 14th of June 2024

SAJP31 RJTD 140100
METAR RJAA 140100Z 18004KT 130V260 9999 FEW015 29/21 Q1007 NOSIG=
METAR RJBB 140100Z 33006KT 9999 FEW025 23/21 Q1008 NOSIG=
METAR RJTT 140100Z 18008KT CAVOK 28/19 Q1007 NOSIG=
METAR RJOO 140100Z VRB02KT 9999 FEW030 28/19 Q1008=
METAR ROAH 140100Z 27010KT 0500 R18L/0600V1100D R18R/0550V0800N
+TSRA BR FEW003 BKN004 BKN025CB 25/25 Q1005=
METAR RJGG 140100Z 27004KT 9999 FEW020 25/20 Q1008 BECMG 25006KT=
METAR RJCH 140100Z 16003KT 120V200 9999 FEW010 SCT018 BKN025 18/17
Q1008=
METAR RJSS 140100Z 10006KT 9999 FEW040 26/18 Q1007=


......................................................................................


Date: Friday 14th of June 2024

SAJP32 RJTD 140100
METAR RJFF 140100Z 27006KT 220V310 9999 FEW040 SCT080 BKN090 28/20
Q1006 NOSIG=
METAR RJCC 140100Z VRB02KT 9999 FEW008 BKN010 18/16 Q1008=
METAR RJFK 140100Z 15008KT 9999 FEW025 SCT080 27/20 Q1008=
METAR RJSN 140100Z 35009KT 9999 FEW015 SCT/// 24/20 Q1009=
METAR RJFT 140100Z VRB03KT 9999 FEW010 SCT080 28/19 Q1007=
METAR RJFU 140100Z 29003KT 9999 FEW030 28/22 Q1006=
METAR RJNK 140100Z 35005KT 320V040 9999 NSC 24/19 Q1009=
METAR RJOA 140100Z 11006KT 080V150 9999 FEW025 26/18 Q1009=
METAR RJOB 140100Z VRB03KT 9999 FEW030 27/19 Q1009=
METAR RJOT 140100Z 01004KT 310V080 9999 FEW025 26/20 Q1009=


......................................................................................


Date: Friday 14th of June 2024

SAJP32 RJTD 140100 RRA
METAR RJFO 140100Z 13005KT 9999 FEW030 23/20 Q1007=
METAR RJNT 140100Z 35006KT 310V020 9999 FEW030 28/20 Q1008=


......................................................................................


Date: Friday 14th of June 2024

SAJP51 RJTD 140100
METAR RJAA 140100Z 18004KT 130V260 9999 FEW015 29/21 Q1007 NOSIG=
METAR RJAF 140100Z 36005KT 290V050 9999 FEW060 25/17 Q1011=
METAR RJAH 140100Z 18005KT 120V250 9999 FEW030 29/19 Q1007=
METAR RJBB 140100Z 33006KT 9999 FEW025 23/21 Q1008 NOSIG=
METAR RJBD 140100Z 21004KT 130V300 9999 FEW035 26/20 Q1008=
METAR RJBE 140100Z 22005KT 190V250 9999 FEW030 25/22 Q1008=
METAR RJBT 140100Z VRB02KT 9999 FEW030 28/19 Q1008=
METAR RJCB 140100Z 15008KT 9999 FEW006 SCT008 BKN012 17/15 Q1008=
METAR RJCC 140100Z VRB02KT 9999 FEW008 BKN010 18/16 Q1008=
METAR RJCH 140100Z 16003KT 120V200 9999 FEW010 SCT018 BKN025 18/17
Q1008=
METAR RJCK 140100Z 07003KT 010V120 9999 FEW010 BKN015 17/14 Q1008=
METAR RJCM 140100Z VRB02KT 9999 -DZ FEW003 SCT005 BKN007 13/11
Q1009=
METAR RJCN 140100Z 04009KT 010V070 9999 FEW005 SCT010 BKN020 14/11
Q1008=
METAR RJCO 140100Z 33005KT 9999 FEW008 SCT010 BKN025 17/15 Q1010=
METAR RJCW 140100Z 07010KT 9999 FEW005 SCT014 15/12 Q1009=
METAR RJDB 140100Z AUTO 20005KT 9999 NSC 26/22 Q1007=
METAR RJDC 140100Z 08010KT 9999 FEW008 25/21 Q1007=
METAR RJDT 140100Z 15004KT 100V210 9999 FEW030 25/16 Q1006=
METAR RJEB 140100Z 05003KT 010V110 9999 FEW003 SCT004 BKN005 11/11
Q1009=
METAR RJEC 140100Z 05003KT 010V120 9999 FEW008 BKN013 BKN018 17/14
Q1008=


......................................................................................


Date: Friday 14th of June 2024

SAJP51 RJTD 140100 RRA
METAR RJFE 140100Z 15007KT 100V210 9999 FEW015 SCT020 26/22 Q1007=
METAR RJFF 140100Z 27006KT 220V310 9999 FEW040 SCT080 BKN090 28/20
Q1006 NOSIG=
METAR RJFG 140100Z 10008KT 050V130 9999 FEW008 BKN011 BKN/// 24/21
Q1008=
METAR RJFK 140100Z 15008KT 9999 FEW025 SCT080 27/20 Q1008=
METAR RJFM 140100Z 05006KT 9999 FEW025 SCT/// 26/21 Q1007=
METAR RJFO 140100Z 13005KT 9999 FEW030 23/20 Q1007=
METAR RJFR 140100Z 08007KT 9999 FEW015 SCT/// 24/21 Q1007=
METAR RJFS 140100Z 19003KT 160V220 9999 FEW015 BKN080 26/23 Q1006=
METAR RJFT 140100Z VRB03KT 9999 FEW010 SCT080 28/19 Q1007=
METAR RJFU 140100Z 29003KT 9999 FEW030 28/22 Q1006=
METAR RJGG 140100Z 27004KT 9999 FEW020 25/20 Q1008 BECMG 25006KT=
METAR RJKA 140100Z 19004KT 9999 -SHRA FEW003 SCT006 BKN012 25/25
Q1005=
METAR RJKI 140100Z AUTO 22006KT 170V240 9999 FEW003 BKN005 BKN014
//////TCU 25/22 Q1005=
METAR RJNK 140100Z 35005KT 320V040 9999 NSC 24/19 Q1009=
METAR RJNS 140100Z 13006KT 090V170 9999 FEW020 27/21 Q1008=
METAR RJNT 140100Z 35006KT 310V020 9999 FEW030 28/20 Q1008=
METAR RJNW 140100Z VRB02KT 9999 FEW020 26/16 Q1009=
METAR RJOA 140100Z 11006KT 080V150 9999 FEW025 26/18 Q1009=
METAR RJOB 140100Z VRB03KT 9999 FEW030 27/19 Q1009=
METAR RJOC 140100Z 02003KT 300V070 9999 FEW030 30/19 Q1007=


......................................................................................


Date: Friday 14th of June 2024

SAJP51 RJTD 140100 RRB
METAR RJOH 140100Z 24003KT 190V300 9999 FEW030 29/17 Q1007=
METAR RJOK 140100Z 19007KT 9999 FEW035 26/20 Q1007=
METAR RJOM 140100Z 29005KT 9999 FEW030 25/22 Q1007=
METAR RJOO 140100Z VRB02KT 9999 FEW030 28/19 Q1008=
METAR RJOR 140100Z 02006KT 9999 FEW030 26/20 Q1007=
METAR RJOS 140100Z 11005KT 070V140 9999 FEW030 25/19 Q1008=
METAR RJOT 140100Z 01004KT 310V080 9999 FEW025 26/20 Q1009=
METAR RJOW 140100Z 01006KT 9999 FEW020 25/20 Q1007=
METAR RJOY 140100Z VRB01KT 9999 FEW025 29/21 Q1007=
METAR RJSA 140100Z 28009KT 9999 FEW010 BKN013 BKN040 20/16 Q1009=
METAR RJSC 140100Z 35006KT 290V040 9999 FEW035 SCT/// 26/18 Q1009=
METAR RJSF 140100Z 36006KT 310V040 9999 FEW035 26/16 Q1009=
METAR RJSI 140100Z 29010KT 250V340 9999 FEW030 SCT040 BKN/// 26/15
Q1009=
METAR RJSK 140100Z 26008KT 220V290 9999 FEW015 SCT020 BKN035 22/17
Q1010=
METAR RJSM 140100Z 01004KT 290V070 9999 FEW015 SCT045 24/17 Q1008=
METAR RJSN 140100Z 35009KT 9999 FEW015 SCT/// 24/20 Q1009=
METAR RJSR 140100Z 30009KT 9999 FEW010 BKN020 BKN040 21/18 Q1009=
METAR RJSS 140100Z 10006KT 9999 FEW040 26/18 Q1007=
METAR RJSY 140100Z 32007KT 280V010 9999 FEW010 BKN015 22/18 Q1010=
METAR RJTF 140100Z 18004KT 050V230 9999 FEW030 29/19 Q1008=


......................................................................................


Date: Friday 14th of June 2024

SAJP51 RJTD 140100 RRC
METAR RJTI 140100Z 15008KT CAVOK 27/20 Q1008=
METAR RJTO 140100Z 20013KT 9999 FEW020 26/22 Q1008=
METAR RJTT 140100Z 18008KT CAVOK 28/19 Q1007 NOSIG=
METAR ROAH 140100Z 27010KT 0500 R18L/0600V1100D R18R/0550V0800N
+TSRA BR FEW003 BKN004 BKN025CB 25/25 Q1005=
METAR ROIG 140100Z 22012KT 9999 SCT014 BKN022 30/28 Q1004=
METAR ROMD 140100Z AUTO 22010KT 9999 BKN004 OVC015 28/27 Q1008=
METAR ROMY 140100Z 22016KT 9999 VCSH BKN010 FEW025TCU BKN/// 29/28
Q1005=
METAR RORK 140100Z AUTO 21008KT 170V230 9999 -RA FEW005 SCT007
BKN010 28/27 Q1008=
METAR RORS 140100Z 21010G20KT 170V250 9999 VCSH SCT012 SCT020 BKN210
30/27 Q1005=
METAR RORY 140100Z AUTO 15005KT 9999 -TSRA SCT018 SCT026 BKN029
//////CB 25/25 Q1005=
METAR ROYN 140100Z AUTO 20008KT 160V230 9999 NSC 30/27 Q1003=
METAR RORT 140100Z AUTO 20015KT 9999 FEW011 BKN032 BKN170 30/28
Q1005=


......................................................................................


Date: Friday 14th of June 2024

SAMS31 WMKK 140100
METAR WBGG 140100Z 13003KT 080V180 9999 FEW012 28/25 Q1010 NOSIG=
METAR WBKK 140100Z 24003KT 150V310 9999 FEW014 30/24 Q1010 NOSIG=
METAR WBSB 140100Z 17004KT 9999 FEW014 SCT140 BKN300 30/26 Q1011 NOSIG=
METAR WMKK 140100Z VRB02KT 7000 VCSH FEW017CB 27/25 Q1010 NOSIG=
METAR WMKP 140100Z 02003KT 350V060 8000 FEW020 30/25 Q1010 NOSIG=
METAR WSSL 140100Z VRB01KT 9999 FEW018 BKN300 30/26 Q1009=
METAR WSSS 140100Z 12005KT 070V170 9999 FEW018 BKN300 30/26 Q1010 NOSIG=
METAR WSAP 140100Z 09001KT 9999
FEW018 BKN300
31/26 Q1010=


......................................................................................


Date: Friday 14th of June 2024

SAPA31 KWBC 140100
METAR
AGGG NIL=
AGGH 140100Z NIL=
ANAU NIL=
AYPY 140100Z 15010G20KT 9999 FEW040 29/21 Q1012=
PGNT NIL=
PGRO 140050Z 09012KT 7SM BKN015 30/23 A2986=
PGSN 140054Z 09012KT 10SM FEW018 SCT021 32/26 A2990 RMK AO2 SLP144
T03220256 $=
PGUA 140055Z AUTO 16009KT 8SM BKN011 29/25 A2990 RMK AO2 SLP115
T02850249 $=
PGUM 140054Z 15008KT 10SM SCT014 29/25 A2990 RMK AO2 SLP116
T02890250=
PGWT 140050Z 10009KT 7SM VCSH SCT022 BKN120 30/26 A2990 RMK VCSH
NE-SE AND NW=
PHJH NIL=
PHJR 140053Z 11010G19KT 10SM FEW045 28/17 A3001 RMK AO2 SLP167
T02830172=
PHMK 140054Z 05015G25KT 10SM SCT040 27/20 A3001 RMK AO2 PK WND
07029/0005 RAE36 SLP164 P0000 T02720200=
PJON NIL=
PKMJ NIL=
PKMR 140051Z 07007KT 15SM FEW014 SCT050 BKN120 OVC300 30/25 A2980
RMK SLP093 T02970249=
PKWA 140100Z AUTO 13014KT 10SM -DZ SCT012 SCT018 SCT035 26/25
A2987 RMK AO2 T02610246=
PLCH 140100Z 11008KT 9999 FEW020 31/23 Q1008=
PMDY NIL=
PTKK 140050Z 06008KT 15SM SCT012 BKN120 OVC280 29/27 A2983 RMK
SLP105 T02940272=
PTKR NIL=
PTPN NIL=
PTRO 140050Z 28003KT 13SM SCT015CB BKN110 OVC290 28/26 A2986 RMK
HZ ALQDS CB ALQDS=
PTSA 140053Z 23005KT 10SM -SHRA BKN016TCU BKN130 OVC300 27/25
A2982 RMK TCU NW=
PTTP NIL=
PTYA 140055Z VRB03KT 12SM FEW016 FEW035 SCT130 BKN300 29/26 A2987
RMK SLP117 T02920256=
PWAK 140055Z AUTO 06016KT 10SM FEW019 SCT025 BKN044 31/23 A2996
RMK AO2 RAB00E10 SLP151 P0000 T03060232=


......................................................................................


Date: Friday 14th of June 2024

SAIR77 OIII 140100
METAR OINB 140100Z 00000KT CAVOK 23/22 Q1008=
METAR OING 140100Z 00000KT 9999 -RA FEW030CB SCT030 OVC070 24/20
Q1010=
METAR OINK 140100Z AUTO 03003KT //// // ////// 25/20 Q1007=
METAR OINN 140100Z 00000KT 9999 FEW025 22/19 Q1007=
METAR OINR 140100Z 00000KT 9999 FEW035CB SCT100 24/21 Q1007=
METAR OISA 140100 NIL=
METAR OISF 140100Z 34004KT CAVOK 18/01 Q1009 A2981=
METAR OISL 140100Z 00000KT CAVOK 23/08 Q1003 A2963=
METAR OISS 140100Z 00000KT CAVOK 18/04 Q1011 A2985=
METAR OISY 140100Z 00000KT CAVOK 17/04 Q1014=
METAR OITL 140055Z 15004KT 9999 FEW040 10/09 Q1017=
METAR OITR 140100Z 25004KT CAVOK 15/11 Q1015 A3000=
METAR OITT 140100Z 05006KT 9999 FEW035CB 18/08 Q1017 A3004=
METAR OIYY 140050Z 29012KT 2000 R31/1400U DU SCT045 28/07 Q1011=
METAR OIZB 140100Z 34018KT CAVOK 30/06 Q1001=
METAR OIZH 140100Z 27004KT CAVOK 24/02 Q1010 A2984=
METAR OIZI 140100 NIL=
METAR OIZJ 140100 NIL=


......................................................................................


Date: Friday 14th of June 2024

SAJP35 RJTD 140100
METAR RJAA 140100Z 18004KT 130V260 9999 FEW015 29/21 Q1007 NOSIG=
METAR RJBB 140100Z 33006KT 9999 FEW025 23/21 Q1008 NOSIG=
METAR RJTT 140100Z 18008KT CAVOK 28/19 Q1007 NOSIG=
METAR RJOO 140100Z VRB02KT 9999 FEW030 28/19 Q1008=
METAR RJGG 140100Z 27004KT 9999 FEW020 25/20 Q1008 BECMG 25006KT=
METAR RJSN 140100Z 35009KT 9999 FEW015 SCT/// 24/20 Q1009=
METAR RJCH 140100Z 16003KT 120V200 9999 FEW010 SCT018 BKN025 18/17
Q1008=
METAR RJSA 140100Z 28009KT 9999 FEW010 BKN013 BKN040 20/16 Q1009=
METAR RJSF 140100Z 36006KT 310V040 9999 FEW035 26/16 Q1009=
METAR RJSI 140100Z 29010KT 250V340 9999 FEW030 SCT040 BKN/// 26/15
Q1009=


......................................................................................


Date: Friday 14th of June 2024

SAJP37 RJTD 140100
METAR RJAA 140100Z 18004KT 130V260 9999 FEW015 29/21 Q1007 NOSIG=
METAR RJBB 140100Z 33006KT 9999 FEW025 23/21 Q1008 NOSIG=
METAR RJTT 140100Z 18008KT CAVOK 28/19 Q1007 NOSIG=
METAR RJOO 140100Z VRB02KT 9999 FEW030 28/19 Q1008=
METAR RJFF 140100Z 27006KT 220V310 9999 FEW040 SCT080 BKN090 28/20
Q1006 NOSIG=
METAR RJGG 140100Z 27004KT 9999 FEW020 25/20 Q1008 BECMG 25006KT=
METAR RJFK 140100Z 15008KT 9999 FEW025 SCT080 27/20 Q1008=
METAR RJFU 140100Z 29003KT 9999 FEW030 28/22 Q1006=
METAR RJCH 140100Z 16003KT 120V200 9999 FEW010 SCT018 BKN025 18/17
Q1008=
METAR RJNS 140100Z 13006KT 090V170 9999 FEW020 27/21 Q1008=


......................................................................................


Date: Friday 14th of June 2024

SAJP37 RJTD 140100 RRA
METAR RJFR 140100Z 08007KT 9999 FEW015 SCT/// 24/21 Q1007=


......................................................................................


Date: Friday 14th of June 2024

SAJP38 RJTD 140100
METAR RJNS 140100Z 13006KT 090V170 9999 FEW020 27/21 Q1008=
METAR RJSA 140100Z 28009KT 9999 FEW010 BKN013 BKN040 20/16 Q1009=
METAR RJSF 140100Z 36006KT 310V040 9999 FEW035 26/16 Q1009=
METAR RJOM 140100Z 29005KT 9999 FEW030 25/22 Q1007=
METAR RJOK 140100Z 19007KT 9999 FEW035 26/20 Q1007=
METAR RJFM 140100Z 05006KT 9999 FEW025 SCT/// 26/21 Q1007=
METAR RJEC 140100Z 05003KT 010V120 9999 FEW008 BKN013 BKN018 17/14
Q1008=
METAR RJFR 140100Z 08007KT 9999 FEW015 SCT/// 24/21 Q1007=
METAR RJSK 140100Z 26008KT 220V290 9999 FEW015 SCT020 BKN035 22/17
Q1010=
METAR RJAH 140100Z 18005KT 120V250 9999 FEW030 29/19 Q1007=


......................................................................................


Date: Friday 14th of June 2024

SAJP38 RJTD 140100 RRA
METAR RJCK 140100Z 07003KT 010V120 9999 FEW010 BKN015 17/14 Q1008=
METAR RJCM 140100Z VRB02KT 9999 -DZ FEW003 SCT005 BKN007 13/11
Q1009=
METAR RJCB 140100Z 15008KT 9999 FEW006 SCT008 BKN012 17/15 Q1008=
METAR RJOC 140100Z 02003KT 300V070 9999 FEW030 30/19 Q1007=
METAR RJOH 140100Z 24003KT 190V300 9999 FEW030 29/17 Q1007=
METAR ROIG 140100Z 22012KT 9999 SCT014 BKN022 30/28 Q1004=
METAR RJFS 140100Z 19003KT 160V220 9999 FEW015 BKN080 26/23 Q1006=
METAR RJSI 140100Z 29010KT 250V340 9999 FEW030 SCT040 BKN/// 26/15
Q1009=


......................................................................................


Date: Friday 14th of June 2024

SAPK31 OPKC 140100
METAR OPKC 140100Z 26008KT 6000 SCT020 30/25 Q1001 NOSIG=


......................................................................................


Date: Friday 14th of June 2024

SAAE32 VTBB 140100 RRA
METAR VYNT 140100Z 17010KT 5000 -RA BKN016 FEW020CB OVC100 26/25
Q1007=


......................................................................................


Date: Friday 14th of June 2024

SAIR20 OIII 140100
METAR OIAA 140051Z 28004KT CAVOK 28/09 Q0997=
METAR OIAG 140100Z 13006KT CAVOK 27/09 Q0998=
METAR OIAH 140100Z 00000KT CAVOK 24/07 Q1004=
METAR OIAI 140100 NIL=
METAR OIAM 140100Z 00000KT CAVOK 30/18 Q0997=
METAR OIAW 140053Z 24002KT CAVOK 29/10 Q0996=
METAR OIBA 140100 NIL=
METAR OIBB 140100Z 00000KT CAVOK 29/19 Q0997 A2945=
METAR OIBK 140100Z 30008KT 5000 BR NSC 30/27 Q0996=
METAR OIBL 140100 NIL=
METAR OIBS 140100 NIL=
METAR OICC 140050Z 00000KT CAVOK 17/04 Q1011 A2986=
METAR OICI 140100Z 09004KT CAVOK 21/03 Q1011 A2986=
METAR OICJ 140100 NIL=
METAR OICK 140100Z 14002KT CAVOK 17/04 Q1009 A2980=
METAR OICS 140100Z 35014KT 9999 FEW045 22/05 Q1014 A2996=
METAR OIFK 140100Z 18002KT 9999 SCT040 BKN100 26/07 Q1010 A2985=
METAR OIFM 140100Z 20006KT 5000 HZ NSC 23/04 Q1014 A2995=
METAR OIFS 140054Z 08004KT CAVOK 10/04 Q1018=
METAR OIGG 140100Z 00000KT 8000 NSC 24/24 Q1009=
METAR OIGK 140100 NIL=
METAR OIHH 140100Z 19002KT 9999 FEW040 14/07 Q1016 A3001=
METAR OIHM 140100Z 31002KT 9999 FEW040 17/05 Q1014=
METAR OIIE 140100Z 30014KT 9999 VCTS FEW035CB SCT040 BKN100 23/10
Q1011 NOSIG=
METAR OIII 140100Z 32006KT 9999 FEW035 SCT100 24/08 Q1013 A2992
NOSIG=
METAR OIIK 140050Z 15004KT 9999 FEW040 BKN100 19/12 Q1014=
METAR OIIP 140100Z 25006KT 4000 TS FEW025CB SCT035 OVC100 19/13
Q1013 A2993=
METAR OIIS 140100 NIL=
METAR OIKB 140100Z 07004KT 4000 HZ NSC 29/25 Q0997 A2946=
METAR OIKK 140050Z 14004KT 010V170 CAVOK 19/03 Q1014 A2997=
METAR OIKO 140100Z AUTO VRB01KT //// // ////// 31/25 Q0998=
METAR OIKQ 140100Z 08006KT 7000 NSC 30/25 Q0996=
METAR OIMB 140100Z 08004KT CAVOK 21/M00 Q1012 A2991=
METAR OIMC 140100 NIL=
METAR OIMD 140100 NIL=


......................................................................................


Date: Friday 14th of June 2024

SAMS32 WMKK 140100
METAR WBGG 140100Z 13003KT 080V180 9999 FEW012 28/25 Q1010 NOSIG=
METAR WBKK 140100Z 24003KT 150V310 9999 FEW014 30/24 Q1010 NOSIG=
METAR WMKJ 140100Z 00000KT 7000 FEW008 27/26 Q1010=
METAR WMKK 140100Z VRB02KT 7000 VCSH FEW017CB 27/25 Q1010 NOSIG=
METAR WMKP 140100Z 02003KT 350V060 8000 FEW020 30/25 Q1010 NOSIG=
METAR WMSA 140100Z 00000KT 7000 FEW017CB 28/26 Q1011=


......................................................................................


Date: Friday 14th of June 2024

SAMS33 WMKK 140100
METAR WMAU 140100Z 24005KT 230V310 9000 FEW002 26/25 Q1010=
METAR WMBA 140100Z VRB01KT 9999 FEW017CB 29/26 Q1010=
METAR WMKA 140100Z VRB02KT 9999 FEW020 29/26 Q1010=
METAR WMKB 140100Z VRB03KT 9000 FEW020 30/24 Q1010 NOSIG=
METAR WMKC 140100Z VRB02KT 9999 FEW017CB 27/24 Q1010=
METAR WMKD 140100Z 00000KT 9999 FEW020 26/24 Q1010 NOSIG=
METAR WMKE 140100Z 00000KT 9999 FEW017 28/26 Q1009=
METAR WMKI 140100Z 03005KT 360V070 9999 FEW019 28/25 Q1010=
METAR WMKL 140100Z 00000KT 9999 FEW020 30/26 Q1010=
METAR WMKM 140100Z NIL=
METAR WMKN 140100Z VRB04KT 9999 TS FEW017CB 29/26 Q1009=


......................................................................................


Date: Friday 14th of June 2024

SAMS34 WMKK 140100
METAR WBGB 140100Z 13004KT 080V190 9999 FEW014 26/24 Q1011=
METAR WBGR 140100Z 00000KT 9999 FEW016 27/24 Q1011=
METAR WBGS 140100Z 13004KT 090V210 9999 FEW016 27/25 Q1010=
METAR WBGY 140100Z 00000KT 9999 FEW003 27/25 Q1011=
METAR WBKL 140100Z VRB02KT 9999 FEW013 30/25 Q1011=
METAR WBKS 140100Z 21003KT 140V310 9999 FEW016 28/25 Q1010=
METAR WBKT 140100Z 21003KT 150V250 9999 FEW014 28/26 Q1010=
METAR WBKW 140100Z VRB02KT 9999 FEW016 26/25 Q1012=


......................................................................................


Date: Friday 14th of June 2024

SAMS38 WMKK 140100
METAR WBGB 140100Z 13004KT 080V190 9999 FEW014 26/24 Q1011=
METAR WBGR 140100Z 00000KT 9999 FEW016 27/24 Q1011=
METAR WBGS 140100Z 13004KT 090V210 9999 FEW016 27/25 Q1010=
METAR WBKL 140100Z VRB02KT 9999 FEW013 30/25 Q1011=
METAR WBKS 140100Z 21003KT 140V310 9999 FEW016 28/25 Q1010=
METAR WBKW 140100Z VRB02KT 9999 FEW016 26/25 Q1012=
METAR WMKD 140100Z 00000KT 9999 FEW020 26/24 Q1010 NOSIG=
METAR WMKL 140100Z 00000KT 9999 FEW020 30/26 Q1010=
METAR WMKM 140100Z NIL=
METAR WMKJ 140100Z 00000KT 7000 FEW008 27/26 Q1010=


......................................................................................


Date: Friday 14th of June 2024

SAPK31 OPKC 140100
METAR OPKC 140100Z 26008KT 6000 SCT020 30/25 Q1001 NOSIG=
METAR OPLA 140055Z 36006KT 4000 HZ SCT040 30/17 Q0999 NOSIG
RMK QFE974 A29.52=
METAR OPIS 140100Z 09012KT 4000 FEW030CB SCT040 BKN100 26/16
Q1001 RETSDZ TEMPO 09015G35KT 2000 TSRA FEW030CB=
METAR OPPS 140100Z 05004KT 6000 HZ FEW200 29/17 Q1002=
METAR OPFA 140055Z 05006KT 4000 HZ NSC 30/18 Q1000 NOSIG=
METAR OPST 140100Z 00000KT 4000 HZ NSC 29/14 Q0999 NOSIG RH40=
METAR OPSK 140100Z 13008KT 4000 HZ NSC 29/22 Q0997 NOSIG=
METAR OPMT 140100Z 23010KT 4000 FU FEW100 32/23 Q0997 TEMPO
23015G25KT 3000 BLDU=
METAR OPNH 130100Z NIL=


......................................................................................


Date: Friday 14th of June 2024

SAIR36 OIII 140100 RRA
METAR OIMT 140100Z AUTO 06002KT //// // ////// 33/05 Q1004=


......................................................................................


Date: Friday 14th of June 2024

SAMS38 WMKK 140100 RRA
METAR WMKM 140100Z 00000KT 8000 FEW017CB 28/25 Q1011=


......................................................................................


Date: Friday 14th of June 2024

SAOM81 OOMS 140000 RRB
METAR OOFD 132350Z AUTO VRB03KT //// ////// 32/06 Q1000=
METAR OOSM 132350Z AUTO VRB01KT //// ////// 33/13 Q1005=


......................................................................................


Date: Friday 14th of June 2024

SAOM81 OOMS 140000 RRC
METAR OORQ 132350Z AUTO 20004KT //// ////// 33/19 Q1001=
METAR OOSQ 132350Z AUTO 09006KT //// 00/// Q1010=


......................................................................................


Date: Friday 14th of June 2024

SAOM81 OOMS 140000 RRD
METAR OOMQ 132350Z AUTO 25006KT //// ////// 37/19 Q0997=


......................................................................................


Date: Friday 14th of June 2024

SAAR20 OEJD 140100
METAR OBBI 140100Z 24004KT CAVOK 35/15 Q0999 NOSIG=
METAR OKKK 140100Z 20003KT CAVOK 29/02 Q0999 NOSIG=
METAR OMAA 140100Z 19008KT CAVOK 31/24 Q0998 NOSIG=
METAR OMAD 140100Z 21005KT 180V240 CAVOK 31/28 Q0998 NOSIG=
METAR OMAL 140100Z 16003KT CAVOK 30/10 Q1001 NOSIG=
METAR OMDB 140100Z 19008KT CAVOK 30/19 Q0997 NOSIG=
METAR OMFJ 140100Z 30003KT CAVOK 34/06 Q0997 A2947=
METAR OMRK 140100Z 17006KT CAVOK 30/15 Q0998 A2948=
METAR OMSJ 140100Z 20007KT CAVOK 30/20 Q0998 NOSIG=
METAR OOMS 140050Z 26007KT CAVOK 34/21 Q0998 NOSIG=
METAR OOSA 140050Z 17003KT 9999 BKN025 30/26 Q1004 NOSIG=
METAR OOSH 140100Z NIL=
METAR OODQ 140050Z AUTO 22024KT 9999 R22///// FEW006 BKN180 27/26
Q1000 NOSIG RMK RH95? 0=
METAR OTBD 140100Z AUTO 26004KT 220V320 CAVOK 36/06 Q0999 NOSIG=
METAR OTBH 140055Z 27009KT 9999 CLR 33/04 A2948 Q0998=
METAR OTHH 140100Z AUTO 29006KT CAVOK 34/07 Q0998 NOSIG=
METAR OYAA 140100Z 16007KT 6000 FEW020 32/25 Q1005 NOSIG=
METAR OYSN 140100Z NIL=


......................................................................................


Date: Friday 14th of June 2024

SAPK31 OPKC 140100
METAR OPKC 140100Z 26008KT 6000 SCT020 30/25 Q1001 NOSIG=
METAR OPLA 140055Z 36006KT 4000 HZ SCT040 30/17 Q0999 NOSIG
RMK QFE974 A29.52=
METAR OPIS 140100Z 09012KT 4000 FEW030CB SCT040 BKN100 26/16 Q1001
RETSDZ
TEMPO 09015G35KT 2000 TSRA FEW030CB=
METAR OPPS 140100Z 05004KT 6000 HZ FEW200 29/17 Q1002=
METAR OPFA 140055Z 05006KT 4000 HZ NSC 30/18 Q1000 NOSIG=
METAR OPST 140100Z 00000KT 4000 HZ NSC 29/14 Q0999 NOSIG RH40=
METAR OPSK 140100Z 13008KT 4000 HZ NSC 29/22 Q0997 NOSIG=
METAR OPMT 140100Z 23010KT 4000 FU FEW100 32/23 Q0997
TEMPO 23015G25KT 3000 BLDU=
METAR OPNH 140100Z NIL=


......................................................................................


Date: Friday 14th of June 2024

SAKO51 RJTD 140100
METAR RKPC 140100Z 32003KT 9999 FEW045 BKN200 24/19 Q1006 NOSIG=
METAR RKPK 140100Z 18005KT CAVOK 28/15 Q1007=
METAR RKSI 140100Z 15007KT 110V180 CAVOK 26/20 Q1006 NOSIG=
METAR RKSS 140100Z 21003KT CAVOK 28/18 Q1005 NOSIG=
METAR RKTN 140100Z 19003KT CAVOK 30/17 Q1006=
METAR RKTU 140100Z 20002KT CAVOK 27/15 Q1006=


......................................................................................


Date: Friday 14th of June 2024

SAPA31 KWBC 140100 CCA
METAR
PTTP 140053Z 16003KT 15SM BKN017TCU BKN130 OVC300 27/26 A2984 RMK
TCU NE-E SLP107 T02690260=


......................................................................................


Date: Friday 14th of June 2024

SAPA31 KWBC 140100 RRA
METAR
PTPN 140059Z 17004KT 15SM BKN018TCU OVC130 27/26 A2982 RMK TCU
ALQDS=


......................................................................................


Date: Friday 14th of June 2024

SAAR20 OEJD 140100 CCA
METAR OMAA 140100Z 19008KT CAVOK 31/24 Q0998 WS ALL RWY NOSIG=


......................................................................................


Date: Friday 14th of June 2024

SACI51 RJTD 140100
METAR ZBAA 140100Z 14002MPS 100V190 CAVOK 25/20 Q1003 NOSIG=
METAR ZBTJ 140100Z 08002MPS 050V110 CAVOK 25/20 Q1002 NOSIG=
METAR ZBYN 140100Z 34007MPS CAVOK 29/08 Q1006 NOSIG=
METAR ZGGG 140100Z 16003MPS 110V200 9999 BKN026 31/28 Q1004 NOSIG=
METAR ZGKL 140100Z VRB01MPS 3500 -TSRA BR SCT009 FEW026CB SCT026
BKN040 25/25 Q1003 RESHRA BECMG FM0200 2500 TSRA=
METAR ZGNN 140100Z VRB01MPS 9999 -RA FEW010 28/27 Q1002 NOSIG=
METAR ZGOW 140100Z VRB01MPS CAVOK 30/26 Q1005 NOSIG=
METAR ZGSZ 140100Z 18008G14MPS 2000 +TSRA FEW010 SCT024CB BKN040
26/25 Q1004 BECMG AT0230 4500 -SHRA=
METAR ZLXY 140100Z 22003MPS 180V260 CAVOK 28/17 Q1004 NOSIG=
METAR ZPPP 140100Z 21003MPS 170V240 9999 SCT020 BKN040 20/16 Q1017
NOSIG=
METAR ZSAM 140100Z 22002MPS 180V250 CAVOK 29/27 Q1004 NOSIG=
METAR ZSHC 140100Z 27002MPS 210V010 4500 HZ NSC 29/23 Q1002 NOSIG=
METAR ZSNJ 140100Z 10003MPS 050V150 7000 NSC 29/24 Q1001 NOSIG=
METAR ZSQD 140100Z 16009MPS 4000 -DZ BR OVC004 22/21 Q1002 BECMG
TL0230 OVC005=
METAR ZSSS 140100Z 15004MPS 9999 BKN016 26/21 Q1003 NOSIG=
METAR ZWWW 140100Z VRB01MPS CAVOK 22/13 Q1011 NOSIG=
METAR ZYTL 140100Z 15005MPS 120V180 9999 -SHRA FEW015 SCT040 20/19
Q1002 NOSIG=
METAR ZYTX 140100Z 19003MPS 160V240 9999 -SHRA FEW040CB BKN040 22/19
Q1003 BECMG TL0200 -TSRA=


......................................................................................


Date: Friday 14th of June 2024

SASB31 VCCC 140110
METAR VCBI 140110Z 23007KT 9999 SCT017 27/26 Q1009 NOSIG=
METAR VRMM 140100Z 26013KT 250V350 9999 FEW018 BKN280 29/26 Q1009
NOSIG=
METAR VCRI 140110Z 22007KT 9999 FEW018 26/26 Q1009 NOSIG=


......................................................................................


Date: Friday 14th of June 2024

SAAE31 VDPP 140130
METAR VDPP 140130Z 26006KT 230V300 9999 SCT017 32/25 Q1007=


......................................................................................


Date: Friday 14th of June 2024

SAPA31 KWBC 140100 RRB
METAR
PKWA 140120Z AUTO 10SM SCT015 SCT035 SCT042 26/24 A2986 RMK AO2
T02620243=


......................................................................................


Date: Friday 14th of June 2024

SAOM81 OOMS 140100
METAR OOAD 140050Z AUTO 08008KT 9999 // NCD 30/21 Q1003 NOSIG=
METAR OOBH 140050Z AUTO VRB03KT //// ////// 27/15 Q1007=
METAR OOBR 140100Z NIL=
METAR OODB 140050Z AUTO 19007KT //// ////// 35/12 Q0998=
METAR OODQ 140050Z AUTO 22024KT 9999 R22///// FEW006 BKN180 27/26 Q1000 NOSIG=
METAR OOFD 140050Z AUTO 34005KT //// ////// 32/05 Q1000=
METAR OOIB 140100Z NIL=
METAR OOIR 140100Z NIL=
METAR OOJB 140050Z AUTO 20007KT //// ////// 28/26 Q1000=
METAR OOJS 140100Z NIL=
METAR OOKB 140050Z AUTO 04006KT CAVOK ////// 34/21 Q0997 NOSIG=
METAR OOMA 140050Z AUTO 23024KT //// ////// 28/27 Q1000=
METAR OOMJ 140050Z AUTO 16009KT //// ////// 31/27 Q0997=
METAR OOML 140100Z NIL=
METAR OOMQ 140050Z AUTO 26006KT //// ////// 37/19 Q0997=
METAR COR OOMS 140050Z 26007KT CAVOK 34/21 Q0998 NOSIG=
METAR OONZ 140050Z AUTO VRB01KT //// ////// 29/19 Q1003=
METAR OOQA 140100Z NIL=
METAR OOQH 140050Z AUTO 15008KT 9999 ////// 24/23 Q1010=
METAR OOQL 140050Z AUTO 06001KT //// ////// 32/27 Q0998=
METAR OOQQ 140050Z AUTO 01011KT //// 24/M02 Q1021=
METAR OORA 140050Z AUTO VRB03KT //// ////// 30/26 Q1003=
METAR OORH 140050Z AUTO 18015KT //// ////// 26/26 Q0999=
METAR OORQ 140050Z AUTO 32001KT //// ////// 33/18 Q1002=
METAR OOSA 140050Z 17003KT 9999 BKN025 30/26 Q1004 NOSIG=
METAR OOSM 140050Z AUTO 20004KT //// ////// 32/12 Q1005=
METAR OOSQ 140050Z AUTO 09007KT //// 00/// Q1010=
METAR OOSR 140050Z AUTO 21016KT //// ////// 36/16 Q0998=
METAR OOTH 140100Z AUTO 18015KT 9999 ////// 29/16 Q1005 NOSIG=
METAR OOYA 140050Z AUTO 19010KT //// ////// 26/25 Q1001=


......................................................................................


Date: Friday 14th of June 2024

SAPA31 KWBC 140100 RRC
METAR
PKWA 140120Z COR 14013KT 10SM SCT015 SCT035 SCT042 26/24 A2986 RMK
AO2 T02620243=


......................................................................................


Date: Friday 14th of June 2024

SANP31 VNKT 140130
METAR VNKT 140130Z 24004KT 4500 BR FEW015 SCT030 BKN100 25/22 Q1009
NOSIG=


......................................................................................


Date: Friday 14th of June 2024

SAIR20 OIII 140130
METAR OIAA 140130 NIL=
METAR OIAW 140130 NIL=
METAR OIFM 140130Z 15002KT 2000 HZ NSC 24/05 Q1014 A2995=
METAR OIGG 140130 NIL=
METAR OIIE 140130 NIL=
METAR OIII 140130 NIL=
METAR OIKB 140130 NIL=
METAR OIMM 140130Z 19006KT CAVOK 22/13 Q1013 A2992=
METAR OISS 140130Z 00000KT CAVOK 17/04 Q1011 A2986=
METAR OITT 140130Z 14004KT 9999 FEW035CB 17/08 Q1017 A3004=
METAR OIYY 140130 NIL=
METAR OIZH 140130 NIL=


......................................................................................


Date: Friday 14th of June 2024

SAPA31 KWBC 140100 RRD
METAR
PKWA 140120Z COR 14012KT 10SM SCT015 SCT035 SCT042 26/24 A2986 RMK
AO2 T02620243=


......................................................................................


Date: Friday 14th of June 2024

SASR31 WSSS 140130
METAR WSSS 140130Z 15005KT 110V200 9999 FEW018 BKN300 30/25 Q1010
NOSIG =


......................................................................................


Date: Friday 14th of June 2024

SAHK31 VHHH 140130
METAR VHHH 140130Z 26010KT 220V340 9999 2600W TSRA FEW006
FEW010CB SCT020 30/27 Q1004 TEMPO 24022G32KT 2500 TSRA SHRA
FEW010CB SCT020=


......................................................................................


Date: Friday 14th of June 2024

SAIR31 OIII 140130
METAR OIAW 140130Z NIL=
METAR OIFM 140130Z 15002KT 2000 HZ NSC 24/05 Q1014 A2995=
METAR OIII 140130Z NIL=
METAR OIKB 140130Z NIL=
METAR OIKK 140130Z NIL=
METAR OIMM 140130Z NIL=
METAR OISS 140130Z 00000KT CAVOK 17/04 Q1011 A2986=
METAR OITT 140130Z 14004KT 9999 FEW035CB 17/08 Q1017 A3004=
METAR OIZH 140130Z NIL=


......................................................................................


Date: Friday 14th of June 2024

SAIR31 OIII 140130 RRA
METAR OIMM 140130Z 19006KT CAVOK 22/13 Q1013 A2992=


......................................................................................


Date: Friday 14th of June 2024

SAIR36 OIII 140130
METAR OIBA 140130Z NIL=
METAR OIBV 140130Z NIL=
METAR OIFS 140130Z NIL=
METAR OIIP 140130Z NIL=
METAR OIMB 140130Z NIL=
METAR OIMN 140130Z VRB02KT 9999 FEW060 SCT170 19/12 Q1015=
METAR OIMS 140130Z NIL=
METAR OIMT 140130Z NIL=
METAR OIZJ 140130Z NIL=


......................................................................................


Date: Friday 14th of June 2024

SAAE31 VTBB 140130
METAR VTBD 140130Z 24008KT 210V280 9999 FEW030 32/23 Q1008 NOSIG=
METAR VTBS 140130Z 23007KT 9999 FEW020 32/23 Q1008 NOSIG=
METAR VTCC 140130Z 24003KT 9999 FEW020 BKN030 27/23 Q1008 NOSIG=
METAR VTSP 140130Z 28006KT 9999 FEW020TCU 31/25 Q1010 NOSIG=
METAR VTSS 140130Z 14003KT 100V220 9999 FEW020 29/25 Q1010 NOSIG=
METAR VTBU 140130Z 23008KT 9999 FEW020 31/25 Q1008 NOSIG=


......................................................................................


Date: Friday 14th of June 2024

SAAE32 VTBB 140130
METAR VDPP 140130Z 26006KT 230V300 9999 SCT017 32/25 Q1007=
METAR VLVT 140130Z 00000KT 9999 FEW050 BKN200 31/25 Q1006 NOSIG=
METAR VYMD 140130Z 18006KT 7000 BKN020 FEW025CB 28/25 Q1003=
METAR VYNT 140130Z NIL=
METAR VYYY 140130Z 22002KT 6000 BKN015 FEW020CB OVC100 27/26 Q1006=
METAR VDSV 140130Z 03004KT 330V070 9999 SCT015 FEW017CB 31/27 Q1009
RMK CB:SW=
METAR VDSA 140130Z 27009KT 240V300 9999 SCT017 32/25 Q1007=


......................................................................................


Date: Friday 14th of June 2024

SAAE34 VTBB 140130
METAR VVCI 140130Z 22007KT CAVOK 32/25 Q1001 NOSIG=
METAR VVCR 140130Z 08004KT CAVOK 33/24 Q1007 NOSIG=
METAR VVCT 140130Z 25011KT 9999 FEW015 32/28 Q1008 NOSIG=
METAR VVDN 140130Z 21005KT 180V250 CAVOK 34/23 Q1005 NOSIG=
METAR VVNB 140130Z 07005KT 7000 NSC 32/27 Q1001 NOSIG=
METAR VVPB 140130Z 18004KT 9999 FEW017 34/23 Q1004 NOSIG=
METAR VVPQ 140130Z 30007KT 9999 FEW015 31/26 Q1009 NOSIG=
METAR VVTS 140130Z 29006KT 250V310 CAVOK 32/27 Q1008 NOSIG =
METAR VVVD 140130Z VRB02KT 9999 SCT015 31/29 Q1002 NOSIG=


......................................................................................


Date: Friday 14th of June 2024

SATR31 UTAA 140200
METAR UTAA 140200Z NIL=
METAR UTAK 140200Z NIL=
METAR UTAM 140200Z NIL=
METAR UTAT 140200Z NIL=
METAR UTAV 140200Z NIL=


......................................................................................


Date: Friday 14th of June 2024

SAUZ31 UTTW 140130
METAR UTFN 140130Z 35004KT 9999 NSC 23/09 Q1006 R28/CLRD70 NOSIG=
METAR UTNN 140130Z 00000KT CAVOK 22/05 Q1011 R33/CLRD60 NOSIG=
METAR UTNU 140130Z 03004KT CAVOK 21/08 Q1010 R31/CLRD70 NOSIG=
METAR UTSA 140130Z 05002KT 9999 NSC 19/08 Q1007 R07/CLRD70 NOSIG=
METAR UTSB 140130Z 33008KT CAVOK 21/10 Q1006 R01/CLRD70 NOSIG=
METAR UTSK 140130Z 00000KT CAVOK 20/10 Q1004 R16/CLRD70=
METAR UTSS 140130Z 12014KT 9999 NSC 21/09 Q1008 R09/CLRD70 NOSIG=
METAR UTST 140130Z 26002KT CAVOK 24/08 Q1005 R25/CLRD70 NOSIG=
METAR UTFA 140130Z NIL=
METAR UTFF 140130Z 36004KT 9999 NSC 24/04 Q1007 R18/CLRD70=
METAR UTTT 140130Z 17004KT 120V210 CAVOK 22/09 Q1008 R08R/CLRD70
NOSIG=


......................................................................................


Date: Friday 14th of June 2024

SAHK31 VHHH 140130 CCA
METAR COR RCNN 140130Z 10006KT 8000 VCSH FEW006 BKN021 BKN040
26/24 Q1007 NOSIG RMK A2976 VCSH SW=


......................................................................................


Date: Friday 14th of June 2024

SAHK31 VHHH 140130
METAR VHHH 140130Z 26010KT 220V340 9999 2600W TSRA FEW006
FEW010CB SCT020 30/27 Q1004 TEMPO 24022G32KT 2500 TSRA SHRA
FEW010CB SCT020=
METAR RCTP 140130Z 24021KT 9999 FEW015 SCT080 BKN160 32/26 Q1004
WS R23R NOSIG RMK A2965=
METAR RCKH 140130Z 23011KT 9999 FEW009 SCT016 BKN060 32/27 Q1006
NOSIG RMK 24011KT/R09 A2973=
METAR RCSS 140130Z VRB02KT 9999 FEW025 SCT045 BKN150 32/26 Q1004
NOSIG RMK A2965=
METAR RCMQ 140130Z 18010KT 9999 -RA FEW008 FEW010CB SCT016 BKN050
26/25 Q1007 NOSIG RMK A2976 CB W=
METAR RCNN 140130Z 10006KT 8000 VCSH FEW006 BKN021 BKN040 24/24
Q1007 NOSIG RMK A2976 VCSH SW=
METAR RCFN 140130Z VRB02KT 9999 FEW015 SCT060 BKN150 32/27 Q1004
NOSIG RMK A2967=
METAR VMMC 140130Z 24006KT 180V280 4000 -TSRA FEW006 FEW012CB SCT020

BKN045 28/27 Q1004 TEMPO VRB18G28KT 2500 +TSRA=


......................................................................................


Date: Friday 14th of June 2024

SAPK31 OPKC 140125
METAR OPKC 140130Z 25009KT 6000 SCT020 30/25 Q1001 NOSIG=


......................................................................................


Date: Friday 14th of June 2024

SAJP51 RJTD 140130
METAR RJAA 140130Z 13003KT 040V200 9999 FEW020 29/21 Q1007 NOSIG=
METAR RJBB 140130Z 32005KT 9999 FEW025 23/21 Q1008 NOSIG=
METAR RJCC 140130Z 16003KT 110V210 9999 FEW007 SCT009 BKN010 18/16
Q1008=
METAR RJFF 140130Z 31006KT 250V350 9999 FEW040 BKN090 28/21 Q1006
NOSIG=
METAR RJGG 140130Z 25005KT 9999 FEW020 26/20 Q1008 NOSIG=
METAR RJTT 140130Z 18009KT 9999 FEW035 29/19 Q1008 NOSIG=
METAR ROAH 140130Z 29006KT 9999 R18L/1000VP2000U R18R/0900VP2000U
+TSRA FEW002 SCT004 BKN025CB 25/25 Q1005=


......................................................................................


Date: Friday 14th of June 2024

SAMS31 WMKK 140130
METAR WBGG 140130Z 11003KT 020V160 9999 FEW012 29/25 Q1011 NOSIG=
METAR WBKK 140130Z 22007KT 180V290 9999 FEW014 30/24 Q1011 NOSIG=
METAR WBSB 140130Z 22004KT 9999 FEW014 FEW015CB SCT140 BKN300 30/26 Q1011
NOSIG=
METAR WMKK 140130Z VRB02KT 4000 -RA FEW004 FEW017CB SCT030 27/26 Q1010 RERA NOSIG=
METAR WMKP 140130Z 05004KT 340V120 8000 FEW020 31/25 Q1010 NOSIG=
METAR WSSL 140130Z NIL=
METAR WSSS 140130Z 15005KT 110V200 9999 FEW018 BKN300 30/25 Q1010 NOSIG=
METAR WSAP 140130Z NIL=


......................................................................................


Date: Friday 14th of June 2024

SAPK31 OPKC 140125
METAR OPKC 140130Z 25009KT 6000 SCT020 30/25 Q1001 NOSIG=
METAR OPLA 140125Z 34008KT 4000 HZ SCT040 31/16 Q1000 NOSIG
RMK QFE975 A29.54=
METAR OPIS 140130Z 27010KT 5000 HZ SCT040 SCT100 27/15 Q1002 NOSIG=
METAR OPPS 140130Z 05004KT 6000 HZ FEW200 29/17 Q1002=
METAR OPFA 130130Z NIL=
METAR OPST 130130Z NIL=
METAR OPSK 130130Z NIL=
METAR OPMT 140130Z 23016KT 4000 DRDU NSC 32/23 Q0997 TEMPO
23015G25KT 3000 BLDU=
METAR OPNH 130130Z NIL=


......................................................................................


Date: Friday 14th of June 2024

SAPA31 KWBC 140100 RRE
METAR
PKWA 140140Z AUTO 16013KT 10SM -RA SCT050 27/25 A2985 RMK AO2
T02660245 PNO=


......................................................................................


Date: Friday 14th of June 2024

SAPK31 OPKC 140125
METAR OPKC 140130Z 25009KT 6000 SCT020 30/25 Q1001 NOSIG=
METAR OPLA 140125Z 34008KT 4000 HZ SCT040 31/16 Q1000 NOSIG
RMK QFE975 A29.54=
METAR OPIS 140130Z 27010KT 5000 HZ SCT040 SCT100 27/15 Q1002 NOSIG=
METAR OPPS 140130Z 05004KT 6000 HZ FEW200 29/17 Q1002=
METAR OPFA 140130Z NIL=
METAR OPST 140130Z NIL=
METAR OPSK 140130Z NIL=
METAR OPMT 140130Z 23016KT 4000 DRDU NSC 32/23 Q0997
TEMPO 23015G25KT 3000 BLDU=
METAR OPNH 140130Z NIL=


......................................................................................


Date: Friday 14th of June 2024

SAAE31 VDPP 140200
METAR VDPP 140200Z 27006KT 220V310 9999 SCT017 33/24 Q1007=


......................................................................................


Date: Friday 14th of June 2024

SASD20 OEJD 140200
METAR OEAB 140200Z 00000KT CAVOK 19/12 Q1023 NOSIG=
METAR OEAH 140200Z 27007KT CAVOK 31/09 Q1001 NOSIG=
METAR OEAO 140200Z 35006KT CAVOK 31/M07 Q1010 NOSIG=
METAR OEBA 140200Z 28004KT 9999 FEW030 28/02 Q1017 NOSIG=
METAR OEBH 140200Z 23003KT CAVOK 30/04 Q1012 NOSIG=
METAR OEDF 140200Z 25006KT CAVOK 29/06 Q0999 NOSIG=
METAR OEDM 140200Z 00000KT CAVOK 26/M05 Q1010=
METAR OEDR 140200Z 27007KT 8000 NSC 30/14 Q0998=
METAR OEGN 140200Z 00000KT CAVOK 32/20 Q1004 NOSIG=
METAR OEGS 140200Z 00000KT CAVOK 26/M02 Q1008=
METAR OEGT 140200Z 29004KT CAVOK 27/08 Q1010 NOSIG=
METAR OEHL 140200Z 36008KT CAVOK 29/00 Q1012=
METAR OEJB 140200Z NIL=
METAR OEJN 140200Z 33004KT CAVOK 31/22 Q1003 NOSIG=
METAR OEKJ 140200Z 14008KT CAVOK 32/02 Q1007=
METAR OEKK 140200Z NIL=
METAR OEAR 140200Z 33003KT 9999 FEW040 35/18 Q1005=


......................................................................................


Date: Friday 14th of June 2024

SASD21 OEJD 140200
METAR OEKM 140200Z 00000KT CAVOK 20/10 Q1022 NOSIG=
METAR OEMA 140200Z 35004KT CAVOK 31/M07 Q1010 NOSIG=
METAR OEMN 140200Z 33005KT CAVOK 33/19 Q1006=
METAR OENG 140200Z 24004KT CAVOK 26/M02 Q1012 NOSIG=
METAR OEPA 140200Z 28006KT CAVOK 30/M02 Q1003 NOSIG=
METAR OERF 140200Z 27004KT CAVOK 28/M02 Q1005 NOSIG=
METAR OERK 140200Z 30005KT CAVOK 29/00 Q1007 NOSIG=
METAR OERR 140200Z 30005KT CAVOK 29/M02 Q1008 NOSIG=
METAR OERS 140200Z NIL=
METAR OESH 140200Z 18005KT CAVOK 28/08 Q1008 NOSIG=
METAR OESK 140200Z 34003KT CAVOK 28/M01 Q1012 NOSIG=
METAR OETB 140200Z 32009KT CAVOK 28/M04 Q1012 NOSIG=
METAR OETF 140200Z 30006KT 9999 SCT030 24/11 Q1017 NOSIG=
METAR OETR 140200Z 33006KT CAVOK 25/00 Q1013 NOSIG=
METAR OEWD 140200Z 25004KT CAVOK 33/00 Q1005=
METAR OEWJ 140200Z 00000KT 8000 NSC 28/26 Q1003 NOSIG=
METAR OEYN 140200Z 07004KT 9999 FEW020 28/25 Q1002 NOSIG=


......................................................................................


Date: Friday 14th of June 2024

SASD31 OEJD 140200
METAR OEDF 140200Z 25006KT CAVOK 29/06 Q0999 NOSIG=
METAR OEDR 140200Z 27007KT 8000 NSC 30/14 Q0998=
METAR OEJN 140200Z 33004KT CAVOK 31/22 Q1003 NOSIG=
METAR OEMA 140200Z 35004KT CAVOK 31/M07 Q1010 NOSIG=
METAR OERK 140200Z 30005KT CAVOK 29/00 Q1007 NOSIG=
METAR OEAB 140200Z 00000KT CAVOK 19/12 Q1023 NOSIG=
METAR OYAA 140200Z 36005KT 6000 FEW020 32/26 Q1005 NOSIG=
METAR OYSN 140200Z NIL=


......................................................................................


Date: Friday 14th of June 2024

SAOM32 OOMS 140200
METAR OOMS 140150Z 25006KT CAVOK 34/22 Q0999 NOSIG=
METAR OOSA 140150Z 21004KT 9999 BKN025 30/25 Q1004 NOSIG=
METAR OOSH 140200Z NIL=
METAR OODQ 140150Z AUTO 22024KT 9000 R22///// SCT006 BKN027 BKN032
27/26 Q1001 NOSIG=
METAR OOKB 140150Z AUTO 02006KT 340V060 CAVOK 34/21 Q0998 NOSIG=
METAR OOAD 140150Z AUTO 09009KT 9999 // NCD 30/21 Q1003 NOSIG=


......................................................................................


Date: Friday 14th of June 2024

SANP31 VNKT 140200
METAR VNKT 140200Z 00000 4500 BR FEW015 SCT030 BKN100 26/22 Q1009
NOSIG=


......................................................................................


Date: Friday 14th of June 2024

SASR31 WSSS 140200
METAR WSSS 140200Z 14003KT 080V200 9999 SCT020 BKN300 31/26 Q1010
NOSIG =


......................................................................................


Date: Friday 14th of June 2024

SATH40 VTBB 140200 RRA
METAR VTBD 140200Z 25009KT 210V280 9999 FEW030 32/23 Q1008 NOSIG=
METAR VTBS 140200Z 24008KT 210V270 9999 FEW020 33/23 Q1008 NOSIG=
METAR VTBU 140200Z 25008KT 9999 FEW020 32/25 Q1008 NOSIG=
METAR VTCC 140200Z 18008KT 5000 RA FEW018 BKN023 26/23 Q1009 NOSIG=
METAR VTSP 140200Z 27008KT 9999 FEW020TCU SCT030 31/25 Q1010 NOSIG=
METAR VTSS 140200Z VRB02KT 9999 FEW020 31/24 Q1010 NOSIG=


......................................................................................


Date: Friday 14th of June 2024

SATH40 VTBB 140200
METAR VTBD 140200Z NIL=
METAR VTBS 140200Z NIL=
METAR VTBU 140200Z NIL=
METAR VTCC 140200Z NIL=
METAR VTCT 140200Z NIL=
METAR VTSB 140200Z NIL=
METAR VTSG 140200Z NIL=
METAR VTSP 140200Z NIL=
METAR VTSS 140200Z NIL=
METAR VTUD 140200Z NIL=
METAR VTUU 140200Z NIL=


......................................................................................


Date: Friday 14th of June 2024

SAIR31 OIII 140200
METAR OIAW 140200Z 30002KT CAVOK 29/11 Q0996=
METAR OIFM 140200Z 20006KT 3000 HZ NSC 22/05 Q1014 A2996=
METAR OIII 140200Z 34012KT 9999 FEW035 SCT100 26/06 Q1013 A2992
NOSIG=
METAR OIKB 140200Z 19004KT 4000 HZ NSC 29/25 Q0997 A2947=
METAR OIKK 140200Z 23004KT CAVOK 18/02 Q1015 A2997=
METAR OIMM 140200Z 00000KT CAVOK 24/13 Q1013 A2994=
METAR OISS 140200Z 00000KT CAVOK 16/04 Q1011 A2986=
METAR OITT 140200Z 08006KT 9999 FEW035 17/08 Q1017 A3005=
METAR OIZH 140200Z 30006KT CAVOK 24/03 Q1011 A2985=


......................................................................................


Date: Friday 14th of June 2024

SAIR32 OIII 140200
METAR OIAA 140200Z 27006KT CAVOK 28/11 Q0997=
METAR OIBK 140200Z 30008KT 5000 BR NSC 30/27 Q0997=
METAR OICC 140200Z 00000KT CAVOK 17/05 Q1012 A2989=
METAR OIGG 140200Z NIL=
METAR OIIE 140200Z 30010KT 9999 VCTS FEW035CB SCT040 BKN100 23/10
Q1012=
METAR OINZ 140200Z 01004KT CAVOK 21/20 Q1009=
METAR OITR 140200Z 28008KT CAVOK 14/11 Q1015 A2999=
METAR OIYY 140200Z 29012KT 2000 R31/1600U DU SCT045 27/07 Q1011=


......................................................................................


Date: Friday 14th of June 2024

SAIR33 OIII 140200
METAR OIBB 140200Z 00000KT CAVOK 28/20 Q0997 A2946=
METAR OIBP 140200Z 30004KT CAVOK 30/26 Q0996 A2944=
METAR OICK 140200Z 00000KT CAVOK 18/04 Q1009 A2980=
METAR OICS 140200Z 04006KT 9999 FEW045 21/06 Q1014 A2996=
METAR OIHH 140200Z 28002KT CAVOK 13/07 Q1016 A3003=
METAR OITL 140200Z 00000KT 9999 FEW040 10/09 Q1017=
METAR OIZC 140200Z NIL=


......................................................................................


Date: Friday 14th of June 2024

SAIR34 OIII 140200
METAR OIAG 140200Z 12006KT CAVOK 26/08 Q0998=
METAR OIAM 140200Z 00000KT CAVOK 29/17 Q0997=
METAR OICI 140200Z 08004KT CAVOK 20/03 Q1011 A2987=
METAR OIKQ 140200Z 08004KT 5000 BR NSC 30/26 Q0997=
METAR OINN 140200Z 12004KT 9999 BKN029 23/20 Q1008=
METAR OINR 140200Z 29004KT 9999 FEW035CB SCT040 SCT100 24/20 Q1008=
METAR OISL 140200Z 22004KT CAVOK 22/07 Q1003 A2963=
METAR OISY 140200Z 00000KT CAVOK 15/05 Q1015=
METAR OITZ 140200Z NIL=


......................................................................................


Date: Friday 14th of June 2024

SAIR35 OIII 140200
METAR OIAD 140200Z NIL=
METAR OIBJ 140200Z NIL=
METAR OIBS 140200Z NIL=
METAR OIHR 140200Z NIL=
METAR OIKM 140200Z NIL=
METAR OIKR 140200Z NIL=
METAR OING 140200Z 00000KT 5000 BR FEW030CB SCT030 BKN080 24/23
Q1010=
METAR OIZB 140200Z 34016KT CAVOK 30/07 Q1001=
METAR OIZI 140200Z 36004KT 8000 NSC 32/08 Q1003=


......................................................................................


Date: Friday 14th of June 2024

SAIR36 OIII 140200
METAR OIBA 140200Z NIL=
METAR OIBV 140200Z NIL=
METAR OIFS 140200Z 30006KT CAVOK 10/05 Q1018=
METAR OIIP 140200Z 31010KT 7000 FEW030CB SCT040 BKN100 19/12 Q1013
A2993=
METAR OIMB 140200Z 11004KT CAVOK 22/00 Q1013 A2992=
METAR OIMN 140200Z VRB02KT 9999 FEW015 SCT170 20/13 Q1015=
METAR OIMS 140200Z NIL=
METAR OIMT 140200Z AUTO 01004KT //// // ////// 33/05 Q1005=
METAR OIZJ 140200Z 13010KT 5000 BR NSC 32/28 Q0997=


......................................................................................


Date: Friday 14th of June 2024

SAIR37 OIII 140200
METAR OIBL 140200Z NIL=
METAR OIBQ 140200Z NIL=
METAR OIIK 140200Z 05006KT 9999 FEW035CB SCT040 BKN100 20/13 Q1015=
METAR OIMD 140200Z NIL=
METAR OIMQ 140200Z NIL=
METAR OINE 140200Z 00000KT 9999 SCT030 OVC090 24/19 Q1009=
METAR OITK 140200Z NIL=
METAR OITM 140200Z 08008KT 9999 FEW035 17/06 Q1014=


......................................................................................


Date: Friday 14th of June 2024

SAIR38 OIII 140200
METAR OIAH 140200Z 00000KT CAVOK 23/07 Q1005=
METAR OIBH 140200Z NIL=
METAR OICM 140200Z NIL=
METAR OIIS 140200Z NIL=
METAR OIMJ 140200Z NIL=
METAR OISF 140200Z 32004KT CAVOK 17/01 Q1009 A2982=
METAR OISR 140200Z NIL=
METAR OITP 140200Z NIL=
METAR OITU 140200Z NIL=


......................................................................................


Date: Friday 14th of June 2024

SAOM32 OOMS 140200 RRA
METAR OOSH 140150Z AUTO 16008KT //// ////// 32/23 Q0997=


......................................................................................


Date: Friday 14th of June 2024

SAAE31 VTBB 140200
METAR VTBD 140200Z 25009KT 210V280 9999 FEW030 32/23 Q1008 NOSIG=
METAR VTBS 140200Z 24008KT 210V270 9999 FEW020 33/23 Q1008 NOSIG=
METAR VTCC 140200Z 18008KT 5000 RA FEW018 BKN023 26/23 Q1009 NOSIG=
METAR VTSP 140200Z 27008KT 9999 FEW020TCU SCT030 31/25 Q1010 NOSIG=
METAR VTSS 140200Z VRB02KT 9999 FEW020 31/24 Q1010 NOSIG=
METAR VTBU 140200Z 25008KT 9999 FEW020 32/25 Q1008 NOSIG=


......................................................................................


Date: Friday 14th of June 2024

SAAE32 VTBB 140200
METAR VDPP 140200Z 27006KT 220V310 9999 SCT017 33/24 Q1007=
METAR VLVT 140200Z 14002KT 9999 FEW016 SCT200 31/26 Q1007 NOSIG=
METAR VYMD 140200Z NIL=
METAR VYNT 140200Z 18010KT 6000 BKN016 FEW020CB OVC100 26/25 Q1007=
METAR VYYY 140200Z 24006KT 7000 BKN015 FEW020CB OVC100 28/26 Q1006=
METAR VDSV 140200Z 34008KT 300V360 9999 SCT015 FEW017CB 31/27 Q1008
RMK CB:N/SW=
METAR VDSA 140200Z 28013KT 9999 SCT017 32/24 Q1007=


......................................................................................


Date: Friday 14th of June 2024

SAAE33 VTBB 140200
METAR VLLB 140200Z 27004KT 9999 SCT020 BKN060 28/24 Q1006 NOSIG=
METAR VLLN 140200Z 18004KT 9999 SCT020 BKN100 27/25 Q1009 NOSIG=
METAR VLPS 140200Z 14002KT 9999 FEW020 FEW050 31/25 Q1008 NOSIG=
METAR VLSK 140200Z 24004KT 7000 SCT040 SCT100 31/24 Q1009 NOSIG=


......................................................................................


Date: Friday 14th of June 2024

SAAE34 VTBB 140200
METAR VVCI 140200Z 23007KT CAVOK 32/25 Q1001 NOSIG=
METAR VVCR 140200Z 10004KT CAVOK 34/24 Q1007 NOSIG=
METAR VVCT 140200Z 29009KT 9999 FEW015 32/27 Q1008 NOSIG=
METAR VVDN 140200Z 22004KT 180V250 CAVOK 35/23 Q1005 NOSIG=
METAR VVNB 140200Z 07005KT 5000 BR NSC 32/28 Q1001 BECMG 6000 NSW=
METAR VVPB 140200Z 18004KT 9999 FEW017 35/23 Q1004 NOSIG=
METAR VVPQ 140200Z 31006KT 9999 FEW015 32/26 Q1009 NOSIG=
METAR VVTS 140200Z 28005KT 240V310 CAVOK 33/27 Q1008 NOSIG =
METAR VVVD 140200Z VRB01KT 9999 FEW015 31/29 Q1002 NOSIG=


......................................................................................


Date: Friday 14th of June 2024

SAAR20 OEJD 140100 RRA
METAR OOSH 140050Z AUTO 14007KT //// ////// 32/26 Q0997 RMK 0994=


......................................................................................


Date: Friday 14th of June 2024

SAHK31 VHHH 140200
METAR VHHH 140200Z 24013KT 200V270 4700 +TSRA FEW006 FEW010CB
SCT020 BKN045 28/27 Q1004 TEMPO 24022G32KT 2500 TSRA SHRA
FEW010CB SCT020=


......................................................................................


Date: Friday 14th of June 2024

SAMV31 VRMM 140200
METAR VRMH 140200Z 27010KT 9999 FEW018 BKN270
30/26 Q1009=
METAR VRMM 140200Z 26011KT 250V310 9999 FEW018 BKN280
30/26 Q1010
NOSIG=
METAR VRMG 140200Z 29005KT 9999 FEW018 BKN270
28/25 Q1010 NOSIG=


......................................................................................


Date: Friday 14th of June 2024

SAPK31 OPKC 140200
METAR OPKC 140200Z 25009KT 6000 SCT020 30/25 Q1002 NOSIG=


......................................................................................


Date: Friday 14th of June 2024

SATR31 UTAA 140200
METAR UTAA 140200Z 30008KT 9999 SCT100 27/16 Q1009
R88/CLRD70 NOSIG=
METAR UTAK 140200Z 02008KT CAVOK 23/18 Q1010 R34L/CLRD70 NOSIG=
METAR UTAV 140200Z 35010KT CAVOK 23/08 Q1006 R31/CLRD70 NOSIG=
METAR UTAM 140200Z 36004KT CAVOK 22/07 Q1008 R88/CLRD70 NOSIG=
METAR UTAT 140200Z 04004KT CAVOK 24/08 Q1011 R08/CLRD70
NOSIG=


......................................................................................


Date: Friday 14th of June 2024

SAUZ31 UTTW 140200
METAR UTFN 140200Z 02006KT 9999 NSC 24/08 Q1006 R28/CLRD70 NOSIG=
METAR UTNN 140200Z 36002KT CAVOK 23/04 Q1011 R33/CLRD60 NOSIG=
METAR UTNU 140200Z 03004KT CAVOK 22/08 Q1010 R31/CLRD70 NOSIG=
METAR UTSA 140200Z 05006KT 9999 NSC 21/08 Q1007 R07/CLRD70 NOSIG=
METAR UTSB 140200Z 35010KT CAVOK 22/10 Q1006 R01/CLRD70 NOSIG=
METAR UTSK 140200Z VRB02KT CAVOK 22/09 Q1004 R16/CLRD70=
METAR UTSS 140200Z 12014KT 9999 NSC 22/09 Q1008 R09/CLRD70 NOSIG=
METAR UTST 140200Z 25004KT CAVOK 25/08 Q1005 R25/CLRD70 NOSIG=
METAR UTFA 140200Z NIL=
METAR UTFF 140200Z 02004KT 9999 NSC 25/05 Q1007 R18/CLRD70=
METAR UTTT 140200Z 17006KT 130V190 CAVOK 22/08 Q1008 R08R/CLRD70
NOSIG=


......................................................................................


Date: Friday 14th of June 2024

SAIR77 OIII 140200
METAR OIAA 140151Z 27006KT CAVOK 28/11 Q0997=
METAR OIAG 140200Z 12006KT CAVOK 26/08 Q0998=
METAR OIAH 140200Z 00000KT CAVOK 23/07 Q1005=
METAR OIAI 140200 NIL=
METAR OIAM 140200Z 00000KT CAVOK 29/17 Q0997=
METAR OIAW 140151Z 30002KT CAVOK 29/11 Q0996=
METAR OIBA 140200 NIL=
METAR OIBB 140200Z 00000KT CAVOK 28/20 Q0997 A2946=
METAR OIBK 140200Z 30008KT 5000 BR NSC 30/27 Q0997=
METAR OIBL 140200 NIL=
METAR OIBS 140200 NIL=
METAR OICC 140150Z 00000KT CAVOK 17/05 Q1012 A2989=
METAR OICI 140200Z 08004KT CAVOK 20/03 Q1011 A2987=
METAR OICJ 140200 NIL=
METAR OICK 140200Z 00000KT CAVOK 18/04 Q1009 A2980=
METAR OICS 140200Z 04006KT 9999 FEW045 21/06 Q1014 A2996=
METAR OIFK 140200Z 12004KT 9999 SCT040 BKN100 25/07 Q1011 A2986=
METAR OIFM 140200Z 20006KT 3000 HZ NSC 22/05 Q1014 A2996=
METAR OIFS 140153Z 30006KT CAVOK 10/05 Q1018=
METAR OIGG 140200Z 00000KT 6000 SCT080 SCT170 24/24 Q1009=
METAR OIGK 140200Z 13004KT 9999 FEW030CB SCT035 15/07 Q1020=
METAR OIHM 140200Z 09008KT CAVOK 18/06 Q1014=
METAR OIIE 140200Z 30010KT 9999 VCTS FEW035CB SCT040 BKN100 23/10
Q1012 NOSIG=
METAR OIII 140200Z 34012KT 9999 FEW035 SCT100 26/06 Q1013 A2992
NOSIG=
METAR OIIK 140152Z 05006KT 9999 FEW035CB SCT040 BKN100 20/13 Q1015=
METAR OIIP 140200Z 31010KT 7000 FEW030CB SCT040 BKN100 19/12 Q1013
A2993=
METAR OIKB 140200Z 19004KT 4000 HZ NSC 29/25 Q0997 A2947=
METAR OIKK 140150Z 23004KT CAVOK 18/02 Q1015 A2997=
METAR OIKO 140200Z 00000KT 3000 HZ NSC 30/25 Q0998=
METAR OIKQ 140200Z 08004KT 5000 BR NSC 30/26 Q0997=
METAR OIMB 140200Z 11004KT CAVOK 22/00 Q1013 A2992=
METAR OIMC 140200 NIL=
METAR OIMD 140200 NIL=
METAR OIMM 140200Z 00000KT CAVOK 24/13 Q1013 A2994=
METAR OIMN 140200Z VRB02KT 9999 FEW015 SCT170 20/13 Q1015=
METAR OINB 140200Z 00000KT CAVOK 24/21 Q1009=
METAR OING 140200Z 00000KT 5000 BR FEW030CB SCT030 BKN080 24/23
Q1010=
METAR OINK 140200Z 03004KT 6000 SCT030 OVC080 25/20 Q1007 A2976=
METAR OINN 140200Z 12004KT 9999 BKN029 23/20 Q1008=
METAR OINR 140200Z 29004KT 9999 FEW035CB SCT040 SCT100 24/20 Q1008=
METAR OISA 140200Z 01016KT CAVOK 21/03 Q1016 A3001=
METAR OISF 140200Z 32004KT CAVOK 17/01 Q1009 A2982=
METAR OISL 140200Z 22004KT CAVOK 22/07 Q1003 A2963=
METAR OISS 140200Z 00000KT CAVOK 16/04 Q1011 A2986=
METAR OISY 140200Z 00000KT CAVOK 15/05 Q1015=
METAR OITL 140156Z 00000KT 9999 FEW040 10/09 Q1017=
METAR OITR 140200Z 28008KT CAVOK 14/11 Q1015 A2999=
METAR OITT 140200Z 08006KT 9999 FEW035 17/08 Q1017 A3005=
METAR OIYY 140150Z 29012KT 2000 R31/1600U DU SCT045 27/07 Q1011=
METAR OIZB 140200Z 34016KT CAVOK 30/07 Q1001=
METAR OIZH 140200Z 30006KT CAVOK 24/03 Q1011 A2985=
METAR OIZI 140200Z 36004KT 8000 NSC 32/08 Q1003=
METAR OIZJ 140200Z 13010KT 5000 BR NSC 32/28 Q0997=


......................................................................................


Date: Friday 14th of June 2024

SAHK31 VHHH 140200
METAR VHHH 140200Z 24013KT 200V270 4700 +TSRA FEW006 FEW010CB
SCT020 BKN045 28/27 Q1004 TEMPO 24022G32KT 2500 TSRA SHRA
FEW010CB SCT020=
METAR RCTP 140200Z 25018G28KT 9999 FEW015 SCT080 BKN160 30/26
Q1004 WS R23R NOSIG RMK A2966=
METAR RCKH 140200Z 23011KT 200V260 9999 FEW010 SCT018 BKN060 31/26
Q1006 NOSIG RMK 26009KT/R09 A2973=
METAR RCSS 140200Z 24005KT 160V300 9999 FEW025 BKN045 BKN150 34/26
Q1003 NOSIG RMK A2964=
METAR RCMQ 140200Z 19014KT 9999 -RA VCTS FEW008 FEW010CB SCT016
BKN050 26/24 Q1008 NOSIG RMK A2977 RA AMT 0.4MM TS W MOV NW=
METAR RCNN 140200Z 10005KT 8000 VCSH FEW006 FEW010CB BKN021 BKN040
26/26 Q1007 NOSIG RMK A2976 CB NW VCSH SW-NW=
METAR RCFN 140200Z VRB03KT 9999 FEW020 SCT060 BKN180 33/27 Q1004
NOSIG RMK A2966=
METAR VMMC 140200Z 20012KT 180V240 6000 -TSRA FEW008 FEW012CB SCT020
BKN045 29/28 Q1004 NOSIG=
METAR RPLL 140200Z 28005KT 220V330 9000 SCT023 31/27 Q1009 NOSIG RMK
A2980=
METAR RPVM 140200Z 20006KT 140V250 9999 FEW020 SCT100 32/25 Q1011
NOSIG RMK A2985=
METAR RPMD 140200Z 18005KT 070V220 9999 FEW020 30/23 Q1010 RMK A2983=
METAR RPLB 140200Z 24005KT 200V280 9999 FEW020 32/26 Q1010 NOSIG RMK
A2983=
METAR RPLI 140200Z 22008KT 200V270 9999 FEW018 32/27 Q1008 NOSIG RMK
A2977=
METAR RPMZ 140200Z 29005KT 9999 -SHRA FEW016 BKN090 28/25 Q1011 RMK
A2985=
METAR RPLC 140200Z 18004KT 7000 SCT020 32/25 Q1010 NOSIG RMK A2983=
METAR RPVP 140200Z 33004KT 9999 -TSRA FEW017CB SCT019 OVC080 27/25
Q1011 RMK A2985 CB NE, E/TS, SE/TS=


......................................................................................


Date: Friday 14th of June 2024

SAIR20 OIII 140200
METAR OIAA 140151Z 27006KT CAVOK 28/11 Q0997=
METAR OIAG 140200Z 12006KT CAVOK 26/08 Q0998=
METAR OIAH 140200Z 00000KT CAVOK 23/07 Q1005=
METAR OIAI 140200 NIL=
METAR OIAM 140200Z 00000KT CAVOK 29/17 Q0997=
METAR OIAW 140151Z 30002KT CAVOK 29/11 Q0996=
METAR OIBA 140200 NIL=
METAR OIBB 140200Z 00000KT CAVOK 28/20 Q0997 A2946=
METAR OIBK 140200Z 30008KT 5000 BR NSC 30/27 Q0997=
METAR OIBL 140200 NIL=
METAR OIBS 140200 NIL=
METAR OICC 140150Z 00000KT CAVOK 17/05 Q1012 A2989=
METAR OICI 140200Z 08004KT CAVOK 20/03 Q1011 A2987=
METAR OICJ 140200 NIL=
METAR OICK 140200Z 00000KT CAVOK 18/04 Q1009 A2980=
METAR OICS 140200Z 04006KT 9999 FEW045 21/06 Q1014 A2996=
METAR OIFK 140200Z 12004KT 9999 SCT040 BKN100 25/07 Q1011 A2986=
METAR OIFM 140200Z 20006KT 3000 HZ NSC 22/05 Q1014 A2996=
METAR OIFS 140153Z 30006KT CAVOK 10/05 Q1018=
METAR OIGG 140200Z 00000KT 6000 SCT080 SCT170 24/24 Q1009=
METAR OIGK 140200Z 13004KT 9999 FEW030CB SCT035 15/07 Q1020=
METAR OIHH 140200Z 28002KT CAVOK 13/07 Q1016 A3003=
METAR OIHM 140200Z 09008KT CAVOK 18/06 Q1014=
METAR OIIE 140200Z 30010KT 9999 VCTS FEW035CB SCT040 BKN100 23/10
Q1012 NOSIG=
METAR OIII 140200Z 34012KT 9999 FEW035 SCT100 26/06 Q1013 A2992
NOSIG=
METAR OIIK 140152Z 05006KT 9999 FEW035CB SCT040 BKN100 20/13 Q1015=
METAR OIIP 140200Z 31010KT 7000 FEW030CB SCT040 BKN100 19/12 Q1013
A2993=
METAR OIIS 140200 NIL=
METAR OIKB 140200Z 19004KT 4000 HZ NSC 29/25 Q0997 A2947=
METAR OIKK 140150Z 23004KT CAVOK 18/02 Q1015 A2997=
METAR OIKO 140200Z 00000KT 3000 HZ NSC 30/25 Q0998=
METAR OIKQ 140200Z 08004KT 5000 BR NSC 30/26 Q0997=
METAR OIMB 140200Z 11004KT CAVOK 22/00 Q1013 A2992=
METAR OIMC 140200 NIL=
METAR OIMD 140200 NIL=
METAR OIMM 140200Z 00000KT CAVOK 24/13 Q1013 A2994=
METAR OINB 140200Z 00000KT CAVOK 24/21 Q1009=
METAR OING 140200Z 00000KT 5000 BR FEW030CB SCT030 BKN080 24/23
Q1010=
METAR OINK 140200Z 03004KT 6000 SCT030 OVC080 25/20 Q1007 A2976=
METAR OINN 140200Z 12004KT 9999 BKN029 23/20 Q1008=
METAR OINR 140200Z 29004KT 9999 FEW035CB SCT040 SCT100 24/20 Q1008=
METAR OISA 140200Z 01016KT CAVOK 21/03 Q1016 A3001=
METAR OISF 140200Z 32004KT CAVOK 17/01 Q1009 A2982=
METAR OISL 140200Z 22004KT CAVOK 22/07 Q1003 A2963=
METAR OISS 140200Z 00000KT CAVOK 16/04 Q1011 A2986=
METAR OISY 140200Z 00000KT CAVOK 15/05 Q1015=
METAR OITL 140156Z 00000KT 9999 FEW040 10/09 Q1017=
METAR OITR 140200Z 28008KT CAVOK 14/11 Q1015 A2999=
METAR OITT 140200Z 08006KT 9999 FEW035 17/08 Q1017 A3005=
METAR OITU 140200Z 14004KT 8000 NSC 19/08 Q1015 A2997=
METAR OIYY 140150Z 29012KT 2000 R31/1600U DU SCT045 27/07 Q1011=
METAR OIZB 140200Z 34016KT CAVOK 30/07 Q1001=
METAR OIZH 140200Z 30006KT CAVOK 24/03 Q1011 A2985=
METAR OIZI 140200Z 36004KT 8000 NSC 32/08 Q1003=
METAR OIZJ 140200Z 13010KT 5000 BR NSC 32/28 Q0997=


......................................................................................


Date: Friday 14th of June 2024

SAJP31 RJTD 140200
METAR RJAA 140200Z 13007KT 080V230 9999 FEW040 30/21 Q1007 NOSIG=
METAR RJBB 140200Z 31004KT 260V330 9999 FEW025 24/21 Q1008 NOSIG=
METAR RJTT 140200Z 18011KT 9999 FEW035 29/20 Q1008 NOSIG=
METAR RJOO 140200Z VRB02KT 9999 FEW030 31/19 Q1007=
METAR ROAH 140200Z 23012KT 9999 -TSRA FEW004 SCT007 BKN012 FEW025CB
26/25 Q1004=
METAR RJGG 140200Z 24005KT 9999 FEW020 26/21 Q1008 NOSIG=
METAR RJCH 140200Z 18005KT 160V220 9999 FEW010 SCT020 BKN040 19/16
Q1008=
METAR RJSS 140200Z 10007KT 070V130 9999 FEW040 SCT/// 26/18 Q1007=


......................................................................................


Date: Friday 14th of June 2024

SAJP32 RJTD 140200
METAR RJFF 140200Z 32007KT 9999 FEW040 BKN090 29/21 Q1006 NOSIG=
METAR RJCC 140200Z 14004KT 100V180 7000 FEW007 SCT009 BKN010 19/16
Q1008=
METAR RJFK 140200Z 12007KT 060V170 9999 FEW030 BKN080 27/19 Q1008=
METAR RJSN 140200Z 36010KT 9999 FEW015 SCT/// 25/20 Q1009=
METAR RJFT 140200Z 32005KT 220V020 9999 FEW015 SCT090 29/19 Q1007=
METAR RJFU 140200Z 27005KT 9999 FEW030 28/20 Q1006=
METAR RJNK 140200Z 35005KT 320V030 9999 FEW030 27/20 Q1008=
METAR RJOA 140200Z 13004KT 060V170 9999 FEW030 27/18 Q1009=
METAR RJOB 140200Z VRB02KT 9999 FEW030 29/19 Q1008=
METAR RJOT 140200Z 01005KT 320V080 9999 FEW025 28/21 Q1008=


......................................................................................


Date: Friday 14th of June 2024

SAJP32 RJTD 140200 RRA
METAR RJFO 140200Z 08004KT 040V120 9999 FEW030 23/21 Q1007=
METAR RJNT 140200Z 34004KT 250V060 9999 FEW020 29/20 Q1008=


......................................................................................


Date: Friday 14th of June 2024

SAJP38 RJTD 140200
METAR RJNS 140200Z 17006KT 110V210 9999 FEW020 28/22 Q1009=
METAR RJSA 140200Z 25006KT 210V300 9999 FEW010 BKN013 BKN025 20/17
Q1009=
METAR RJSF 140200Z 36005KT 260V080 9999 FEW030 28/16 Q1009=
METAR RJOM 140200Z 33006KT 300V010 9999 FEW025 25/21 Q1007=
METAR RJOK 140200Z 18006KT 150V210 9999 FEW035 26/21 Q1007=
METAR RJFM 140200Z 05006KT 9999 FEW025 SCT100 26/22 Q1007=
METAR RJEC 140200Z 36003KT 300V050 9999 FEW010 SCT020 BKN040 19/15
Q1008=
METAR RJFR 140200Z 09010KT 9999 FEW010 SCT090 24/21 Q1007=
METAR RJSK 140200Z 26007KT 9999 FEW025 SCT035 23/16 Q1010=
METAR RJAH 140200Z 21007KT 150V240 9999 FEW030 30/18 Q1007=


......................................................................................


Date: Friday 14th of June 2024

SAJP38 RJTD 140200 RRA
METAR RJCK 140200Z 03003KT 290V090 9999 FEW010 BKN015 17/14 Q1009=
METAR RJCM 140200Z 03004KT 9999 -DZ FEW004 SCT006 BKN008 13/11
Q1009=
METAR RJCB 140200Z 16006KT 090V220 9999 FEW008 SCT012 BKN020 18/15
Q1008=
METAR RJOC 140200Z 27009KT 9999 FEW030 30/21 Q1006=
METAR RJOH 140200Z 05008KT 9999 FEW030 30/20 Q1007=
METAR ROIG 140200Z 22014KT 9999 SCT014 BKN022 31/29 Q1004=
METAR RJFS 140200Z 22005KT 180V260 9999 FEW015 SCT090 27/23 Q1006=
METAR RJSI 140200Z 28010KT 240V320 9999 SCT040 BKN/// 26/15 Q1009=


......................................................................................


Date: Friday 14th of June 2024

SAJP51 RJTD 140200
METAR RJAA 140200Z 13007KT 080V230 9999 FEW040 30/21 Q1007 NOSIG=
METAR RJAF 140200Z 01005KT 300V050 9999 FEW050 27/16 Q1010=
METAR RJAH 140200Z 21007KT 150V240 9999 FEW030 30/18 Q1007=
METAR RJBB 140200Z 31004KT 260V330 9999 FEW025 24/21 Q1008 NOSIG=
METAR RJBD 140200Z VRB04KT 9999 FEW035 26/20 Q1008=
METAR RJBE 140200Z 23006KT 200V260 9999 FEW030 25/22 Q1008=
METAR RJBT 140200Z 01005KT 310V080 9999 FEW030 29/17 Q1008=
METAR RJCB 140200Z 16006KT 090V220 9999 FEW008 SCT012 BKN020 18/15
Q1008=
METAR RJCC 140200Z 14004KT 100V180 7000 FEW007 SCT009 BKN010 19/16
Q1008=
METAR RJCH 140200Z 18005KT 160V220 9999 FEW010 SCT020 BKN040 19/16
Q1008=
METAR RJCK 140200Z 03003KT 290V090 9999 FEW010 BKN015 17/14 Q1009=
METAR RJCM 140200Z 03004KT 9999 -DZ FEW004 SCT006 BKN008 13/11
Q1009=
METAR RJCN 140200Z 07009KT 040V100 9999 FEW010 BKN025 15/12 Q1009=
METAR RJCO 140200Z 33007KT 9999 FEW008 BKN010 BKN025 17/15 Q1010=
METAR RJCW 140200Z 08010KT 9999 FEW010 SCT018 16/12 Q1009=
METAR RJDB 140200Z AUTO 10005KT 070V140 7000 NSC 24/23 Q1007=
METAR RJDC 140200Z 09010KT 9999 FEW030 SCT080 26/22 Q1007=
METAR RJDT 140200Z 14005KT 090V220 9999 FEW030 SCT/// 26/16 Q1006=
METAR RJEB 140200Z 06004KT 020V140 9999 FEW004 SCT005 BKN006 11/11
Q1010=
METAR RJEC 140200Z 36003KT 300V050 9999 FEW010 SCT020 BKN040 19/15
Q1008=


......................................................................................


Date: Friday 14th of June 2024

SAJP51 RJTD 140200 RRA
METAR RJFE 140200Z VRB07KT 9999 FEW010 SCT020 BKN080 26/22 Q1006=
METAR RJFF 140200Z 32007KT 9999 FEW040 BKN090 29/21 Q1006 NOSIG=
METAR RJFG 140200Z 11010KT 9999 FEW006 BKN010 BKN015 24/22 Q1008=
METAR RJFK 140200Z 12007KT 060V170 9999 FEW030 BKN080 27/19 Q1008=
METAR RJFM 140200Z 05006KT 9999 FEW025 SCT100 26/22 Q1007=
METAR RJFO 140200Z 08004KT 040V120 9999 FEW030 23/21 Q1007=
METAR RJFR 140200Z 09010KT 9999 FEW010 SCT090 24/21 Q1007=
METAR RJFS 140200Z 22005KT 180V260 9999 FEW015 SCT090 27/23 Q1006=
METAR RJFT 140200Z 32005KT 220V020 9999 FEW015 SCT090 29/19 Q1007=
METAR RJFU 140200Z 27005KT 9999 FEW030 28/20 Q1006=
METAR RJGG 140200Z 24005KT 9999 FEW020 26/21 Q1008 NOSIG=
METAR RJKA 140200Z 19009KT 9999 -SHRA FEW003 BKN006 BKN010 26/25
Q1005=
METAR RJKI 140200Z AUTO 20006KT 160V240 9999 BKN003 BKN007 OVC009
26/22 Q1005=
METAR RJNK 140200Z 35005KT 320V030 9999 FEW030 27/20 Q1008=
METAR RJNS 140200Z 17006KT 110V210 9999 FEW020 28/22 Q1009=
METAR RJNT 140200Z 34004KT 250V060 9999 FEW020 29/20 Q1008=
METAR RJNW 140200Z VRB03KT 9999 FEW030 28/16 Q1009=
METAR RJOA 140200Z 13004KT 060V170 9999 FEW030 27/18 Q1009=
METAR RJOB 140200Z VRB02KT 9999 FEW030 29/19 Q1008=
METAR RJOC 140200Z 27009KT 9999 FEW030 30/21 Q1006=


......................................................................................


Date: Friday 14th of June 2024

SAJP51 RJTD 140200 RRB
METAR RJOH 140200Z 05008KT 9999 FEW030 30/20 Q1007=
METAR RJOK 140200Z 18006KT 150V210 9999 FEW035 26/21 Q1007=
METAR RJOM 140200Z 33006KT 300V010 9999 FEW025 25/21 Q1007=
METAR RJOO 140200Z VRB02KT 9999 FEW030 31/19 Q1007=
METAR RJOR 140200Z 04009KT 9999 FEW030 26/21 Q1007=
METAR RJOS 140200Z 07006KT 9999 FEW025 26/20 Q1008=
METAR RJOT 140200Z 01005KT 320V080 9999 FEW025 28/21 Q1008=
METAR RJOW 140200Z 01006KT 310V030 9999 FEW020 26/20 Q1007=
METAR RJOY 140200Z 25004KT 220V320 9999 FEW025 30/19 Q1007=
METAR RJSA 140200Z 25006KT 210V300 9999 FEW010 BKN013 BKN025 20/17
Q1009=
METAR RJSC 140200Z 35011KT 9999 FEW040 SCT/// 27/19 Q1009=
METAR RJSF 140200Z 36005KT 260V080 9999 FEW030 28/16 Q1009=
METAR RJSI 140200Z 28010KT 240V320 9999 SCT040 BKN/// 26/15 Q1009=
METAR RJSK 140200Z 26007KT 9999 FEW025 SCT035 23/16 Q1010=
METAR RJSM 140200Z 10010KT 9999 FEW015 BKN045 22/17 Q1008=
METAR RJSN 140200Z 36010KT 9999 FEW015 SCT/// 25/20 Q1009=
METAR RJSR 140200Z 27006KT 230V300 9999 -SHRA FEW010 BKN020 BKN040
21/18 Q1010=
METAR RJSS 140200Z 10007KT 070V130 9999 FEW040 SCT/// 26/18 Q1007=
METAR RJSY 140200Z 33006KT 270V040 9999 FEW010 SCT015 BKN025 23/18
Q1010=
METAR RJTF 140200Z 15006KT 090V210 9999 FEW030 31/18 Q1008=


......................................................................................


Date: Friday 14th of June 2024

SAJP51 RJTD 140200 RRC
METAR RJTI 140200Z 15009KT 9999 FEW030 28/20 Q1008=
METAR RJTO 140200Z 20014KT 9999 FEW015 27/22 Q1008=
METAR RJTT 140200Z 18011KT 9999 FEW035 29/20 Q1008 NOSIG=
METAR ROAH 140200Z 23012KT 9999 -TSRA FEW004 SCT007 BKN012 FEW025CB
26/25 Q1004=
METAR ROIG 140200Z 22014KT 9999 SCT014 BKN022 31/29 Q1004=
METAR ROMD 140200Z AUTO 22014KT 9999 FEW005 BKN007 BKN009 29/27
Q1008=
METAR ROMY 140200Z 21019KT 9999 SCT011 BKN170 30/28 Q1005=
METAR RORK 140200Z AUTO 22013KT 9999 BKN010 BKN011 OVC020 29/27
Q1007=
METAR RORS 140200Z 21009KT 170V240 9999 -SHRA FEW010 SCT020 BKN160
30/27 Q1005=
METAR RORY 140200Z AUTO 26007KT 230V310 1500 +TSRA BR FEW017 SCT026
BKN033 //////CB 24/24 Q1005=
METAR ROYN 140200Z AUTO 19010KT 160V240 9999 FEW015 SCT017 31/27
Q1003=
METAR RORT 140200Z AUTO 21013KT 9999 FEW010 SCT015 BKN018 31/28
Q1005=


......................................................................................


Date: Friday 14th of June 2024

SAMS31 WMKK 140200
METAR WBGG 140200Z 12005KT 070V170 9999 FEW014 30/25 Q1010 NOSIG=
METAR WBKK 140200Z 22007KT 190V260 9999 FEW014 30/24 Q1011 NOSIG=
METAR WBSB 140200Z 20005KT 9999 FEW014 FEW015CB SCT140 BKN280 30/25 Q1011
NOSIG=
METAR WMKK 140200Z VRB02KT 5000 -RA FEW004 FEW017CB 28/27 Q1010 RERA NOSIG=
METAR WMKP 140200Z VRB03KT 8000 FEW020 32/25 Q1010 NOSIG=
METAR WSSL 140200Z VRB03KT 9999 FEW018 BKN300 31/26 Q1010=
METAR WSSS 140200Z 14003KT 080V200 9999 SCT020 BKN300 31/26 Q1010
NOSIG=
METAR WSAP 140200Z 09003KT 9999
FEW018 SCT160
BKN300 32/25 Q1011=


......................................................................................


Date: Friday 14th of June 2024

SAPA31 KWBC 140200
METAR
AGGG NIL=
AGGH 140200Z NIL=
ANAU NIL=
AYPY 140200Z 15010G20KT 9999 FEW040 30/21 Q1011=
PGNT NIL=
PGRO 140150Z 09013KT 7SM BKN015 30/23 A2985=
PGSN 140154Z 09014KT 10SM SCT019 31/25 A2989 RMK AO2 SLP142
T03110250 $=
PGUA 140155Z AUTO 16007KT 8SM FEW012 FEW190 29/25 A2989 RMK AO2
SLP112 T02890248 $=
PGUM 140154Z 14008KT 10SM SCT016 29/25 A2989 RMK AO2 SLP112
T02940250=
PGWT 140150Z 10011KT 7SM VCSH SCT025 BKN120 30/25 A2990 RMK VCSH
NW-N=
PHJH NIL=
PHJR 140153Z 05007G21KT 020V080 10SM BKN043 BKN050 28/18 A3000 RMK
AO2 SLP165 T02780183=
PHMK 140154Z 05013G28KT 10SM SCT040 27/18 A3000 RMK AO2 PK WND
06030/0121 SLP160 T02720183=
PJON NIL=
PKMJ NIL=
PKMR 140156Z 06006KT 15SM FEW015 SCT050 BKN120 OVC300 30/25 A2977
RMK SLP085 T02970253=
PKWA 140200Z AUTO 18014KT 10SM -RA SCT018 SCT034 SCT050 27/25
A2985 RMK AO2 T02680245=
PLCH 140200Z 09007KT 9999 FEW020 30/23 Q1008=
PMDY NIL=
PTKK 140150Z 01007KT 15SM SCT012 BKN120 OVC280 30/27 A2982 RMK
SLP100 T03010268=
PTKR NIL=
PTPN 140153Z 11004KT 10SM VCSH BKN017TCU OVC130 29/26 A2982 RMK
VCSH E TCU ALQDS=
PTRO 140150Z 00000KT 13SM SCT015CB BKN110 OVC290 30/27 A2985 RMK
HZ ALQDS CB ALQDS=
PTSA 140150Z VRB03KT 10SM -SHRA BKN016TCU BKN130 OVC300 26/25
A2981=
PTTP 140157Z 12002KT 15SM BKN017TCU BKN130 OVC300 30/26 A2984 RMK
TCU ALQDS SLP105 T02950270=
PTYA 140151Z VRB03KT 12SM FEW016TCU SCT035 SCT130 BKN300 30/26
A2984 RMK TCU N SLP105 T02960256=
PWAK 140155Z AUTO 07015KT 10SM FEW019 31/23 A2994 RMK AO2 SLP145
T03080232=


......................................................................................


Date: Friday 14th of June 2024

SAIR77 OIII 140200
METAR OIMN 140200Z VRB02KT 9999 FEW015 SCT170 20/13 Q1015=
METAR OINB 140200Z 00000KT CAVOK 24/21 Q1009=
METAR OING 140200Z 00000KT 5000 BR FEW030CB SCT030 BKN080 24/23
Q1010=
METAR OINK 140200Z 03004KT 6000 SCT030 OVC080 25/20 Q1007 A2976=
METAR OINN 140200Z 12004KT 9999 BKN029 23/20 Q1008=
METAR OINR 140200Z 29004KT 9999 FEW035CB SCT040 SCT100 24/20 Q1008=
METAR OISA 140200Z 01016KT CAVOK 21/03 Q1016 A3001=
METAR OISF 140200Z 32004KT CAVOK 17/01 Q1009 A2982=
METAR OISL 140200Z 22004KT CAVOK 22/07 Q1003 A2963=
METAR OISS 140200Z 00000KT CAVOK 16/04 Q1011 A2986=
METAR OISY 140200Z 00000KT CAVOK 15/05 Q1015=
METAR OITL 140156Z 00000KT 9999 FEW040 10/09 Q1017=
METAR OITR 140200Z 28008KT CAVOK 14/11 Q1015 A2999=
METAR OITT 140200Z 08006KT 9999 FEW035 17/08 Q1017 A3005=
METAR OIYY 140150Z 29012KT 2000 R31/1600U DU SCT045 27/07 Q1011=
METAR OIZB 140200Z 34016KT CAVOK 30/07 Q1001=
METAR OIZH 140200Z 30006KT CAVOK 24/03 Q1011 A2985=
METAR OIZI 140200Z 36004KT 8000 NSC 32/08 Q1003=
METAR OIZJ 140200Z 13010KT 5000 BR NSC 32/28 Q0997=


......................................................................................


Date: Friday 14th of June 2024

SAJP35 RJTD 140200
METAR RJAA 140200Z 13007KT 080V230 9999 FEW040 30/21 Q1007 NOSIG=
METAR RJBB 140200Z 31004KT 260V330 9999 FEW025 24/21 Q1008 NOSIG=
METAR RJTT 140200Z 18011KT 9999 FEW035 29/20 Q1008 NOSIG=
METAR RJOO 140200Z VRB02KT 9999 FEW030 31/19 Q1007=
METAR RJGG 140200Z 24005KT 9999 FEW020 26/21 Q1008 NOSIG=
METAR RJSN 140200Z 36010KT 9999 FEW015 SCT/// 25/20 Q1009=
METAR RJCH 140200Z 18005KT 160V220 9999 FEW010 SCT020 BKN040 19/16
Q1008=
METAR RJSA 140200Z 25006KT 210V300 9999 FEW010 BKN013 BKN025 20/17
Q1009=
METAR RJSF 140200Z 36005KT 260V080 9999 FEW030 28/16 Q1009=
METAR RJSI 140200Z 28010KT 240V320 9999 SCT040 BKN/// 26/15 Q1009=


......................................................................................


Date: Friday 14th of June 2024

SAJP37 RJTD 140200
METAR RJAA 140200Z 13007KT 080V230 9999 FEW040 30/21 Q1007 NOSIG=
METAR RJBB 140200Z 31004KT 260V330 9999 FEW025 24/21 Q1008 NOSIG=
METAR RJTT 140200Z 18011KT 9999 FEW035 29/20 Q1008 NOSIG=
METAR RJOO 140200Z VRB02KT 9999 FEW030 31/19 Q1007=
METAR RJFF 140200Z 32007KT 9999 FEW040 BKN090 29/21 Q1006 NOSIG=
METAR RJGG 140200Z 24005KT 9999 FEW020 26/21 Q1008 NOSIG=
METAR RJFK 140200Z 12007KT 060V170 9999 FEW030 BKN080 27/19 Q1008=
METAR RJFU 140200Z 27005KT 9999 FEW030 28/20 Q1006=
METAR RJCH 140200Z 18005KT 160V220 9999 FEW010 SCT020 BKN040 19/16
Q1008=
METAR RJNS 140200Z 17006KT 110V210 9999 FEW020 28/22 Q1009=


......................................................................................


Date: Friday 14th of June 2024

SAJP37 RJTD 140200 RRA
METAR RJFR 140200Z 09010KT 9999 FEW010 SCT090 24/21 Q1007=


......................................................................................


Date: Friday 14th of June 2024

SAIR20 OIII 140200
METAR OIAA 140151Z 27006KT CAVOK 28/11 Q0997=
METAR OIAG 140200Z 12006KT CAVOK 26/08 Q0998=
METAR OIAH 140200Z 00000KT CAVOK 23/07 Q1005=
METAR OIAI 140200 NIL=
METAR OIAM 140200Z 00000KT CAVOK 29/17 Q0997=
METAR OIAW 140151Z 30002KT CAVOK 29/11 Q0996=
METAR OIBA 140200 NIL=
METAR OIBB 140200Z 00000KT CAVOK 28/20 Q0997 A2946=
METAR OIBK 140200Z 30008KT 5000 BR NSC 30/27 Q0997=
METAR OIBL 140200 NIL=
METAR OIBS 140200 NIL=
METAR OICC 140150Z 00000KT CAVOK 17/05 Q1012 A2989=
METAR OICI 140200Z 08004KT CAVOK 20/03 Q1011 A2987=
METAR OICJ 140200 NIL=
METAR OICK 140200Z 00000KT CAVOK 18/04 Q1009 A2980=
METAR OICS 140200Z 04006KT 9999 FEW045 21/06 Q1014 A2996=
METAR OIFK 140200Z 12004KT 9999 SCT040 BKN100 25/07 Q1011 A2986=
METAR OIFM 140200Z 20006KT 3000 HZ NSC 22/05 Q1014 A2996=
METAR OIFS 140153Z 30006KT CAVOK 10/05 Q1018=
METAR OIGG 140200Z 00000KT 6000 SCT080 SCT170 24/24 Q1009=
METAR OIGK 140200Z 13004KT 9999 FEW030CB SCT035 15/07 Q1020=
METAR OIHH 140200Z 28002KT CAVOK 13/07 Q1016 A3003=
METAR OIHM 140200Z 09008KT CAVOK 18/06 Q1014=
METAR OIIE 140200Z 30010KT 9999 VCTS FEW035CB SCT040 BKN100 23/10
Q1012 NOSIG=
METAR OIII 140200Z 34012KT 9999 FEW035 SCT100 26/06 Q1013 A2992
NOSIG=
METAR OIIK 140152Z 05006KT 9999 FEW035CB SCT040 BKN100 20/13 Q1015=
METAR OIIP 140200Z 31010KT 7000 FEW030CB SCT040 BKN100 19/12 Q1013
A2993=
METAR OIIS 140200 NIL=
METAR OIKB 140200Z 19004KT 4000 HZ NSC 29/25 Q0997 A2947=
METAR OIKK 140150Z 23004KT CAVOK 18/02 Q1015 A2997=
METAR OIKO 140200Z 00000KT 3000 HZ NSC 30/25 Q0998=
METAR OIKQ 140200Z 08004KT 5000 BR NSC 30/26 Q0997=
METAR OIMB 140200Z 11004KT CAVOK 22/00 Q1013 A2992=
METAR OIMC 140200 NIL=
METAR OIMD 140200 NIL=


......................................................................................


Date: Friday 14th of June 2024

SAMS32 WMKK 140200
METAR WBGG 140200Z 12005KT 070V170 9999 FEW014 30/25 Q1010 NOSIG=
METAR WBKK 140200Z 22007KT 190V260 9999 FEW014 30/24 Q1011 NOSIG=
METAR WMKJ 140200Z VRB01KT 9999 FEW018 30/27 Q1010=
METAR WMKK 140200Z VRB02KT 5000 -RA FEW004 FEW017CB 28/27 Q1010 RERA NOSIG=
METAR WMKP 140200Z VRB03KT 8000 FEW020 32/25 Q1010 NOSIG=
METAR WMSA 140200Z 00000KT 8000 FEW017CB 30/26 Q1011=


......................................................................................


Date: Friday 14th of June 2024

SAMS34 WMKK 140200
METAR WBGB 140200Z 12004KT 070V170 9999 FEW014 27/24 Q1011=
METAR WBGR 140200Z 00000KT 9999 FEW016 29/24 Q1011=
METAR WBGS 140200Z 13005KT 080V230 9999 FEW016 28/25 Q1010=
METAR WBGY 140200Z VRB03KT 9999 FEW014 29/25 Q1011=
METAR WBKL 140200Z 23003KT 180V320 9999 FEW013 30/24 Q1011=
METAR WBKS 140200Z 22004KT 130V240 9999 FEW016 29/26 Q1010=
METAR WBKT 140200Z 24007KT 190V280 9999 FEW015 31/26 Q1010=
METAR WBKW 140200Z 22003KT 190V260 9999 FEW016 27/25 Q1012=


......................................................................................


Date: Friday 14th of June 2024

SAMS38 WMKK 140200
METAR WBGB 140200Z 12004KT 070V170 9999 FEW014 27/24 Q1011=
METAR WBGR 140200Z 00000KT 9999 FEW016 29/24 Q1011=
METAR WBGS 140200Z 13005KT 080V230 9999 FEW016 28/25 Q1010=
METAR WBKL 140200Z 23003KT 180V320 9999 FEW013 30/24 Q1011=
METAR WBKS 140200Z 22004KT 130V240 9999 FEW016 29/26 Q1010=
METAR WBKW 140200Z 22003KT 190V260 9999 FEW016 27/25 Q1012=
METAR WMKD 140200Z 00000KT 9999 FEW020 27/25 Q1010 NOSIG=
METAR WMKL 140200Z 27004KT 200V350 9999 FEW020 31/25 Q1010=
METAR WMKM 140200Z VRB02KT 9999 FEW017CB 29/25 Q1011=
METAR WMKJ 140200Z VRB01KT 9999 FEW018 30/27 Q1010=


......................................................................................


Date: Friday 14th of June 2024

SAMS33 WMKK 140200
METAR WMAU 140200Z 24003KT 230V310 9000 FEW025 28/26 Q1010=
METAR WMBA 140200Z VRB04KT 9999 FEW017CB 31/26 Q1010=
METAR WMKA 140200Z VRB01KT 9999 FEW020 31/26 Q1010=
METAR WMKB 140200Z 08003KT 030V120 9000 FEW020 31/24 Q1010 NOSIG=
METAR WMKC 140200Z VRB02KT 9999 FEW018 29/25 Q1010=
METAR WMKD 140200Z 00000KT 9999 FEW020 27/25 Q1010 NOSIG=
METAR WMKE 140200Z VRB03KT 9999 FEW017 30/26 Q1009=
METAR WMKI 140200Z 05005KT 350V080 9999 FEW019 30/26 Q1010=
METAR WMKL 140200Z 27004KT 200V350 9999 FEW020 31/25 Q1010=
METAR WMKM 140200Z VRB02KT 9999 FEW017CB 29/25 Q1011=
METAR WMKN 140200Z VRB03KT 9999 FEW017CB 31/26 Q1009 RETS=


......................................................................................


Date: Friday 14th of June 2024

SAOM81 OOMS 140100 RRA
METAR OOBR 140050Z AUTO 13005KT //// ////// 30/02 Q1001=


......................................................................................


Date: Friday 14th of June 2024

SAOM81 OOMS 140000 RRE
METAR OOBR 132350Z AUTO 00000KT //// ////// 31/01 Q1001=


......................................................................................


Date: Friday 14th of June 2024

SAPK31 OPKC 140200
METAR OPKC 140200Z 25009KT 6000 SCT020 30/25 Q1002 NOSIG=
METAR OPLA 140155Z 33004KT 4000 HZ FEW040 31/16 Q1000 NOSIG
RMK QFE975 A29.54=
METAR OPIS 140200Z 31006KT 6000 FEW040 SCT100 28/17 Q1002 NOSIG=
METAR OPPS 140200Z 05004KT 9999 FEW200 31/15 Q1002=
METAR OPFA 140155Z 05006KT 4000 HZ NSC 33/18 Q1001 NOSIG=
METAR OPST 140200Z 00000KT 4000 HZ NSC 31/14 Q1000 NOSIG RH37=
METAR OPSK 130200Z NIL=
METAR OPMT 140200Z 23014KT 3500 DRDU NSC 33/24 Q0998 TEMPO
23015G25KT 3000 BLDU=
METAR OPNH 130200Z NIL=


......................................................................................


Date: Friday 14th of June 2024

SAAR20 OEJD 140200
METAR OBBI 140200Z 27003KT 240V300 CAVOK 34/18 Q0999 NOSIG=
METAR OKKK 140200Z 20003KT 7000 NSC 28/02 Q0999
NOSIG=
METAR OMAA 140200Z 17007KT CAVOK 30/24 Q0998 WS ALL RWY NOSIG=
METAR OMAD 140200Z 20006KT CAVOK 30/25 Q0998 NOSIG=
METAR OMAL 140200Z 05005KT CAVOK 30/09 Q1001 NOSIG=
METAR OMDB 140200Z 20007KT CAVOK 31/19 Q0998 NOSIG=
METAR OMFJ 140150Z 24003KT CAVOK 33/09 Q0998 RMK A2947=
METAR OMRK 140200Z 18007KT CAVOK 29/14 Q0998 A2949=
METAR OMSJ 140200Z 18006KT 140V220 CAVOK 31/18 Q0998 NOSIG=
METAR OOMS 140150Z 25006KT CAVOK 34/22 Q0999 NOSIG=
METAR OOSA 140150Z 21004KT 9999 BKN025 30/25 Q1004 NOSIG=
METAR OOSH 140150Z AUTO 16008KT //// ////// 32/23 Q0997 RMK 0994=
METAR OODQ 140150Z AUTO 22024KT 9000 R22///// SCT006 BKN027 BKN032
27/26 Q1001 NOSIG RMK RH96? 0=
METAR OTBD 140200Z AUTO 22003G15KT 130V250 CAVOK 34/07 Q0999 NOSIG=
METAR OTBH 140155Z 21003KT 9999 CLR 31/06 A2949 Q0998=
METAR OTHH 140200Z AUTO 24008KT 220V290 CAVOK 33/04 Q0999 NOSIG=
METAR OYAA 140200Z 36005KT 6000 FEW020 32/26 Q1005 NOSIG=
METAR OYSN 140200Z NIL=


......................................................................................


Date: Friday 14th of June 2024

SAKO51 RJTD 140200
METAR RKPC 140200Z 02007KT 9999 FEW005 SCT050 BKN200 25/21 Q1006
NOSIG=
METAR RKPK 140200Z 19007KT 9999 FEW030 FEW200 29/17 Q1006=
METAR RKSI 140200Z 17009KT CAVOK 26/18 Q1005 NOSIG=
METAR RKSS 140200Z 15005KT 060V220 CAVOK 31/16 Q1005 NOSIG=
METAR RKTN 140200Z 05002KT 9999 FEW040 FEW250 32/17 Q1005=
METAR RKTU 140200Z 05003KT CAVOK 28/15 Q1006=


......................................................................................


Date: Friday 14th of June 2024

SANP31 VNKT 140200 CCA
METAR COR VNKT 140200Z 00000KT 4500 BR FEW015 SCT030 BKN100 26/22
Q1009
NOSIG=


......................................................................................


Date: Friday 14th of June 2024

SACI51 RJTD 140200
METAR ZBAA 140200Z 17002MPS CAVOK 26/21 Q1003 NOSIG=
METAR ZBTJ 140200Z VRB02MPS CAVOK 27/20 Q1002 NOSIG=
METAR ZBYN 140200Z 33006MPS CAVOK 31/08 Q1005 NOSIG=
METAR ZGGG 140200Z 16004MPS 140V200 9999 BKN026 32/28 Q1004 BECMG
AT0300 TSRA SCT026CB BKN030=
METAR ZGKL 140200Z VRB01MPS 3500 -TSRA BR FEW009 FEW026CB SCT026
BKN040 25/25 Q1003 BECMG FM0230 2500 TSRA=
METAR ZGNN 140200Z 01002MPS 9999 -RA FEW008 BKN026 28/27 Q1002
NOSIG=
METAR ZGOW 140200Z 23002MPS 160V280 9999 FEW030 31/26 Q1004 NOSIG=
METAR ZGSZ 140200Z 13004MPS 9999 FEW015 FEW040CB 27/25 Q1004 RETS
NOSIG=
METAR ZLXY 140200Z 24003MPS 200V270 CAVOK 31/17 Q1004 NOSIG=
METAR ZPPP 140200Z 19002MPS 150V220 9999 SCT020 BKN040 21/17 Q1017
NOSIG=
METAR ZSAM 140200Z 23002MPS CAVOK 30/27 Q1005 NOSIG=
METAR ZSHC 140200Z 30002MPS 250V010 4000 HZ NSC 30/24 Q1002 NOSIG=
METAR ZSNJ 140200Z VRB02MPS 8000 NSC 30/24 Q1001 NOSIG=
METAR ZSQD 140200Z 16002MPS 120V200 8000 OVC006 22/21 Q1004 BECMG
TL0330 OVC012=
METAR ZSSS 140200Z 15004MPS 080V180 9999 BKN020 28/21 Q1003 NOSIG=
METAR ZWWW 140200Z VRB02MPS CAVOK 22/12 Q1010 NOSIG=
METAR ZYTL 140200Z 19004G09MPS 130V230 9999 SCT040 21/19 Q1003
NOSIG=
METAR ZYTX 140200Z 20004MPS 9999 TS FEW040CB BKN040 21/18 Q1002
BECMG TL0300 NSW=


......................................................................................


Date: Friday 14th of June 2024

SASB31 VCCC 140210
METAR VCBI 140210Z 24006KT 9999 SCT017 29/26 Q1009 NOSIG=
METAR VRMM 140200Z 26011KT 250V310 9999 FEW018 BKN280 30/26 Q1010
NOSIG=
METAR VCRI 140210Z 25007KT 9999 FEW018 28/27 Q1009 NOSIG=


......................................................................................


Date: Friday 14th of June 2024

SAPA31 KWBC 140200 RRA
METAR
PKWA 140220Z AUTO 17014KT 10SM SCT011 SCT018 SCT034 27/24 A2984
RMK AO2 T02700244=


......................................................................................


Date: Friday 14th of June 2024

SAAE31 VDPP 140230
METAR VDPP 140230Z 27006KT 230V300 9999 SCT017 34/24 Q1007=


......................................................................................


Date: Friday 14th of June 2024

SAOM81 OOMS 140200
METAR OOAD 140150Z AUTO 09009KT 9999 // NCD 30/21 Q1003 NOSIG=
METAR OOBH 140150Z AUTO VRB03KT //// ////// 28/17 Q1008=
METAR OOBR 140150Z AUTO VRB02KT //// ////// 30/02 Q1002=
METAR OODB 140200Z NIL=
METAR OODQ 140150Z AUTO 22024KT 9000 R22///// SCT006 BKN027 BKN032 27/26 Q1001 NOSIG=
METAR OOFD 140150Z AUTO VRB01KT //// ////// 31/04 Q1001=
METAR OOIB 140200Z NIL=
METAR OOIR 140200Z NIL=
METAR OOJB 140200Z NIL=
METAR OOJS 140200Z NIL=
METAR OOKB 140150Z AUTO 02006KT 340V060 CAVOK 34/21 Q0998 NOSIG=
METAR OOMA 140150Z AUTO 23019KT //// ////// 28/27 Q1002=
METAR OOMJ 140150Z AUTO VRB03KT //// ////// 31/26 Q0997=
METAR OOML 140200Z NIL=
METAR OOMQ 140150Z AUTO 26010KT //// ////// 37/19 Q0998=
METAR OOMS 140150Z 25006KT CAVOK 34/22 Q0999 NOSIG=
METAR OONZ 140150Z AUTO VRB00KT //// ////// 29/19 Q1004=
METAR OOQA 140200Z NIL=
METAR OOQH 140150Z AUTO 14007KT 9999 ////// 24/23 Q1010=
METAR OOQL 140200Z NIL=
METAR OOQQ 140150Z AUTO 00012KT //// 25/M06 Q1021=
METAR OORA 140150Z AUTO VRB02KT //// ////// 30/26 Q1003=
METAR OORH 140150Z AUTO 19015KT //// ////// 26/25 Q0999=
METAR OORQ 140150Z AUTO 05002KT //// ////// 33/17 Q1002=
METAR OOSA 140150Z 21004KT 9999 BKN025 30/25 Q1004 NOSIG=
METAR OOSM 140200Z NIL=
METAR OOSQ 140150Z AUTO 09009KT //// 00/// Q1010=
METAR OOSR 140200Z NIL=
METAR OOTH 140200Z AUTO 18016KT 9999 ////// 29/16 Q1005 NOSIG=
METAR OOYA 140150Z AUTO 19011KT //// ////// 26/25 Q1001=


......................................................................................


Date: Friday 14th of June 2024

SAIR32 OIII 140200 RRA
METAR OIGG 140200Z 00000KT 6000 SCT080 SCT170 24/24 Q1009=


......................................................................................


Date: Friday 14th of June 2024

SAPK31 OPKC 140225
METAR OPKC 140230Z 24006KT 6000 SCT020 31/25 Q1002 NOSIG=


......................................................................................


Date: Friday 14th of June 2024

SANP31 VNKT 140230
METAR VNKT 140230Z VRB02KT 4500 BR FEW015 SCT030 BKN100 26/21 Q1009
NOSIG=


......................................................................................


Date: Friday 14th of June 2024

SAIR20 OIII 140230
METAR OIAA 140230 NIL=
METAR OIAW 140230 NIL=
METAR OIFM 140230Z 29006KT 4000 HZ NSC 22/05 Q1014 A2996=
METAR OIGG 140230Z 00000KT 7000 SCT080 SCT170 24/24 Q1009=
METAR OIIE 140230 NIL=
METAR OIII 140225Z 33010KT 9999 FEW035 FEW040CB SCT100 25/07 Q1013
A2992=
METAR OIKB 140230Z 15004KT 4000 HZ NSC 29/25 Q0998 A2948=
METAR OIMM 140230Z 34004KT CAVOK 25/14 Q1013 A2994=
METAR OISS 140230Z 18004KT CAVOK 18/05 Q1011 A2988=
METAR OITT 140230Z 04006KT 9999 FEW035 18/09 Q1017 A3005=
METAR OIYY 140220Z 29012KT 2000 R31/1600N DU SCT045 27/07 Q1011=
METAR OIZH 140230 NIL=


......................................................................................


Date: Friday 14th of June 2024

SASR31 WSSS 140230
METAR WSSS 140230Z 14004KT 090V190 9999 FEW018TCU SCT020 BKN300 31/26
Q1010 NOSIG =


......................................................................................


Date: Friday 14th of June 2024

SAHK31 VHHH 140230
METAR VHHH 140230Z 28008KT 240V300 9999 -TSRA FEW006 FEW010CB
SCT020 29/26 Q1005 RERA TEMPO 24015G25KT 3000 TSRA SHRA FEW010CB
SCT020=


......................................................................................


Date: Friday 14th of June 2024

SAIR31 OIII 140230
METAR OIAW 140230Z NIL=
METAR OIFM 140230Z 29006KT 4000 HZ NSC 22/05 Q1014 A2996=
METAR OIII 140230Z 33010KT 9999 FEW035 FEW040CB SCT100 25/07 Q1013
A2992=
METAR OIKB 140230Z 15004KT 4000 HZ NSC 29/25 Q0998 A2948=
METAR OIKK 140230Z NIL=
METAR OIMM 140230Z NIL=
METAR OISS 140230Z 18004KT CAVOK 18/05 Q1011 A2988=
METAR OITT 140230Z 04006KT 9999 FEW035 18/09 Q1017 A3005=
METAR OIZH 140230Z NIL=


......................................................................................


Date: Friday 14th of June 2024

SAIR32 OIII 140230
METAR OIAA 140230Z NIL=
METAR OIBK 140230Z NIL=
METAR OICC 140230Z 00000KT CAVOK 17/05 Q1012 A2989=
METAR OIGG 140230Z 00000KT 7000 SCT080 SCT170 24/24 Q1009=
METAR OIIE 140230Z NIL=
METAR OINZ 140230Z NIL=
METAR OITR 140230Z 27006KT CAVOK 15/12 Q1015 A2999=
METAR OIYY 140230Z 29012KT 2000 R31/1600N DU SCT045 27/07 Q1011=


......................................................................................


Date: Friday 14th of June 2024

SAIR36 OIII 140230
METAR OIBA 140230Z NIL=
METAR OIBV 140230Z NIL=
METAR OIFS 140230Z NIL=
METAR OIIP 140230Z NIL=
METAR OIMB 140230Z NIL=
METAR OIMN 140230Z 20004KT 9999 FEW006 SCT170 21/13 Q1015=
METAR OIMS 140230Z NIL=
METAR OIMT 140230Z NIL=
METAR OIZJ 140230Z NIL=


......................................................................................


Date: Friday 14th of June 2024

SAIR31 OIII 140230 RRA
METAR OIMM 140230Z 34004KT CAVOK 25/14 Q1013 A2994=


......................................................................................


Date: Friday 14th of June 2024

SAPK31 OPKC 140225
METAR OPKC 140230Z 24006KT 6000 SCT020 31/25 Q1002 NOSIG=
METAR OPLA 140225Z 27003KT 4000 HZ FEW040 32/16 Q1000 BECMG 5000 HZ
RMK QFE975 A29.54=
METAR OPIS 140230Z 05006KT 6000 FEW040 SCT100 30/14 Q1002 NOSIG=
METAR OPPS 140230Z 05004KT 9999 FEW200 31/15 Q1002=
METAR OPFA 130230Z NIL=
METAR OPST 130230Z NIL=
METAR OPSK 130230Z NIL=
METAR OPMT 140230Z 23016KT 3500 DRDU NSC 33/24 Q0998 TEMPO
23015G25KT 3000 BLDU=
METAR OPNH 130230Z NIL=


......................................................................................


Date: Friday 14th of June 2024

SAAE31 VTBB 140230
METAR VTBD 140230Z 23010KT 200V260 9999 FEW030 33/24 Q1008 NOSIG=
METAR VTBS 140230Z 23007KT 190V260 9999 FEW020 33/23 Q1008 NOSIG=
METAR VTCC 140230Z 17005KT 9000 -RA FEW015 BKN020 26/24 Q1009 RERA
NOSIG=
METAR VTSP 140230Z 28007KT 9999 FEW020TCU SCT030 32/25 Q1010 NOSIG=
METAR VTSS 140230Z VRB03KT 9999 FEW020 32/25 Q1009 NOSIG=
METAR VTBU 140230Z 23008KT 9999 FEW020 32/25 Q1008 NOSIG=


......................................................................................


Date: Friday 14th of June 2024

SAAE32 VTBB 140230
METAR VDPP 140230Z 27006KT 230V300 9999 SCT017 34/24 Q1007=
METAR VLVT 140230Z 24002KT 9999 FEW016 SCT200 32/26 Q1007 NOSIG=
METAR VYMD 140230Z 18007KT 7000 BKN020 FEW025CB BKN100 30/25 Q1003=
METAR VYNT 140230Z NIL=
METAR VYYY 140230Z 24008KT 7000 BKN015 FEW020CB BKN100 29/26 Q1006=
METAR VDSV 140230Z 33006KT 9999 SCT015 FEW017CB 31/27 Q1008 RMK CB:N=
METAR VDSA 140230Z 26012KT 9999 SCT017 33/24 Q1007=


......................................................................................


Date: Friday 14th of June 2024

SAAE34 VTBB 140230
METAR VVCI 140230Z 25007KT 210V280 CAVOK 32/26 Q1001 NOSIG=
METAR VVCR 140230Z 11006KT CAVOK 34/24 Q1007 NOSIG=
METAR VVCT 140230Z 28008KT 9999 FEW015 33/28 Q1008 NOSIG=
METAR VVDN 140230Z 23006KT 200V310 CAVOK 35/24 Q1004 NOSIG=
METAR VVNB 140230Z 06004KT 030V100 5000 BR NSC 32/27 Q1001 BECMG 6000
NSW=
METAR VVPB 140230Z 18003KT CAVOK 36/23 Q1004 NOSIG=
METAR VVPQ 140230Z 30010KT 9999 SCT015 FEW017CB 32/26 Q1009 NOSIG=
METAR VVTS 140230Z 32005KT 280V040 CAVOK 33/26 Q1008 NOSIG =
METAR VVVD 140230Z VRB02KT 9999 FEW020 32/29 Q1001 NOSIG=


......................................................................................


Date: Friday 14th of June 2024

SATR31 UTAA 140300
METAR UTAA 140300Z NIL=
METAR UTAK 140300Z NIL=
METAR UTAM 140300Z NIL=
METAR UTAT 140300Z NIL=
METAR UTAV 140300Z NIL=


......................................................................................


Date: Friday 14th of June 2024

SAUZ31 UTTW 140230 RRA
METAR UTST 140230Z 25008KT CAVOK 26/06 Q1005 R25/CLRD70 NOSIG=


......................................................................................


Date: Friday 14th of June 2024

SAUZ31 UTTW 140230
METAR UTFN 140230Z 02006KT 360V080 9999 NSC 25/07 Q1006 R28/CLRD70
NOSIG=
METAR UTNN 140230Z 01006KT CAVOK 24/04 Q1011 R33/CLRD60 NOSIG=
METAR UTNU 140230Z 04006KT CAVOK 24/08 Q1010 R31/CLRD70 NOSIG=
METAR UTSA 140230Z 06008KT 9999 NSC 23/09 Q1007 R07/CLRD70 NOSIG=
METAR UTSB 140230Z 35010KT CAVOK 23/11 Q1006 R01/CLRD70 NOSIG=
METAR UTSK 140230Z 10004KT 070V130 CAVOK 22/09 Q1004 R16/CLRD70=
METAR UTSS 140230Z 11016KT 9999 NSC 23/09 Q1008 R09/CLRD70 NOSIG=
METAR UTST 140230Z NIL=
METAR UTFA 140230Z NIL=
METAR UTFF 140230Z 35004KT 9999 NSC 25/04 Q1008 R18/CLRD70=
METAR UTTT 140230Z 15006KT 110V200 CAVOK 23/07 Q1008 R08R/CLRD70
NOSIG=


......................................................................................


Date: Friday 14th of June 2024

SAHK31 VHHH 140230
METAR VHHH 140230Z 28008KT 240V300 9999 -TSRA FEW006 FEW010CB
SCT020 29/26 Q1005 RERA TEMPO 24015G25KT 3000 TSRA SHRA FEW010CB
SCT020=
METAR RCTP 140230Z 25014KT 9999 -SHRA FEW015 SCT080 BKN120 29/26
Q1004 WS R23R TEMPO 4000 SHRA FEW012 BKN015 BKN030 RMK A2966=
METAR RCKH 140230Z 23011KT 200V260 9999 FEW010 SCT018 BKN060 31/26
Q1006 NOSIG RMK 25009KT/R09 A2973=
METAR RCSS 140230Z 28011G24KT 9999 FEW025 BKN045 BKN100 33/25
Q1004 WS R28 NOSIG RMK 24014KT/R10 A2965=
METAR RCMQ 140230Z 18013KT 9999 -RA VCTS FEW008 FEW010CB BKN016
BKN050 26/24 Q1008 NOSIG RMK A2977 TS W MOV NW=
METAR RCNN 140230Z 12005KT 7000 -RA SCT006 FEW010CB BKN021 BKN040
28/25 Q1007 NOSIG RMK A2976 CB NW=
METAR RCFN 140230Z VRB01KT 9999 FEW020 SCT060 BKN180 34/28 Q1004
NOSIG RMK A2966=
METAR VMMC 140230Z 20012KT 170V240 5000 -TSRA FEW009 FEW015CB SCT025

BKN045 29/28 Q1004 NOSIG=


......................................................................................


Date: Friday 14th of June 2024

SAMS31 WMKK 140230
METAR WBGG 140230Z 12004KT 060V190 9999 FEW014 30/25 Q1010 NOSIG=
METAR WBKK 140230Z 23006KT 170V280 9999 FEW014 31/25 Q1010 NOSIG=
METAR WBSB 140230Z 20005KT 9999 FEW014 FEW015CB SCT140 BKN280 30/25 Q1011
NOSIG=
METAR WMKK 140230Z 25003KT 190V320 7000 VCSH FEW006 FEW017CB 29/26 Q1010 NOSIG=
METAR WMKP 140230Z 33005KT 230V030 8000 FEW020 32/24 Q1010 NOSIG=
METAR WSSL 140230Z NIL=
METAR WSSS 140230Z 14004KT 090V190 9999 FEW018TCU SCT020 BKN300 31/26 Q1010 NOSIG=
METAR WSAP 140230Z NIL=


......................................................................................


Date: Friday 14th of June 2024

SAJP51 RJTD 140230
METAR RJAA 140230Z 12009KT 9999 FEW045 30/21 Q1008 NOSIG=
METAR RJBB 140230Z 30003KT 9999 FEW025 24/22 Q1008 NOSIG=
METAR RJCC 140230Z VRB03KT 8000 FEW007 SCT009 BKN010 19/17 Q1008=
METAR RJFF 140230Z 31009KT 9999 FEW040 BKN090 29/21 Q1006 NOSIG=
METAR RJGG 140230Z 21005KT 9999 FEW020 26/21 Q1008 NOSIG=
METAR RJTT 140230Z 18008KT 9999 FEW035 29/18 Q1008 NOSIG=
METAR ROAH 140230Z 21017KT 3000 R18L/0700VP2000D R18R/0800VP2000D
+TSRA BR FEW005 SCT007 BKN015 SCT025CB 26/26 Q1005=


......................................................................................


Date: Friday 14th of June 2024

SAPA31 KWBC 140200 RRB
METAR
PKWA 140240Z AUTO 18011KT 10SM SCT011 SCT039 SCT046 27/25 A2983
RMK AO2 T02710245=


......................................................................................


Date: Friday 14th of June 2024

SAAE31 VDPP 140300
METAR VDPP 140300Z VRB03KT 9999 SCT017 35/24 Q1007=


......................................................................................


Date: Friday 14th of June 2024

SANP31 VNKT 140300
METAR VNKT 140300Z 00000KT 4500 BR FEW015 SCT030 BKN100 28/21 Q1009
NOSIG=


......................................................................................


Date: Friday 14th of June 2024

SAPK31 OPKC 140300
METAR OPKC 140300Z 25008KT 5000 HZ SCT020 32/25 Q1002 NOSIG=


......................................................................................


Date: Friday 14th of June 2024

SASD20 OEJD 140300
METAR OEAB 140300Z 00000KT CAVOK 18/10 Q1023 NOSIG=
METAR OEAH 140300Z 29006KT CAVOK 32/08 Q1001 NOSIG=
METAR OEAO 140300Z 36004KT CAVOK 31/M06 Q1010 NOSIG=
METAR OEBA 140300Z 35005KT 9999 FEW030 28/02 Q1018 NOSIG=
METAR OEBH 140300Z 14004KT 9999 FEW030 29/04 Q1012 NOSIG=
METAR OEDF 140300Z 24005KT CAVOK 30/05 Q1000 NOSIG=
METAR OEDM 140300Z 02005KT CAVOK 27/M05 Q1011=
METAR OEDR 140300Z 27006KT 8000 NSC 30/09 Q0999=
METAR OEGN 140300Z 00000KT 9000 NSC 32/20 Q1005 NOSIG=
METAR OEGS 140300Z 29004KT CAVOK 25/M01 Q1008=
METAR OEGT 140300Z 25004KT CAVOK 26/07 Q1011 NOSIG=
METAR OEHL 140300Z 33004KT CAVOK 30/01 Q1013=
METAR OEJB 140300Z NIL=
METAR OEJN 140300Z 33006KT CAVOK 31/22 Q1004 NOSIG=
METAR OEKJ 140300Z 29003KT CAVOK 31/01 Q1007=
METAR OEKK 140300Z NIL=
METAR OEAR 140300Z 00000KT 9999 SCT040 SCT100 34/19 Q1006=


......................................................................................


Date: Friday 14th of June 2024

SASD21 OEJD 140300
METAR OEKM 140300Z 00000KT CAVOK 20/10 Q1022 NOSIG=
METAR OEMA 140300Z 01006KT CAVOK 31/M09 Q1011 NOSIG=
METAR OEMN 140300Z 27003KT 9999 FEW040 34/18 Q1006=
METAR OENG 140300Z 24004KT 9999 SCT030 28/M02 Q1013 NOSIG=
METAR OEPA 140300Z 27004KT CAVOK 30/M01 Q1003 NOSIG=
METAR OERF 140300Z 29006KT CAVOK 28/M02 Q1006 NOSIG=
METAR OERK 140300Z 30005KT CAVOK 30/M02 Q1008 NOSIG=
METAR OERR 140300Z 34010KT CAVOK 30/01 Q1008 NOSIG=
METAR OERS 140300Z NIL=
METAR OESH 140300Z 18004KT CAVOK 28/10 Q1009 NOSIG=
METAR OESK 140300Z 00000KT CAVOK 28/M01 Q1012 NOSIG=
METAR OETB 140300Z 21004KT CAVOK 26/M03 Q1012 NOSIG=
METAR OETF 140300Z 30009KT 9999 SCT030 25/10 Q1018 NOSIG=
METAR OETR 140300Z 33008KT CAVOK 25/02 Q1013 NOSIG=
METAR OEWD 140300Z 21004KT CAVOK 33/M01 Q1006=
METAR OEWJ 140300Z 08004KT 8000 NSC 26/24 Q1003 NOSIG=
METAR OEYN 140300Z 06006KT CAVOK 28/25 Q1002 NOSIG=


......................................................................................


Date: Friday 14th of June 2024

SASD31 OEJD 140300
METAR OEDF 140300Z 24005KT CAVOK 30/05 Q1000 NOSIG=
METAR OEDR 140300Z 27006KT 8000 NSC 30/09 Q0999=
METAR OEJN 140300Z 33006KT CAVOK 31/22 Q1004 NOSIG=
METAR OEMA 140300Z 01006KT CAVOK 31/M09 Q1011 NOSIG=
METAR OERK 140300Z 30005KT CAVOK 30/M02 Q1008 NOSIG=
METAR OEAB 140300Z 00000KT CAVOK 18/10 Q1023 NOSIG=
METAR OYAA 140300Z 02005KT 6000 FEW020 31/26 Q1006 NOSIG=
METAR OYSN 140300Z NIL=


......................................................................................


Date: Friday 14th of June 2024

SAOM32 OOMS 140300
METAR OOMS 140250Z 13003KT 040V180 CAVOK 36/20 Q1000 NOSIG=
METAR OOSA 140250Z VRB02KT 9999 BKN025 30/25 Q1005 NOSIG=
METAR OOSH 140250Z AUTO 22005KT //// ////// 36/10 Q0998=
METAR OODQ 140250Z AUTO 22022KT 9999 R22///// SCT028 SCT035 27/26
Q1001 NOSIG=
METAR OOKB 140250Z AUTO 00000KT CAVOK ////// 35/21 Q0998 NOSIG=
METAR OOAD 140250Z AUTO 02003KT 340V050 9999 // NCD 30/21 Q1004
NOSIG=


......................................................................................


Date: Friday 14th of June 2024

SASR31 WSSS 140300
METAR WSSS 140300Z 13005KT 060V180 9999 FEW020 BKN300 31/25 Q1009
NOSIG =


......................................................................................


Date: Friday 14th of June 2024

SANP31 VNKT 140300 CCA
METAR VNKT 140300Z 00000KT 4500 HZ FEW015 SCT030 28/21 Q1009 NOSIG=


......................................................................................


Date: Friday 14th of June 2024

SATH40 VTBB 140300
METAR VTBD 140300Z NIL=
METAR VTBS 140300Z NIL=
METAR VTBU 140300Z NIL=
METAR VTCC 140300Z NIL=
METAR VTCT 140300Z NIL=
METAR VTSB 140300Z NIL=
METAR VTSG 140300Z NIL=
METAR VTSP 140300Z NIL=
METAR VTSS 140300Z NIL=
METAR VTUD 140300Z NIL=
METAR VTUU 140300Z NIL=


......................................................................................


Date: Friday 14th of June 2024

SAIR31 OIII 140300
METAR OIAW 140300Z 28002KT CAVOK 32/13 Q0996=
METAR OIFM 140300Z 29004KT 4000 HZ NSC 23/06 Q1014 A2997=
METAR OIII 140300Z 33008KT 9999 FEW035 FEW040CB SCT100 26/06 Q1013
A2993 TEMPO TS SCT035CB SCT040 BKN100=
METAR OIKB 140300Z 00000KT 5000 HZ NSC 33/25 Q0998 A2948=
METAR OIKK 140300Z NIL=
METAR OIMM 140300Z 32008KT CAVOK 26/14 Q1014 A2995=
METAR OISS 140300Z 00000KT CAVOK 22/06 Q1011 A2988=
METAR OITT 140300Z 05006KT 9999 FEW035 20/09 Q1017 A3005=
METAR OIZH 140300Z 00000KT CAVOK 28/05 Q1011 A2987 NOSIG=


......................................................................................


Date: Friday 14th of June 2024

SAIR31 OIII 140300 RRA
METAR OIKK 140300Z 00000KT CAVOK 24/04 Q1015 A2999=


......................................................................................


Date: Friday 14th of June 2024

SAIR32 OIII 140300
METAR OIAA 140300Z 24008KT CAVOK 29/10 Q0998=
METAR OIBK 140300Z 31012KT 8000 NSC 31/27 Q0998=
METAR OICC 140300Z 00000KT CAVOK 18/06 Q1012 A2989=
METAR OIGG 140300Z 00000KT 9999 SCT020 BKN100 24/24 Q1009=
METAR OIIE 140300Z 32006KT 9999 FEW100 25/10 Q1012=
METAR OINZ 140300Z 15004KT CAVOK 23/21 Q1010=
METAR OITR 140300Z 27006KT CAVOK 16/12 Q1015 A2999=
METAR OIYY 140300Z 30012KT 2000 R31/1700U DU SCT045 27/07
Q1012 NOSIG=


......................................................................................


Date: Friday 14th of June 2024

SAIR33 OIII 140300
METAR OIBB 140300Z 00000KT CAVOK 29/20 Q0998 A2947=
METAR OIBP 140300Z 00000KT CAVOK 33/26 Q0997 A2945=
METAR OICK 140300Z 12006KT CAVOK 23/03 Q1009 A2981=
METAR OICS 140300Z 02006KT CAVOK 21/06 Q1014 A2996=
METAR OIHH 140300Z 18002KT CAVOK 16/09 Q1016 A3003=
METAR OITL 140300Z 00000KT 9999 FEW040 13/10 Q1017=
METAR OIZC 140300Z NIL=


......................................................................................


Date: Friday 14th of June 2024

SAIR34 OIII 140300
METAR OIAG 140300Z 13008KT CAVOK 29/09 Q0998=
METAR OIAM 140300Z 00000KT CAVOK 31/18 Q0998=
METAR OICI 140300Z 08004KT CAVOK 22/05 Q1011 A2987=
METAR OIKQ 140300Z 07006KT 4000 BR NSC 31/29 Q0997=
METAR OINN 140300Z 00000KT 9999 SCT028 BKN190 24/21 Q1008=
METAR OINR 140300Z 28002KT 9999 FEW035CB SCT100 25/20 Q1009=
METAR OISL 140300Z 00000KT CAVOK 25/09 Q1003 A2965=
METAR OISY 140300Z 00000KT CAVOK 18/06 Q1015=
METAR OITZ 140300Z 00000KT 9999 SCT035 SCT080 15/10 Q1018 A3006=


......................................................................................


Date: Friday 14th of June 2024

SAIR35 OIII 140300
METAR OIAD 140300Z NIL=
METAR OIBJ 140300Z 00000KT CAVOK 31/08 Q1004 A2966=
METAR OIBS 140300Z 33012KT 5000 HZ NSC 32/27 Q0997=
METAR OIHR 140300Z NIL=
METAR OIKM 140300Z NIL=
METAR OIKR 140300Z NIL=
METAR OING 140300Z 00000KT 5000 BR FEW030CB SCT030 OVC080 25/23
Q1011=
METAR OIZB 140300Z 34021KT CAVOK 32/07 Q1002=
METAR OIZI 140300Z 01004KT 8000 FEW040 34/09 Q1004=


......................................................................................


Date: Friday 14th of June 2024

SAIR36 OIII 140300
METAR OIBA 140300Z 35008KT 5000 BR NSC 32/28 Q0996=
METAR OIBV 140300Z 32010KT 3000 HZ NSC 32/28 Q0997=
METAR OIFS 140300Z 19002KT CAVOK 13/05 Q1019=
METAR OIIP 140300Z 29010KT 7000 FEW030CB SCT040 BKN100 20/11 Q1013
A2993=
METAR OIMB 140300Z 10008KT CAVOK 26/M00 Q1013 A2993=
METAR OIMN 140300Z 00000KT CAVOK 22/13 Q1015=
METAR OIMS 140300Z 00000KT 9999 FEW035 SCT200 24/09 Q1012=
METAR OIMT 140300Z NIL=
METAR OIZJ 140300Z 14012KT 6000 NSC 33/28 Q0998=


......................................................................................


Date: Friday 14th of June 2024

SAIR37 OIII 140300
METAR OIBL 140300Z 10010KT 5000 HZ NSC 33/25 Q0997=
METAR OIBQ 140300Z 16002KT 8000 NSC 31/23 Q0998=
METAR OIIK 140300Z 24004KT 9999 FEW035CB SCT040 BKN100 19/14 Q1015=
METAR OIMD 140300Z NIL=
METAR OIMQ 140300Z NIL=
METAR OINE 140300Z 00000KT 9999 FEW030 OVC090 25/20 Q1009=
METAR OITK 140300Z 11004KT 8000 NSC 20/10 Q1016 A3001=
METAR OITM 140300Z 09006KT 9999 FEW040 18/08 Q1015=


......................................................................................


Date: Friday 14th of June 2024

SAIR38 OIII 140300
METAR OIAH 140300Z 00000KT CAVOK 27/07 Q1005=
METAR OIBH 140300Z 13004KT 5000 HZ NSC 28/22 Q0998 A2947=
METAR OICM 140300Z NIL=
METAR OIIS 140300Z NIL=
METAR OIMJ 140300Z 04008KT 9999 SCT035CB SCT035 19/14 Q1015=
METAR OISF 140300Z 35004KT CAVOK 20/02 Q1009 A2982=
METAR OISR 140300Z 00000KT CAVOK 28/12 Q1002 A2959=
METAR OITP 140300Z 00000KT 9999 SCT040 BKN170 22/18 Q1011=
METAR OITU 140300Z NIL=


......................................................................................


Date: Friday 14th of June 2024

SATH40 VTBB 140300 RRA
METAR VTBD 140300Z 23008KT 200V270 9999 FEW030 33/24 Q1008 NOSIG=
METAR VTBS 140300Z 24008KT 200V270 9999 FEW020 33/23 Q1008 NOSIG=
METAR VTBU 140300Z 24008KT 9999 FEW020 32/25 Q1008 NOSIG=
METAR VTCC 140300Z 16003KT 130V210 9999 FEW015 BKN023 26/24 Q1008
NOSIG=
METAR VTSP 140300Z 28008KT 250V320 9999 FEW020TCU 32/26 Q1010 NOSIG=
METAR VTSS 140300Z VRB02KT 9999 FEW020 33/24 Q1009 NOSIG=


......................................................................................


Date: Friday 14th of June 2024

SAAE31 VTBB 140300
METAR VTBD 140300Z 23008KT 200V270 9999 FEW030 33/24 Q1008 NOSIG=
METAR VTBS 140300Z 24008KT 200V270 9999 FEW020 33/23 Q1008 NOSIG=
METAR VTCC 140300Z 16003KT 130V210 9999 FEW015 BKN023 26/24 Q1008
NOSIG=
METAR VTSP 140300Z 28008KT 250V320 9999 FEW020TCU 32/26 Q1010 NOSIG=
METAR VTSS 140300Z VRB02KT 9999 FEW020 33/24 Q1009 NOSIG=
METAR VTBU 140300Z 24008KT 9999 FEW020 32/25 Q1008 NOSIG=


......................................................................................


Date: Friday 14th of June 2024

SAAE32 VTBB 140300
METAR VDPP 140300Z VRB03KT 9999 SCT017 35/24 Q1007=
METAR VLVT 140300Z 27004KT 9999 FEW016 SCT200 32/26 Q1007 NOSIG=
METAR VYMD 140300Z NIL=
METAR VYNT 140300Z 18010KT 6000 DZ BKN016 FEW020CB OVC100 26/25
Q1007=
METAR VYYY 140300Z 25010KT 7000 BKN020 FEW023CB BKN120 30/26 Q1006=
METAR VDSV 140300Z 31008KT 9999 SCT015 32/26 Q1008=
METAR VDSA 140300Z 27010KT 250V310 9999 SCT017 33/24 Q1007=


......................................................................................


Date: Friday 14th of June 2024

SAAE33 VTBB 140300
METAR VLLB 140300Z 27004KT 9999 SCT020 BKN060 30/23 Q1006 NOSIG=
METAR VLLN 140300Z 27006KT 9999 SCT020 OVC100 30/25 Q1009 NOSIG=
METAR VLPS 140300Z 14002KT 9999 FEW020 FEW050 33/24 Q1008 NOSIG=
METAR VLSK 140300Z 18006KT 8000 SCT040 FEW100 33/23 Q1009 NOSIG=


......................................................................................


Date: Friday 14th of June 2024

SAAE34 VTBB 140300
METAR VVCI 140300Z 24006KT 200V270 CAVOK 33/25 Q1001 NOSIG=
METAR VVCR 140300Z 12009KT CAVOK 35/26 Q1007 NOSIG=
METAR VVCT 140300Z 27009KT 9999 FEW015 34/28 Q1008 NOSIG=
METAR VVDN 140300Z 22005KT 180V250 CAVOK 36/24 Q1004 NOSIG=
METAR VVNB 140300Z 06003KT 010V110 5000 BR NSC 33/27 Q1001 BECMG 6000
NSW=
METAR VVPB 140300Z 20003KT 220V300 CAVOK 36/23 Q1004 NOSIG=
METAR VVPQ 140300Z 29011KT 9999 SCT015 32/26 Q1009 NOSIG=
METAR VVTS 140300Z 26004KT 210V320 CAVOK 34/26 Q1007 NOSIG =
METAR VVVD 140300Z VRB02KT CAVOK 33/29 Q1001 NOSIG=


......................................................................................


Date: Friday 14th of June 2024

SAHK31 VHHH 140300
METAR VHHH 140300Z 27006KT 9999 -TSRA FEW006 FEW012CB SCT020
30/26 Q1005 WS R25L TEMPO 24015G25KT 3000 TSRA SHRA FEW010CB
SCT020=


......................................................................................


Date: Friday 14th of June 2024

SAIR36 OIII 140300 RRA
METAR OIMT 140300Z AUTO 10004KT //// // ////// 34/05 Q1005=


......................................................................................


Date: Friday 14th of June 2024

SATR31 UTAA 140200 CCA
METAR UTAV 140300Z 35012KT 9000 NSC 25/09 Q1007 R31/CLRD70 NOSIG=


......................................................................................


Date: Friday 14th of June 2024

SAIR20 OIII 140300
METAR OIAA 140300Z 24008KT CAVOK 29/10 Q0998=
METAR OIAG 140300Z 13008KT CAVOK 29/09 Q0998=
METAR OIAH 140300Z 00000KT CAVOK 27/07 Q1005=
METAR OIAI 140300 NIL=
METAR OIAM 140300Z 00000KT CAVOK 31/18 Q0998=
METAR OIAW 140252Z 28002KT CAVOK 32/13 Q0996=
METAR OIBA 140300Z 35008KT 5000 BR NSC 32/28 Q0996=
METAR OIBB 140300Z 00000KT CAVOK 29/20 Q0998 A2947=
METAR OIBK 140300Z 31012KT 8000 NSC 31/27 Q0998=
METAR OIBL 140300Z 10010KT 5000 HZ NSC 33/25 Q0997=
METAR OIBS 140300Z 33012KT 5000 HZ NSC 32/27 Q0997=
METAR OICC 140251Z 00000KT CAVOK 18/06 Q1012 A2989=
METAR OICI 140300Z 08004KT CAVOK 22/05 Q1011 A2987=
METAR OICJ 140300 NIL=
METAR OICK 140300Z 12006KT CAVOK 23/03 Q1009 A2981=
METAR OICS 140300Z 02006KT CAVOK 21/06 Q1014 A2996=
METAR OIFK 140300 NIL=
METAR OIFM 140300Z 29004KT 4000 HZ NSC 23/06 Q1014 A2997 NOSIG=
METAR OIFS 140256Z 19002KT CAVOK 13/05 Q1019=
METAR OIGG 140300Z 00000KT 9999 SCT020 BKN100 24/24 Q1009=
METAR OIGK 140300 NIL=
METAR OIHH 140300Z 18002KT CAVOK 16/09 Q1016 A3003=
METAR OIHM 140300Z 00000KT CAVOK 17/06 Q1015=
METAR OIIE 140300Z 32006KT 9999 FEW100 25/10 Q1012 NOSIG=
METAR OIII 140300Z 33008KT 9999 FEW035 FEW040CB SCT100 26/06 Q1013
A2993 TEMPO TS SCT035CB SCT040 BKN100=
METAR OIIK 140252Z 24004KT 9999 FEW035CB SCT040 BKN100 19/14 Q1015=
METAR OIIP 140300Z 29010KT 7000 FEW030CB SCT040 BKN100 20/11 Q1013
A2993=
METAR OIIS 140300 NIL=
METAR OIKB 140300Z 00000KT 5000 HZ NSC 33/25 Q0998 A2948=
METAR OIKK 140250Z 00000KT CAVOK 24/04 Q1015 A2999=
METAR OIKO 140300 NIL=
METAR OIKQ 140300Z 07006KT 4000 BR NSC 31/29 Q0997=
METAR OIMB 140300Z 10008KT CAVOK 26/M00 Q1013 A2993=
METAR OIMC 140300 NIL=
METAR OIMD 140300 NIL=
METAR OIMM 140300Z 32008KT CAVOK 26/14 Q1014 A2995=
METAR OINB 140300 NIL=
METAR OING 140300Z 00000KT 5000 BR FEW030CB SCT030 OVC080 25/23
Q1011=
METAR OINK 140300Z 02006KT 6000 SCT030 BKN090 25/20 Q1008 A2977=
METAR OINN 140300Z 00000KT 9999 SCT028 BKN190 24/21 Q1008=
METAR OINR 140300Z 28002KT 9999 FEW035CB SCT100 25/20 Q1009=
METAR OISA 140300Z 35008KT 5000 DU NSC 22/03 Q1017 A3005=
METAR OISF 140300Z 35004KT CAVOK 20/02 Q1009 A2982=
METAR OISL 140300Z 00000KT CAVOK 25/09 Q1003 A2965=
METAR OISS 140300Z 00000KT CAVOK 22/06 Q1011 A2988=
METAR OISY 140300Z 00000KT CAVOK 18/06 Q1015=
METAR OITL 140255Z 00000KT 9999 FEW040 13/10 Q1017=
METAR OITR 140300Z 27006KT CAVOK 16/12 Q1015 A2999=
METAR OITT 140300Z 05006KT 9999 FEW035 20/09 Q1017 A3005=
METAR OITU 140300Z 00000KT 8000 NSC 22/09 Q1015 A2998=
METAR OIYY 140250Z 30012KT 2000 R31/1700U DU SCT045 27/07 Q1012
NOSIG=
METAR OIZB 140300Z 34021KT CAVOK 32/07 Q1002=
METAR OIZH 140300Z 00000KT CAVOK 28/05 Q1011 A2987 NOSIG=
METAR OIZI 140300Z 01004KT 8000 FEW040 34/09 Q1004=
METAR OIZJ 140300Z 14012KT 6000 NSC 33/28 Q0998=


......................................................................................


Date: Friday 14th of June 2024

SAIR77 OIII 140300
METAR OIAA 140300Z 24008KT CAVOK 29/10 Q0998=
METAR OIAG 140300Z 13008KT CAVOK 29/09 Q0998=
METAR OIAH 140300Z 00000KT CAVOK 27/07 Q1005=
METAR OIAI 140300 NIL=
METAR OIAM 140300Z 00000KT CAVOK 31/18 Q0998=
METAR OIAW 140252Z 28002KT CAVOK 32/13 Q0996=
METAR OIBA 140300Z 35008KT 5000 BR NSC 32/28 Q0996=
METAR OIBB 140300Z 00000KT CAVOK 29/20 Q0998 A2947=
METAR OIBK 140300Z 31012KT 8000 NSC 31/27 Q0998=
METAR OIBL 140300Z 10010KT 5000 HZ NSC 33/25 Q0997=
METAR OIBS 140300Z 33012KT 5000 HZ NSC 32/27 Q0997=
METAR OICC 140251Z 00000KT CAVOK 18/06 Q1012 A2989=
METAR OICI 140300Z 08004KT CAVOK 22/05 Q1011 A2987=
METAR OICJ 140300 NIL=
METAR OICK 140300Z 12006KT CAVOK 23/03 Q1009 A2981=
METAR OICS 140300Z 02006KT CAVOK 21/06 Q1014 A2996=
METAR OIFK 140300 NIL=
METAR OIFM 140300Z 29004KT 4000 HZ NSC 23/06 Q1014 A2997 NOSIG=
METAR OIFS 140256Z 19002KT CAVOK 13/05 Q1019=
METAR OIGG 140300Z 00000KT 9999 SCT020 BKN100 24/24 Q1009=
METAR OIGK 140300 NIL=
METAR OIHM 140300Z 00000KT CAVOK 17/06 Q1015=
METAR OIIE 140300Z 32006KT 9999 FEW100 25/10 Q1012 NOSIG=
METAR OIII 140300Z 33008KT 9999 FEW035 FEW040CB SCT100 26/06 Q1013
A2993 TEMPO TS SCT035CB SCT040 BKN100=
METAR OIIK 140252Z 24004KT 9999 FEW035CB SCT040 BKN100 19/14 Q1015=
METAR OIIP 140300Z 29010KT 7000 FEW030CB SCT040 BKN100 20/11 Q1013
A2993=
METAR OIKB 140300Z 00000KT 5000 HZ NSC 33/25 Q0998 A2948=
METAR OIKK 140250Z 00000KT CAVOK 24/04 Q1015 A2999=
METAR OIKO 140300 NIL=
METAR OIKQ 140300Z 07006KT 4000 BR NSC 31/29 Q0997=
METAR OIMB 140300Z 10008KT CAVOK 26/M00 Q1013 A2993=
METAR OIMC 140300 NIL=
METAR OIMD 140300 NIL=
METAR OIMM 140300Z 32008KT CAVOK 26/14 Q1014 A2995=
METAR OIMN 140300Z 00000KT CAVOK 22/13 Q1015=
METAR OINB 140300 NIL=
METAR OING 140300Z 00000KT 5000 BR FEW030CB SCT030 OVC080 25/23
Q1011=
METAR OINK 140300Z 02006KT 6000 SCT030 BKN090 25/20 Q1008 A2977=
METAR OINN 140300Z 00000KT 9999 SCT028 BKN190 24/21 Q1008=
METAR OINR 140300Z 28002KT 9999 FEW035CB SCT100 25/20 Q1009=
METAR OISA 140300Z 35008KT 5000 DU NSC 22/03 Q1017 A3005=
METAR OISF 140300Z 35004KT CAVOK 20/02 Q1009 A2982=
METAR OISL 140300Z 00000KT CAVOK 25/09 Q1003 A2965=
METAR OISS 140300Z 00000KT CAVOK 22/06 Q1011 A2988=
METAR OISY 140300Z 00000KT CAVOK 18/06 Q1015=
METAR OITL 140255Z 00000KT 9999 FEW040 13/10 Q1017=
METAR OITR 140300Z 27006KT CAVOK 16/12 Q1015 A2999=
METAR OITT 140300Z 05006KT 9999 FEW035 20/09 Q1017 A3005=
METAR OIYY 140250Z 30012KT 2000 R31/1700U DU SCT045 27/07 Q1012
NOSIG=
METAR OIZB 140300Z 34021KT CAVOK 32/07 Q1002=
METAR OIZH 140300Z 00000KT CAVOK 28/05 Q1011 A2987 NOSIG=
METAR OIZI 140300Z 01004KT 8000 FEW040 34/09 Q1004=
METAR OIZJ 140300Z 14012KT 6000 NSC 33/28 Q0998=


......................................................................................


Date: Friday 14th of June 2024

SAMV31 VRMM 140300
METAR VRMH 140300Z 27011KT 9999 FEW018 BKN270
30/26 Q1010=
METAR VRMM 140300Z 26011KT 250V350 9999 FEW018 BKN280
31/26 Q1010
NOSIG=
METAR VRMG 140300Z 27007KT 9999 FEW018 BKN270
30/25 Q1011 NOSIG=


......................................................................................


Date: Friday 14th of June 2024

SAUZ31 UTTW 140300
METAR UTFN 140300Z NIL=
METAR UTNN 140300Z 36006KT CAVOK 25/05 Q1011 R33/CLRD60 NOSIG=
METAR UTNU 140300Z 04004KT CAVOK 25/09 Q1011 R31/CLRD70 NOSIG=
METAR UTSA 140300Z 06008KT 9999 NSC 25/08 Q1007 R07/CLRD70 NOSIG=
METAR UTSB 140300Z 01010KT CAVOK 25/12 Q1006 R01/CLRD70 NOSIG=
METAR UTSK 140300Z 14004KT CAVOK 24/09 Q1005 R16/CLRD70=
METAR UTSS 140300Z 10016KT 9999 NSC 24/10 Q1008 R09/CLRD70 NOSIG=
METAR UTST 140300Z 26008KT CAVOK 28/07 Q1006 R25/CLRD70 NOSIG=
METAR UTFA 140300Z NIL=
METAR UTFF 140300Z 34004KT 210V360 9999 NSC 26/05 Q1008 R18/CLRD70=
METAR UTTT 140300Z 16006KT 130V230 CAVOK 24/07 Q1008 R08R/CLRD70
NOSIG=


......................................................................................


Date: Friday 14th of June 2024

SAJP51 RJTD 140300
METAR RJAA 140300Z 12012KT CAVOK 31/19 Q1008 NOSIG=
METAR RJAF 140300Z 34004KT 270V080 9999 FEW050 28/13 Q1010=
METAR RJAH 140300Z 20006KT 140V260 9999 FEW030 31/17 Q1007=
METAR RJBB 140300Z 30005KT 9999 FEW025 25/22 Q1008 NOSIG=
METAR RJBD 140300Z 19006KT 130V270 9999 FEW030 26/20 Q1008=
METAR RJBE 140300Z 22006KT 9999 FEW030 26/21 Q1007=
METAR RJBT 140300Z 06005KT 010V110 9999 FEW030 31/15 Q1007=
METAR RJCB 140300Z 13005KT 090V180 9999 FEW010 SCT015 BKN020 19/16
Q1008=
METAR RJCC 140300Z 11005KT 050V160 9999 FEW007 SCT009 BKN011 20/17
Q1008=
METAR RJCH 140300Z 17008KT 120V180 9999 FEW020 SCT040 20/16 Q1008=
METAR RJCK 140300Z 19006KT 9999 FEW010 BKN015 16/13 Q1009=
METAR RJCM 140300Z 36007KT 330V050 9999 FEW006 SCT008 BKN010 13/11
Q1009=
METAR RJCN 140300Z 06007KT 020V090 9999 FEW010 BKN025 15/12 Q1009=
METAR RJCO 140300Z 33005KT 290V020 9999 FEW008 SCT015 BKN020 19/16
Q1010=
METAR RJCW 140300Z 09012KT 9999 FEW005 SCT110 18/12 Q1008=
METAR RJDB 140300Z AUTO 10005KT 9000 NSC 24/22 Q1006=
METAR RJDC 140300Z 09009KT 9999 FEW030 25/21 Q1007=
METAR RJDT 140300Z 15007KT 100V170 9999 FEW030 SCT/// 25/16 Q1006=
METAR RJEB 140300Z 05005KT 020V100 9999 FEW005 SCT006 BKN008 12/12
Q1009=
METAR RJEC 140300Z VRB02KT 9999 FEW020 SCT040 21/17 Q1007=


......................................................................................


Date: Friday 14th of June 2024

SAJP51 RJTD 140300 RRA
METAR RJFE 140300Z 16008KT 110V190 9999 FEW020 BKN080 26/21 Q1006=
METAR RJFF 140300Z 31010KT 9999 FEW030 BKN090 29/22 Q1006 NOSIG=
METAR RJFG 140300Z 11012KT 9999 FEW008 BKN010 BKN/// 24/21 Q1008=
METAR RJFK 140300Z 12008KT 060V170 9999 FEW035 SCT080 28/20 Q1007=
METAR RJFM 140300Z 05007KT 9999 FEW025 SCT100 26/22 Q1007=
METAR RJFO 140300Z 05005KT 9999 FEW030 SCT/// 24/21 Q1007=
METAR RJFR 140300Z 11008KT 9999 FEW030 25/21 Q1007=
METAR RJFS 140300Z 22006KT 9999 FEW030 SCT090 27/22 Q1006=
METAR RJFT 140300Z 26005KT 220V310 9999 FEW035 BKN080 30/18 Q1006=
METAR RJFU 140300Z 30004KT 9999 FEW030 29/20 Q1006=
METAR RJGG 140300Z 20008KT 9999 FEW020 26/21 Q1007 NOSIG=
METAR RJKA 140300Z 20009KT 9999 FEW005 SCT007 BKN015 26/25 Q1004=
METAR RJKI 140300Z AUTO 18006KT 150V220 9999 SCT003 BKN005 26/22
Q1004=
METAR RJNK 140300Z 34008KT 9999 FEW030 27/17 Q1008=
METAR RJNS 140300Z 22004KT 160V280 9999 FEW020 29/21 Q1008=
METAR RJNT 140300Z 03004KT 330V120 9999 FEW020 30/18 Q1007=
METAR RJNW 140300Z 11006KT 060V140 9999 FEW030 28/21 Q1009=
METAR RJOA 140300Z 12005KT 060V200 9999 FEW030 28/19 Q1008=
METAR RJOB 140300Z 11005KT 030V150 9999 FEW030 30/20 Q1008=
METAR RJOC 140300Z 30008KT 250V340 9999 FEW030 31/21 Q1006=


......................................................................................


Date: Friday 14th of June 2024

SAJP51 RJTD 140300 RRB
METAR RJOH 140300Z 05007KT 010V070 9999 FEW030 30/20 Q1007=
METAR RJOK 140300Z 18007KT 150V220 9999 FEW035 26/21 Q1007=
METAR RJOM 140300Z 29005KT 9999 FEW025 26/21 Q1007=
METAR RJOO 140300Z 01003KT 260V080 9999 FEW030 32/20 Q1007=
METAR RJOR 140300Z 04010KT 9999 FEW030 26/21 Q1007=
METAR RJOS 140300Z 11008KT 9999 FEW025 26/20 Q1008=
METAR RJOT 140300Z 03004KT 320V120 9999 FEW025 28/21 Q1008=
METAR RJOW 140300Z 02006KT 350V060 9999 FEW025 26/21 Q1006=
METAR RJOY 140300Z VRB02KT 9999 FEW025 32/17 Q1007=
METAR RJSA 140300Z 25007KT 210V300 9999 FEW010 BKN015 22/18 Q1009=
METAR RJSC 140300Z 35010KT 320V020 9999 FEW040 29/20 Q1008=
METAR RJSF 140300Z 01006KT 300V100 9999 FEW030 28/15 Q1009=
METAR RJSI 140300Z 27008KT 220V310 9999 FEW050 BKN/// 27/15 Q1008=
METAR RJSK 140300Z 27007KT 180V310 9999 FEW025 SCT035 23/17 Q1009=
METAR RJSM 140300Z 10007KT 060V140 9999 FEW015 23/17 Q1008=
METAR RJSN 140300Z 01012KT 9999 FEW015 SCT/// 25/20 Q1009=
METAR RJSR 140300Z 29006KT 9999 FEW010 SCT020 BKN040 22/18 Q1009=
METAR RJSS 140300Z 11011KT 9999 FEW040 26/19 Q1007=
METAR RJSY 140300Z VRB05KT 9999 FEW015 23/18 Q1009=
METAR RJTF 140300Z 15008KT 110V220 9999 FEW030 32/19 Q1007=


......................................................................................


Date: Friday 14th of June 2024

SAJP51 RJTD 140300 RRC
METAR RJTI 140300Z 15008KT 9999 FEW030 29/18 Q1008=
METAR RJTO 140300Z 21012KT 9999 FEW015 27/21 Q1008=
METAR RJTT 140300Z 18011KT 9999 FEW035 30/18 Q1008 NOSIG=
METAR ROAH 140300Z 35010KT 3000 +TSRA BR FEW005 SCT010 BKN015
SCT025CB 25/24 Q1005=
METAR ROIG 140300Z 22016KT 9999 FEW012 BKN020 BKN/// 31/28 Q1004=
METAR ROMD 140300Z AUTO 21014KT 9999 BKN005 29/27 Q1007=
METAR ROMY 140300Z 23015KT 9999 BKN010 BKN025 30/28 Q1005=
METAR RORK 140300Z AUTO 20011KT 9999 FEW006 BKN010 29/27 Q1007=
METAR RORS 140300Z 22008KT 160V260 9999 VCSH SCT012 BKN020 BKN170
30/28 Q1005=
METAR RORY 140300Z AUTO 24007KT 4400 RA BR BKN003 BKN011 OVC060
//////CB 24/24 Q1005=
METAR ROYN 140300Z AUTO 27009KT 9999 SCT011 SCT013 BKN016 30/28
Q1003=
METAR RORT 140300Z AUTO 21013KT 9999 BKN011 BKN015 BKN025 30/28
Q1004=


......................................................................................


Date: Friday 14th of June 2024

SATR31 UTAA 140300
METAR UTAA 140300Z 30010KT 9999 SCT100 28/16 Q1009
R88/CLRD70 NOSIG=
METAR UTAK 140300Z 36008KT CAVOK 24/18 Q1010 R16R/CLRD70 NOSIG=
METAR UTAV 140300Z 35012KT 9000 NSC 25/09 Q1007 R31/CLRD70
NOSIG=
METAR UTAM 140300Z 02006KT CAVOK 25/07 Q1008 R88/CLRD70 NOSIG=
METAR UTAT 140300Z 06006KT CAVOK 27/08 Q1011 R08/CLRD70
NOSIG=


......................................................................................


Date: Friday 14th of June 2024

SAUZ31 UTTW 140300 RRA
METAR UTFN 140300Z 04008KT 9999 NSC 25/08 Q1007 R28/CLRD70 NOSIG=


......................................................................................


Date: Friday 14th of June 2024

SAHK31 VHHH 140300
METAR VHHH 140300Z 27006KT 9999 -TSRA FEW006 FEW012CB SCT020
30/26 Q1005 WS R25L TEMPO 24015G25KT 3000 TSRA SHRA FEW010CB
SCT020=
METAR RCTP 140300Z 26016G26KT 4000 SHRA FEW010 BKN030 BKN060 27/26
Q1005 NOSIG RMK A2968 RA AMT 0.4MM=
METAR RCKH 140300Z 25011KT 220V280 9999 FEW010 SCT018 BKN045 32/26
Q1006 NOSIG RMK 26009KT/R09 A2972=
METAR RCSS 140300Z 27013KT 9999 FEW025 BKN045 BKN150 33/25 Q1004
WS R28 NOSIG RMK 29011KT/R10 A2965=
METAR RCMQ 140300Z 18009KT 9999 -RA VCTS FEW008 FEW010CB BKN016
BKN040 26/24 Q1008 NOSIG RMK A2978 RA AMT 0.2MM TS W MOV NW=
METAR RCNN 140300Z 16005KT 8000 -RA FEW008 FEW010CB BKN021 BKN040
29/26 Q1007 NOSIG RMK A2976 CB NE=
METAR RCFN 140300Z 21008KT 170V250 9999 FEW020 SCT060 BKN180 34/26
Q1004 NOSIG RMK A2965=
METAR VMMC 140300Z 21011KT 6000 -TSRA FEW015CB SCT025 29/28 Q1004
NOSIG=
METAR RPLL 140300Z 28005KT 9000 SCT023 32/27 Q1009 NOSIG RMK A2980
TCU OHD=
METAR RPVM 140300Z 21006KT 160V270 9999 FEW018CB SCT100 33/23 Q1010
NOSIG RMK A2983 CB N=
METAR RPMD 140300Z 15007KT 120V200 9999 FEW020 31/24 Q1010 RMK A2983=
METAR RPLB 140300Z 22010KT 9999 SCT020 32/26 Q1006 NOSIG RMK A2980=
METAR RPLI 140300Z 23009KT 170V270 9999 FEW018 SCT290 32/27 Q1008
NOSIG RMK A2977=
METAR RPMZ 140300Z 24003KT 180V300 9999 FEW017 OVC090 29/25 Q1010
RESHRA RMK A2983=
METAR RPLC 140300Z 18002KT 7000 SCT020 32/25 Q1009 NOSIG RMK A2980=
METAR RPVP 140300Z 25004KT 9999 -SHRA FEW017CB SCT019 OVC080 27/25
Q1010 RETS RMK A2983 CB SE, S, SW/W=


......................................................................................


Date: Friday 14th of June 2024

SAIR20 OIII 140300
METAR OIAA 140300Z 24008KT CAVOK 29/10 Q0998=
METAR OIAG 140300Z 13008KT CAVOK 29/09 Q0998=
METAR OIAH 140300Z 00000KT CAVOK 27/07 Q1005=
METAR OIAI 140300 NIL=
METAR OIAM 140300Z 00000KT CAVOK 31/18 Q0998=
METAR OIAW 140252Z 28002KT CAVOK 32/13 Q0996=
METAR OIBA 140300Z 35008KT 5000 BR NSC 32/28 Q0996=
METAR OIBB 140300Z 00000KT CAVOK 29/20 Q0998 A2947=
METAR OIBK 140300Z 31012KT 8000 NSC 31/27 Q0998=
METAR OIBL 140300Z 10010KT 5000 HZ NSC 33/25 Q0997=
METAR OIBS 140300Z 33012KT 5000 HZ NSC 32/27 Q0997=
METAR OICC 140251Z 00000KT CAVOK 18/06 Q1012 A2989=
METAR OICI 140300Z 08004KT CAVOK 22/05 Q1011 A2987=
METAR OICJ 140300 NIL=
METAR OICK 140300Z 12006KT CAVOK 23/03 Q1009 A2981=
METAR OICS 140300Z 02006KT CAVOK 21/06 Q1014 A2996=
METAR OIFK 140300 NIL=
METAR OIFM 140300Z 29004KT 4000 HZ NSC 23/06 Q1014 A2997 NOSIG=
METAR OIFS 140256Z 19002KT CAVOK 13/05 Q1019=
METAR OIGG 140300Z 00000KT 9999 SCT020 BKN100 24/24 Q1009=
METAR OIGK 140300 NIL=
METAR OIHH 140300Z 18002KT CAVOK 16/09 Q1016 A3003=
METAR OIHM 140300Z 00000KT CAVOK 17/06 Q1015=
METAR OIIE 140300Z 32006KT 9999 FEW100 25/10 Q1012 NOSIG=
METAR OIII 140300Z 33008KT 9999 FEW035 FEW040CB SCT100 26/06 Q1013
A2993 TEMPO TS SCT035CB SCT040 BKN100=
METAR OIIK 140252Z 24004KT 9999 FEW035CB SCT040 BKN100 19/14 Q1015=
METAR OIIP 140300Z 29010KT 7000 FEW030CB SCT040 BKN100 20/11 Q1013
A2993=
METAR OIIS 140300 NIL=
METAR OIKB 140300Z 00000KT 5000 HZ NSC 33/25 Q0998 A2948=
METAR OIKK 140250Z 00000KT CAVOK 24/04 Q1015 A2999=
METAR OIKO 140300 NIL=
METAR OIKQ 140300Z 07006KT 4000 BR NSC 31/29 Q0997=
METAR OIMB 140300Z 10008KT CAVOK 26/M00 Q1013 A2993=
METAR OIMC 140300 NIL=
METAR OIMD 140300 NIL=


......................................................................................


Date: Friday 14th of June 2024

SAIR77 OIII 140300
METAR OIMN 140300Z 00000KT CAVOK 22/13 Q1015=
METAR OINB 140300 NIL=
METAR OING 140300Z 00000KT 5000 BR FEW030CB SCT030 OVC080 25/23
Q1011=
METAR OINK 140300Z 02006KT 6000 SCT030 BKN090 25/20 Q1008 A2977=
METAR OINN 140300Z 00000KT 9999 SCT028 BKN190 24/21 Q1008=
METAR OINR 140300Z 28002KT 9999 FEW035CB SCT100 25/20 Q1009=
METAR OISA 140300Z 35008KT 5000 DU NSC 22/03 Q1017 A3005=
METAR OISF 140300Z 35004KT CAVOK 20/02 Q1009 A2982=
METAR OISL 140300Z 00000KT CAVOK 25/09 Q1003 A2965=
METAR OISS 140300Z 00000KT CAVOK 22/06 Q1011 A2988=
METAR OISY 140300Z 00000KT CAVOK 18/06 Q1015=
METAR OITL 140255Z 00000KT 9999 FEW040 13/10 Q1017=
METAR OITR 140300Z 27006KT CAVOK 16/12 Q1015 A2999=
METAR OITT 140300Z 05006KT 9999 FEW035 20/09 Q1017 A3005=
METAR OIYY 140250Z 30012KT 2000 R31/1700U DU SCT045 27/07 Q1012
NOSIG=
METAR OIZB 140300Z 34021KT CAVOK 32/07 Q1002=
METAR OIZH 140300Z 00000KT CAVOK 28/05 Q1011 A2987 NOSIG=
METAR OIZI 140300Z 01004KT 8000 FEW040 34/09 Q1004=
METAR OIZJ 140300Z 14012KT 6000 NSC 33/28 Q0998=


......................................................................................


Date: Friday 14th of June 2024

SAJP31 RJTD 140300
METAR RJAA 140300Z 12012KT CAVOK 31/19 Q1008 NOSIG=
METAR RJBB 140300Z 30005KT 9999 FEW025 25/22 Q1008 NOSIG=
METAR RJTT 140300Z 18011KT 9999 FEW035 30/18 Q1008 NOSIG=
METAR RJOO 140300Z 01003KT 260V080 9999 FEW030 32/20 Q1007=
METAR ROAH 140300Z 35010KT 3000 +TSRA BR FEW005 SCT010 BKN015
SCT025CB 25/24 Q1005=
METAR RJGG 140300Z 20008KT 9999 FEW020 26/21 Q1007 NOSIG=
METAR RJCH 140300Z 17008KT 120V180 9999 FEW020 SCT040 20/16 Q1008=
METAR RJSS 140300Z 11011KT 9999 FEW040 26/19 Q1007=


......................................................................................


Date: Friday 14th of June 2024

SAJP32 RJTD 140300
METAR RJFF 140300Z 31010KT 9999 FEW030 BKN090 29/22 Q1006 NOSIG=
METAR RJCC 140300Z 11005KT 050V160 9999 FEW007 SCT009 BKN011 20/17
Q1008=
METAR RJFK 140300Z 12008KT 060V170 9999 FEW035 SCT080 28/20 Q1007=
METAR RJSN 140300Z 01012KT 9999 FEW015 SCT/// 25/20 Q1009=
METAR RJFT 140300Z 26005KT 220V310 9999 FEW035 BKN080 30/18 Q1006=
METAR RJFU 140300Z 30004KT 9999 FEW030 29/20 Q1006=
METAR RJNK 140300Z 34008KT 9999 FEW030 27/17 Q1008=
METAR RJOA 140300Z 12005KT 060V200 9999 FEW030 28/19 Q1008=
METAR RJOB 140300Z 11005KT 030V150 9999 FEW030 30/20 Q1008=
METAR RJOT 140300Z 03004KT 320V120 9999 FEW025 28/21 Q1008=


......................................................................................


Date: Friday 14th of June 2024

SAJP32 RJTD 140300 RRA
METAR RJFO 140300Z 05005KT 9999 FEW030 SCT/// 24/21 Q1007=
METAR RJNT 140300Z 03004KT 330V120 9999 FEW020 30/18 Q1007=


......................................................................................


Date: Friday 14th of June 2024

SAJP35 RJTD 140300
METAR RJAA 140300Z 12012KT CAVOK 31/19 Q1008 NOSIG=
METAR RJBB 140300Z 30005KT 9999 FEW025 25/22 Q1008 NOSIG=
METAR RJTT 140300Z 18011KT 9999 FEW035 30/18 Q1008 NOSIG=
METAR RJOO 140300Z 01003KT 260V080 9999 FEW030 32/20 Q1007=
METAR RJGG 140300Z 20008KT 9999 FEW020 26/21 Q1007 NOSIG=
METAR RJSN 140300Z 01012KT 9999 FEW015 SCT/// 25/20 Q1009=
METAR RJCH 140300Z 17008KT 120V180 9999 FEW020 SCT040 20/16 Q1008=
METAR RJSA 140300Z 25007KT 210V300 9999 FEW010 BKN015 22/18 Q1009=
METAR RJSF 140300Z 01006KT 300V100 9999 FEW030 28/15 Q1009=
METAR RJSI 140300Z 27008KT 220V310 9999 FEW050 BKN/// 27/15 Q1008=


......................................................................................


Date: Friday 14th of June 2024

SAJP37 RJTD 140300
METAR RJAA 140300Z 12012KT CAVOK 31/19 Q1008 NOSIG=
METAR RJBB 140300Z 30005KT 9999 FEW025 25/22 Q1008 NOSIG=
METAR RJTT 140300Z 18011KT 9999 FEW035 30/18 Q1008 NOSIG=
METAR RJOO 140300Z 01003KT 260V080 9999 FEW030 32/20 Q1007=
METAR RJFF 140300Z 31010KT 9999 FEW030 BKN090 29/22 Q1006 NOSIG=
METAR RJGG 140300Z 20008KT 9999 FEW020 26/21 Q1007 NOSIG=
METAR RJFK 140300Z 12008KT 060V170 9999 FEW035 SCT080 28/20 Q1007=
METAR RJFU 140300Z 30004KT 9999 FEW030 29/20 Q1006=
METAR RJCH 140300Z 17008KT 120V180 9999 FEW020 SCT040 20/16 Q1008=
METAR RJNS 140300Z 22004KT 160V280 9999 FEW020 29/21 Q1008=


......................................................................................


Date: Friday 14th of June 2024

SAJP37 RJTD 140300 RRA
METAR RJFR 140300Z 11008KT 9999 FEW030 25/21 Q1007=


......................................................................................


Date: Friday 14th of June 2024

SAJP38 RJTD 140300
METAR RJNS 140300Z 22004KT 160V280 9999 FEW020 29/21 Q1008=
METAR RJSA 140300Z 25007KT 210V300 9999 FEW010 BKN015 22/18 Q1009=
METAR RJSF 140300Z 01006KT 300V100 9999 FEW030 28/15 Q1009=
METAR RJOM 140300Z 29005KT 9999 FEW025 26/21 Q1007=
METAR RJOK 140300Z 18007KT 150V220 9999 FEW035 26/21 Q1007=
METAR RJFM 140300Z 05007KT 9999 FEW025 SCT100 26/22 Q1007=
METAR RJEC 140300Z VRB02KT 9999 FEW020 SCT040 21/17 Q1007=
METAR RJFR 140300Z 11008KT 9999 FEW030 25/21 Q1007=
METAR RJSK 140300Z 27007KT 180V310 9999 FEW025 SCT035 23/17 Q1009=
METAR RJAH 140300Z 20006KT 140V260 9999 FEW030 31/17 Q1007=


......................................................................................


Date: Friday 14th of June 2024

SAJP38 RJTD 140300 RRA
METAR RJCK 140300Z 19006KT 9999 FEW010 BKN015 16/13 Q1009=
METAR RJCM 140300Z 36007KT 330V050 9999 FEW006 SCT008 BKN010 13/11
Q1009=
METAR RJCB 140300Z 13005KT 090V180 9999 FEW010 SCT015 BKN020 19/16
Q1008=
METAR RJOC 140300Z 30008KT 250V340 9999 FEW030 31/21 Q1006=
METAR RJOH 140300Z 05007KT 010V070 9999 FEW030 30/20 Q1007=
METAR ROIG 140300Z 22016KT 9999 FEW012 BKN020 BKN/// 31/28 Q1004=
METAR RJFS 140300Z 22006KT 9999 FEW030 SCT090 27/22 Q1006=
METAR RJSI 140300Z 27008KT 220V310 9999 FEW050 BKN/// 27/15 Q1008=


......................................................................................


Date: Friday 14th of June 2024

SAMS31 WMKK 140300
METAR WBGG 140300Z 10004KT 050V140 9999 SCT016 31/26 Q1010 NOSIG=
METAR WBKK 140300Z 23007KT 150V280 9999 FEW014 31/25 Q1010 NOSIG=
METAR WBSB 140300Z 22004KT 9999 FEW015 FEW016CB SCT140 BKN300 32/26 Q1011
NOSIG=
METAR WMKK 140300Z 25004KT 160V330 9000 VCSH FEW017CB SCT018 29/26 Q1010 NOSIG=
METAR WMKP 140300Z VRB04KT 8000 FEW020 32/25 Q1010 NOSIG=
METAR WSSL 140300Z VRB03KT 9999 FEW018TCU BKN300 31/25 Q1009=
METAR WSSS 140300Z 13005KT 060V180 9999 FEW020 BKN300 31/25 Q1009 NOSIG=
METAR WSAP 140300Z 12004KT 9999
FEW018 FEW020TCU
SCT160 BKN300 32/24 Q1010=


......................................................................................


Date: Friday 14th of June 2024

SAPA31 KWBC 140300
METAR
AGGG NIL=
AGGH 140300Z NIL=
ANAU NIL=
AYPY 140300Z 15020KT 9999 FEW020 SCT040 30/22 Q1010=
PGNT NIL=
PGRO 140250Z 09013G18KT 7SM -RA BKN015 BKN080 29/24 A2984=
PGSN 140254Z 10013KT 10SM SCT019 32/25 A2987 RMK AO2 SLP135
T03170250 57014 $=
PGUA 140255Z AUTO 13007KT 8SM FEW014 SCT190 29/25 A2988 RMK AO2
SLP109 T02920249 57013 $=
PGUM 140254Z 12007KT 10SM FEW020 30/25 A2988 RMK AO2 SLP108
T03000250 57012=
PGWT 140250Z 10013KT 7SM SCT020 BKN120 30/26 A2988=
PHJH NIL=
PHJR 140253Z 10SM BKN041 BKN050 27/18 A3000 RMK AO2 SLP164
T02670178 56009=
PHMK 140254Z 06018G28KT 10SM SCT040 27/17 A3000 RMK AO2 PK WND
07029/0206 SLP160 60000 T02670172 55010=
PJON NIL=
PKMJ NIL=
PKMR 140254Z 07005KT 15SM FEW014 SCT050 BKN120 OVC300 30/25 A2977
RMK SLP081 8/878 T02980251 57019=
PKWA 140300Z AUTO 18008KT 10SM CLR 27/24 A2983 RMK AO2
T02720244=
PLCH 140300Z 10009KT 9999 FEW020 30/24 Q1008=
PMDY NIL=
PTKK 140255Z 01006KT 15SM FEW014 SCT120 OVC280 31/27 A2979 RMK
SLP091 8/171 T03110268 57022=
PTKR NIL=
PTPN 140253Z 07004KT 10SM -SHRA BKN017TCU OVC130 27/25 A2981 RMK
TCU ALQDS LAST=
PTRO 140250Z 12003KT 15SM SCT016 BKN120 OVC300 29/25 A2984=
PTSA 140250Z 05006KT 10SM -SHRA BKN018TCU BKN130 OVC300 27/25
A2981 RMK TCU NW=
PTTP 140252Z VRB04KT 12SM -SHRA BKN017TCU OVC120 27/27 A2983 RMK
SHRAB24 TCU ALQDS SLP103 60001 8/27/ T02710268 57014=
PTYA 140255Z VRB06KT 12SM FEW016CB SCT130 BKN300 31/25 A2984 RMK
CB N SLP107 8/371 T03050254 55014=
PWAK 140255Z AUTO 07016KT 10SM FEW020 30/23 A2993 RMK AO2 SLP141
60000 T03030232 57014=


......................................................................................


Date: Friday 14th of June 2024

SAMS32 WMKK 140300
METAR WBGG 140300Z 10004KT 050V140 9999 SCT016 31/26 Q1010 NOSIG=
METAR WBKK 140300Z 23007KT 150V280 9999 FEW014 31/25 Q1010 NOSIG=
METAR WMKJ 140300Z VRB03KT 9999 SCT018 31/26 Q1009=
METAR WMKK 140300Z 25004KT 160V330 9000 VCSH FEW017CB SCT018 29/26 Q1010 NOSIG=
METAR WMKP 140300Z VRB04KT 8000 FEW020 32/25 Q1010 NOSIG=
METAR WMSA 140300Z 29006KT 260V330 7000 FEW017CB 31/26 Q1010=


......................................................................................


Date: Friday 14th of June 2024

SAMS34 WMKK 140300
METAR WBGB 140300Z 12004KT 040V190 9999 FEW016 29/25 Q1010=
METAR WBGR 140300Z 20003KT 140V250 9999 FEW016 30/23 Q1010=
METAR WBGS 140300Z 13004KT 070V240 9999 SCT017 30/25 Q1010=
METAR WBGY 140300Z VRB02KT 9999 FEW016 31/26 Q1010=
METAR WBKL 140300Z 21003KT 180V290 9999 FEW013 31/24 Q1010=
METAR WBKS 140300Z 19005KT 110V240 9999 FEW016 30/25 Q1010=
METAR WBKT 140300Z 22010KT 190V250 9999 FEW015 32/24 Q1009=
METAR WBKW 140300Z 22003KT 170V280 9999 FEW016 28/26 Q1011=


......................................................................................


Date: Friday 14th of June 2024

SAMS38 WMKK 140300
METAR WBGB 140300Z 12004KT 040V190 9999 FEW016 29/25 Q1010=
METAR WBGR 140300Z 20003KT 140V250 9999 FEW016 30/23 Q1010=
METAR WBGS 140300Z 13004KT 070V240 9999 SCT017 30/25 Q1010=
METAR WBKL 140300Z 21003KT 180V290 9999 FEW013 31/24 Q1010=
METAR WBKS 140300Z 19005KT 110V240 9999 FEW016 30/25 Q1010=
METAR WBKW 140300Z 22003KT 170V280 9999 FEW016 28/26 Q1011=
METAR WMKD 140300Z VRB04KT 9999 FEW020 30/26 Q1010 NOSIG=
METAR WMKL 140300Z VRB03KT 9999 FEW020 32/26 Q1010=
METAR WMKM 140300Z VRB02KT 9999 FEW017CB 31/25 Q1011=
METAR WMKJ 140300Z VRB03KT 9999 SCT018 31/26 Q1009=


......................................................................................


Date: Friday 14th of June 2024

SAMS33 WMKK 140300
METAR WMAU 140300Z 19004KT 110V240 9000 FEW020 32/26 Q1010=
METAR WMBA 140300Z VRB03KT 9999 FEW017CB 33/26 Q1010=
METAR COR WMKA 140300Z 26005KT 190V320 9999 SCT020 32/26 Q1010=
METAR WMKB 140300Z 30004KT 240V040 9999 SCT020 32/24 Q1010 NOSIG=
METAR WMKC 140300Z 25003KT 200V310 9999 FEW018 31/25 Q1009=
METAR WMKD 140300Z VRB04KT 9999 FEW020 30/26 Q1010 NOSIG=
METAR WMKE 140300Z VRB03KT 9999 SCT017 31/26 Q1009=
METAR WMKI 140300Z 05005KT 360V090 9999 FEW020 32/25 Q1011=
METAR WMKL 140300Z VRB03KT 9999 FEW020 32/26 Q1010=
METAR WMKM 140300Z VRB02KT 9999 FEW017CB 31/25 Q1011=
METAR WMKN 140300Z 18003KT 120V260 9999 FEW017CB 32/26 Q1009=


......................................................................................


Date: Friday 14th of June 2024

SAOM81 OOMS 140200 RRA
METAR OOQL 140150Z AUTO 03000KT //// ////// 32/26 Q0998=


......................................................................................


Date: Friday 14th of June 2024

SAPK31 OPKC 140300
METAR OPKC 140300Z 25008KT 5000 HZ SCT020 32/25 Q1002 NOSIG=
METAR OPLA 140255Z 31006KT 4000 HZ FEW100 34/15 Q1000 NOSIG
RMK QFE975 A29.54=
METAR OPIS 140300Z 05008KT 6000 FEW040 SCT100 32/16 Q1002 NOSIG=
METAR OPPS 140300Z 05006KT 9999 FEW200 31/15 Q1003=
METAR OPFA 140255Z 09006KT 5000 HZ NSC 35/18 Q1001 NOSIG=
METAR OPST 140300Z 05006KT 4000 HZ NSC 33/13 Q1000 NOSIG RH30=
METAR OPSK 140300Z 13008KT 4000 HZ NSC 32/25 Q1000 NOSIG=
METAR OPMT 140300Z 23016KT 4000 DRDU NSC 33/24 Q0999 TEMPO 23015G25KT
3000 BLDU=
METAR OPNH 130300Z NIL=


......................................................................................


Date: Friday 14th of June 2024

SAAR20 OEJD 140300
METAR OBBI 140300Z 25003KT 210V310 CAVOK 35/17 Q1000 NOSIG=
METAR OKKK 140300Z 21006KT 7000 NSC 31/04 Q0999 NOSIG=
METAR OMAA 140300Z 19009KT CAVOK 30/23 Q0999 WS ALL RWY NOSIG=
METAR OMAD 140300Z 20005KT 160V240 CAVOK 30/25 Q0999 NOSIG=
METAR OMAL 140300Z 16004KT CAVOK 32/10 Q1002 NOSIG=
METAR OMDB 140300Z 20009KT 150V220 CAVOK 31/19 Q0998 NOSIG=
METAR OMFJ 140250Z 28010KT CAVOK 37/07 Q0998 RMK A2948=
METAR OMRK 140300Z 16006KT CAVOK 34/13 Q0999 A2951=
METAR OMSJ 140300Z 18007KT CAVOK 32/18 Q0999 NOSIG=
METAR OOMS 140250Z 13003KT 040V180 CAVOK 36/20 Q1000 NOSIG=
METAR OOSA 140250Z VRB02KT 9999 BKN025 30/25 Q1005 NOSIG=
METAR OOSH 140250Z AUTO 22005KT //// ////// 36/10 Q0998 RMK 0994=
METAR OODQ 140250Z AUTO 22022KT 9999 R22///// SCT028 SCT035 27/26
Q1001 NOSIG RMK RH93? 0=
METAR OTBD 140300Z AUTO 26003KT 200V290 CAVOK 36/07 Q1000 NOSIG=
METAR OTBH 140255Z 27006KT 9999 CLR 32/13 A2950 Q0999=
METAR OTHH 140300Z AUTO 24007KT 220V290 CAVOK 34/07 Q0999 NOSIG=
METAR OYAA 140300Z 02005KT 6000 FEW020 31/26 Q1006 NOSIG=
METAR OYSN 140300Z NIL=


......................................................................................


Date: Friday 14th of June 2024

SAKO51 RJTD 140300
METAR RKPC 140300Z 02007KT 9999 FEW005 SCT035 BKN200 24/21 Q1006
NOSIG=
METAR RKPK 140300Z 20009KT 9999 FEW030 SCT200 30/15 Q1006=
METAR RKSI 140300Z 17011KT CAVOK 27/19 Q1005 NOSIG=
METAR RKSS 140300Z 14008KT 100V200 CAVOK 32/16 Q1004 NOSIG=
METAR RKTN 140300Z 28003KT 9999 FEW040 SCT250 34/14 Q1005=
METAR RKTU 140300Z 24002KT CAVOK 30/12 Q1005=


......................................................................................


Date: Friday 14th of June 2024

SAPA31 KWBC 140300 RRA
METAR
PKMJ 140259Z 05010K 15SM FEW014 SCT050 BKN120 OVC300 30/25
A2978=


......................................................................................


Date: Friday 14th of June 2024

SAOM81 OOMS 140200 RRB
METAR OOSR 140150Z AUTO 24013KT //// ////// 34/17 Q0998=


......................................................................................


Date: Friday 14th of June 2024

SACI51 RJTD 140300
METAR ZBAA 140300Z VRB03MPS CAVOK 28/21 Q1002 NOSIG=
METAR ZBTJ 140300Z VRB02MPS CAVOK 27/20 Q1002 NOSIG=
METAR ZBYN 140300Z 34005MPS 300V360 9999 FEW040 32/07 Q1005 NOSIG=
METAR ZGGG 140300Z 17004MPS 120V200 9999 -SHRA FEW020 BKN026 32/28
Q1003 BECMG AT0315 TSRA SCT026CB BKN030=
METAR ZGKL 140300Z VRB01MPS 3000 TSRA BR FEW009 FEW026CB SCT026
BKN040 25/25 Q1003 BECMG FM0430 -TSRA=
METAR ZGNN 140300Z 02003MPS 9999 -RA FEW008 BKN023 OVC046 29/28
Q1002 NOSIG=
METAR ZGOW 140300Z 23003MPS 9999 FEW026 SCT040 32/26 Q1004 NOSIG=
METAR ZGSZ 140300Z 15004MPS 9999 FEW020 BKN030 28/26 Q1005 BECMG
AT0340 TSRA=
METAR ZLXY 140300Z 23004MPS 200V260 CAVOK 34/15 Q1004 NOSIG=
METAR ZPPP 140300Z VRB02MPS 9999 SCT020 BKN040 21/16 Q1017 BECMG
TL0440 06005MPS=
METAR ZSAM 140300Z 21004MPS 180V240 CAVOK 32/27 Q1004 NOSIG=
METAR ZSHC 140300Z 33002MPS 270V050 5000 HZ NSC 31/23 Q1001 NOSIG=
METAR ZSNJ 140300Z VRB02MPS CAVOK 32/24 Q1001 NOSIG=
METAR ZSQD 140300Z 13007MPS 9999 OVC008 22/21 Q1003 NOSIG=
METAR ZSSS 140300Z VRB02MPS 9999 FEW020 29/21 Q1003 NOSIG=
METAR ZWWW 140300Z 34002MPS 200V010 CAVOK 23/12 Q1011 NOSIG=
METAR ZYTL 140300Z VRB03MPS 9999 -SHRA SCT040 21/18 Q1000 NOSIG=
METAR ZYTX 140300Z 19004MPS 9999 BKN026 OVC040 21/18 Q1003 NOSIG=


......................................................................................


Date: Friday 14th of June 2024

SASB31 VCCC 140310
METAR VCBI 140310Z 22011KT 9999 FEW012 SCT016 30/26 Q1010 RESHRA
NOSIG=
METAR VRMM 140300Z 26011KT 250V350 9999 FEW018 BKN280 31/26 Q1010
NOSIG=
METAR VCRI 140310Z 24010KT 9999 FEW018 29/27 Q1009 NOSIG=


......................................................................................


Date: Friday 14th of June 2024

SAPA31 KWBC 140300 RRB
METAR
PKWA 140320Z AUTO 18007KT 10SM CLR 27/24 A2983 RMK AO2
T02720244=


......................................................................................


Date: Friday 14th of June 2024

SAAE31 VDPP 140330
METAR VDPP 140330Z 23005KT 200V100 9999 SCT017 35/24 Q1006=


......................................................................................


Date: Friday 14th of June 2024

SAOM81 OOMS 140300
METAR OOAD 140250Z AUTO 02003KT 340V050 9999 // NCD 30/21 Q1004 NOSIG=
METAR OOBH 140250Z AUTO 24001KT //// ////// 29/20 Q1008=
METAR OOBR 140250Z AUTO 14003KT //// ////// 33/02 Q1002=
METAR OODB 140300Z NIL=
METAR OODQ 140250Z AUTO 22022KT 9999 R22///// SCT028 SCT035 27/26 Q1001 NOSIG=
METAR OOFD 140250Z AUTO 13004KT //// ////// 31/16 Q1001=
METAR OOIB 140300Z NIL=
METAR OOIR 140300Z NIL=
METAR OOJB 140300Z NIL=
METAR OOJS 140300Z NIL=
METAR OOKB 140250Z AUTO 00000KT CAVOK ////// 35/21 Q0998 NOSIG=
METAR OOMA 140250Z AUTO 24017KT //// ////// 29/27 Q1002=
METAR OOMJ 140300Z NIL=
METAR OOML 140300Z NIL=
METAR OOMQ 140250Z AUTO 30007KT //// ////// 35/21 Q0999=
METAR OOMS 140250Z 13003KT 040V180 CAVOK 36/20 Q1000 NOSIG=
METAR OONZ 140250Z AUTO VRB03KT //// ////// 31/20 Q1004=
METAR OOQA 140300Z NIL=
METAR OOQH 140250Z AUTO 16007KT 9999 ////// 25/23 Q1010=
METAR OOQL 140250Z AUTO VRB01KT //// ////// 36/21 Q0999=
METAR OOQQ 140250Z AUTO 02011KT //// 25/M04 Q1022=
METAR OORA 140250Z AUTO VRB01KT //// ////// 30/26 Q1004=
METAR OORH 140250Z AUTO 18016KT //// ////// 28/23 Q1000=
METAR OORQ 140250Z AUTO VRB02KT //// ////// 33/19 Q1002=
METAR OOSA 140250Z VRB02KT 9999 BKN025 30/25 Q1005 NOSIG=
METAR OOSM 140300Z NIL=
METAR OOSQ 140300Z NIL=
METAR OOSR 140250Z AUTO 23013KT //// ////// 35/18 Q0999=
METAR OOTH 140300Z AUTO 19014KT 9999 ////// 29/17 Q1006 NOSIG=
METAR OOYA 140250Z AUTO 20012KT //// ////// 29/24 Q1002=


......................................................................................


Date: Friday 14th of June 2024

SANP31 VNKT 140330
METAR VNKT 140330Z VRB02KT 5000 HZ FEW015 SCT030 BKN100 27/21 Q1009
NOSIG=


......................................................................................


Date: Friday 14th of June 2024

SAIR20 OIII 140330
METAR OIAA 140330 NIL=
METAR OIAW 140326Z 26002KT CAVOK 35/14 Q0996=
METAR OIFM 140330Z 32010KT 5000 HZ NSC 24/06 Q1014 A2997=
METAR OIGG 140330Z 00000KT 8000 SCT020 BKN100 24/24 Q1010=
METAR OIIE 140330Z 32006KT 9999 FEW100 25/10 Q1012=
METAR OIII 140325Z 29004KT 9999 FEW035 SCT100 27/06
Q1013 A2992=
METAR OIKB 140330Z 07006KT 5000 HZ NSC 33/25 Q0998 A2948=
METAR OIMM 140330Z 31008KT CAVOK 26/15 Q1014 A2996=
METAR OISS 140330Z 00000KT CAVOK 24/06 Q1011 A2988=
METAR OITT 140330Z 13006KT 9999 FEW035 21/09 Q1017 A3005=
METAR OIYY 140320Z 31012KT 2000 R31/1700N DU SCT045 28/07 Q1011=
METAR OIZH 140330Z 34004KT CAVOK 31/04 Q1011 A2988=


......................................................................................


Date: Friday 14th of June 2024

SAIR31 OIII 140330
METAR OIAW 140330Z 26002KT CAVOK 35/14 Q0996=
METAR OIFM 140330Z 32010KT 5000 HZ NSC 24/06 Q1014 A2997=
METAR OIII 140330Z 29004KT 9999 FEW035 SCT100 27/06
Q1013 A2992=
METAR OIKB 140330Z 07006KT 5000 HZ NSC 33/25 Q0998 A2948=
METAR OIKK 140330Z NIL=
METAR OIMM 140330Z NIL=
METAR OISS 140330Z 00000KT CAVOK 24/06 Q1011 A2988=
METAR OITT 140330Z 13006KT 9999 FEW035 21/09 Q1017 A3005=
METAR OIZH 140330Z 34004KT CAVOK 31/04 Q1011 A2988=


......................................................................................


Date: Friday 14th of June 2024

SAIR32 OIII 140330
METAR OIAA 140330Z NIL=
METAR OIBK 140330Z 32012KT 8000 NSC 32/27 Q0998=
METAR OICC 140330Z 18008KT CAVOK 21/04 Q1012 A2990=
METAR OIGG 140330Z 00000KT 8000 SCT020 BKN100 24/24 Q1010=
METAR OIIE 140330Z NIL=
METAR OINZ 140330Z NIL=
METAR OITR 140330Z 27006KT CAVOK 19/13 Q1015 A2999=
METAR OIYY 140330Z 31012KT 2000 R31/1700N DU SCT045 28/07 Q1011=


......................................................................................


Date: Friday 14th of June 2024

SAIR33 OIII 140330
METAR OIBB 140330Z NIL=
METAR OIBP 140330Z 00000KT CAVOK 34/26 Q0997 A2946=
METAR OICK 140330Z NIL=
METAR OICS 140330Z NIL=
METAR OIHH 140330Z NIL=
METAR OITL 140330Z NIL=
METAR OIZC 140330Z NIL=


......................................................................................


Date: Friday 14th of June 2024

SAIR34 OIII 140330
METAR OIAG 140330Z NIL=
METAR OIAM 140330Z NIL=
METAR OICI 140330Z 11004KT CAVOK 26/04 Q1011 A2987=
METAR OIKQ 140330Z NIL=
METAR OINN 140330Z NIL=
METAR OINR 140330Z NIL=
METAR OISL 140330Z 00000KT CAVOK 27/10 Q1004 A2965=
METAR OISY 140330Z NIL=
METAR OITZ 140330Z NIL=


......................................................................................


Date: Friday 14th of June 2024

SAIR36 OIII 140330
METAR OIBA 140330Z NIL=
METAR OIBV 140330Z NIL=
METAR OIFS 140330Z NIL=
METAR OIIP 140330Z NIL=
METAR OIMB 140330Z NIL=
METAR OIMN 140330Z 11004KT 9999 FEW030 SCT160 22/13 Q1015=
METAR OIMS 140330Z NIL=
METAR OIMT 140330Z NIL=
METAR OIZJ 140330Z NIL=


......................................................................................


Date: Friday 14th of June 2024

SAPK31 OPKC 140330
METAR OPKC 140330Z 25012KT 5000 HZ SCT020 32/24 Q1002 NOSIG=


......................................................................................


Date: Friday 14th of June 2024

SASR31 WSSS 140330
METAR WSSS 140330Z 18007KT 140V210 9999 FEW020TCU BKN300 32/25 Q1009
NOSIG =


......................................................................................


Date: Friday 14th of June 2024

SAHK31 VHHH 140330
METAR VHHH 140330Z 22013KT 9999 -TSRA FEW006 FEW012CB SCT020
30/26 Q1004 TEMPO 24015G25KT 3000 TSRA SHRA FEW010CB SCT020=


......................................................................................


Date: Friday 14th of June 2024

SAIR31 OIII 140330 RRA
METAR OIMM 140330Z 31008KT CAVOK 26/15 Q1014 A2996=


......................................................................................


Date: Friday 14th of June 2024

SAPK31 OPKC 140330
METAR OPKC 140330Z 25012KT 5000 HZ SCT020 32/24 Q1002 NOSIG=
METAR OPLA 140325Z 00000KT 4000 HZ FEW100 35/16 Q1000 BECMG 5000
RMK QFE975 A29.54=
METAR OPIS 140330Z 05013KT 6000 FEW040 34/14 Q1003 NOSIG=
METAR OPPS 140330Z 05006KT 9999 FEW200 31/15 Q1003=
METAR OPMT 140330Z 23014KT 4000 DRDU NSC 34/23 Q0999 TEMPO
23015G25KT 3000 BLDU=
METAR OPFA 140330Z NIL=
METAR OPST 140330Z NIL=
METAR OPSK 140330Z NIL=
METAR OPNH 140330Z NIL=


......................................................................................


Date: Friday 14th of June 2024

SAAE31 VTBB 140330
METAR VTBD 140330Z 21009KT 160V250 9999 FEW030 34/25 Q1007 NOSIG=
METAR VTBS 140330Z 22010KT 9999 FEW020 34/22 Q1007 NOSIG=
METAR VTCC 140330Z VRB02KT 9999 FEW012 BKN020 27/24 Q1008 NOSIG=
METAR VTSP 140330Z 27008KT 230V310 9999 FEW020TCU 32/25 Q1010 NOSIG=
METAR VTSS 140330Z VRB02KT 9999 FEW020 33/23 Q1009 NOSIG=
METAR VTBU 140330Z 24008KT 9999 FEW020 32/25 Q1008 NOSIG=


......................................................................................


Date: Friday 14th of June 2024

SAAE32 VTBB 140330
METAR VDPP 140330Z 23005KT 200V100 9999 SCT017 35/24 Q1006=
METAR VLVT 140330Z 27006KT 9999 FEW016 SCT200 32/26 Q1007 NOSIG=
METAR VYMD 140330Z NIL=
METAR VYNT 140330Z NIL=
METAR VYYY 140330Z 24010KT 7000 BKN016 FEW020CB BKN100 30/26 Q1006=
METAR VDSV 140330Z 28007KT 9999 SCT015 31/27 Q1008=
METAR VDSA 140330Z 25012KT 9999 SCT017 34/24 Q1006=


......................................................................................


Date: Friday 14th of June 2024

SAAE34 VTBB 140330
METAR VVCI 140330Z 24005KT 210V280 CAVOK 34/26 Q1000 NOSIG=
METAR VVCR 140330Z 11008KT 9999 FEW017 34/26 Q1006 NOSIG=
METAR VVCT 140330Z 25009KT 9999 FEW015 34/28 Q1007 NOSIG=
METAR VVDN 140330Z 20003KT 140V270 CAVOK 36/24 Q1004 NOSIG=
METAR VVNB 140330Z VRB02KT 6000 NSC 34/26 Q1000 NOSIG=
METAR VVPB 140330Z 23004KT 200V260 CAVOK 37/24 Q1003 NOSIG=
METAR VVPQ 140330Z 29011KT 9999 SCT015 32/26 Q1009 NOSIG=
METAR VVTS 140330Z 30005KT 240V360 9999 FEW025 35/25 Q1007 NOSIG =
METAR VVVD 140330Z VRB02KT 9999 FEW019 33/28 Q1001 NOSIG=


......................................................................................


Date: Friday 14th of June 2024

SAUZ31 UTTW 140330
METAR UTFN 140330Z 04006KT 360V070 9999 NSC 26/08 Q1007 R28/CLRD70
NOSIG=
METAR UTNN 140330Z 36004KT CAVOK 27/05 Q1012 R33/CLRD60 NOSIG=
METAR UTNU 140330Z 02006KT CAVOK 26/08 Q1011 R31/CLRD70 NOSIG=
METAR UTSA 140330Z 07008KT 9999 NSC 26/08 Q1007 R07/CLRD70 NOSIG=
METAR UTSB 140330Z 36010KT CAVOK 27/12 Q1007 R01/CLRD70 NOSIG=
METAR UTSK 140330Z 13006KT 100V160 CAVOK 24/08 Q1005 R16/CLRD70=
METAR UTSS 140330Z 10020KT 9999 NSC 26/08 Q1008 R09/CLRD70 NOSIG=
METAR UTST 140330Z 26010KT 230V290 CAVOK 29/06 Q1006 R25/CLRD70
NOSIG=
METAR UTFA 140330Z NIL=
METAR UTFF 140330Z 29006KT 240V340 9999 NSC 27/04 Q1008 R18/CLRD70=
METAR UTTT 140330Z 16006KT 130V210 CAVOK 25/08 Q1008 R08R/CLRD70
NOSIG=


......................................................................................


Date: Friday 14th of June 2024

SAHK31 VHHH 140330
METAR VHHH 140330Z 22013KT 9999 -TSRA FEW006 FEW012CB SCT020
30/26 Q1004 TEMPO 24015G25KT 3000 TSRA SHRA FEW010CB SCT020=
METAR RCTP 140330Z 24017KT 5000 SHRA FEW008 BKN030 BKN060 26/26
Q1005 WS ALL RWY TEMPO 3000 SHRA RMK A2968=
METAR RCKH 140330Z 25011KT 190V280 9999 FEW010 SCT018 BKN045 32/27
Q1006 NOSIG RMK 26011KT/R09 A2972=
METAR RCSS 140330Z 30012KT 270V340 9999 -RA FEW025 BKN040 BKN060
32/25 Q1004 TEMPO 5000 RA RMK 29013KT/R10 A2965=
METAR RCMQ 140330Z 18007KT 8000 -RA FEW008 FEW010CB BKN016 BKN040
25/24 Q1008 NOSIG RMK A2977 CB SW=
METAR RCNN 140330Z 21006KT 9000 VCSH FEW008 BKN021 BKN040 29/26
Q1007 NOSIG RMK A2976 VCSH NE=
METAR RCFN 140330Z 20015KT 140V230 9999 FEW020 SCT060 BKN100 35/26
Q1003 NOSIG RMK 17011KT/R04 A2964=
METAR VMMC 140330Z 20010KT 170V230 5000 TSRA FEW009 FEW015CB SCT025
BKN045 29/27 Q1004 TEMPO VRB18G28KT 2500 +TSRA=


......................................................................................


Date: Friday 14th of June 2024

SAMS31 WMKK 140330
METAR WBGG 140330Z NIL=
METAR WBKK 140330Z VRB05KT 9999 FEW014 31/26 Q1009 NOSIG=
METAR WBSB 140330Z 24005KT 9999 FEW015 FEW016CB BKN300 32/25 Q1010
NOSIG=
METAR WMKK 140330Z 26005KT 170V320 9999 FEW017CB SCT018 30/25 Q1010 NOSIG=
METAR WMKP 140330Z VRB05KT 9000 FEW020 32/25 Q1010 NOSIG=
METAR WSSL 140330Z NIL=
METAR WSSS 140330Z 18007KT 140V210 9999 FEW020TCU BKN300 32/25 Q1009 NOSIG=
METAR WSAP 140330Z NIL=


......................................................................................


Date: Friday 14th of June 2024

SAMS31 WMKK 140330 RRA
METAR WBGG 140330Z VRB03KT 9999 SCT016 31/26 Q1010 NOSIG=


......................................................................................


Date: Friday 14th of June 2024

SAPA31 KWBC 140300 RRC
METAR
PKWA 140340Z AUTO 17006KT 10SM CLR 27/24 A2982 RMK AO2
T02740244=


......................................................................................


Date: Friday 14th of June 2024

SAAE31 VDPP 140400
METAR VDPP 140400Z 30006KT 190V010 9999 SCT017 36/23 Q1006=


......................................................................................


Date: Friday 14th of June 2024

SASD20 OEJD 140400
METAR OEAB 140400Z 00000KT CAVOK 22/09 Q1023 NOSIG=
METAR OEAH 140400Z 03003KT CAVOK 34/07 Q1002 NOSIG=
METAR OEAO 140400Z 08002KT CAVOK 31/M06 Q1011 NOSIG=
METAR OEBA 140400Z 31006KT 9999 FEW030 29/01 Q1018 NOSIG=
METAR OEBH 140400Z 09007KT 9999 FEW030 SCT100 31/05 Q1012 NOSIG=
METAR OEDF 140400Z 22006KT CAVOK 34/03 Q1000 NOSIG=
METAR OEDM 140400Z 00000KT CAVOK 29/M04 Q1011=
METAR OEDR 140400Z 27010KT CAVOK 32/07 Q0999=
METAR OEGN 140400Z 00000KT 9000 NSC 34/20 Q1005 NOSIG=
METAR OEGS 140400Z 28005KT CAVOK 27/00 Q1008=
METAR OEGT 140400Z 26004KT CAVOK 27/07 Q1011 NOSIG=
METAR OEHL 140400Z 33004KT CAVOK 32/01 Q1013=
METAR OEJB 140400Z NIL=
METAR OEJN 140400Z 00000KT CAVOK 32/22 Q1004 NOSIG=
METAR OEKJ 140400Z 30003KT CAVOK 33/02 Q1008=
METAR OEKK 140400Z NIL=
METAR OEAR 140400Z 00000KT 9999 FEW040 34/19 Q1006=


......................................................................................


Date: Friday 14th of June 2024

SASD21 OEJD 140400
METAR OEKM 140400Z 00000KT CAVOK 21/10 Q1023 NOSIG=
METAR OEMA 140400Z 03007KT CAVOK 34/M09 Q1011 NOSIG=
METAR OEMN 140400Z 00000KT 9999 FEW040 35/20 Q1007=
METAR OENG 140400Z 21004KT 9999 SCT030 31/M02 Q1014 NOSIG=
METAR OEPA 140400Z 36008KT CAVOK 32/M01 Q1004 NOSIG=
METAR OERF 140400Z 30008KT CAVOK 31/M02 Q1006 NOSIG=
METAR OERK 140400Z 31005KT CAVOK 32/M04 Q1008 NOSIG=
METAR OERR 140400Z 34014KT CAVOK 32/03 Q1008 NOSIG=
METAR OERS 140400Z 19002KT 0400 FG VV/// 27/26 Q1004 NOSIG=
METAR OESH 140400Z 20008KT CAVOK 29/09 Q1009 NOSIG=
METAR OESK 140400Z 32007KT CAVOK 30/M01 Q1013 NOSIG=
METAR OETB 140400Z 00000KT CAVOK 27/M01 Q1012 NOSIG=
METAR OETF 140400Z 33006KT 9999 FEW030 26/11 Q1018 NOSIG=
METAR OETR 140400Z 31008KT CAVOK 27/02 Q1013 NOSIG=
METAR OEWD 140400Z 24002KT CAVOK 34/00 Q1006=
METAR OEWJ 140400Z 00000KT 7000 NSC 27/25 Q1004 NOSIG=
METAR OEYN 140400Z 13004KT CAVOK 28/27 Q1003 NOSIG=


......................................................................................


Date: Friday 14th of June 2024

SASD31 OEJD 140400
METAR OEDF 140400Z 22006KT CAVOK 34/03 Q1000 NOSIG=
METAR OEDR 140400Z 27010KT CAVOK 32/07 Q0999=
METAR OEJN 140400Z 00000KT CAVOK 32/22 Q1004 NOSIG=
METAR OEMA 140400Z 03007KT CAVOK 34/M09 Q1011 NOSIG=
METAR OERK 140400Z 31005KT CAVOK 32/M04 Q1008 NOSIG=
METAR OEAB 140400Z 00000KT CAVOK 22/09 Q1023 NOSIG=
METAR OYAA 140400Z 35008KT 6000 FEW020 31/26 Q1007 NOSIG=
METAR OYSN 140400Z NIL=


......................................................................................


Date: Friday 14th of June 2024

SAOM32 OOMS 140400
METAR OOMS 140350Z 22005KT 190V250 CAVOK 39/14 Q0999 NOSIG=
METAR OOSA 140350Z 16003KT 110V210 9999 BKN025 31/26 Q1005 NOSIG=
METAR OOSH 140350Z AUTO 33008KT //// ////// 40/04 Q0998=
METAR OODQ 140350Z AUTO 23021KT 9999 R22///// FEW037 29/26 Q1002
NOSIG=
METAR COR OOKB 140350Z 02005KT 340V070 CAVOK 35/22 Q0999 NOSIG=
METAR OOAD 140350Z AUTO 07003KT 030V100 9999 // NCD 32/20 Q1004
NOSIG=


......................................................................................


Date: Friday 14th of June 2024

SAPK31 OPKC 140400
METAR OPKC 140400Z 26013KT 5000 HZ SCT020 33/23 Q1003 NOSIG=
METAR OPLA 140355Z 34004KT 5000 HZ NSC 36/15 Q1001 BECMG 6000
RMK QFE975 A29.56=
METAR OPIS 140400Z 09012KT 6000 FEW040 35/12 Q1003 NOSIG=
METAR OPPS 140400Z 18006KT 9999 FEW200 33/14 Q1003=
METAR OPMT 140400Z 23014KT 3000 DRDU NSC 35/24 Q0999 TEMPO
23015G25KT 2500 BLDU=
METAR OPFA 140355Z 09004KT 5000 HZ NSC 37/18 Q1001 NOSIG=
METAR OPST 140400Z 13006KT 4000 HZ NSC 35/12 Q1001 NOSIG RH24=
METAR OPSK 140400Z 13008KT 5000 HZ NSC 34/26 Q1000 NOSIG=
METAR OPNH 140400Z 18014KT 7000 NSC 33/25 Q0999=


......................................................................................


Date: Friday 14th of June 2024

SAHK31 VHHH 140400
METAR VHHH 140400Z 20016KT 9999 -TSRA FEW006 FEW012CB SCT020
30/26 Q1004 TEMPO 24015G25KT 3000 TSRA SHRA FEW010CB SCT020=


......................................................................................


Date: Friday 14th of June 2024

SAIR31 OIII 140400
METAR OIAW 140400Z 26002KT CAVOK 35/14 Q0997=
METAR OIFM 140400Z 33008KT 6000 NSC 26/05 Q1014 A2997=
METAR OIII 140400Z 36004KT 9999 FEW035 SCT100 28/06 Q1013 A2993
NOSIG=
METAR OIKB 140400Z 36004KT 5000 HZ NSC 36/22 Q0998 A2949=
METAR OIKK 140400Z 36004KT 010V130 CAVOK 26/05 Q1015 A3000=
METAR OIMM 140400Z 35006KT CAVOK 27/14 Q1014 A2995=
METAR OISS 140400Z 00000KT CAVOK 27/07 Q1012 A2988=
METAR OITT 140400Z 08006KT 9999 FEW035 21/08 Q1017 A3005=
METAR OIZH 140400Z 04004KT CAVOK 32/03 Q1011 A2988 NOSIG=


......................................................................................


Date: Friday 14th of June 2024

SASR31 WSSS 140400
METAR WSSS 140400Z 16007KT 130V190 9999 FEW020TCU BKN300 32/24 Q1009
NOSIG =


......................................................................................


Date: Friday 14th of June 2024

SATH40 VTBB 140400 RRA
METAR VTBD 140400Z 24008KT 180V300 9999 FEW030 34/24 Q1007 NOSIG=
METAR VTBS 140400Z 21011KT 190V260 9999 FEW020 33/23 Q1007 NOSIG=
METAR VTBU 140400Z 23010KT 9999 FEW020 32/26 Q1008 NOSIG=
METAR VTCC 140400Z 13003KT 100V170 9999 FEW015 BKN020 27/24 Q1008
NOSIG=
METAR VTSP 140400Z 27008KT 240V300 9999 VCSH FEW020TCU 32/25 Q1010
NOSIG=
METAR VTSS 140400Z VRB03KT 9999 FEW020 34/23 Q1009 NOSIG=


......................................................................................


Date: Friday 14th of June 2024

SATH40 VTBB 140400
METAR VTBD 140400Z NIL=
METAR VTBS 140400Z NIL=
METAR VTBU 140400Z NIL=
METAR VTCC 140400Z NIL=
METAR VTCT 140400Z NIL=
METAR VTSB 140400Z NIL=
METAR VTSG 140400Z NIL=
METAR VTSP 140400Z NIL=
METAR VTSS 140400Z NIL=
METAR VTUD 140400Z NIL=
METAR VTUU 140400Z NIL=


......................................................................................


Date: Friday 14th of June 2024

SAIR32 OIII 140400
METAR OIAA 140400Z 29004KT CAVOK 32/09 Q0998=
METAR OIBK 140400Z 33010KT 8000 NSC 32/27 Q0998=
METAR OICC 140400Z 21006KT CAVOK 23/03 Q1012 A2990=
METAR OIGG 140400Z NIL=
METAR OIIE 140400Z 29008KT CAVOK 26/10 Q1012=
METAR OINZ 140400Z 21006KT CAVOK 27/20 Q1010=
METAR OITR 140400Z 27004KT CAVOK 20/13 Q1016 A3000=
METAR OIYY 140400Z 31010KT 2000 R31/1700N DU SCT045 29/07
Q1011 NOSIG=


......................................................................................


Date: Friday 14th of June 2024

SAIR33 OIII 140400
METAR OIBB 140400Z 00000KT CAVOK 35/19 Q0998 A2948 NOSIG=
METAR OIBP 140400Z 00000KT CAVOK 35/24 Q0997 A2946=
METAR OICK 140400Z 12006KT CAVOK 27/04 Q1009 A2981=
METAR OICS 140400Z 07004KT CAVOK 24/06 Q1014 A2996=
METAR OIHH 140400Z 05004KT CAVOK 20/08 Q1016 A3003=
METAR OITL 140400Z 35004KT 9999 FEW040 16/11 Q1017 NOSIG=
METAR OIZC 140400Z NIL=


......................................................................................


Date: Friday 14th of June 2024

SAIR34 OIII 140400
METAR OIAG 140400Z 14008KT CAVOK 34/13 Q0998=
METAR OIAM 140400Z 00000KT CAVOK 35/18 Q0998=
METAR OICI 140400Z 15002KT CAVOK 27/04 Q1011 A2987=
METAR OIKQ 140400Z 11006KT 5000 BR FEW025CB 33/30 Q0998 NOSIG=
METAR OINN 140400Z 00000KT 9999 BKN027 BKN190 26/20 Q1009=
METAR OINR 140400Z 33004KT 9999 SCT030 BKN100 28/22 Q1009=
METAR OISL 140400Z 25004KT CAVOK 29/08 Q1004 A2965=
METAR OISY 140400Z 00000KT CAVOK 22/06 Q1015=
METAR OITZ 140400Z 00000KT 9999 SCT035 18/10 Q1017 A3006=


......................................................................................


Date: Friday 14th of June 2024

SAIR35 OIII 140400
METAR OIAD 140400Z NIL=
METAR OIBJ 140400Z 00000KT CAVOK 34/07 Q1004 A2967=
METAR OIBS 140400Z 33010KT 5000 HZ NSC 33/25 Q0998=
METAR OIHR 140400Z NIL=
METAR OIKM 140400Z NIL=
METAR OIKR 140400Z NIL=
METAR OING 140400Z 00000KT 5000 BR FEW030CB SCT030 OVC080 26/24
Q1011 NOSIG=
METAR OIZB 140400Z 34029G39KT 8000 NSC 34/08 Q1002=
METAR OIZI 140400Z 02004KT 8000 FEW040 SCT100 36/10 Q1004=


......................................................................................


Date: Friday 14th of June 2024

SAIR36 OIII 140400
METAR OIBA 140400Z 36006KT 5000 HZ NSC 32/27 Q0997=
METAR OIBV 140400Z 30014KT 4000 HZ NSC 33/28 Q0997=
METAR OIFS 140400Z 24002KT CAVOK 19/05 Q1019=
METAR OIIP 140400Z 29014KT 6000 FEW040 SCT100 22/11 Q1013 A2994=
METAR OIMB 140400Z 12008KT CAVOK 27/00 Q1013 A2993=
METAR OIMN 140400Z 00000KT CAVOK 23/14 Q1015=
METAR OIMS 140400Z 09008KT 9999 FEW035 28/11 Q1014=
METAR OIMT 140400Z NIL=
METAR OIZJ 140400Z 11012KT 6000 NSC 32/29 Q0998=


......................................................................................


Date: Friday 14th of June 2024

SAIR37 OIII 140400
METAR OIBL 140400Z 09014KT 5000 HZ NSC 34/24 Q0998=
METAR OIBQ 140400Z 20002KT 8000 NSC 35/22 Q0998=
METAR OIIK 140400Z 27004KT 9999 FEW035CB SCT040 BKN100 21/15 Q1016=
METAR OIMD 140400Z NIL=
METAR OIMQ 140400Z NIL=
METAR OINE 140400Z 00000KT 9999 FEW030 BKN090 27/20 Q1009=
METAR OITK 140400Z 29002KT 8000 NSC 22/10 Q1016 A3002=
METAR OITM 140400Z 10006KT CAVOK 21/08 Q1015=


......................................................................................


Date: Friday 14th of June 2024

SAIR38 OIII 140400
METAR OIAH 140400Z 00000KT CAVOK 31/09 Q1005=
METAR OIBH 140400Z 15006KT 5000 HZ NSC 31/24 Q0998 A2948=
METAR OICM 140400Z 05002KT CAVOK 36/10 Q0997=
METAR OIIS 140400Z NIL=
METAR OIMJ 140400Z 35012KT 9999 BKN035 23/12 Q1015=
METAR OISF 140400Z 00000KT CAVOK 26/02 Q1010 A2984=
METAR OISR 140400Z 00000KT CAVOK 32/11 Q1002 A2960=
METAR OITP 140400Z 26004KT CAVOK 27/17 Q1009=
METAR OITU 140400Z NIL=


......................................................................................


Date: Friday 14th of June 2024

SAAE31 VTBB 140400
METAR VTBD 140400Z 24008KT 180V300 9999 FEW030 34/24 Q1007 NOSIG=
METAR VTBS 140400Z 21011KT 190V260 9999 FEW020 33/23 Q1007 NOSIG=
METAR VTCC 140400Z 13003KT 100V170 9999 FEW015 BKN020 27/24 Q1008
NOSIG=
METAR VTSP 140400Z 27008KT 240V300 9999 VCSH FEW020TCU 32/25 Q1010
NOSIG=
METAR VTSS 140400Z VRB03KT 9999 FEW020 34/23 Q1009 NOSIG=
METAR VTBU 140400Z 23010KT 9999 FEW020 32/26 Q1008 NOSIG=


......................................................................................


Date: Friday 14th of June 2024

SAAE32 VTBB 140400
METAR VDPP 140400Z 30006KT 190V010 9999 SCT017 36/23 Q1006=
METAR VLVT 140400Z 27004KT 9999 SCT016 SCT200 33/27 Q1006 NOSIG=
METAR VYMD 140400Z NIL=
METAR VYNT 140400Z 14008KT 6000 DZ BKN016 FEW020CB OVC100 26/25
Q1006=
METAR VYYY 140400Z 23009KT 7000 BKN016 FEW020CB BKN100 30/26 Q1006=
METAR VDSV 140400Z 30008KT 9999 SCT015 32/26 Q1008=
METAR VDSA 140400Z 26010KT 9999 SCT017 35/24 Q1006=


......................................................................................


Date: Friday 14th of June 2024

SAAE33 VTBB 140400
METAR VLLB 140400Z 27006KT 9999 SCT020 BKN060 31/23 Q1005 NOSIG=
METAR VLLN 140400Z 27006KT 9999 SCT020 BKN100 30/25 Q1008 NOSIG=
METAR VLPS 140400Z 27004KT 9999 FEW020 FEW050 34/25 Q1008 NOSIG=
METAR VLSK 140400Z 22006KT 9000 SCT040 FEW100 34/22 Q1008 NOSIG=


......................................................................................


Date: Friday 14th of June 2024

SAAE34 VTBB 140400
METAR VVCI 140400Z 26005KT 220V290 CAVOK 34/26 Q1000 NOSIG=
METAR VVCR 140400Z 12009KT 9999 FEW017 35/24 Q1006 NOSIG=
METAR VVCT 140400Z 27008KT 9999 SCT017 34/28 Q1007 NOSIG=
METAR VVDN 140400Z VRB02KT CAVOK 37/24 Q1003 NOSIG=
METAR VVNB 140400Z VRB04KT CAVOK 35/26 Q1000 NOSIG=
METAR VVPB 140400Z 30004KT 300V360 CAVOK 37/23 Q1003 NOSIG=
METAR VVPQ 140400Z 29011KT 9999 SCT015 32/26 Q1008 NOSIG=
METAR VVTS 140400Z 27006KT 230V320 9999 SCT025 35/24 Q1007 NOSIG =
METAR VVVD 140400Z AUTO VRB03KT 9999 FEW022/// SCT180/// 33/29 Q1001
NOSIG=


......................................................................................


Date: Friday 14th of June 2024

SAMS31 WMKK 140400
METAR WBGG 140400Z NIL=
METAR WBKK 140400Z VRB04KT 9999 FEW014 32/26 Q1009 NOSIG=
METAR WBSB 140400Z 23004KT 9999 FEW016 BKN300 33/27 Q1010
NOSIG=
METAR WMKK 140400Z VRB06KT 9999 FEW017CB SCT018 30/25 Q1010 NOSIG=
METAR WMKP 140400Z VRB04KT 9999 FEW020 33/24 Q1010 NOSIG=
METAR WSSL 140400Z 30004KT 230V010 9999 FEW018TCU
BKN300 33/25 Q1009=
METAR WSSS 140400Z 16007KT 130V190 9999 FEW020TCU BKN300 32/24 Q1009
NOSIG=
METAR WSAP 140400Z 14007KT 9999
FEW018 FEW020TCU
SCT160 BKN300 32/23 Q1010=


......................................................................................


Date: Friday 14th of June 2024

SAIR20 OIII 140400
METAR OIAA 140400Z 29004KT CAVOK 32/09 Q0998 NOSIG=
METAR OIAG 140400Z 14008KT CAVOK 34/13 Q0998=
METAR OIAH 140400Z 00000KT CAVOK 31/09 Q1005=
METAR OIAI 140400 NIL=
METAR OIAM 140400Z 00000KT CAVOK 35/18 Q0998=
METAR OIAW 140350Z 26002KT CAVOK 35/14 Q0997 NOSIG=
METAR OIBA 140400Z 36006KT 5000 HZ NSC 32/27 Q0997=
METAR OIBB 140400Z 00000KT CAVOK 35/19 Q0998 A2948 NOSIG=
METAR OIBK 140400Z 33010KT 8000 NSC 32/27 Q0998 NOSIG=
METAR OIBL 140400Z 09014KT 5000 HZ NSC 34/24 Q0998=
METAR OIBS 140400Z 33010KT 5000 HZ NSC 33/25 Q0998=
METAR OICC 140351Z 21006KT CAVOK 23/03 Q1012 A2990 NOSIG=
METAR OICI 140400Z 15002KT CAVOK 27/04 Q1011 A2987=
METAR OICJ 140400 NIL=
METAR OICK 140400Z 12006KT CAVOK 27/04 Q1009 A2981=
METAR OICS 140400Z 07004KT CAVOK 24/06 Q1014 A2996=
METAR OIFK 140400Z 06002KT 5000 HZ NSC 31/06 Q1011 A2987=
METAR OIFM 140400Z 33008KT 6000 NSC 26/05 Q1014 A2997 NOSIG=
METAR OIFS 140355Z 24002KT CAVOK 19/05 Q1019=
METAR OIGG 140400Z 00000KT 5000 BR SCT020 BKN100 25/25 Q1010=
METAR OIGK 140400Z 27002KT 9999 FEW035 18/09 Q1020=
METAR OIHH 140400Z 05004KT CAVOK 20/08 Q1016 A3003=
METAR OIHM 140400Z 19002KT CAVOK 20/07 Q1015=
METAR OIIE 140400Z 29008KT CAVOK 26/10 Q1012 NOSIG=
METAR OIII 140351Z 36004KT 9999 FEW035 SCT100 28/06 Q1013 A2993
NOSIG=
METAR OIIK 140352Z 27004KT 9999 FEW035CB SCT040 BKN100 21/15 Q1016=
METAR OIIP 140400Z 29014KT 6000 FEW040 SCT100 22/11 Q1013 A2994=
METAR OIIS 140400 NIL=
METAR OIKB 140400Z 36004KT 5000 HZ NSC 36/22 Q0998 A2949 NOSIG=
METAR OIKK 140350Z 36004KT 010V130 CAVOK 26/05 Q1015 A3000=
METAR OIKO 140400Z 00000KT 4000 HZ NSC 35/25 Q0999=
METAR OIKQ 140400Z 11006KT 5000 BR FEW025CB 33/30 Q0998 NOSIG=
METAR OIMB 140400Z 12008KT CAVOK 27/00 Q1013 A2993=
METAR OIMC 140400 NIL=
METAR OIMD 140400 NIL=
METAR OIMM 140400Z 35006KT CAVOK 27/14 Q1014 A2995=
METAR OINB 140400Z 00000KT CAVOK 28/22 Q1010=
METAR OING 140400Z 00000KT 5000 BR FEW030CB SCT030 OVC080 26/24
Q1011 NOSIG=
METAR OINK 140400Z 00000KT 6000 SCT030 BKN090 27/21 Q1008 A2979=
METAR OINN 140400Z 00000KT 9999 BKN027 BKN190 26/20 Q1009=
METAR OINR 140400Z 33004KT 9999 SCT030 BKN100 28/22 Q1009=
METAR OISA 140400Z 36010KT 5000 DU NSC 22/03 Q1017 A3004=
METAR OISF 140400Z 00000KT CAVOK 26/02 Q1010 A2984=
METAR OISL 140400Z 25004KT CAVOK 29/08 Q1004 A2965 NOSIG=
METAR OISS 140400Z 00000KT CAVOK 27/07 Q1012 A2988 NOSIG=
METAR OISY 140400Z 00000KT CAVOK 22/06 Q1015=
METAR OITL 140354Z 35004KT 9999 FEW040 16/11 Q1017 NOSIG=
METAR OITR 140400Z 27004KT CAVOK 20/13 Q1016 A3000 NOSIG=
METAR OITT 140400Z 08006KT 9999 FEW035 21/08 Q1017 A3005 NOSIG=
METAR OITU 140400Z 00000KT 9000 NSC 24/08 Q1015 A2998=
METAR OIYY 140350Z 31010KT 2000 R31/1700N DU SCT045 29/07 Q1011
NOSIG=
METAR OIZB 140400Z 34029G39KT 8000 NSC 34/08 Q1002=
METAR OIZH 140400Z 04004KT CAVOK 32/03 Q1011 A2988 NOSIG=
METAR OIZI 140400Z 02004KT 8000 FEW040 SCT100 36/10 Q1004=
METAR OIZJ 140400Z 11012KT 6000 NSC 32/29 Q0998=


......................................................................................


Date: Friday 14th of June 2024

SAIR77 OIII 140400
METAR OIAA 140400Z 29004KT CAVOK 32/09 Q0998 NOSIG=
METAR OIAG 140400Z 14008KT CAVOK 34/13 Q0998=
METAR OIAH 140400Z 00000KT CAVOK 31/09 Q1005=
METAR OIAI 140400 NIL=
METAR OIAM 140400Z 00000KT CAVOK 35/18 Q0998=
METAR OIAW 140350Z 26002KT CAVOK 35/14 Q0997 NOSIG=
METAR OIBA 140400Z 36006KT 5000 HZ NSC 32/27 Q0997=
METAR OIBB 140400Z 00000KT CAVOK 35/19 Q0998 A2948 NOSIG=
METAR OIBK 140400Z 33010KT 8000 NSC 32/27 Q0998 NOSIG=
METAR OIBL 140400Z 09014KT 5000 HZ NSC 34/24 Q0998=
METAR OIBS 140400Z 33010KT 5000 HZ NSC 33/25 Q0998=
METAR OICC 140351Z 21006KT CAVOK 23/03 Q1012 A2990 NOSIG=
METAR OICI 140400Z 15002KT CAVOK 27/04 Q1011 A2987=
METAR OICJ 140400 NIL=
METAR OICK 140400Z 12006KT CAVOK 27/04 Q1009 A2981=
METAR OICS 140400Z 07004KT CAVOK 24/06 Q1014 A2996=
METAR OIFK 140400Z 06002KT 5000 HZ NSC 31/06 Q1011 A2987=
METAR OIFM 140400Z 33008KT 6000 NSC 26/05 Q1014 A2997 NOSIG=
METAR OIFS 140355Z 24002KT CAVOK 19/05 Q1019=
METAR OIGG 140400Z 00000KT 5000 BR SCT020 BKN100 25/25 Q1010=
METAR OIGK 140400Z 27002KT 9999 FEW035 18/09 Q1020=
METAR OIHM 140400Z 19002KT CAVOK 20/07 Q1015=
METAR OIIE 140400Z 29008KT CAVOK 26/10 Q1012 NOSIG=
METAR OIII 140351Z 36004KT 9999 FEW035 SCT100 28/06 Q1013 A2993
NOSIG=
METAR OIIK 140352Z 27004KT 9999 FEW035CB SCT040 BKN100 21/15 Q1016=
METAR OIIP 140400Z 29014KT 6000 FEW040 SCT100 22/11 Q1013 A2994=
METAR OIKB 140400Z 36004KT 5000 HZ NSC 36/22 Q0998 A2949 NOSIG=
METAR OIKK 140350Z 36004KT 010V130 CAVOK 26/05 Q1015 A3000=
METAR OIKO 140400Z 00000KT 4000 HZ NSC 35/25 Q0999=
METAR OIKQ 140400Z 11006KT 5000 BR FEW025CB 33/30 Q0998 NOSIG=
METAR OIMB 140400Z 12008KT CAVOK 27/00 Q1013 A2993=
METAR OIMC 140400 NIL=
METAR OIMD 140400 NIL=
METAR OIMM 140400Z 35006KT CAVOK 27/14 Q1014 A2995=
METAR OIMN 140400Z 00000KT CAVOK 23/14 Q1015=
METAR OINB 140400Z 00000KT CAVOK 28/22 Q1010=
METAR OING 140400Z 00000KT 5000 BR FEW030CB SCT030 OVC080 26/24
Q1011 NOSIG=
METAR OINK 140400Z 00000KT 6000 SCT030 BKN090 27/21 Q1008 A2979=
METAR OINN 140400Z 00000KT 9999 BKN027 BKN190 26/20 Q1009=
METAR OINR 140400Z 33004KT 9999 SCT030 BKN100 28/22 Q1009=
METAR OISA 140400Z 36010KT 5000 DU NSC 22/03 Q1017 A3004=
METAR OISF 140400Z 00000KT CAVOK 26/02 Q1010 A2984=
METAR OISL 140400Z 25004KT CAVOK 29/08 Q1004 A2965 NOSIG=
METAR OISS 140400Z 00000KT CAVOK 27/07 Q1012 A2988 NOSIG=
METAR OISY 140400Z 00000KT CAVOK 22/06 Q1015=
METAR OITL 140354Z 35004KT 9999 FEW040 16/11 Q1017 NOSIG=
METAR OITR 140400Z 27004KT CAVOK 20/13 Q1016 A3000 NOSIG=
METAR OITT 140400Z 08006KT 9999 FEW035 21/08 Q1017 A3005 NOSIG=
METAR OIYY 140350Z 31010KT 2000 R31/1700N DU SCT045 29/07 Q1011
NOSIG=
METAR OIZB 140400Z 34029G39KT 8000 NSC 34/08 Q1002=
METAR OIZH 140400Z 04004KT CAVOK 32/03 Q1011 A2988 NOSIG=
METAR OIZI 140400Z 02004KT 8000 FEW040 SCT100 36/10 Q1004=
METAR OIZJ 140400Z 11012KT 6000 NSC 32/29 Q0998=


......................................................................................


Date: Friday 14th of June 2024

SAOM81 OOMS 140300 RRA
METAR OOJB 140250Z AUTO 14009KT //// ////// 29/26 Q1001=
METAR OOSQ 140250Z AUTO 09010KT //// 00/// Q1011=


......................................................................................


Date: Friday 14th of June 2024

SAOM81 OOMS 140200 RRC
METAR OOJB 140150Z AUTO VRB01KT //// ////// 27/25 Q1001=


......................................................................................


Date: Friday 14th of June 2024

SAOM81 OOMS 140300 RRB
METAR OOMJ 140250Z AUTO 24005KT //// ////// 35/19 Q0998=


......................................................................................


Date: Friday 14th of June 2024

SAAR20 OEJD 140400
METAR OBBI 140400Z 27004KT 240V310 CAVOK 36/18 Q1000 NOSIG=
METAR OKKK 140400Z 25004KT 7000 NSC 35/04 Q0999 NOSIG=
METAR OMAA 140400Z 19007KT CAVOK 32/22 Q0999 WS ALL RWY NOSIG=
METAR OMAD 140400Z VRB04KT CAVOK 32/25 Q0999 NOSIG=
METAR OMAL 140400Z 17005KT CAVOK 34/11 Q1002 NOSIG=
METAR OMDB 140400Z 22005KT 150V240 CAVOK 34/21 Q0999 NOSIG=
METAR OMFJ 140350Z 28018KT CAVOK 39/10 Q0998 RMK A2948=
METAR OMRK 140400Z 19009KT CAVOK 35/15 Q0999 A2952=
METAR OMSJ 140400Z 19007KT CAVOK 34/19 Q0999 NOSIG=
METAR OOMS 140350Z 22005KT 190V250 CAVOK 39/14 Q0999 NOSIG=
METAR OOSA 140350Z 16003KT 110V210 9999 BKN025 31/26 Q1005 NOSIG=
METAR OOSH 140350Z AUTO 33008KT //// ////// 40/04 Q0998 RMK 0995=
METAR OODQ 140350Z AUTO 23021KT 9999 R22///// FEW037 29/26 Q1002
NOSIG RMK RH81? 0=
METAR OTBD 140400Z AUTO 27004KT 230V300 CAVOK 38/07 Q1000 NOSIG=
METAR OTBH 140400Z NIL=
METAR OTHH 140400Z AUTO 26008KT 240V310 CAVOK 37/08 Q1000 NOSIG=
METAR OYAA 140400Z 35008KT 6000 FEW020 31/26 Q1007 NOSIG=
METAR OYSN 140400Z NIL=


......................................................................................


Date: Friday 14th of June 2024

SAOM81 OOMS 140300 RRC
METAR OOSM 140250Z AUTO VRB03KT //// ////// 34/12 Q1006=


......................................................................................


Date: Friday 14th of June 2024

SAOM81 OOMS 140200 RRD
METAR OOSM 140150Z AUTO VRB02KT //// ////// 32/11 Q1005=


......................................................................................


Date: Friday 14th of June 2024

SAPA31 KWBC 140400
METAR
AGGG NIL=
AGGH 140400Z NIL=
ANAU NIL=
AYPY 140400Z 15020KT 9999 HZ FEW020 SCT040 30/22 Q1010=
PGNT NIL=
PGRO 140350Z 09015G20KT 7SM BKN014 BKN080 28/24 A2983=
PGSN 140354Z 09012KT 10SM SCT017 SCT023 32/26 A2986 RMK AO2 SLP130
T03220256 $=
PGUA 140355Z AUTO 12007KT 8SM FEW014 30/25 A2986 RMK AO2 SLP102
T02950250 $=
PGUM 140354Z 10008KT 10SM SCT020 31/25 A2985 RMK AO2 SLP100
T03060250=
PGWT 140350Z 10013KT 7SM VCSH SCT022 BKN140 31/25 A2986 RMK VCSH
SW-W=
PHJH NIL=
PHJR 140353Z 06009G20KT 10SM SCT039 SCT048 26/18 A3000 RMK AO2
SLP166 T02610183=
PHMK 140354Z 05010G22KT 10SM SCT040 26/17 A3001 RMK AO2 PK WND
08029/0311 SLP163 T02610172=
PJON NIL=
PKMJ 140350Z 03009K 15SM FEW014 SCT050 BKN120 OVC300 30/25
A2978=
PKMR 140355Z 06008KT 15SM FEW014 SCT050 BKN120 OVC300 30/25 A2976
RMK SLP080 T03010253=
PKWA 140400Z AUTO 10SM SCT014 28/24 A2982 RMK AO2 T02750244=
PLCH 140400Z 10007KT 9999 FEW020 29/24 Q1008=
PMDY NIL=
PTKK 140353Z VRB05KT 15SM FEW014 SCT120 OVC280 31/27 A2978 RMK
SLP086 T03070269=
PTKR NIL=
PTPN NIL=
PTRO 140350Z 13005KT 15SM SCT016 BKN120 OVC300 30/24 A2981=
PTSA 140355Z VRB03KT 10SM -SHRA BKN016 BKN130 OVC300 26/25
A2979=
PTTP 140355Z 12003KT 12SM -SHRA BKN017TCU OVC120 27/27 A2983 RMK
TCU ALQDS SLP102 T02710265=
PTYA 140354Z VRB05KT 12SM FEW016CB SCT130 BKN300 30/26 A2982 RMK
CB N SLP098 T02970256=
PWAK 140355Z AUTO 06014KT 10SM FEW020 30/23 A2993 RMK AO2 SLP141
T02980230=


......................................................................................


Date: Friday 14th of June 2024

SAAE31 VDPP 140430
METAR VDPP 140430Z VRB03KT 9999 SCT017 36/23 Q1005=


......................................................................................


Date: Friday 14th of June 2024

SAAR20 OEJD 140400 RRA
METAR OTBH 140355Z 26008KT 9999 CLR 34/17 A2951 Q0999=


......................................................................................


Date: Friday 14th of June 2024

SAPA31 KWBC 140400 RRA
METAR
AGGH 140400Z 14008KT 9999 BKN018 FEW019CB 31/26 Q1007=


......................................................................................


Date: Friday 14th of June 2024

SAOM81 OOMS 140400
METAR OOAD 140350Z AUTO 07003KT 030V100 9999 // NCD 32/20 Q1004 NOSIG=
METAR OOBH 140350Z AUTO VRB00KT //// ////// 31/19 Q1008=
METAR OOBR 140400Z NIL=
METAR OODB 140400Z NIL=
METAR OODQ 140350Z AUTO 23021KT 9999 R22///// FEW037 29/26 Q1002 NOSIG=
METAR OOFD 140350Z AUTO 10006KT //// ////// 34/20 Q1002=
METAR OOIB 140400Z NIL=
METAR OOIR 140400Z NIL=
METAR OOJB 140350Z AUTO 16013KT //// ////// 30/25 Q1002=
METAR OOJS 140400Z NIL=
METAR COR OOKB 140350Z 02005KT 340V070 CAVOK 35/22 Q0999 NOSIG=
METAR OOMA 140350Z AUTO 23015KT //// ////// 30/27 Q1002=
METAR OOMJ 140350Z AUTO 35006KT //// ////// 37/21 Q0998=
METAR OOML 140400Z NIL=
METAR OOMQ 140350Z AUTO 29008KT //// ////// 37/19 Q0999=
METAR OOMS 140350Z 22005KT 190V250 CAVOK 39/14 Q0999 NOSIG=
METAR OONZ 140350Z AUTO VRB03KT //// ////// 32/19 Q1005=
METAR OOQA 140400Z NIL=
METAR OOQH 140350Z AUTO 16009KT 9999 ////// 25/23 Q1011=
METAR OOQL 140350Z AUTO 02003KT //// ////// 35/25 Q0999=
METAR OOQQ 140350Z AUTO 04011KT //// 26/M04 Q1022=
METAR OORA 140350Z AUTO 12001KT //// ////// 31/26 Q1004=
METAR OORH 140400Z NIL=
METAR OORQ 140400Z NIL=
METAR OOSA 140350Z 16003KT 110V210 9999 BKN025 31/26 Q1005 NOSIG=
METAR OOSM 140350Z AUTO VRB01KT //// ////// 37/10 Q1006=
METAR OOSQ 140350Z AUTO 09011KT //// 00/// Q1011=
METAR OOSR 140350Z AUTO 24014KT //// ////// 36/18 Q1000=
METAR OOTH 140400Z AUTO 19016KT 9999 ////// 31/18 Q1006 NOSIG=
METAR OOYA 140350Z AUTO 21013KT //// ////// 31/23 Q1003=


......................................................................................


Date: Friday 14th of June 2024

SAOM81 OOMS 140400 RRA
METAR OORH 140350Z AUTO 18017KT //// ////// 28/25 Q1000=


......................................................................................


Date: Friday 14th of June 2024

SAPA31 KWBC 140400 RRB
METAR
PKWA 140420Z AUTO 17003KT 10SM SCT014 28/24 A2982 RMK AO2
T02770244=


......................................................................................


Date: Friday 14th of June 2024

SAIR20 OIII 140430
METAR OIAA 140430 NIL=
METAR OIAW 140425Z 21002KT CAVOK 37/14 Q0997=
METAR OIFM 140430Z 10004KT 2500 DU NSC 27/05 Q1014 A2997=
METAR OIGG 140430 NIL=
METAR OIIE 140430Z 29008KT 9999 FEW100 26/10 Q1012=
METAR OIII 140422Z 20004KT 9999 FEW040 SCT100 29/06 Q1013 A2993=
METAR OIKB 140430Z 19004KT 5000 HZ NSC 37/21 Q0998 A2949=
METAR OIMM 140430Z 02004KT CAVOK 29/14 Q1014 A2995 NOSIG=
METAR OISS 140430Z 00000KT CAVOK 28/06 Q1012 A2988=
METAR OITT 140430Z 12004KT 9999 FEW035 23/09 Q1017 A3004=
METAR OIYY 140420Z 29012KT 2000 DU SCT045 29/07 Q1011=
METAR OIZH 140430Z 03008KT CAVOK 32/02 Q1011 A2988=


......................................................................................


Date: Friday 14th of June 2024

SAPK31 OPKC 140430
METAR OPKC 140430Z 24014KT 6000 SCT020 33/23 Q1003 NOSIG=
METAR OPLA 140425Z 00000KT 6000 NSC 37/15 Q1000 NOSIG
RMK QFE973 A29.56=
METAR OPIS 140430Z 04008KT 6000 FEW040 36/11 Q1003 NOSIG=
METAR OPPS 140430Z 18006KT 9999 FEW200 33/14 Q1003=
METAR OPMT 140430Z 23014KT 3000 DRDU NSC 36/24 Q0999 TEMPO
23015G25KT 2500 BLDU=
METAR OPFA 140430Z NIL=
METAR OPST 140430Z NIL=
METAR OPSK 140430Z NIL=
METAR OPNH 140430Z NIL=


......................................................................................


Date: Friday 14th of June 2024

SAIR31 OIII 140430
METAR OIAW 140430Z 21002KT CAVOK 37/14 Q0997=
METAR OIFM 140430Z 10004KT 2500 DU NSC 27/05 Q1014 A2997=
METAR OIII 140430Z 20004KT 9999 FEW040 SCT100 29/06 Q1013 A2993=
METAR OIKB 140430Z 19004KT 5000 HZ NSC 37/21 Q0998 A2949=
METAR OIKK 140430Z NIL=
METAR OIMM 140430Z NIL=
METAR OISS 140430Z 00000KT CAVOK 28/06 Q1012 A2988=
METAR OITT 140430Z 12004KT 9999 FEW035 23/09 Q1017 A3004=
METAR OIZH 140430Z 03008KT CAVOK 32/02 Q1011 A2988=


......................................................................................


Date: Friday 14th of June 2024

SAIR31 OIII 140430 RRA
METAR OIMM 140430Z 02004KT CAVOK 29/14 Q1014 A2995=


......................................................................................


Date: Friday 14th of June 2024

SAIR32 OIII 140430
METAR OIAA 140430Z NIL=
METAR OIBK 140430Z 32006KT 8000 NSC 33/27 Q0998=
METAR OICC 140430Z 16008KT CAVOK 26/05 Q1012 A2990=
METAR OIGG 140430Z 00000KT 5000 BR SCT013 BKN080 26/26
Q1011=
METAR OIIE 140430Z NIL=
METAR OINZ 140430Z NIL=
METAR OITR 140430Z 36006KT CAVOK 23/12 Q1016 A3000=
METAR OIYY 140430Z 29012KT 2000 DU SCT045 29/07 Q1011=


......................................................................................


Date: Friday 14th of June 2024

SAIR33 OIII 140430
METAR OIBB 140430Z NIL=
METAR OIBP 140430Z NIL=
METAR OICK 140430Z NIL=
METAR OICS 140430Z NIL=
METAR OIHH 140430Z NIL=
METAR OITL 140430Z 00000KT 9999 FEW040 18/12 Q1017=
METAR OIZC 140430Z NIL=


......................................................................................


Date: Friday 14th of June 2024

SAIR36 OIII 140430
METAR OIBA 140430Z NIL=
METAR OIBV 140430Z NIL=
METAR OIFS 140430Z NIL=
METAR OIIP 140430Z NIL=
METAR OIMB 140430Z NIL=
METAR OIMN 140430Z VRB02KT CAVOK 24/13 Q1015=
METAR OIMS 140430Z NIL=
METAR OIMT 140430Z NIL=
METAR OIZJ 140430Z NIL=


......................................................................................


Date: Friday 14th of June 2024

SAAE31 VTBB 140430
METAR VTBD 140430Z 23009KT 190V250 9999 FEW030 34/23 Q1007 NOSIG=
METAR VTBS 140430Z 21011KT 180V250 9999 FEW020 34/23 Q1007 NOSIG=
METAR VTCC 140430Z 19003KT 130V250 9999 FEW018 BKN024 28/24 Q1008
NOSIG=
METAR VTSP 140430Z 27008KT 220V310 9999 VCSH FEW020TCU 33/25 Q1009
NOSIG=
METAR VTSS 140430Z VRB05KT 9999 FEW020 34/23 Q1008 NOSIG=
METAR VTBU 140430Z 23010KT 9999 FEW020 32/26 Q1007 NOSIG=


......................................................................................


Date: Friday 14th of June 2024

SAAE32 VTBB 140430
METAR VDPP 140430Z VRB03KT 9999 SCT017 36/23 Q1005=
METAR VLVT 140430Z 27006KT 9999 SCT016 SCT200 33/27 Q1006 NOSIG=
METAR VYMD 140430Z 18009KT 7000 BKN017 FEW020CB BKN100 31/27 Q1003=
METAR VYNT 140430Z NIL=
METAR VYYY 140430Z 21010KT 7000 BKN015 FEW020CB BKN100 30/26 Q1006=
METAR VDSV 140430Z 28010KT 9999 SCT015 32/27 Q1007=
METAR VDSA 140430Z 25010KT 9999 SCT017 35/25 Q1006=


......................................................................................


Date: Friday 14th of June 2024

SAAE34 VTBB 140430
METAR VVCI 140430Z 28006KT 240V310 CAVOK 34/24 Q1000 NOSIG=
METAR VVCR 140430Z 12008KT 100V170 9999 FEW017 36/24 Q1005 NOSIG=
METAR VVCT 140430Z 26007KT 9999 SCT017 35/28 Q1007 NOSIG=
METAR VVDN 140430Z VRB03KT 9999 FEW017 37/23 Q1003 NOSIG=
METAR VVNB 140430Z 29004KT 250V320 CAVOK 35/26 Q1000 NOSIG=
METAR VVPB 140430Z 03009KT CAVOK 36/26 Q1003 NOSIG=
METAR VVPQ 140430Z 29012KT 9999 SCT015 32/26 Q1008 NOSIG=
METAR VVTS 140430Z 27006KT 240V310 9999 SCT025 35/25 Q1007 NOSIG =
METAR VVVD 140430Z AUTO 14003KT 070V170 9999 FEW130/// SCT170///
33/28 Q1000 NOSIG=


......................................................................................


Date: Friday 14th of June 2024

SAIR20 OIII 140430 RRA
METAR OIGG 140430Z 00000KT 5000 BR SCT013 BKN080 26/26 Q1011=


......................................................................................


Date: Friday 14th of June 2024

SAMS31 WMKK 140430
METAR WBGG 140430Z VRB02KT 9999 SCT020 32/26 Q1009 NOSIG=
METAR WBKK 140430Z VRB05KT 9999 FEW014 32/26 Q1008 NOSIG=
METAR WBSB 140430Z 22006KT 9999 FEW016 BKN300 33/26 Q1010 NOSIG=
METAR WMKK 140430Z VRB03KT 9000 VCSH FEW017CB SCT018 31/26 Q1009 NOSIG=
METAR WMKP 140430Z VRB06KT 9999 FEW020 33/24 Q1009 NOSIG=
METAR WSSL 140430Z NIL=
METAR WSSS 140430Z 17007KT 130V210 9999 FEW018TCU BKN300 32/24 Q1009 NOSIG=
METAR WSAP 140430Z NIL=


......................................................................................


Date: Friday 14th of June 2024

SAPA31 KWBC 140400 RRC
METAR
PKWA 140440Z AUTO 16003KT 10SM CLR 28/25 A2981 RMK AO2
T02770245=


......................................................................................


Date: Friday 14th of June 2024

SAAE31 VDPP 140500
METAR VDPP 140500Z VRB03KT 9999 SCT017 37/23 Q1005=


......................................................................................


Date: Friday 14th of June 2024

SAPK31 OPKC 140500
METAR OPKC 140500Z 24014KT 6000 FEW020 34/23 Q1003 NOSIG=
METAR OPLA 140455Z 00000KT 6000 NSC 39/13 Q1000 BECMG 7000
RMK QFE975 A29.54=
METAR OPIS 140500Z 31006KT 6000 FEW040 36/11 Q1003 NOSIG=
METAR OPPS 140500Z 18006KT 9999 FEW200 35/14 Q1003=
METAR OPMT 140500Z 23018KT 3000 DRDU NSC 37/24 Q1000 TEMPO
23015G25KT 2500 BLDU=
METAR OPFA 140455Z 00000KT 6000 NSC 39/20 Q1002 NOSIG=
METAR OPST 140500Z 05006KT 4000 HZ FEW040 SCT100 38/11 Q1000
NOSIG RH20=
METAR OPSK 140500Z 13006KT 5000 HZ NSC 35/26 Q1001 NOSIG=
METAR OPNH 140500Z 18012KT 7000 NSC 35/25 Q0999=


......................................................................................


Date: Friday 14th of June 2024

SASD20 OEJD 140500
METAR OEAB 140500Z 00000KT CAVOK 25/07 Q1024 NOSIG=
METAR OEAH 140500Z 25004KT CAVOK 37/04 Q1002 NOSIG=
METAR OEAO 140500Z 14002KT CAVOK 33/M04 Q1011 NOSIG=
METAR OEBA 140500Z 32007KT 9999 SCT030 30/01 Q1019 NOSIG=
METAR OEBH 140500Z 27002KT 9999 FEW030 SCT100 34/03 Q1013 NOSIG=
METAR OEDF 140500Z 23006KT CAVOK 37/02 Q1000 NOSIG=
METAR OEDM 140500Z 00000KT CAVOK 33/M05 Q1011=
METAR OEDR 140500Z 25007KT CAVOK 37/06 Q0999=
METAR OEGN 140500Z 27004KT 9000 NSC 36/23 Q1006 NOSIG=
METAR OEGS 140500Z 28004KT CAVOK 31/01 Q1009=
METAR OEGT 140500Z 29006KT CAVOK 30/06 Q1011 NOSIG=
METAR OEHL 140500Z 03004KT CAVOK 34/03 Q1014=
METAR OEJB 140500Z NIL=
METAR OEJN 140500Z 25004KT CAVOK 33/23 Q1004 NOSIG=
METAR OEKJ 140500Z 28005KT CAVOK 35/02 Q1008=
METAR OEKK 140500Z NIL=
METAR OEAR 140500Z 00000KT CAVOK 36/20 Q1007=


......................................................................................


Date: Friday 14th of June 2024

SASD21 OEJD 140500
METAR OEKM 140500Z 20004KT CAVOK 25/07 Q1023 NOSIG=
METAR OEMA 140500Z 04009KT CAVOK 36/M10 Q1011 NOSIG=
METAR OEMN 140500Z 00000KT CAVOK 36/20 Q1007=
METAR OENG 140500Z 24006KT 9999 SCT030 33/M01 Q1014 NOSIG=
METAR OEPA 140500Z 30008KT CAVOK 36/M01 Q1004 NOSIG=
METAR OERF 140500Z 30013KT CAVOK 34/M02 Q1006 NOSIG=
METAR OERK 140500Z 31006KT CAVOK 35/M05 Q1008 NOSIG=
METAR OERR 140500Z 34016KT CAVOK 34/03 Q1008 NOSIG=
METAR OERS 140500Z 16002KT 0300 FG VV/// 28/27 Q1005 NOSIG=
METAR OESH 140500Z 21014KT CAVOK 33/06 Q1009 NOSIG=
METAR OESK 140500Z 02005KT CAVOK 33/02 Q1013 NOSIG=
METAR OETB 140500Z 28006KT CAVOK 29/01 Q1013 NOSIG=
METAR OETF 140500Z 32007KT CAVOK 29/09 Q1018 NOSIG=
METAR OETR 140500Z 32010KT CAVOK 30/02 Q1013 NOSIG=
METAR OEWD 140500Z 25006KT CAVOK 36/03 Q1006=
METAR OEWJ 140500Z 15003KT CAVOK 30/25 Q1004 NOSIG=
METAR OEYN 140500Z 13003KT CAVOK 30/27 Q1003 NOSIG=


......................................................................................


Date: Friday 14th of June 2024

SAOM32 OOMS 140500
METAR OOMS 140450Z 19006KT 160V220 CAVOK 42/10 Q0999 NOSIG=
METAR OOSA 140450Z 17004KT 120V220 9999 BKN025 33/26 Q1006 NOSIG=
METAR OOSH 140500Z NIL=
METAR OODQ 140450Z AUTO 22018KT 9999 R22///// NCD 32/24 Q1002 NOSIG=
METAR OOKB 140450Z 34009KT 310V020 CAVOK 35/24 Q0999 NOSIG=
METAR OOAD 140450Z AUTO 10006KT 050V130 9999 // NCD 34/20 Q1004
NOSIG=


......................................................................................


Date: Friday 14th of June 2024

SASD31 OEJD 140500
METAR OEDF 140500Z 23006KT CAVOK 37/02 Q1000 NOSIG=
METAR OEDR 140500Z 25007KT CAVOK 37/06 Q0999=
METAR OEJN 140500Z 25004KT CAVOK 33/23 Q1004 NOSIG=
METAR OEMA 140500Z 04009KT CAVOK 36/M10 Q1011 NOSIG=
METAR OERK 140500Z 31006KT CAVOK 35/M05 Q1008 NOSIG=
METAR OEAB 140500Z 00000KT CAVOK 25/07 Q1024 NOSIG=
METAR OYAA 140500Z 35008KT 6000 FEW020 33/26 Q1007 NOSIG=
METAR OYSN 140500Z NIL=


......................................................................................


Date: Friday 14th of June 2024

SAIR31 OIII 140500
METAR OIAW 140500Z 23002KT CAVOK 38/13 Q0997=
METAR OIFM 140500Z 25006KT 3000 DU NSC 27/05 Q1015 A2997=
METAR OIII 140500Z 24010KT 9999 FEW040 28/07 Q1013 A2993 TEMPO
26020KT FEW035CB SCT040 BKN100=
METAR OIKB 140500Z 11004KT 5000 HZ NSC 37/21 Q0998 A2949=
METAR OIKK 140500Z NIL=
METAR OIMM 140500Z 05004KT CAVOK 30/14 Q1014 A2995=
METAR OISS 140500Z 00000KT CAVOK 29/06 Q1011 A2988=
METAR OITT 140500Z 30004KT 9999 FEW030 24/07 Q1017 A3003=
METAR OIZH 140500Z 06004KT CAVOK 32/02 Q1011 A2988 NOSIG=


......................................................................................


Date: Friday 14th of June 2024

SAIR32 OIII 140500
METAR OIAA 140500Z 27008KT CAVOK 36/10 Q0998=
METAR OIBK 140500Z 01006KT 8000 NSC 34/26 Q0999=
METAR OICC 140500Z VRB03KT CAVOK 26/05 Q1012 A2990=
METAR OIGG 140500Z 32004KT 7000 SCT015TCU BKN070 27/26
Q1011=
METAR OIIE 140500Z 33016KT CAVOK 28/09 Q1012=
METAR OINZ 140500Z 35004KT CAVOK 30/20 Q1010=
METAR OITR 140500Z 02006KT CAVOK 23/09 Q1016 A3000=
METAR OIYY 140500Z 31010KT 2000 DU SCT045 30/07 Q1011 NOSIG=


......................................................................................


Date: Friday 14th of June 2024

SAIR33 OIII 140500
METAR OIBB 140500Z 24006KT CAVOK 35/20 Q0998 A2949 NOSIG=
METAR OIBP 140500Z 30008KT CAVOK 36/21 Q0997 A2946=
METAR OICK 140500Z 07006KT CAVOK 31/04 Q1009 A2982=
METAR OICS 140500Z 36008KT CAVOK 26/05 Q1014 A2996=
METAR OIHH 140500Z 30006KT CAVOK 21/09 Q1017 A3003=
METAR OITL 140500Z 02006KT 9999 FEW040 20/12 Q1017 NOSIG=
METAR OIZC 140500Z NIL=


......................................................................................


Date: Friday 14th of June 2024

SAIR34 OIII 140500
METAR OIAG 140500Z 15012KT CAVOK 36/17 Q0998=
METAR OIAM 140500Z 25004KT 6000 NSC 34/19 Q0998=
METAR OICI 140500Z 15002KT CAVOK 30/05 Q1011 A2988=
METAR OIKQ 140500Z 13008KT 8000 HZ NSC 35/28 Q0998 NOSIG=
METAR OINN 140500Z 34006KT 9999 BKN027 BKN190 27/21 Q1009=
METAR OINR 140500Z 36006KT 9999 FEW020CB SCT025 BKN090 27/24 Q1009=
METAR OISL 140500Z 32004KT CAVOK 33/08 Q1004 A2965 NOSIG=
METAR OISY 140500Z 00000KT CAVOK 24/05 Q1015=
METAR OITZ 140500Z 16004KT 9999 FEW035 19/10 Q1018 A3006=


......................................................................................


Date: Friday 14th of June 2024

SAIR35 OIII 140500
METAR OIAD 140500Z NIL=
METAR OIBJ 140500Z 31004KT CAVOK 35/08 Q1004 A2967=
METAR OIBS 140500Z 32006KT 6000 NSC 34/26 Q0998=
METAR OIHR 140500Z NIL=
METAR OIKM 140500Z NIL=
METAR OIKR 140500Z NIL=
METAR OING 140500Z 00000KT 7000 SCT025 FEW030CB OVC080 27/23 Q1012
NOSIG=
METAR OIZB 140500Z 35033G43KT 7000 NSC 36/07 Q1002=
METAR OIZI 140500Z 25004KT 9999 FEW040 38/10 Q1004=


......................................................................................


Date: Friday 14th of June 2024

SAIR36 OIII 140500
METAR OIBA 140500Z 33006KT 6000 NSC 33/28 Q0997=
METAR OIBV 140500Z NIL=
METAR OIFS 140500Z 01004KT 9000 NSC 21/04 Q1019=
METAR OIIP 140500Z 29012KT 6000 FEW040 BKN100 24/12 Q1014 A2995=
METAR OIMB 140500Z 09012KT CAVOK 29/M00 Q1013 A2993=
METAR OIMN 140500Z 23006KT CAVOK 24/13 Q1015=
METAR OIMS 140500Z 09008KT 9999 SCT035 30/09 Q1014=
METAR OIMT 140500Z NIL=
METAR OIZJ 140500Z 11012KT 6000 NSC 32/29 Q0999=


......................................................................................


Date: Friday 14th of June 2024

SATH40 VTBB 140500 RRA
METAR VTBD 140500Z 28007KT 230V030 9999 FEW030 35/22 Q1007 NOSIG=
METAR VTBS 140500Z 21010KT 9999 FEW020 34/23 Q1007 NOSIG=
METAR VTBU 140500Z 22008KT 9999 FEW020 33/25 Q1007 NOSIG=
METAR VTCC 140500Z 15006KT 110V180 9999 FEW018 BKN025 28/24 Q1008
NOSIG=
METAR VTSP 140500Z 27011KT 9000 -RA FEW018TCU SCT030 31/25 Q1009
NOSIG=
METAR VTSS 140500Z 21005KT 130V290 9999 SCT020 35/23 Q1008 NOSIG=


......................................................................................


Date: Friday 14th of June 2024

SATH40 VTBB 140500
METAR VTBD 140500Z NIL=
METAR VTBS 140500Z NIL=
METAR VTBU 140500Z NIL=
METAR VTCC 140500Z NIL=
METAR VTCT 140500Z NIL=
METAR VTSB 140500Z NIL=
METAR VTSG 140500Z NIL=
METAR VTSP 140500Z NIL=
METAR VTSS 140500Z NIL=
METAR VTUD 140500Z NIL=
METAR VTUU 140500Z NIL=


......................................................................................


Date: Friday 14th of June 2024

SAIR37 OIII 140500
METAR OIBL 140500Z 09010KT 5000 HZ NSC 35/25 Q0998=
METAR OIBQ 140500Z 16002KT 8000 NSC 36/25 Q0998=
METAR OIIK 140500Z 02006KT 9999 TS SCT035CB BKN090 22/12 Q1015=
METAR OIMD 140500Z NIL=
METAR OIMQ 140500Z NIL=
METAR OINE 140500Z 22010KT 7000 BKN090 28/20 Q1010=
METAR OITK 140500Z 02008KT 9000 NSC 25/10 Q1016 A3001=
METAR OITM 140500Z 21002KT CAVOK 24/09 Q1015=


......................................................................................


Date: Friday 14th of June 2024

SAIR38 OIII 140500
METAR OIAH 140500Z NIL=
METAR OIBH 140500Z 18006KT 7000 NSC 35/23 Q0998 A2948=
METAR OICM 140500Z 24004KT CAVOK 39/11 Q0997=
METAR OIIS 140500Z NIL=
METAR OIMJ 140500Z 01012KT 9999 FEW035 26/11 Q1014=
METAR OISF 140500Z 22004KT CAVOK 30/03 Q1010 A2984=
METAR OISR 140500Z 31002KT CAVOK 35/11 Q1002 A2960 NOSIG=
METAR OITP 140500Z 21002KT CAVOK 29/17 Q1010=
METAR OITU 140500Z NIL=


......................................................................................


Date: Friday 14th of June 2024

SAPK31 OPKC 140500
METAR OPKC 140500Z 24014KT 6000 FEW020 34/23 Q1003 NOSIG=


......................................................................................


Date: Friday 14th of June 2024

SAAE31 VTBB 140500
METAR VTBD 140500Z 28007KT 230V030 9999 FEW030 35/22 Q1007 NOSIG=
METAR VTBS 140500Z 21010KT 9999 FEW020 34/23 Q1007 NOSIG=
METAR VTCC 140500Z 15006KT 110V180 9999 FEW018 BKN025 28/24 Q1008
NOSIG=
METAR VTSP 140500Z 27011KT 9000 -RA FEW018TCU SCT030 31/25 Q1009
NOSIG=
METAR VTSS 140500Z 21005KT 130V290 9999 SCT020 35/23 Q1008 NOSIG=
METAR VTBU 140500Z 22008KT 9999 FEW020 33/25 Q1007 NOSIG=


......................................................................................


Date: Friday 14th of June 2024

SAAE32 VTBB 140500
METAR VDPP 140500Z VRB03KT 9999 SCT017 37/23 Q1005=
METAR VLVT 140500Z 30006KT 9999 SCT016 SCT200 32/27 Q1006 NOSIG=
METAR VYMD 140500Z NIL=
METAR VYNT 140500Z 15006KT 6000 BKN017 FEW022CB OVC110 26/25 Q1006
NOSIG=
METAR VYYY 140500Z 23009KT 7000 BKN015 FEW020CB BKN100 31/27 Q1006=
METAR VDSV 140500Z 30010KT 9999 SCT015 32/27 Q1007=
METAR VDSA 140500Z 25009KT 210V290 9999 SCT017 36/24 Q1005=


......................................................................................


Date: Friday 14th of June 2024

SAIR36 OIII 140500 RRA
METAR OIBV 140500Z 33014KT 5000 HZ NSC 34/27 Q0997=


......................................................................................


Date: Friday 14th of June 2024

SAAE33 VTBB 140500
METAR VLLB 140500Z 27006KT 9999 SCT020 OVC080 32/23 Q1005 NOSIG=
METAR VLLN 140500Z 18006KT 9999 SCT020 OVC100 30/25 Q1007 NOSIG=
METAR VLPS 140500Z 27002KT 9999 SCT020 34/26 Q1007 NOSIG=
METAR VLSK 140500Z 27008KT 9999 SCT020 FEW100 35/21 Q1007 NOSIG=


......................................................................................


Date: Friday 14th of June 2024

SAAE34 VTBB 140500
METAR VVCI 140500Z 26005KT 220V290 CAVOK 34/26 Q0999 NOSIG=
METAR VVCR 140500Z 14012KT 9999 FEW017 36/23 Q1005 NOSIG=
METAR VVCT 140500Z NIL=
METAR VVDN 140500Z VRB04KT 9999 FEW017 37/24 Q1003 NOSIG=
METAR VVNB 140500Z 31005KT 260V350 CAVOK 35/25 Q1000 NOSIG=
METAR VVPB 140500Z 06008KT CAVOK 36/25 Q1002 NOSIG=
METAR VVPQ 140500Z 29010KT 9999 FEW017 32/26 Q1007 NOSIG=
METAR VVTS 140500Z 31005KT 280V360 9999 BKN025 35/25 Q1006 NOSIG =
METAR VVVD 140500Z AUTO VRB02KT 9999 FEW120/// SCT140/// BKN210///
34/29 Q1000 NOSIG=


......................................................................................


Date: Friday 14th of June 2024

SAIR20 OIII 140500
METAR OIAA 140500Z 27008KT CAVOK 36/10 Q0998 NOSIG=
METAR OIAG 140500Z 15012KT CAVOK 36/17 Q0998=
METAR OIAH 140500 NIL=
METAR OIAI 140500 NIL=
METAR OIAM 140500Z 25004KT 6000 NSC 34/19 Q0998=
METAR OIAW 140452Z 23002KT CAVOK 38/13 Q0997 NOSIG=
METAR OIBA 140500Z 33006KT 6000 NSC 33/28 Q0997=
METAR OIBB 140500Z 24006KT CAVOK 35/20 Q0998 A2949 NOSIG=
METAR OIBK 140500Z 01006KT 8000 NSC 34/26 Q0999 NOSIG=
METAR OIBL 140500Z 09010KT 5000 HZ NSC 35/25 Q0998=
METAR OIBS 140500Z 32006KT 6000 NSC 34/26 Q0998=
METAR OICC 140453Z VRB03KT CAVOK 26/05 Q1012 A2990 NOSIG=
METAR OICI 140500Z 15002KT CAVOK 30/05 Q1011 A2988=
METAR OICJ 140500 NIL=
METAR OICK 140500Z 07006KT CAVOK 31/04 Q1009 A2982=
METAR OICS 140500Z 36008KT CAVOK 26/05 Q1014 A2996=
METAR OIFK 140500Z 10008KT 7000 NSC 32/06 Q1011 A2987=
METAR OIFM 140500Z 25006KT 3000 DU NSC 27/05 Q1015 A2997 NOSIG=
METAR OIFS 140453Z 01004KT 9000 NSC 21/04 Q1019=
METAR OIGG 140500Z 32004KT 7000 SCT015TCU BKN070 27/26 Q1011 NOSIG=
METAR OIGK 140500Z 07010KT 9999 FEW040 20/08 Q1021=
METAR OIHH 140500Z 30006KT CAVOK 21/09 Q1017 A3003=
METAR OIHM 140500Z 23004KT CAVOK 22/08 Q1015=
METAR OIIE 140500Z 33016KT CAVOK 28/09 Q1012 NOSIG=
METAR OIII 140500Z 08004KT 9999 FEW040 31/11 Q1015 TEMPO 26020KT
FEW035CB SCT040 BKN100=
METAR OIIK 140455Z 02006KT 9999 TS SCT035CB BKN090 22/12 Q1015=
METAR OIIP 140500Z 29012KT 6000 FEW040 BKN100 24/12 Q1014 A2995=
METAR OIIS 140500 NIL=
METAR OIKB 140500Z 11004KT 5000 HZ NSC 37/21 Q0998 A2949 NOSIG=
METAR OIKK 140450Z 07004KT 9999 FEW100 29/05 Q1015 A3000=
METAR OIKO 140500Z 31002KT 4000 HZ NSC 37/23 Q0999=
METAR OIKQ 140500Z 13008KT 8000 HZ NSC 35/28 Q0998 NOSIG=
METAR OIMB 140500Z 09012KT CAVOK 29/M00 Q1013 A2993=
METAR OIMC 140500 NIL=
METAR OIMD 140500 NIL=
METAR OIMM 140500Z 05004KT CAVOK 30/14 Q1014 A2995 NOSIG=
METAR OINB 140500Z 12002KT 9999 FEW025 30/23 Q1010=
METAR OING 140500Z 00000KT 7000 SCT025 FEW030CB OVC080 27/23 Q1012
NOSIG=
METAR OINK 140500Z 00000KT 6000 SCT030 BKN090 28/19 Q1009 A2980=
METAR OINN 140500Z 34006KT 9999 BKN027 BKN190 27/21 Q1009=
METAR OINR 140500Z 36006KT 9999 FEW020CB SCT025 BKN090 27/24 Q1009=
METAR OISA 140500Z 36008KT 5000 DU NSC 24/04 Q1017 A3003=
METAR OISF 140450Z 22004KT CAVOK 30/03 Q1010 A2984=
METAR OISL 140500Z 32004KT CAVOK 33/08 Q1004 A2965 NOSIG=
METAR OISS 140500Z 00000KT CAVOK 29/06 Q1011 A2988 TEMPO=
METAR OISY 140500Z 00000KT CAVOK 24/05 Q1015=
METAR OITL 140453Z 02006KT 9999 FEW040 20/12 Q1017 NOSIG=
METAR OITR 140500Z 02006KT CAVOK 23/09 Q1016 A3000 NOSIG=
METAR OITT 140500Z 30004KT 9999 FEW030 24/07 Q1017 A3003 NOSIG=
METAR OITU 140500Z 31006KT 9000 NSC 25/08 Q1015 A2999=
METAR OIYY 140450Z 31010KT 2000 DU SCT045 30/07 Q1011 NOSIG=
METAR OIZB 140500Z 35033G43KT 7000 NSC 36/07 Q1002=
METAR OIZH 140500Z 06004KT CAVOK 32/02 Q1011 A2988 NOSIG=
METAR OIZI 140500Z 25004KT 9999 FEW040 38/10 Q1004=
METAR OIZJ 140500Z 11012KT 6000 NSC 32/29 Q0999=


......................................................................................


Date: Friday 14th of June 2024

SAOM81 OOMS 140400 RRB
METAR OORQ 140350Z AUTO 17004KT //// ////// 38/17 Q1002=


......................................................................................


Date: Friday 14th of June 2024

SAAE34 VTBB 140500 RRA
METAR VVCT 140500Z 25010KT 8000 BKN017 35/28 Q1007 NOSIG=


......................................................................................


Date: Friday 14th of June 2024

SAIR77 OIII 140500
METAR OIAA 140500Z 27008KT CAVOK 36/10 Q0998 NOSIG=
METAR OIAG 140500Z 15012KT CAVOK 36/17 Q0998=
METAR OIAH 140500 NIL=
METAR OIAI 140500 NIL=
METAR OIAM 140500Z 25004KT 6000 NSC 34/19 Q0998=
METAR OIAW 140452Z 23002KT CAVOK 38/13 Q0997 NOSIG=
METAR OIBA 140500Z 33006KT 6000 NSC 33/28 Q0997=
METAR OIBB 140500Z 24006KT CAVOK 35/20 Q0998 A2949 NOSIG=
METAR OIBK 140500Z 01006KT 8000 NSC 34/26 Q0999 NOSIG=
METAR OIBL 140500Z 09010KT 5000 HZ NSC 35/25 Q0998=
METAR OIBS 140500Z 32006KT 6000 NSC 34/26 Q0998=
METAR OICC 140453Z VRB03KT CAVOK 26/05 Q1012 A2990 NOSIG=
METAR OICI 140500Z 15002KT CAVOK 30/05 Q1011 A2988=
METAR OICJ 140500 NIL=
METAR OICK 140500Z 07006KT CAVOK 31/04 Q1009 A2982=
METAR OICS 140500Z 36008KT CAVOK 26/05 Q1014 A2996=
METAR OIFK 140500Z 10008KT 7000 NSC 32/06 Q1011 A2987=
METAR OIFM 140500Z 25006KT 3000 DU NSC 27/05 Q1015 A2997 NOSIG=
METAR OIFS 140453Z 01004KT 9000 NSC 21/04 Q1019=
METAR OIGG 140500Z 32004KT 7000 SCT015TCU BKN070 27/26 Q1011 NOSIG=
METAR OIGK 140500Z 07010KT 9999 FEW040 20/08 Q1021=
METAR OIHM 140500Z 23004KT CAVOK 22/08 Q1015=
METAR OIIE 140500Z 33016KT CAVOK 28/09 Q1012 NOSIG=
METAR OIII 140500Z 08004KT 9999 FEW040 31/11 Q1015 TEMPO 26020KT
FEW035CB SCT040 BKN100=
METAR OIIK 140455Z 02006KT 9999 TS SCT035CB BKN090 22/12 Q1015=
METAR OIIP 140500Z 29012KT 6000 FEW040 BKN100 24/12 Q1014 A2995=
METAR OIKB 140500Z 11004KT 5000 HZ NSC 37/21 Q0998 A2949 NOSIG=
METAR OIKK 140450Z 07004KT 9999 FEW100 29/05 Q1015 A3000=
METAR OIKO 140500Z 31002KT 4000 HZ NSC 37/23 Q0999=
METAR OIKQ 140500Z 13008KT 8000 HZ NSC 35/28 Q0998 NOSIG=
METAR OIMB 140500Z 09012KT CAVOK 29/M00 Q1013 A2993=
METAR OIMC 140500 NIL=
METAR OIMD 140500 NIL=
METAR OIMM 140500Z 05004KT CAVOK 30/14 Q1014 A2995 NOSIG=
METAR OIMN 140500Z 23006KT CAVOK 24/13 Q1015=
METAR OINB 140500Z 12002KT 9999 FEW025 30/23 Q1010=
METAR OING 140500Z 00000KT 7000 SCT025 FEW030CB OVC080 27/23 Q1012
NOSIG=
METAR OINK 140500Z 00000KT 6000 SCT030 BKN090 28/19 Q1009 A2980=
METAR OINN 140500Z 34006KT 9999 BKN027 BKN190 27/21 Q1009=
METAR OINR 140500Z 36006KT 9999 FEW020CB SCT025 BKN090 27/24 Q1009=
METAR OISA 140500Z 36008KT 5000 DU NSC 24/04 Q1017 A3003=
METAR OISF 140450Z 22004KT CAVOK 30/03 Q1010 A2984=
METAR OISL 140500Z 32004KT CAVOK 33/08 Q1004 A2965 NOSIG=
METAR OISS 140500Z 00000KT CAVOK 29/06 Q1011 A2988 TEMPO=
METAR OISY 140500Z 00000KT CAVOK 24/05 Q1015=
METAR OITL 140453Z 02006KT 9999 FEW040 20/12 Q1017 NOSIG=
METAR OITR 140500Z 02006KT CAVOK 23/09 Q1016 A3000 NOSIG=
METAR OITT 140500Z 30004KT 9999 FEW030 24/07 Q1017 A3003 NOSIG=
METAR OIYY 140450Z 31010KT 2000 DU SCT045 30/07 Q1011 NOSIG=
METAR OIZB 140500Z 35033G43KT 7000 NSC 36/07 Q1002=
METAR OIZH 140500Z 06004KT CAVOK 32/02 Q1011 A2988 NOSIG=
METAR OIZI 140500Z 25004KT 9999 FEW040 38/10 Q1004=
METAR OIZJ 140500Z 11012KT 6000 NSC 32/29 Q0999=


......................................................................................


Date: Friday 14th of June 2024

SAMS31 WMKK 140500
METAR WBGG 140500Z VRB03KT 9999 SCT020 32/25 Q1009 NOSIG=
METAR WBKK 140500Z VRB04KT 9999 FEW014 33/26 Q1008 NOSIG=
METAR WBSB 140500Z 26003KT 9999 FEW016 BKN300 32/27 Q1009 NOSIG=
METAR COR WMKK 140500Z VRB03KT 8000 TS VCSH FEW017CB SCT018 31/25 Q1009 NOSIG=
METAR WMKP 140500Z VRB03KT 9999 FEW020 33/24 Q1009 NOSIG=
METAR WSSL 140500Z 14007KT 110V170 9999 VCSH
FEW016 FEW018TCU BKN300 29/24 Q1009=
METAR WSSS 140500Z 19009KT 160V220 9999 VCSH FEW017CB FEW018TCU SCT025 BKN300 32/23 Q1009 NOSIG=
METAR WSAP 140500Z 29002KT 8000 -SHRA
FEW015
FEW017TCU FEW020CB SCT160 30/22 Q1009=


......................................................................................


Date: Friday 14th of June 2024

SAOM81 OOMS 140400 RRC
METAR OOBR 140350Z AUTO VRB03KT //// ////// 36/04 Q1003=


......................................................................................


Date: Friday 14th of June 2024

SAPA31 KWBC 140500
METAR
AGGG NIL=
AGGH 140500Z NIL=
ANAU NIL=
AYPY 140500Z 15020KT 9999 FU HZ FEW020 FEW040 29/22 Q1009=
PGNT NIL=
PGRO 140450Z 09014KT 7SM SCT015 BKN100 29/24 A2980=
PGSN 140454Z 08012KT 10SM SCT017 SCT023 31/26 A2985 RMK AO2 SLP129
T03060256 $=
PGUA 140455Z AUTO 12005KT 8SM -RA FEW003 BKN008 BKN015 OVC040
27/25 A2985 RMK AO2 RAB36E51RAB54 CIG 008V015 SLP099 P0008
T02690251 $=
PGUM 140454Z 10012KT 10SM FEW025 SCT038 BKN049 29/23 A2986 RMK AO2
SLP102 T02940228=
PGWT 140452Z 11011KT 7SM SCT018 SCT060 BKN100 31/25 A2985=
PHJH NIL=
PHJR 140453Z 07007G17KT 10SM FEW049 25/17 A3003 RMK AO2 SLP175
T02500172=
PHMK 140454Z AUTO 06011G18KT 10SM FEW038 24/18 A3003 RMK AO2 PK
WND 06030/0402 SLP171 T02440183 TSNO=
PJON NIL=
PKMJ 140459Z 34011K 14SM SCT014 BKN045 BKN120 OVC300 29/25
A2980=
PKMR 140451Z VRB03KT 15SM SCT014TCU BKN050 BKN120 OVC300 28/25
A2977 RMK SHRAB26E33 TCU E-SE AND W SLP083 T02750251=
PKWA 140500Z AUTO 00000KT 10SM CLR 28/24 A2982 RMK AO2
T02780244=
PLCH 140500Z 09005KT 9999 FEW020 28/23 Q1009=
PMDY NIL=
PTKK NIL=
PTKR NIL=
PTPN NIL=
PTRO 140450Z 11004KT 15SM SCT016 BKN120 BKN300 31/25 A2978=
PTSA 140452Z VRB02KT 10SM -SHRA BKN016TCU BKN130 OVC300 26/25
A2980 RMK TCU SW-NW=
PTTP 140455Z 17003KT 12SM -SHRA BKN017TCU OVC120 25/25 A2983 RMK
TCU ALQDS SLP102 T02520247=
PTYA 140454Z VRB06KT 12SM VCSH SCT016CB BKN130 OVC300 29/26 A2981
RMK VCSH N-NE CB N-E SLP095 T02870255=
PWAK 140455Z AUTO 06013KT 10SM SCT018 SCT032 30/23 A2993 RMK AO2
SLP141 T02960233=


......................................................................................


Date: Friday 14th of June 2024

SAAR20 OEJD 140500
METAR OBBI 140500Z 27007KT 240V300 CAVOK 38/16 Q1000 NOSIG=
METAR OKKK 140500Z 32007KT CAVOK 38/05 Q0999 NOSIG=
METAR OMAA 140500Z 23007KT 190V260 CAVOK 36/21 Q0999 BECMG 31015KT=
METAR OMAD 140500Z VRB05KT CAVOK 35/24 Q0999 BECMG 32013KT=
METAR OMAL 140500Z 22007KT 190V250 CAVOK 36/12 Q1002 NOSIG=
METAR OMDB 140500Z 29012KT 250V310 CAVOK 36/22 Q0999 NOSIG=
METAR OMFJ 140450Z 30014KT CAVOK 40/13 Q0998 RMK A2949=
METAR OMRK 140500Z 21008KT CAVOK 36/21 Q0999 A2952=
METAR OMSJ 140500Z 27010KT CAVOK 35/23 Q0999 NOSIG=
METAR OOMS 140450Z 19006KT 160V220 CAVOK 42/10 Q0999 NOSIG=
METAR OOSA 140450Z 17004KT 120V220 9999 BKN025 33/26 Q1006 NOSIG=
METAR OOSH 140500Z NIL=
METAR OODQ 140450Z AUTO 22018KT 9999 R22///// NCD 32/24 Q1002 NOSIG
RMK RH65? 0=
METAR OTBD 140500Z AUTO 28004KT 230V320 CAVOK 40/08 Q1000 NOSIG=
METAR OTBH 140455Z 28005KT 9999 CLR 38/10 A2952 Q0999=
METAR OTHH 140500Z AUTO 29009KT 260V320 CAVOK 39/06 Q1000 NOSIG=
METAR OYAA 140500Z 35008KT 6000 FEW020 33/26 Q1007 NOSIG=
METAR OYSN 140500Z NIL=


......................................................................................


Date: Friday 14th of June 2024

SAIR20 OIII 140500 RRB
METAR OIAH 140500Z 12006KT 8000 NSC 33/08 Q1005=


......................................................................................


Date: Friday 14th of June 2024

SAIR77 OIII 140500 RRB
METAR OIAH 140500Z 12006KT 8000 NSC 33/08 Q1005=


......................................................................................


Date: Friday 14th of June 2024

SAAE31 VDPP 140530
METAR VDPP 140530Z 29004KT 190V330 9999 SCT017 37/22 Q1005=


......................................................................................


Date: Friday 14th of June 2024

SAOM81 OOMS 140500
METAR OOAD 140450Z AUTO 10006KT 050V130 9999 // NCD 34/20 Q1004 NOSIG=
METAR OOBH 140450Z AUTO VRB00KT //// ////// 34/19 Q1008=
METAR OOBR 140450Z AUTO 26008KT //// ////// 37/04 Q1003=
METAR OODB 140500Z NIL=
METAR OODQ 140450Z AUTO 22018KT 9999 R22///// NCD 32/24 Q1002 NOSIG=
METAR OOFD 140450Z AUTO 12006KT //// ////// 37/19 Q1002=
METAR OOIB 140500Z NIL=
METAR OOIR 140500Z NIL=
METAR OOJB 140450Z AUTO 19015KT //// ////// 31/25 Q1001=
METAR OOJS 140500Z NIL=
METAR OOKB 140450Z 34009KT 310V020 CAVOK 35/24 Q0999 NOSIG=
METAR OOMA 140450Z AUTO 22018KT //// ////// 30/26 Q1002=
METAR OOMJ 140450Z AUTO VRB04KT //// ////// 41/07 Q0998=
METAR OOML 140500Z NIL=
METAR OOMQ 140450Z AUTO VRB00KT //// ////// 36/23 Q0999=
METAR OOMS 140450Z 19006KT 160V220 CAVOK 42/10 Q0999 NOSIG=
METAR OONZ 140450Z 18003KT 070V240 CAVOK 35/19 Q1004=
METAR OOQA 140500Z NIL=
METAR OOQH 140450Z AUTO 17012KT 9999 ////// 27/23 Q1011=
METAR OOQL 140500Z NIL=
METAR OOQQ 140450Z AUTO 09004KT //// 27/M03 Q1022=
METAR OORA 140450Z AUTO 20003KT //// ////// 32/27 Q1005=
METAR OORH 140450Z AUTO 18016KT //// ////// 30/25 Q1000=
METAR OORQ 140450Z AUTO VRB02KT //// ////// 41/09 Q1002=
METAR OOSA 140450Z 17004KT 120V220 9999 BKN025 33/26 Q1006 NOSIG=
METAR OOSM 140450Z AUTO VRB03KT //// ////// 39/12 Q1006=
METAR OOSQ 140450Z AUTO 16010KT //// 00/// Q1011=
METAR OOSR 140450Z AUTO 22013KT //// ////// 38/18 Q1000=
METAR OOTH 140500Z AUTO 19018KT 9999 ////// 34/18 Q1006 NOSIG=
METAR OOYA 140450Z AUTO 22015KT //// ////// 35/20 Q1002=


......................................................................................


Date: Friday 14th of June 2024

SAPA31 KWBC 140500 RRA
METAR
PKWA 140520Z AUTO 00000KT 10SM CLR 28/24 A2983 RMK AO2
T02780243=


......................................................................................


Date: Friday 14th of June 2024

SAPK31 OPKC 140530
METAR OPKC 140530Z 24012KT 6000 FEW020 34/23 Q1002 NOSIG=
METAR OPLA 140525Z 21003KT 7000 NSC 40/13 Q1000 NOSIG
RMK QFE975 A29.54=
METAR OPIS 140530Z 23005KT 6000 NSC 37/12 Q1003 NOSIG=
METAR OPPS 140530Z 18006KT 9999 FEW200 35/14 Q1003=
METAR OPMT 140530Z 23018KT 3000 DRDU NSC 37/23 Q1000 TEMPO
23015G25KT 2500 BLDU=
METAR OPFA 140530Z NIL=
METAR OPST 140530Z NIL=
METAR OPSK 140530Z NIL=
METAR OPNH 140530Z NIL=


......................................................................................


Date: Friday 14th of June 2024

SAIR20 OIII 140530
METAR OIAA 140530 NIL=
METAR OIAW 140521Z 26002KT CAVOK 39/13 Q0997=
METAR OIFM 140530Z 18006KT 4000 DU NSC 28/04 Q1014 A2997=
METAR OIGG 140530Z 00000KT 8000 SCT015TCU BKN070 27/26 Q1011=
METAR OIIE 140530Z 33016KT CAVOK 28/09 Q1012=
METAR OIII 140522Z 26014KT 9999 FEW040 SCT100 28/08 Q1013 A2993=
METAR OIKB 140530Z 17006KT 5000 HZ NSC 38/20 Q0998 A2949=
METAR OIMM 140530Z 02004KT CAVOK 30/13 Q1014 A2995=
METAR OISS 140530Z 05004KT CAVOK 30/06 Q1011 A2988=
METAR OITT 140530Z 30004KT 9999 FEW030 25/08 Q1017 A3003=
METAR OIYY 140520Z 31008KT 2500 DU FEW045 SCT200 30/07 Q1011=
METAR OIZH 140530Z 04008KT CAVOK 33/02 Q1011 A2987=


......................................................................................


Date: Friday 14th of June 2024

SAIR31 OIII 140530
METAR OIAW 140530Z 26002KT CAVOK 39/13 Q0997=
METAR OIFM 140530Z 18006KT 4000 DU NSC 28/04 Q1014 A2997=
METAR OIII 140530Z 26014KT 9999 FEW040 SCT100 28/08 Q1013 A2993=
METAR OIKB 140530Z 17006KT 5000 HZ NSC 38/20 Q0998 A2949=
METAR OIKK 140530Z 02004KT 9999 FEW100 30/05 Q1015 A2999=
METAR OIMM 140530Z NIL=
METAR OISS 140530Z 05004KT CAVOK 30/06 Q1011 A2988=
METAR OITT 140530Z 30004KT 9999 FEW030 25/08 Q1017 A3003=
METAR OIZH 140530Z 04008KT CAVOK 33/02 Q1011 A2987=


......................................................................................


Date: Friday 14th of June 2024

SAIR32 OIII 140530
METAR OIAA 140530Z NIL=
METAR OIBK 140530Z 33006KT 8000 NSC 35/24 Q0999=
METAR OICC 140530Z VRB03KT CAVOK 27/05 Q1012 A2990=
METAR OIGG 140530Z 00000KT 8000 SCT015TCU BKN070 27/26
Q1011=
METAR OIIE 140530Z NIL=
METAR OINZ 140530Z NIL=
METAR OITR 140530Z NIL=
METAR OIYY 140530Z 31008KT 2500 DU FEW045 SCT200 30/07 Q1011=


......................................................................................


Date: Friday 14th of June 2024

SAIR33 OIII 140530
METAR OIBB 140530Z 24006KT CAVOK 36/18 Q0998 A2949=
METAR OIBP 140530Z NIL=
METAR OICK 140530Z NIL=
METAR OICS 140530Z NIL=
METAR OIHH 140530Z NIL=
METAR OITL 140530Z 06006KT 9999 FEW040 21/13 Q1017=
METAR OIZC 140530Z NIL=


......................................................................................


Date: Friday 14th of June 2024

SAPK31 OPKC 140530
METAR OPKC 140530Z 24012KT 6000 FEW020 34/23 Q1002 NOSIG=


......................................................................................


Date: Friday 14th of June 2024

SAIR31 OIII 140530 RRA
METAR OIMM 140530Z 02004KT CAVOK 30/13 Q1014 A2995=


......................................................................................


Date: Friday 14th of June 2024

SAIR34 OIII 140530
METAR OIAG 140530Z NIL=
METAR OIAM 140530Z NIL=
METAR OICI 140530Z NIL=
METAR OIKQ 140530Z NIL=
METAR OINN 140530Z NIL=
METAR OINR 140530Z NIL=
METAR OISL 140530Z 00000KT CAVOK 34/08 Q1004 A2965=
METAR OISY 140530Z NIL=
METAR OITZ 140530Z NIL=


......................................................................................


Date: Friday 14th of June 2024

SAIR36 OIII 140530
METAR OIBA 140530Z NIL=
METAR OIBV 140530Z NIL=
METAR OIFS 140530Z 32002KT 7000 NSC 23/03 Q1018=
METAR OIIP 140530Z NIL=
METAR OIMB 140530Z NIL=
METAR OIMN 140530Z NIL=
METAR OIMS 140530Z NIL=
METAR OIMT 140530Z NIL=
METAR OIZJ 140530Z NIL=


......................................................................................


Date: Friday 14th of June 2024

SAAE31 VTBB 140530
METAR VTBD 140530Z 26009KT 230V310 9999 FEW030 36/23 Q1006 NOSIG=
METAR VTBS 140530Z 20011KT 160V240 9999 FEW020 34/23 Q1007 NOSIG=
METAR VTCC 140530Z VRB04KT 9999 FEW020 BKN035 30/24 Q1007 NOSIG=
METAR VTSP 140530Z 25006KT 210V310 9999 FEW018TCU SCT020 31/26 Q1009
NOSIG=
METAR VTSS 140530Z VRB03KT 9999 SCT020 35/23 Q1007 NOSIG=
METAR VTBU 140530Z 23010KT 9999 FEW020 33/26 Q1007 NOSIG=


......................................................................................


Date: Friday 14th of June 2024

SAAE32 VTBB 140530
METAR VDPP 140530Z 29004KT 190V330 9999 SCT017 37/22 Q1005=
METAR VLVT 140530Z 27006KT 9999 SCT016 BKN200 33/27 Q1006 NOSIG=
METAR VYMD 140530Z 18010KT 7000 BKN017 FEW020CB BKN100 32/27 Q1003=
METAR VYNT 140530Z NIL=
METAR VYYY 140530Z 21008KT 7000 BKN015 FEW020CB BKN100 31/27 Q1006=
METAR VDSV 140530Z 29007KT 9999 SCT015 33/27 Q1007=
METAR VDSA 140530Z 23011KT 9999 SCT017 36/24 Q1005=


......................................................................................


Date: Friday 14th of June 2024

SAAE34 VTBB 140530
METAR VVCI 140530Z 24005KT 210V290 CAVOK 34/26 Q0999 NOSIG=
METAR VVCR 140530Z 14010KT 9999 FEW017 36/23 Q1005 NOSIG=
METAR VVCT 140530Z 27008KT 8000 BKN017 34/27 Q1007 NOSIG=
METAR VVDN 140530Z VRB03KT 9999 FEW017 37/25 Q1002 NOSIG=
METAR VVNB 140530Z 27007KT 200V300 CAVOK 36/24 Q0999 NOSIG=
METAR VVPB 140530Z 07008KT CAVOK 36/24 Q1002 NOSIG=
METAR VVPQ 140530Z 29010KT 9999 FEW017 32/26 Q1007 NOSIG=
METAR VVTS 140530Z 30004KT 240V010 9999 BKN025 36/24 Q1006 NOSIG =
METAR VVVD 140530Z AUTO 09003KT 040V140 9999 FEW110/// SCT150///
BKN210/// 34/28 Q1000 NOSIG=


......................................................................................


Date: Friday 14th of June 2024

SAMS31 WMKK 140530
METAR WBGG 140530Z VRB02KT 9999 SCT020 33/25 Q1009 NOSIG=
METAR WBKK 140530Z VRB05KT 9999 FEW014 32/26 Q1008 NOSIG=
METAR WBSB 140530Z 24003KT 9999 FEW016 FEW017CB BKN140 33/24 Q1009 NOSIG=
METAR WMKK 140530Z VRB02KT 8000 TS VCSH FEW017CB SCT018 30/26 Q1009 NOSIG=
METAR WMKP 140530Z VRB03KT 9999 FEW020 34/25 Q1009 NOSIG=
METAR WSSL 140530Z NIL=
METAR WSSS 140530Z 19009KT 9999 -TSRA FEW017CB FEW018TCU SCT030 BKN300 32/24 Q1009
TEMPO FM0545 TL0630 3000 TSRA
BECMG FM0650 TL0700 NSW=
METAR WSAP 140530Z NIL=


......................................................................................


Date: Friday 14th of June 2024

SAPA31 KWBC 140500 RRB
METAR
PKWA 140540Z AUTO 00000KT 10SM CLR 28/24 A2983 RMK AO2
T02770242=


......................................................................................


Date: Friday 14th of June 2024

SAAE31 VDPP 140600
METAR VDPP 140600Z 25004KT 300V240 9999 SCT017 37/22 Q1005=


......................................................................................


Date: Friday 14th of June 2024

SASD20 OEJD 140600
METAR OEAB 140600Z 33004KT CAVOK 27/04 Q1024 NOSIG=
METAR OEAH 140600Z 26016KT CAVOK 40/04 Q1001 NOSIG=
METAR OEAO 140600Z 26002KT CAVOK 38/M04 Q1011 NOSIG=
METAR OEBA 140600Z 34012KT 9999 FEW025CB SCT030 31/00 Q1019 NOSIG=
METAR OEBH 140600Z 30006KT CAVOK 35/01 Q1013 NOSIG=
METAR OEDF 140600Z 28007KT CAVOK 41/M01 Q1000 NOSIG=
METAR OEDM 140600Z 36014KT CAVOK 37/M06 Q1011=
METAR OEDR 140600Z 25010KT CAVOK 39/07 Q0999=
METAR OEGN 140600Z 30003KT 9000 NSC 37/24 Q1006 NOSIG=
METAR OEGS 140600Z 33008KT CAVOK 36/01 Q1009=
METAR OEGT 140600Z 30005KT CAVOK 33/03 Q1011 NOSIG=
METAR OEHL 140600Z 06004KT CAVOK 35/04 Q1014=
METAR OEJB 140600Z NIL=
METAR OEJN 140600Z 22006KT CAVOK 36/19 Q1005 NOSIG=
METAR OEKJ 140600Z 27005KT CAVOK 38/02 Q1008=
METAR OEKK 140600Z NIL=
METAR OEAR 140600Z 00000KT CAVOK 38/20 Q1007=


......................................................................................


Date: Friday 14th of June 2024

SASD21 OEJD 140600
METAR OEKM 140600Z NIL=
METAR OEMA 140600Z 06003KT CAVOK 38/M09 Q1012 NOSIG=
METAR OEMN 140600Z 19004KT CAVOK 37/21 Q1008=
METAR OENG 140600Z 09004KT CAVOK 36/M01 Q1014 NOSIG=
METAR OEPA 140600Z 29010KT CAVOK 38/M01 Q1004 NOSIG=
METAR OERF 140600Z 33018KT CAVOK 37/M01 Q1006 NOSIG=
METAR OERK 140600Z 31004KT CAVOK 37/M07 Q1008 NOSIG=
METAR OERR 140600Z 34014KT CAVOK 36/02 Q1008 NOSIG=
METAR OERS 140600Z 18006KT CAVOK 30/26 Q1005 NOSIG=
METAR OESH 140600Z 21014KT CAVOK 38/01 Q1010 NOSIG=
METAR OESK 140600Z 01006KT CAVOK 35/03 Q1013 NOSIG=
METAR OETB 140600Z 25004KT CAVOK 31/01 Q1013 NOSIG=
METAR OETF 140600Z 32008KT CAVOK 31/09 Q1019 NOSIG=
METAR OETR 140600Z 35013KT CAVOK 33/02 Q1013 NOSIG=
METAR OEWD 140600Z 27004KT CAVOK 39/02 Q1006=
METAR OEWJ 140600Z 13003KT CAVOK 33/23 Q1005 NOSIG=
METAR OEYN 140600Z 14003KT CAVOK 34/24 Q1003 NOSIG=


......................................................................................


Date: Friday 14th of June 2024

SASD31 OEJD 140600
METAR OEDF 140600Z 28007KT CAVOK 41/M01 Q1000 NOSIG=
METAR OEDR 140600Z 25010KT CAVOK 39/07 Q0999=
METAR OEJN 140600Z 22006KT CAVOK 36/19 Q1005 NOSIG=
METAR OEMA 140600Z 06003KT CAVOK 38/M09 Q1012 NOSIG=
METAR OERK 140600Z 31004KT CAVOK 37/M07 Q1008 NOSIG=
METAR OEAB 140600Z 33004KT CAVOK 27/04 Q1024 NOSIG=
METAR OYAA 140600Z 31005KT 8000 NSC 34/25 Q1008 NOSIG=
METAR OYSN 140600Z NIL=


......................................................................................


Date: Friday 14th of June 2024

SAOM32 OOMS 140600
METAR OOMS 140550Z 08006KT 050V110 CAVOK 43/10 Q0999 NOSIG=
METAR OOSA 140550Z 18008KT 140V210 9999 SCT025 33/26 Q1006 NOSIG=
METAR OOSH 140600Z NIL=
METAR OODQ 140550Z AUTO 23015KT 9999 R22///// FEW028 35/23 Q1002
NOSIG=
METAR OOKB 140550Z 02008KT 340V110 CAVOK 37/24 Q0999 NOSIG=
METAR OOAD 140550Z AUTO VRB03KT 9999 // NCD 38/19 Q1004 NOSIG=


......................................................................................


Date: Friday 14th of June 2024

SAIR31 OIII 140600
METAR OIAW 140600Z 21002KT CAVOK 40/12 Q0997=
METAR OIFM 140600Z 26006KT 2500 DU VV030 29/04 Q1014 A2997=
METAR OIII 140600Z 26008KT 9999 FEW040 SCT100 28/07 Q1013 A2993
TEMPO 26018KT=
METAR OIKB 140600Z 17008KT 5000 HZ NSC 38/22 Q0998 A2949=
METAR OIKK 140600Z 32006KT 9999 FEW040 31/05 Q1015 A2999=
METAR OIMM 140600Z 06006KT CAVOK 31/14 Q1014 A2994=
METAR OISS 140600Z 00000KT CAVOK 30/06 Q1011 A2988=
METAR OITT 140600Z 08004KT 9999 FEW030 26/07 Q1016 A3002=
METAR OIZH 140600Z 01008KT CAVOK 34/03 Q1011 A2987 NOSIG=


......................................................................................


Date: Friday 14th of June 2024

SAIR32 OIII 140600
METAR OIAA 140600Z NIL=
METAR OIBK 140600Z 33006KT 8000 NSC 36/26 Q0999=
METAR OICC 140600Z 07004KT CAVOK 28/05 Q1012 A2990=
METAR OIGG 140600Z 00000KT 9999 FEW020CB SCT025 BKN070
28/22 Q1011=
METAR OIIE 140600Z NIL=
METAR OINZ 140600Z 24008KT CAVOK 30/20 Q1010=
METAR OITR 140600Z 04008KT CAVOK 25/10 Q1015 A2999=
METAR OIYY 140600Z 31010KT 2500 DU NSC 31/07 Q1011 NOSIG=


......................................................................................


Date: Friday 14th of June 2024

SATH40 VTBB 140600 RRA
METAR VTBD 140600Z 25009KT 220V280 9999 SCT030 35/22 Q1006 NOSIG=
METAR VTBS 140600Z 20010KT 9999 FEW020 35/23 Q1006 NOSIG=
METAR VTBU 140600Z 24008KT 9999 FEW020 33/25 Q1007 NOSIG=
METAR VTCC 140600Z 17004KT 080V240 9999 FEW025 BKN035 29/24 Q1007
NOSIG=
METAR VTSP 140600Z 27009KT 240V310 9999 FEW018TCU SCT030 32/25 Q1009
NOSIG=
METAR VTSS 140600Z 23008KT 160V270 9999 SCT020 35/22 Q1007 NOSIG=


......................................................................................


Date: Friday 14th of June 2024

SATH40 VTBB 140600
METAR VTBD 140600Z NIL=
METAR VTBS 140600Z NIL=
METAR VTBU 140600Z NIL=
METAR VTCC 140600Z NIL=
METAR VTCT 140600Z NIL=
METAR VTSB 140600Z NIL=
METAR VTSG 140600Z NIL=
METAR VTSP 140600Z NIL=
METAR VTSS 140600Z NIL=
METAR VTUD 140600Z NIL=
METAR VTUU 140600Z NIL=


......................................................................................


Date: Friday 14th of June 2024

SAIR33 OIII 140600
METAR OIBB 140600Z 23006KT CAVOK 36/18 Q0998 A2948 NOSIG=
METAR OIBP 140600Z 29010KT CAVOK 37/20 Q0997 A2946=
METAR OICK 140600Z 06004KT CAVOK 33/04 Q1009 A2981=
METAR OICS 140600Z 01006KT CAVOK 28/06 Q1014 A2994=
METAR OIHH 140600Z 27004KT CAVOK 22/09 Q1016 A3002=
METAR OITL 140600Z 07016KT 9999 FEW035 22/12 Q1017 NOSIG=
METAR OIZC 140600Z NIL=


......................................................................................


Date: Friday 14th of June 2024

SAIR34 OIII 140600
METAR OIAG 140600Z NIL=
METAR OIAM 140600Z 00000KT CAVOK 35/20 Q0998=
METAR OICI 140600Z 02008KT CAVOK 31/07 Q1011 A2988=
METAR OIKQ 140600Z 15010KT CAVOK 36/27 Q0998 NOSIG=
METAR OINN 140600Z 36002KT 9999 BKN027 28/22 Q1010=
METAR OINR 140600Z 35004KT 5000 TS SCT013 SCT020CB OVC080 27/24
Q1010=
METAR OISL 140600Z 25006KT CAVOK 35/08 Q1004 A2965 NOSIG=
METAR OISY 140600Z 31004KT CAVOK 26/04 Q1015=
METAR OITZ 140600Z 08014KT 9999 FEW035 23/10 Q1017 A3005=


......................................................................................


Date: Friday 14th of June 2024

SAIR35 OIII 140600
METAR OIAD 140600Z NIL=
METAR OIBJ 140600Z 30006KT CAVOK 37/08 Q1004 A2967=
METAR OIBS 140600Z 03006KT 6000 NSC 35/26 Q0998=
METAR OIHR 140600Z NIL=
METAR OIKM 140600Z NIL=
METAR OIKR 140600Z NIL=
METAR OING 140600Z 00000KT 7000 SCT030 BKN100 28/23 Q1012 NOSIG=
METAR OIZB 140600Z 35031G43KT 8000 NSC 38/08 Q1002=
METAR OIZI 140600Z 21004KT 8000 FEW040 39/11 Q1004=


......................................................................................


Date: Friday 14th of June 2024

SAIR36 OIII 140600
METAR OIBA 140600Z 31008KT 6000 NSC 33/28 Q0997=
METAR OIBV 140600Z 33010KT 4000 HZ NSC 35/27 Q0998=
METAR OIFS 140600Z 09004KT 5000 DU NSC 25/03 Q1018=
METAR OIIP 140600Z 30014KT 6000 FEW040 BKN100 26/11 Q1013 A2994=
METAR OIMB 140600Z 09010KT CAVOK 31/M00 Q1012 A2990=
METAR OIMN 140600Z 00000KT CAVOK 25/14 Q1015=
METAR OIMS 140600Z 09010KT 9999 BKN035 30/09 Q1013=
METAR OIMT 140600Z NIL=
METAR OIZJ 140600Z 14014KT 6000 NSC 33/29 Q0999=


......................................................................................


Date: Friday 14th of June 2024

SAIR37 OIII 140600
METAR OIBL 140600Z 08012KT 5000 HZ NSC 36/24 Q0998=
METAR OIBQ 140600Z 14006KT CAVOK 35/24 Q0998=
METAR OIIK 140600Z 29006KT 9999 SCT035CB BKN090 24/12 Q1015=
METAR OIMD 140600Z NIL=
METAR OIMQ 140600Z NIL=
METAR OINE 140600Z 24004KT 7000 FEW030 OVC090 28/19 Q1010=
METAR OITK 140600Z 01010KT CAVOK 26/09 Q1015 A3000=
METAR OITM 140600Z 13004KT CAVOK 26/10 Q1014=


......................................................................................


Date: Friday 14th of June 2024

SAIR38 OIII 140600
METAR OIAH 140600Z VRB02KT 8000 NSC 35/09 Q1005=
METAR OIBH 140600Z 21010KT CAVOK 36/24 Q0998 A2949=
METAR OICM 140600Z NIL=
METAR OIIS 140600Z NIL=
METAR OIMJ 140600Z 04012KT 9999 FEW035TCU 27/10 Q1014=
METAR OISF 140600Z 21006KT CAVOK 33/02 Q1010 A2983=
METAR OISR 140600Z NIL=
METAR OITP 140600Z 14002KT CAVOK 31/17 Q1009=
METAR OITU 140600Z NIL=


......................................................................................


Date: Friday 14th of June 2024

SAAE31 VTBB 140600
METAR VTBD 140600Z 25009KT 220V280 9999 SCT030 35/22 Q1006 NOSIG=
METAR VTBS 140600Z 20010KT 9999 FEW020 35/23 Q1006 NOSIG=
METAR VTCC 140600Z 17004KT 080V240 9999 FEW025 BKN035 29/24 Q1007
NOSIG=
METAR VTSP 140600Z 27009KT 240V310 9999 FEW018TCU SCT030 32/25 Q1009
NOSIG=
METAR VTSS 140600Z 23008KT 160V270 9999 SCT020 35/22 Q1007 NOSIG=
METAR VTBU 140600Z 24008KT 9999 FEW020 33/25 Q1007 NOSIG=


......................................................................................


Date: Friday 14th of June 2024

SAAE32 VTBB 140600
METAR VDPP 140600Z 25004KT 300V240 9999 SCT017 37/22 Q1005=
METAR VLVT 140600Z 27004KT 9999 SCT016 BKN050 33/27 Q1006 NOSIG=
METAR VYMD 140600Z NIL=
METAR VYNT 140600Z 18006KT 7000 BKN018 FEW022CB OVC110 28/27 Q1005
NOSIG=
METAR VYYY 140600Z 22007KT 7000 BKN015 FEW020CB BKN100 31/27 Q1006=
METAR VDSV 140600Z 28009KT 9999 SCT015 32/27 Q1007=
METAR VDSA 140600Z 26009KT 9999 SCT017 37/23 Q1005=


......................................................................................


Date: Friday 14th of June 2024

SASD21 OEJD 140600 RRA
METAR OEKM 140600Z 03006KT CAVOK 28/03 Q1023 NOSIG=


......................................................................................


Date: Friday 14th of June 2024

SAAE33 VTBB 140600
METAR VLLB 140600Z 27004KT 9999 SCT017 BKN080 32/24 Q1005 NOSIG=
METAR VLLN 140600Z 22006KT 9000 VCRA SCT017 OVC100 28/24 Q1007 VCRA/N
NOSIG=
METAR VLPS 140600Z 27002KT 9999 SCT020 35/24 Q1006 NOSIG=
METAR VLSK 140600Z 27006KT 9999 SCT020 SCT100 35/20 Q1007 NOSIG=


......................................................................................


Date: Friday 14th of June 2024

SAAE34 VTBB 140600
METAR VVCI 140600Z 27005KT CAVOK 34/25 Q0999 NOSIG=
METAR VVCR 140600Z 15011KT 9999 FEW017 36/23 Q1005 NOSIG=
METAR VVCT 140600Z 25009KT 6000 BKN017 34/28 Q1006 NOSIG=
METAR VVDN 140600Z 08008KT 9999 FEW017 37/25 Q1002 NOSIG=
METAR VVNB 140600Z 28008KT 250V310 CAVOK 37/25 Q0999 NOSIG=
METAR VVPB 140600Z 07008KT CAVOK 36/24 Q1002 NOSIG=
METAR VVPQ 140600Z 29012KT 9999 FEW017 32/26 Q1007 NOSIG=
METAR VVTS 140600Z 31007KT 270V340 9999 BKN025 36/24 Q1006 NOSIG =
METAR VVVD 140600Z AUTO 16005KT 130V200 9999 FEW160/// 34/28 Q1000
NOSIG=


......................................................................................


Date: Friday 14th of June 2024

SAIR32 OIII 140600 RRA
METAR OIIE 140600Z 32012KT CAVOK 29/09 Q1012=


......................................................................................


Date: Friday 14th of June 2024

SAIR32 OIII 140600 RRB
METAR OIAA 140600Z 28008KT CAVOK 40/10 Q0998=


......................................................................................


Date: Friday 14th of June 2024

SAIR34 OIII 140600 CCA
METAR COR OIAG 140600Z 16010KT CAVOK 39/15 Q0998=


......................................................................................


Date: Friday 14th of June 2024

SAMS31 WMKK 140600
METAR WBGG 140600Z VRB03KT 9999 SCT020 33/25 Q1008 NOSIG=
METAR WBKK 140600Z VRB05KT 9999 FEW014 FEW016CB 31/25 Q1007 NOSIG=
METAR WBSB 140600Z 28003KT 9999 FEW016 FEW017CB BKN140 32/23 Q1008 NOSIG=
METAR WMKK 140600Z VRB03KT 8000 TS VCSH FEW017CB SCT018 29/26 Q1009 NOSIG=
METAR WMKP 140600Z VRB05KT 9999 FEW020 34/23 Q1008 NOSIG=
METAR WSSL 140600Z 36010KT 310V030 3500 TSRA FEW013 FEW014CB SCT015TCU 27/24 Q1008=
METAR WSSS 140600Z 31003G14KT 260V020 9999 -TSRA FEW017CB FEW018TCU SCT050 32/25 Q1008
TEMPO TL0630 4500
BECMG FM0650 TL0700 NSW=
METAR WSAP 140600Z 02007KT 7000 -TSRA
FEW015
FEW017TCU FEW020CB SCT160 29/24 Q1009=


......................................................................................


Date: Friday 14th of June 2024

SAPK31 OPKC 140600
METAR OPKC 140600Z 24015KT 6000 SCT020 35/22 Q1002 NOSIG=
METAR OPLA 140555Z 27008KT 7000 NSC 41/14 Q1000 NOSIG
RMK QFE975 A29.54=
METAR OPIS 140600Z 23004KT 6000 NSC 38/12 Q1003 NOSIG=
METAR OPPS 140600Z 13006KT 9999 FEW200 37/12 Q1002=
METAR OPMT 140600Z 23018KT 3000 DRDU NSC 38/23 Q0999 TEMPO
23015G25KT 2500 BLDU=
METAR OPFA 140555Z 18004KT 7000 NSC 40/21 Q1001 NOSIG=
METAR OPST 140600Z 05010KT 5000 HZ SCT040 SCT100 40/11 Q1000
NOSIG RH18=
METAR OPNH 140600Z 18008KT 7000 NSC 38/25 Q0999=
METAR OPSK 140600Z NIL=


......................................................................................


Date: Friday 14th of June 2024

SAIR20 OIII 140600
METAR OIAA 140600Z 28008KT CAVOK 40/10 Q0998 NOSIG=
METAR COR OIAG 140600Z 16010KT CAVOK 39/15 Q0998=
METAR OIAH 140600Z VRB02KT 8000 NSC 35/09 Q1005=
METAR OIAI 140600 NIL=
METAR OIAM 140600Z 00000KT CAVOK 35/20 Q0998=
METAR OIAW 140551Z 21002KT CAVOK 40/12 Q0997 NOSIG=
METAR OIBA 140600Z 31008KT 6000 NSC 33/28 Q0997=
METAR OIBB 140600Z 23006KT CAVOK 36/18 Q0998 A2948 NOSIG=
METAR OIBK 140600Z 33006KT 8000 NSC 36/26 Q0999 NOSIG=
METAR OIBL 140600Z 08012KT 5000 HZ NSC 36/24 Q0998=
METAR OIBS 140600Z 03006KT 6000 NSC 35/26 Q0998=
METAR OICC 140553Z 07004KT CAVOK 28/05 Q1012 A2990 NOSIG=
METAR OICI 140600Z 02008KT CAVOK 31/07 Q1011 A2988=
METAR OICJ 140600 NIL=
METAR OICK 140600Z 06004KT CAVOK 33/04 Q1009 A2981=
METAR OICS 140600Z 01006KT CAVOK 28/06 Q1014 A2994=
METAR OIFK 140600 NIL=
METAR OIFM 140600Z 26006KT 2500 DU VV030 29/04 Q1014 A2997 NOSIG=
METAR OIFS 140557Z 09004KT 5000 DU NSC 25/03 Q1018=
METAR OIGG 140600Z 00000KT 9999 FEW020CB SCT025 BKN070 28/22 Q1011
NOSIG=
METAR OIGK 140600 NIL=
METAR OIHH 140600Z 27004KT CAVOK 22/09 Q1016 A3002=
METAR OIHM 140600Z 28004KT CAVOK 25/08 Q1015=
METAR OIIE 140600Z 32012KT CAVOK 29/09 Q1012 NOSIG=
METAR OIII 140551Z 26008KT 9999 FEW040 SCT100 28/07 Q1013 A2993
TEMPO 26018KT=
METAR OIIK 140555Z 29006KT 9999 SCT035CB BKN090 24/12 Q1015=
METAR OIIP 140600Z 30014KT 6000 FEW040 BKN100 26/11 Q1013 A2994=
METAR OIIS 140600 NIL=
METAR OIKB 140600Z 17008KT 5000 HZ NSC 38/22 Q0998 A2949 NOSIG=
METAR OIKK 140550Z 32006KT 9999 FEW040 31/05 Q1015 A2999=
METAR OIKO 140600 NIL=
METAR OIKQ 140600Z 15010KT CAVOK 36/27 Q0998 NOSIG=
METAR OIMB 140600Z 09010KT CAVOK 31/M00 Q1012 A2990=
METAR OIMC 140600 NIL=
METAR OIMD 140600 NIL=
METAR OIMM 140600Z 06006KT CAVOK 31/14 Q1014 A2994 NOSIG=
METAR OINB 140600 NIL=
METAR OING 140600Z 00000KT 7000 SCT030 BKN100 28/23 Q1012 NOSIG=
METAR OINK 140600 NIL=
METAR OINN 140600Z 36002KT 9999 BKN027 28/22 Q1010=
METAR OINR 140600Z 35004KT 5000 TS SCT013 SCT020CB OVC080 27/24
Q1010=
METAR OISA 140600Z 33004KT 5000 DU NSC 26/03 Q1016 A3001=
METAR OISF 140550Z 21006KT CAVOK 33/02 Q1010 A2983=
METAR OISL 140600Z 25006KT CAVOK 35/08 Q1004 A2965 NOSIG=
METAR OISS 140600Z 00000KT CAVOK 30/06 Q1011 A2988 NOSIG=
METAR OISY 140600Z 31004KT CAVOK 26/04 Q1015=
METAR OITL 140553Z 07016KT 9999 FEW035 22/12 Q1017 NOSIG=
METAR OITR 140600Z 04008KT CAVOK 25/10 Q1015 A2999 NOSIG=
METAR OITT 140600Z 08004KT 9999 FEW030 26/07 Q1016 A3002 NOSIG=
METAR OITU 140600Z 34004KT CAVOK 27/07 Q1015 A2998=
METAR OIYY 140550Z 31010KT 2500 DU NSC 31/07 Q1011 NOSIG=
METAR OIZB 140600Z 35031G43KT 8000 NSC 38/08 Q1002=
METAR OIZH 140600Z 01008KT CAVOK 34/03 Q1011 A2987 NOSIG=
METAR OIZI 140600Z 21004KT 8000 FEW040 39/11 Q1004=
METAR OIZJ 140600Z 14014KT 6000 NSC 33/29 Q0999=


......................................................................................


Date: Friday 14th of June 2024

SAIR38 OIII 140600 RRA
METAR OISR 140600Z 29008KT CAVOK 38/13 Q1002 A2959 NOSIG=


......................................................................................


Date: Friday 14th of June 2024

SAIR77 OIII 140600
METAR OIAA 140600Z 28008KT CAVOK 40/10 Q0998 NOSIG=
METAR COR OIAG 140600Z 16010KT CAVOK 39/15 Q0998=
METAR OIAH 140600Z VRB02KT 8000 NSC 35/09 Q1005=
METAR OIAI 140600 NIL=
METAR OIAM 140600Z 00000KT CAVOK 35/20 Q0998=
METAR OIAW 140551Z 21002KT CAVOK 40/12 Q0997 NOSIG=
METAR OIBA 140600Z 31008KT 6000 NSC 33/28 Q0997=
METAR OIBB 140600Z 23006KT CAVOK 36/18 Q0998 A2948 NOSIG=
METAR OIBK 140600Z 33006KT 8000 NSC 36/26 Q0999 NOSIG=
METAR OIBL 140600Z 08012KT 5000 HZ NSC 36/24 Q0998=
METAR OIBS 140600Z 03006KT 6000 NSC 35/26 Q0998=
METAR OICC 140553Z 07004KT CAVOK 28/05 Q1012 A2990 NOSIG=
METAR OICI 140600Z 02008KT CAVOK 31/07 Q1011 A2988=
METAR OICJ 140600 NIL=
METAR OICK 140600Z 06004KT CAVOK 33/04 Q1009 A2981=
METAR OICS 140600Z 01006KT CAVOK 28/06 Q1014 A2994=
METAR OIFK 140600 NIL=
METAR OIFM 140600Z 26006KT 2500 DU VV030 29/04 Q1014 A2997 NOSIG=
METAR OIFS 140557Z 09004KT 5000 DU NSC 25/03 Q1018=
METAR OIGG 140600Z 00000KT 9999 FEW020CB SCT025 BKN070 28/22 Q1011
NOSIG=
METAR OIGK 140600 NIL=
METAR OIHM 140600Z 28004KT CAVOK 25/08 Q1015=
METAR OIIE 140600Z 32012KT CAVOK 29/09 Q1012 NOSIG=
METAR OIII 140551Z 26008KT 9999 FEW040 SCT100 28/07 Q1013 A2993
TEMPO 26018KT=
METAR OIIK 140555Z 29006KT 9999 SCT035CB BKN090 24/12 Q1015=
METAR OIIP 140600Z 30014KT 6000 FEW040 BKN100 26/11 Q1013 A2994=
METAR OIKB 140600Z 17008KT 5000 HZ NSC 38/22 Q0998 A2949 NOSIG=
METAR OIKK 140550Z 32006KT 9999 FEW040 31/05 Q1015 A2999=
METAR OIKO 140600 NIL=
METAR OIKQ 140600Z 15010KT CAVOK 36/27 Q0998 NOSIG=
METAR OIMB 140600Z 09010KT CAVOK 31/M00 Q1012 A2990=
METAR OIMC 140600 NIL=
METAR OIMD 140600 NIL=
METAR OIMM 140600Z 06006KT CAVOK 31/14 Q1014 A2994 NOSIG=
METAR OIMN 140600Z 00000KT CAVOK 25/14 Q1015=
METAR OINB 140600 NIL=
METAR OING 140600Z 00000KT 7000 SCT030 BKN100 28/23 Q1012 NOSIG=
METAR OINK 140600 NIL=
METAR OINN 140600Z 36002KT 9999 BKN027 28/22 Q1010=
METAR OINR 140600Z 35004KT 5000 TS SCT013 SCT020CB OVC080 27/24
Q1010=
METAR OISA 140600Z 33004KT 5000 DU NSC 26/03 Q1016 A3001=
METAR OISF 140550Z 21006KT CAVOK 33/02 Q1010 A2983=
METAR OISL 140600Z 25006KT CAVOK 35/08 Q1004 A2965 NOSIG=
METAR OISS 140600Z 00000KT CAVOK 30/06 Q1011 A2988 NOSIG=
METAR OISY 140600Z 31004KT CAVOK 26/04 Q1015=
METAR OITL 140553Z 07016KT 9999 FEW035 22/12 Q1017 NOSIG=
METAR OITR 140600Z 04008KT CAVOK 25/10 Q1015 A2999 NOSIG=
METAR OITT 140600Z 08004KT 9999 FEW030 26/07 Q1016 A3002 NOSIG=
METAR OIYY 140550Z 31010KT 2500 DU NSC 31/07 Q1011 NOSIG=
METAR OIZB 140600Z 35031G43KT 8000 NSC 38/08 Q1002=
METAR OIZH 140600Z 01008KT CAVOK 34/03 Q1011 A2987 NOSIG=
METAR OIZI 140600Z 21004KT 8000 FEW040 39/11 Q1004=
METAR OIZJ 140600Z 14014KT 6000 NSC 33/29 Q0999=


......................................................................................


Date: Friday 14th of June 2024

SAPK31 OPKC 140600
METAR OPKC 140600Z 24015KT 6000 SCT020 35/22 Q1002 NOSIG=


......................................................................................


Date: Friday 14th of June 2024

SAOM81 OOMS 140500 RRA
METAR OOQL 140450Z AUTO 33016KT //// ////// 34/26 Q1000=


......................................................................................


Date: Friday 14th of June 2024

SAPA31 KWBC 140600
METAR
AGGG NIL=
AGGH 140600Z NIL=
ANAU NIL=
AYPY 140600Z NIL=
PGNT NIL=
PGRO 140550Z 09013KT 7SM BKN014 BKN100 29/24 A2981=
PGSN 140554Z 07013KT 10SM SCT016 31/25 A2985 RMK AO2 SLP131
T03060250 10322 20300 55005 $=
PGUA 140555Z AUTO 14005KT 7SM BKN075 28/26 A2984 RMK AO2 RAE04
SLP095 P0000 60008 T02840256 10301 20262 57011 $=
PGUM 140554Z 09009KT 10SM BKN085 29/24 A2984 RMK AO2 SLP097
T02940239 10311 20278 56012=
PGWT 140556Z 08012KT 7SM VCSH SCT017 31/26 A2986 RMK VCSH N AND
W=
PHJH NIL=
PHJR 140553Z 06004KT 10SM CLR 23/17 A3006 RMK AO2 SLP183 T02330172
10294 20233 53019=
PHMK 140554Z AUTO 07011G21KT 10SM CLR 24/19 A3005 RMK AO2 SLP177
60000 T02390189 10289 20233 53017 TSNO=
PJON NIL=
PKMJ 140557Z 05013K 14SM FEW014 BKN045 OVC110 29/25 A2980=
PKMR 140552Z 06008KT 15SM FEW014 BKN045 OVC110 29/25 A2978 RMK
SLP086 60000 8/87/ T02900250 10302 20275 53005=
PKWA 140600Z AUTO 00000KT 10SM CLR 28/24 A2983 RMK AO2 T02770242
PNO=
PLCH 140600Z 10005KT 9999 FEW020 28/22 Q1009=
PMDY NIL=
PTKK 140553Z VRB04KT 15SM FEW014 SCT120 OVC280 31/27 A2977 RMK
SLP083 8/171 T03070274 10311 20289 56008=
PTKR NIL=
PTPN NIL=
PTRO 140550Z 09007KT 15SM SCT016 BKN120 BKN300 31/24 A2978=
PTSA 140550Z 05005KT 10SM -SHRA BKN016TCU BKN120 OVC290 26/24
A2984 RMK TCU S-NE=
PTTP 140555Z 11003KT 14SM -SHRA BKN017TCU OVC120 25/24 A2983 RMK
TCU ALQDS SLP101 60238 8/271 T02500243 10295 20250 55007=
PTYA 140550Z VRB05KT 12SM SCT016CB BKN130 OVC300 27/26 A2979 RMK
SHRAB14E37 CB SE-S AND W SLP088 60013 8/371 T02670255 10305
20267 57019=
// END PART 01 //


......................................................................................


Date: Friday 14th of June 2024

SAAR20 OEJD 140600
METAR OBBI 140600Z 24007KT 210V270 CAVOK 40/10 Q1000 NOSIG=
METAR OKKK 140600Z 31008KT CAVOK 41/06 Q0999 NOSIG=
METAR OMAA 140600Z 24008KT 210V270 CAVOK 38/19 Q1000 BECMG 31015KT=
METAR OMAD 140600Z 24005KT 200V290 CAVOK 37/23 Q1000 BECMG 32013KT=
METAR OMAL 140600Z 25009KT 220V280 CAVOK 38/10 Q1002 BECMG 31016KT=
METAR OMDB 140600Z 27010KT CAVOK 36/23 Q0999 NOSIG=
METAR OMFJ 140550Z 29012KT 250V320 CAVOK 41/11 Q0998 RMK A2949=
METAR OMRK 140600Z 20010KT CAVOK 38/20 Q0999 A2951=
METAR OMSJ 140600Z 23011KT CAVOK 36/23 Q0999 NOSIG=
METAR OOMS 140550Z 08006KT 050V110 CAVOK 43/10 Q0999 NOSIG=
METAR OOSA 140550Z 18008KT 140V210 9999 SCT025 33/26 Q1006 NOSIG=
METAR OOSH 140600Z NIL=
METAR OODQ 140550Z AUTO 23015KT 9999 R22///// FEW028 35/23 Q1002
NOSIG RMK RH50? 0=
METAR OTBD 140600Z AUTO 29005KT 240V320 CAVOK 42/05 Q1000 NOSIG=
METAR OTBH 140555Z 25007KT 9999 CLR 40/09 A2952 Q0999=
METAR OTHH 140600Z NIL=
METAR OYAA 140600Z 31005KT 8000 NSC 34/25 Q1008 NOSIG=
METAR OYSN 140600Z NIL=


......................................................................................


Date: Friday 14th of June 2024

SAOM81 OOMS 140500 RRB
METAR OODB 140450Z AUTO 03006KT //// ////// 36/27 Q1000=


......................................................................................


Date: Friday 14th of June 2024

SAOM81 OOMS 140400 RRD
METAR OODB 140350Z AUTO 22005KT //// ////// 37/16 Q1000=


......................................................................................


Date: Friday 14th of June 2024

SAAE31 VDPP 140630
METAR VDPP 140630Z 28004KT 220V350 9999 SCT017 38/23 Q1004=


......................................................................................


Date: Friday 14th of June 2024

SAOM81 OOMS 140600
METAR OOAD 140550Z AUTO VRB03KT 9999 // NCD 38/19 Q1004 NOSIG=
METAR OOBH 140550Z AUTO VRB00KT //// ////// 37/17 Q1008=
METAR OOBR 140550Z AUTO 28009KT //// ////// 38/04 Q1003=
METAR OODB 140550Z AUTO 03005KT //// ////// 37/25 Q1000=
METAR OODQ 140550Z AUTO 23015KT 9999 R22///// FEW028 35/23 Q1002 NOSIG=
METAR OOFD 140550Z AUTO VRB04KT //// ////// 41/12 Q1002=
METAR OOIB 140600Z NIL=
METAR OOIR 140600Z NIL=
METAR OOJB 140550Z AUTO 21011KT //// ////// 35/23 Q1001=
METAR OOJS 140600Z NIL=
METAR OOKB 140550Z 02008KT 340V110 CAVOK 37/24 Q0999 NOSIG=
METAR OOMA 140550Z AUTO 21015KT //// ////// 32/26 Q1001=
METAR OOMJ 140550Z AUTO 29007KT //// ////// 43/02 Q0998=
METAR OOML 140600Z NIL=
METAR OOMQ 140550Z AUTO 08008KT //// ////// 34/26 Q0999=
METAR OOMS 140550Z 08006KT 050V110 CAVOK 43/10 Q0999 NOSIG=
METAR OONZ 140550Z 18003KT 130V290 CAVOK 38/16 Q1004=
METAR OOQA 140600Z NIL=
METAR OOQH 140550Z AUTO 17011KT 9999 ////// 28/23 Q1011=
METAR OOQL 140550Z AUTO 35007KT //// ////// 34/27 Q1000=
METAR OOQQ 140550Z AUTO 09010G22KT //// 27/M04 Q1022=
METAR OORA 140550Z AUTO VRB04KT //// ////// 32/27 Q1005=
METAR OORH 140550Z AUTO 18017KT //// ////// 31/25 Q1000=
METAR OORQ 140550Z AUTO 28006KT //// 43/M04 Q1002=
METAR OOSA 140550Z 18008KT 140V210 9999 SCT025 33/26 Q1006 NOSIG=
METAR OOSM 140550Z AUTO VRB02KT //// ////// 41/11 Q1005=
METAR OOSQ 140550Z AUTO 16014KT //// 00/// Q1011=
METAR OOSR 140600Z NIL=
METAR OOTH 140600Z AUTO 18017KT 9999 ////// 36/17 Q1006 NOSIG=
METAR OOYA 140550Z AUTO 24018KT //// ////// 40/12 Q1002=


......................................................................................


Date: Friday 14th of June 2024

SAPA31 KWBC 140600 RRA
METAR
AYPY 140600Z 16020KT 9999 FUHZ FEW020 FEW040 29/22 Q1009=


......................................................................................


Date: Friday 14th of June 2024

SAPA31 KWBC 140600 RRB
METAR
PKWA 140620Z AUTO 10SM SCT017 SCT025 SCT095 28/24 RMK AO2
T02770241=


......................................................................................


Date: Friday 14th of June 2024

SAIR20 OIII 140630
METAR OIAA 140630 NIL=
METAR OIAW 140622Z 24002KT CAVOK 41/12 Q0997=
METAR OIFM 140630Z 13002KT 2500 DU VV030 29/04 Q1014 A2997=
METAR OIGG 140630Z 00000KT 9999 FEW020TCU SCT025 BKN070 29/22
Q1011=
METAR OIIE 140630Z 32012KT CAVOK 29/09 Q1012=
METAR OIII 140622Z 28006KT 9999 FEW040 SCT100 29/06 Q1013 A2993=
METAR OIKB 140630Z 22008KT 6000 NSC 38/21 Q0998 A2949=
METAR OIMM 140630Z 04006KT CAVOK 31/14 Q1013 A2993=
METAR OISS 140630Z 00000KT 8000 NSC 32/06 Q1011 A2987=
METAR OITT 140630Z 08008KT 9999 FEW030 26/08 Q1016 A3002=
METAR OIYY 140620Z 30008KT 3000 DU NSC 32/07 Q1011=
METAR OIZH 140630Z 02008KT CAVOK 34/02 Q1011 A2986=


......................................................................................


Date: Friday 14th of June 2024

SAPK31 OPKC 140630
METAR OPKC 140630Z 24014KT 6000 SCT020 34/23 Q1002 NOSIG=
METAR OPLA 140625Z 28006KT 7000 NSC 41/14 Q1000 NOSIG
RMK QFE973 A29.54=
METAR OPIS 140630Z 31006KT 6000 NSC 38/11 Q1002 NOSIG=
METAR OPPS 140630Z 13006KT 9999 FEW200 37/12 Q1002=
METAR OPMT 140630Z 23018KT 3000 DRDU NSC 38/22 Q0999 TEMPO
23015G25KT 2500 BLDU=
METAR OPSK 140630Z 13008KT 5000 HZ NSC 36/26 Q1000 NOSIG=
METAR OPFA 140630Z NIL=
METAR OPST 140630Z NIL=
METAR OPNH 140630Z NIL=


......................................................................................


Date: Friday 14th of June 2024

SAIR31 OIII 140630
METAR OIAW 140630Z 24002KT CAVOK 41/12 Q0997=
METAR OIFM 140630Z 13002KT 2500 DU VV030 29/04 Q1014 A2997=
METAR OIII 140630Z 28006KT 9999 FEW040 SCT100 29/06 Q1013 A2993=
METAR OIKB 140630Z 22008KT 6000 NSC 38/21 Q0998 A2949=
METAR OIKK 140630Z NIL=
METAR OIMM 140630Z NIL=
METAR OISS 140630Z 00000KT 8000 NSC 32/06 Q1011 A2987=
METAR OITT 140630Z 08008KT 9999 FEW030 26/08 Q1016 A3002=
METAR OIZH 140630Z 02008KT CAVOK 34/02 Q1011 A2986=


......................................................................................


Date: Friday 14th of June 2024

SAPK31 OPKC 140630
METAR OPKC 140630Z 24014KT 6000 SCT020 34/23 Q1002 NOSIG=


......................................................................................


Date: Friday 14th of June 2024

SAIR31 OIII 140630 RRA
METAR OIMM 140630Z 04006KT CAVOK 31/14 Q1013 A2993=


......................................................................................


Date: Friday 14th of June 2024

SAIR32 OIII 140630
METAR OIAA 140630Z NIL=
METAR OIBK 140630Z 13006KT 8000 NSC 36/26 Q0999=
METAR OICC 140630Z 27006KT CAVOK 29/04 Q1012 A2989=
METAR OIGG 140630Z 00000KT 9999 FEW020TCU SCT025 BKN070
29/22 Q1011=
METAR OIIE 140630Z NIL=
METAR OINZ 140630Z 23008KT CAVOK 31/19 Q1010=
METAR OITR 140630Z NIL=
METAR OIYY 140630Z 30008KT 3000 DU NSC 32/07 Q1011=


......................................................................................


Date: Friday 14th of June 2024

SAIR33 OIII 140630
METAR OIBB 140630Z 22006KT CAVOK 38/18 Q0998 A2948=
METAR OIBP 140630Z NIL=
METAR OICK 140630Z NIL=
METAR OICS 140630Z NIL=
METAR OIHH 140630Z NIL=
METAR OITL 140630Z 05016KT 9999 FEW035 22/13 Q1016=
METAR OIZC 140630Z NIL=


......................................................................................


Date: Friday 14th of June 2024

SAIR34 OIII 140630
METAR OIAG 140630Z NIL=
METAR OIAM 140630Z NIL=
METAR OICI 140630Z NIL=
METAR OIKQ 140630Z NIL=
METAR OINN 140630Z NIL=
METAR OINR 140630Z NIL=
METAR OISL 140630Z 26004KT CAVOK 36/08 Q1003 A2964=
METAR OISY 140630Z NIL=
METAR OITZ 140630Z NIL=


......................................................................................


Date: Friday 14th of June 2024

SAIR36 OIII 140630
METAR OIBA 140630Z NIL=
METAR OIBV 140630Z NIL=
METAR OIFS 140630Z 06004KT 4500 DU NSC 26/02 Q1018=
METAR OIIP 140630Z 31008KT 6000 FEW040 SCT100 26/11 Q1013 A2993=
METAR OIMB 140630Z NIL=
METAR OIMN 140630Z NIL=
METAR OIMS 140630Z NIL=
METAR OIMT 140630Z NIL=
METAR OIZJ 140630Z NIL=


......................................................................................


Date: Friday 14th of June 2024

SAAE31 VTBB 140630
METAR VTBD 140630Z 24011KT 220V280 9999 SCT030 35/23 Q1006 NOSIG=
METAR VTBS 140630Z 23010KT 9999 FEW020 35/23 Q1006 NOSIG=
METAR VTCC 140630Z 20007KT 150V250 9999 FEW025 BKN035 30/23 Q1007
NOSIG=
METAR VTSP 140630Z 27010KT 240V300 9999 FEW018TCU SCT030 32/25 Q1008
NOSIG=
METAR VTSS 140630Z VRB04KT 9999 SCT020 35/21 Q1006 NOSIG=
METAR VTBU 140630Z 24008KT 9999 FEW020 33/25 Q1007 NOSIG=


......................................................................................


Date: Friday 14th of June 2024

SAAE32 VTBB 140630
METAR VDPP 140630Z 28004KT 220V350 9999 SCT017 38/23 Q1004=
METAR VLVT 140630Z 27004KT 9999 SCT016 BKN050 33/27 Q1005 NOSIG=
METAR VYMD 140630Z NIL=
METAR VYNT 140630Z NIL=
METAR VYYY 140630Z 27005G15KT 3000 TSRA BKN010 FEW015CB OVC080 28/27
Q1006=
METAR VDSV 140630Z 27011KT 9999 SCT015 33/27 Q1006=
METAR VDSA 140630Z 28006KT 9999 SCT017 37/23 Q1004=


......................................................................................


Date: Friday 14th of June 2024

SAAE34 VTBB 140630
METAR VVCI 140630Z 29004KT CAVOK 34/25 Q0999 NOSIG=
METAR VVCR 140630Z 16013KT 9999 FEW017 36/24 Q1005 NOSIG=
METAR VVCT 140630Z NIL=
METAR VVDN 140630Z 11009KT 9999 FEW017 36/25 Q1002 NOSIG=
METAR VVNB 140630Z NIL=
METAR VVPB 140630Z 08009KT CAVOK 36/24 Q1001 NOSIG=
METAR VVPQ 140630Z 29012KT 9999 FEW017 33/26 Q1007 NOSIG=
METAR VVTS 140630Z 30007KT 250V010 9999 SCT025 FEW027CB 37/25 Q1005
NOSIG =
METAR VVVD 140630Z AUTO 18004KT 140V230 9999 SCT006/// 34/28 Q1000
NOSIG=


......................................................................................


Date: Friday 14th of June 2024

SAAE34 VTBB 140630 RRA
METAR VVCT 140630Z 25009KT 6000 BKN017 35/27 Q1006 NOSIG=


......................................................................................


Date: Friday 14th of June 2024

SAAE34 VTBB 140630 RRB
METAR VVNB 140630Z 24006KT 170V330 CAVOK 37/25 Q0999 NOSIG=


......................................................................................


Date: Friday 14th of June 2024

SAMS31 WMKK 140630
METAR WBGG 140630Z 06004KT 340V140 9999 SCT020 33/26 Q1008 NOSIG=
METAR WBKK 140630Z VRB03KT 9999 FEW014 FEW016CB 31/26 Q1007 NOSIG=
METAR WBSB 140630Z 25009KT 9999 FEW016 FEW017CB BKN140 32/25 Q1008 NOSIG=
METAR WMKK 140630Z VRB02KT 7000 -TSRA FEW007 FEW017CB SCT018 29/27 Q1008 NOSIG=
METAR WMKP 140630Z VRB05KT 9999 FEW017CB 34/24 Q1008 NOSIG=
METAR WSSL 140630Z NIL=
METAR WSSS 140630Z 32005KT 230V360 9999 VCTS FEW015 FEW017TCU FEW018CB SCT050 30/25 Q1008
BECMG FM0650 TL0700 NSW=
METAR WSAP 140630Z NIL=


......................................................................................



New Window